ENHM 300720Z 22015KT CAVOK 14/12 Q1014 W15/S4 UUOK 300600Z 34007MPS CAVOK 17/09 Q1021 R12/CLRD70 NOSIG RMK QFE747/0997 KIWI 300653Z AUTO 00000KT 10SM CLR 16/15 A3005 RMK AO2 SLP175 T01610150 KJMR 300740Z AUTO 19003KT 4SM BR SCT002 15/14 A2999 RMK AO2 PPIT 300656Z AUTO 32020KT 10SM OVC070 07/03 A2974 RMK AO2 PK WND 32028/0559 SLP070 T00670033 KJMS 300656Z AUTO 18011KT 9SM CLR 21/20 A2982 RMK AO2 SLP088 T02110200 KIXA 300735Z AUTO 00000KT 10SM CLR 16/16 A3012 RMK AO2 UUOO 300730Z 31008MPS CAVOK 20/06 Q1017 R30/090070 NOSIG RMK QFE749 KIXD 300653Z AUTO 33004KT 7SM FEW013 19/18 A3004 RMK AO2 SLP162 T01890183 ENHV 291250Z 14013G23KT 100V190 SCT045 15/06 Q1004 KM63 300656Z AUTO 32004KT 9SM FEW100 24/10 A3014 RMK AO2 SLP132 T02440102 403230193 PPIZ 300719Z AUTO 35009KT 2 1/2SM -SN BR FEW005 BKN009 01/00 A2949 RMK AO2 TSNO CIG 007V013 UPE07SNB07 P0001 $ KIYA 300715Z AUTO 00000KT 10SM CLR 21/20 A3000 RMK AO2 T02050200 ENKB 300720Z AUTO VRB01KT 9999NDV FEW051/// OVC073/// 15/09 Q1014 FDSK 300700Z VRB02KT 7000 BCFG BKN018 22/19 Q1022 NOSIG KJNX 300735Z AUTO 00000KT 10SM CLR 18/18 A3012 RMK AO2 KIZA 300715Z AUTO 00000KT 10SM CLR 17/16 A2996 RMK AO2 ENLA 300720Z AUTO 20012KT 9999NDV NCD 15/14 Q1017 W///S3 KJOT 300715Z AUTO 00000KT 3/4SM BR BKN004 OVC037 19/19 A3002 RMK AO2 T01920190 FDST 300600Z AUTO 10006KT //// // ////// 20/20 Q1022 KJQF 300715Z AUTO 00000KT 10SM CLR 18/17 A3018 RMK AO2 LBGO 300730Z AUTO 00000KT 9999 NCD 25/16 Q1024 NOSIG KIZG 300654Z AUTO 00000KT 10SM CLR 16/16 A3004 RMK AO2 SLP172 T01610156 $ ENKR 300720Z AUTO 18011KT 9999NDV OVC012/// 12/08 Q1010 RMK WIND 731FT 19019KT ENLK 291750Z 23002KT 8000 RA FEW006 SCT010 BKN015 12/11 Q1001 KM91 300735Z AUTO 18004KT 10SM CLR 20/20 A3008 RMK KN03 300735Z AUTO 00000KT 10SM SCT070 OVC085 16/16 A3011 RMK AO2 ENMH 291650Z 14015KT CAVOK 14/07 Q1005 KLAA 300653Z AUTO 17012KT 6SM HZ CLR 20/08 A3010 RMK AO2 SLP140 T02000078 403220111 TSNO ENNA 300720Z 19014KT 9999 FEW020 14/08 Q1007 RMK WIND 1800FT 18020KT ENML 300720Z 05004KT 9999 FEW005 BKN060 14/12 Q1014 ENNE 300720Z 23028KT 9999 VCSH SCT011 BKN033 13/12 Q1008 W///S4 KLAF 300735Z AUTO 00000KT 1SM BR SCT008 BKN065 18/18 A3002 RMK AO2 T01830183 TSNO ENMS 291720Z 22008KT 160V320 9999 SCT028 SCT035 13/09 Q1008 RMK WIND 412FT 24012KT 200V290 KLBB 300653Z 27006KT 10SM FEW180 SCT300 18/13 A3013 RMK AO2 SLP158 T01780133 ENOA 300720Z 19015KT 9999 FEW035 SCT120 14/13 Q1014 W///S4 ENNK 290950Z 02003KT 9999 FEW040 BKN060 16/11 Q0998 KLAL 300735Z AUTO 00000KT 10SM CLR 23/22 A2998 RMK AO2 KLAM 300715Z AUTO 19006KT 10SM CLR 17/08 A3038 RMK AO2 T01720082 KLBE 300150Z 00000KT 10SM SCT060 20/18 A3013 RMK LAST KLAN 300653Z 06003KT 10SM BKN036 OVC043 19/18 A3004 RMK AO2 RAE13 SLP169 P0000 T01890183 KLBF 300653Z AUTO 14006KT 10SM CLR 20/12 A3005 RMK AO2 SLP146 T02000122 KJSO 300735Z AUTO 20005KT 10SM SCT120 24/17 A3003 RMK AO2 T02450173 ENNO 291450Z 14007KT 9999 VCSH FEW070CB SCT095 19/12 Q1016 KLAR 300653Z AUTO 21008KT 10SM CLR 11/03 A3023 RMK AO2 SLP122 T01110033 402830056 LATI 300720Z 08001KT CAVOK 28/13 Q1020 NOSIG VMMC 300730Z 14004KT 9999 -SHRA FEW007 SCT015 27/24 Q1005 NOSIG KLAS 300656Z 23009KT 10SM CLR 34/02 A2980 RMK AO2 SLP058 T03440022 KJST 300654Z AUTO 22007KT 10SM CLR 19/13 A3015 RMK AO2 SLP194 T01890133 KLBL 300735Z AUTO 25003KT 10SM CLR 16/11 A3010 RMK AO1 ENOL 300720Z 22008KT 9999 FEW030TCU BKN070 14/11 Q1014 NOSIG KJSV 300735Z AUTO 09005KT 10SM SCT080 23/21 A2996 RMK AO2 KLAW 300653Z AUTO 01006KT 10SM CLR 23/17 A2998 RMK AO2 SLP138 T02330167 TSNO KLAX 300653Z 23008KT 10SM CLR 23/19 A2985 RMK AO2 SLP107 T02280194 $ KLCG 300715Z AUTO 19006KT 7SM CLR 16/16 A3002 RMK AO2 T01620155 KLCH 300653Z AUTO 14003KT 10SM CLR 22/20 A3000 RMK AO2 SLP165 T02170200 KLCI 300735Z AUTO 24006KT 10SM CLR 19/14 A3005 RMK AO1 KN38 300735Z AUTO 00000KT 10SM BKN048 BKN060 OVC110 15/14 A3014 RMK AO2 ENQA 300720Z AUTO 19016KT 9999NDV SCT110/// 14/13 Q1015 W12/S4 KLBT 300654Z AUTO 00000KT 10SM CLR 20/18 A3011 RMK AO2 SLP195 T02000178 KLCK 300715Z AUTO 31005KT 10SM SCT045 OVC055 21/19 A3008 RMK AO2 LTG DSNT SW T02100194 ENQC 300720Z AUTO 19012KT 9999NDV NCD 14/13 Q1014 W///S4 ENOV 291450Z VRB05KT 9999 -RA FEW030 BKN045 14/09 Q1012 RMK WIND 2175FT 15021KT KLBX 300653Z AUTO 00000KT 10SM CLR 21/20 A2999 RMK AO2 SLP155 T02110200 KLCQ 300715Z AUTO 00000KT 10SM BKN010 22/22 A3002 RMK AO2 VLVT 300730Z 16002KT 8000 BKN040 BKN083 29/25 Q1006 NOSIG KLDJ 300735Z AUTO 00000KT 10SM CLR 21/16 A3010 RMK AO2 T02100157 ENRA 291250Z 29008K 9999 RA FEW017TCU BKN040 12/10 Q1005 KLEB 300653Z AUTO 00000KT 7SM FEW100 16/14 A3006 RMK AO2 SLP171 T01560144 KJVL 300715Z AUTO 00000KT 3SM BR OVC002 17/17 A3004 RMK AO2 KLDM 300735Z AUTO 00000KT 1/2SM FG BKN024 17/16 A3004 RMK AO2 T01670155 KLEE 300653Z AUTO 07005KT 10SM CLR 23/22 A2997 RMK AO2 SLP149 T02330217 KJWG 300715Z AUTO 00000KT 10SM CLR 18/18 A3004 RMK AO2 T01790179 ENQR 300720Z AUTO 19013KT 9999NDV FEW007/// 14/13 Q1013 W///S4 KN60 300652Z AUTO 20003KT 21/17 A2977 RMK AO1 SLP069 T02060167 UUWW 300730Z 28006MPS 9999 BKN020 15/11 Q1015 R19/000070 R24/000070 NOSIG ENSB 300650Z 13014KT 9999 FEW013 BKN036 04/M01 Q1008 RMK WIND 1400FT 12015KT ENSD 291250Z 07006KT 030V100 9999 -SHRA FEW015 SCT043 BKN052 14/11 Q1012 RMK WIND 1138FT 10005KT UWGG 300730Z 29005G11MPS 9999 BKN026 15/11 Q1004 R36L/190060 NOSIG RMK QFE746 KJVW 300735Z AUTO 00000KT 8SM CLR 19/16 A3000 RMK AO2 LCEN 300720Z 36011KT 9999 FEW025 32/09 Q1010 NOSIG ENSE 300720Z AUTO 20015KT 9999NDV FEW081/// 14/13 Q1013 W///S4 ENRO 300720Z AUTO 17004KT 110V210 9999NDV NSC 11/07 Q1015 ENSF 300720Z AUTO 20018KT 9999NDV BKN075/// 14/13 Q1013 W///S4 ENSG 291050Z 24006KT 9999 VCSH FEW015 BKN040 12/07 Q1014 RMK WIND 3901FT 19013KT ENSH 291050Z 21027KT 9000 -SHRA FEW005 SCT007 BKN008 12/11 Q0997 KJXI 300735Z AUTO 18005KT 10SM CLR 25/18 A2998 RMK AO2 LTG DSNT NW T02450180 KLFI 300728Z AUTO 28001KT 9SM CLR 19/17 A3010 RMK AO2 KLGA 300651Z 24007KT 10SM FEW050 BKN260 23/16 A3008 RMK AO2 SLP185 T02330156 KLGB 300653Z AUTO 31005KT 10SM CLR 26/19 A2985 RMK AO2 SLP109 T02560189 TSNO KLFK 300653Z AUTO 00000KT 10SM CLR 21/18 A3000 RMK AO2 SLP152 T02110178 ENSK 291350Z 19013KT 9999 VCSH FEW012 SCT020 BKN030 13/10 Q0998 KLGC 300715Z AUTO 00000KT 10SM SCT028 BKN042 OVC049 23/23 A3008 RMK AO2 T02320232 ENTC 300720Z 19013KT 9999 OVC042 14/06 Q1005 NOSIG RMK WIND 2600FT 19034G44KT ENSL 300720Z 22017KT 9999 FEW010 14/13 Q1016 W13/S3 KLGD 300735Z AUTO 00000KT 10SM CLR 13/01 A2991 RMK AO1 LBPD 300730Z AUTO 23004KT 160V280 9999 NCD 26/14 Q1023 NOSIG KLEW 300735Z 02003KT 10SM CLR 16/ A3003 RMK AO1 KJXN 300656Z 18004KT 7SM FEW042 OVC050 19/18 A3004 RMK AO2 SLP167 T01940183 KLEX 300654Z 21007KT 10SM CLR 21/19 A3011 RMK AO2 SLP184 T02110189 $ KJWY 300735Z AUTO 00000KT 10SM CLR 24/19 A2998 RMK AO2 T02380188 KJYG 300735Z AUTO 17009G14KT 10SM OVC003 17/17 A3001 RMK AO2 ENRY 300720Z 23005KT 200V260 CAVOK 16/11 Q1018 ENSR 291850Z 16006KT 9999 FEW060 14/09 Q1001 WIND 1119FT 14005KT ENSS 291050Z 11021KT CAVOK 11/08 Q1008 RMK WIND 500FT 10021KT KLFT 300653Z AUTO 00000KT 10SM CLR 23/21 A3001 RMK AO2 SLP160 T02330211 KLHB 300735Z AUTO 13003KT 10SM CLR 24/19 A3001 RMK AO2 T02400191 ENST 291150Z 22018KT 9999 SHRA FEW015TCU SCT020 BKN028 14/11 Q1005 RMK WIND 300FT 23018KT KJYL 300735Z AUTO 10004KT 10SM CLR 23/21 A3009 RMK AO2 LTG DSNT SE AND S T02260206 KJYM 300735Z AUTO 00000KT 5SM BR SCT070 BKN100 18/18 A3004 RMK AO2 T01840184 UUYY 300730Z 03005MPS 9999 FEW040 11/03 Q1009 R01/CLRD61 NOSIG RMK QFE748/0997 EPCE 300730Z 17005KT 110V200 9999 SCT057 20/10 Q1022 RMK 203 052 3/3 = KJYO 300715Z AUTO 19004KT 10SM CLR 20/19 A3011 RMK AO2 ENTO 300720Z 27007KT CAVOK 15/12 Q1018 KJZI 300735Z AUTO 00000KT 10SM CLR 24/23 A3008 RMK AO2 LTG DSNT E-S KJYR 300735Z AUTO 19006KT 1/2SM FG OVC002 17/17 A3005 RMK AO2 ENVA 300720Z 11006KT 9999 FEW030 SCT055 BKN080 13/12 Q1015 NOSIG RMK WIND 670FT 17006KT FGBT 300700Z 17004KT 140V200 9999 FEW010 BKN100 25/22 Q1016 NOSIG KLGU 300651Z AUTO 10SM CLR 24/08 A2987 RMK AO2 LTG DSNT NW SLP048 T02390078 403440111 KLIC 300655Z AUTO 14007KT 10SM CLR 14/06 A3019 RMK AO2 SLP152 T01390056 402830072 KLHM 300735Z AUTO 14007KT 10SM CLR 20/08 A2994 RMK AO1 ENVD 291020Z 07018KT CAVOK 12/05 Q1007 KJZP 300715Z AUTO 13005KT 10SM OVC100 23/10 A3017 RMK AO2 T02300096 KLHQ 300653Z AUTO 33007KT 9SM SCT040 BKN060 21/19 A3009 RMK AO2 SLP182 T02110189 EPBY 300730Z 11004KT 070V160 CAVOK 21/11 Q1021 ENVH 300720Z AUTO 21007KT 170V230 9999NDV NCD 15/13 Q1019 W///S3 UWKD 300730Z 28008G13MPS 9999 BKN045CB 15/11 Q0997 R29/CLRD70 NOSIG RMK QFE737/0983 UWKE 300730Z 26006G11MPS 9999 -SHRA BKN007CB 13/12 Q0996 R21/210355 NOSIG RMK OBST OBSC QFE730/0973 KMAE 300653Z AUTO 32013KT 10SM CLR 24/10 A2993 RMK AO2 SLP130 T02390100 KLHW 300731Z AUTO 13003KT 5SM R33/4500FT RA BR FEW012 SCT016 SCT026 BKN038 23/22 A3004 RMK AO2 LTG DSNT N-E AND W RAB14 TSB09E26 KLHX 300653Z AUTO 19006KT 10SM CLR 23/06 A3013 RMK AO2 SLP134 T02280061 403280133 KMAF 300653Z AUTO 00000KT 10SM CLR 20/15 A3010 RMK AO2 SLP153 T02000150 KLJF 300733Z AUTO 16004KT 7SM CLR 17/17 A2997 RMK AO2 LBSF 300730Z VRB02KT CAVOK 24/13 Q1026 NOSIG DXNG 292100Z 00000KT 9999 BKN005 23/23 Q1018 KLHZ 300735Z AUTO 00000KT 10SM CLR 17/16 A3015 RMK AO2 KMAI 300726Z AUTO 00000KT 10SM FEW003 BKN011 22/22 A3003 RMK AO2 CIG 008V013 T02220222 VOCB 300730Z 20008KT 6000 FEW015 33/20 Q1011 NOSIG VOBL 300730Z 27011G22KT 240V310 9999 SCT015 SCT020 32/22 Q1013 NOSIG KLIT 300653Z 00000KT 10SM SCT110 22/20 A3000 RMK AO2 SLP158 T02220200 $ KO22 300735Z AUTO 00000KT 10SM CLR 17/09 A3000 RMK AO1 KMAN 300735Z AUTO 15004KT 10SM 19/10 A2985 RMK AO1 KMAO 300735Z AUTO 00000KT 10SM CLR 19/17 A3011 RMK AO2 LTG DSNT SE KMBG 300652Z AUTO 14009KT 10SM CLR 21/19 A2982 RMK AO2 SLP082 T02110189 VOCI 300730Z 25010KT 8000 SCT020 32/24 Q1009 NOSIG UWKS 300730Z 29007G13MPS 4100 -SHRA BKN011CB 12/11 Q0999 R24/290258 TEMPO 32012G17MPS 1500 SHRA RMK QFE735 VNKT 300650Z 26006KT 210V290 9999 FEW020 FEW025TCU SCT030 BKN100 27/20 Q1011 NOSIG VOCL 300730Z 30005KT 9999 FEW020 32/24 Q1010 NOSIG KMCB 300653Z AUTO 00000KT 8SM CLR 21/19 A3002 RMK AO2 SLP159 T02060194 $ KMBL 300735Z AUTO 00000KT M1/4SM OVC001 14/12 A3004 RMK AO1 KMCC 300735Z AUTO 15008KT 10SM CLR 18/10 A2997 RMK AO2 KMCD 300735Z AUTO 21006KT 7SM CLR 15/15 A3004 RMK AO2 T01530147 KMCE 300653Z AUTO 33013KT 10SM CLR 21/11 A2994 RMK AO2 SLP137 T02110111 EPGD 300730Z 19003KT 140V270 CAVOK 20/10 Q1022 KMBO 300735Z AUTO 00000KT 10SM CLR 22/18 A3001 RMK AO2 KMCF 300658Z AUTO 04005KT 10SM FEW240 23/23 A2997 RMK AO2 RAB0558E46DZB46E53 SLP152 P0000 T02320232 KMCI 300653Z 01004KT 8SM FEW034 18/15 A3004 RMK AO2 SLP164 T01780150 KLKR 300735Z AUTO 00000KT 10SM CLR 20/19 A3013 RMK AO2 KMBS 300653Z 04004KT 2 1/2SM BR OVC042 19/17 A3005 RMK AO2 SLP175 T01890172 KLLJ 300655Z AUTO 17007KT 10SM FEW080 SCT110 23/03 A2992 RMK AO2 SLP052 T02280033 403280139 KMCJ 300735Z AUTO 00000KT 10SM CLR 25/18 A2996 RMK AO1 KMCK 300653Z AUTO 24004KT 10SM CLR 19/11 A3005 RMK AO2 SLP150 T01890111 LCLK 300730Z 07005KT 9999 FEW025TCU 33/12 Q1010 NOSIG UWLW 300700Z 31007MPS 8000 BKN020CB 17/10 Q1001 R20/CLRD60 NOSIG RMK QFE745 KLKU 300715Z AUTO 00000KT 10SM SCT090 20/18 A3012 RMK AO2 KLKV 300735Z AUTO 13005KT 10SM CLR 11/04 A3003 RMK AO1 KMDD 300715Z AUTO 00000KT 10SM CLR 21/15 A3010 RMK AO2 T02050152 KMCN 300653Z AUTO 00000KT 10SM SCT090 OVC120 22/21 A3009 RMK AO2 SLP184 T02170206 TSNO KMCO 300653Z 07011KT 10SM FEW011 FEW040 SCT110 OVC250 23/23 A2998 RMK AO2 RAE13 SLP149 OCNL LTGIC DSNT E CB DSNT E P0001 T02330233 $ KLLQ 300653Z AUTO 00000KT 10SM CLR 23/21 A2999 RMK AO2 SLP152 T02330211 $ KMDH 300652Z AUTO 19005KT 10SM BKN090 BKN110 22/20 A3002 RMK AO2 RAB25E37 SLP163 P0000 T02220200 KMDJ 300735Z AUTO 15006KT 10SM CLR 28/22 A3001 RMK A01 KMEB 300652Z AUTO 00000KT 9SM CLR 18/17 A3012 RMK AO2 SLP198 T01830167 KLNC 300735Z AUTO 19004KT 10SM CLR 24/17 A2997 RMK AO2 T02390170 KLND 300653Z AUTO 25012KT 10SM CLR 23/03 A2998 RMK AO2 SLP069 T02330033 403440133 KMCW 300728Z AUTO 15003KT 1/4SM FG VV001 14/14 A3005 RMK AO2 T01390139 $ KO54 300735Z AUTO 20006KT 10SM CLR 16/07 A3001 RMK AO1 KLMO 300734Z AUTO 00000KT 7SM CLR 17/08 A3009 RMK AO2 T01710080 KMCX 300735Z AUTO 00000KT 7SM SCT100 20/20 A3001 RMK AO2 T02000200 KMDQ 300735Z AUTO 00000KT 10SM -RA CLR 21/18 A3010 RMK AO2 KMEH 300656Z AUTO 00000KT 10SM CLR 08/04 A2994 RMK AO2 SLP126 T00780039 KMEI 300658Z AUTO 12004KT 10SM FEW095 24/21 A3004 RMK AO2 SLP169 T02390206 KMDS 300730Z AUTO 18010G15KT 5SM BR OVC003 17/17 A2997 RMK AO2 KLNK 300736Z AUTO 18005KT 4SM BR OVC004 17/16 A3005 RMK AO2 T01670161 KLMT 300653Z AUTO 00000KT 10SM CLR 10/06 A3001 RMK AO2 SLP132 T01000061 KMDT 300656Z 13003KT 10SM FEW250 21/18 A3008 RMK AO2 SLP184 T02060178 $ LDDU 300730Z 29004KT 230V340 CAVOK 32/13 Q1021 NOSIG KLNL 300715Z AUTO 23003KT 2SM BR OVC002 16/16 A3005 RMK AO2 T01620161 UWOO 300730Z 22006MPS 5000 -SHRA OVC026CB 16/13 Q1002 R26/290054 NOSIG RMK QFE741/0988 KMFD 300652Z AUTO 00000KT 10SM BKN046 20/19 A3009 RMK AO2 LTG DSNT E AND SE SLP180 T02000194 KMEM 300654Z 16008KT 10SM FEW070 OVC140 26/21 A3002 RMK AO2 SLP161 T02560211 KMFE 300653Z AUTO 13003KT 10SM CLR 26/23 A2998 RMK AO2 SLP150 T02610228 KMDW 300653Z 01006KT 1 1/2SM BR OVC003 19/18 A3002 RMK AO2 SLP156 T01940178 $ ENZV 300720Z 16008KT 9999 FEW013 FEW015TCU 16/14 Q1018 NOSIG KLNN 300735Z AUTO 15003KT 4SM SCT110 18/17 A3005 RMK AO1 P0002 T01830171 LBWN 300730Z 03004KT 360V060 CAVOK 29/18 Q1021 BECMG 07010KT UWOR 300700Z 23012G17MPS 9999 OVC050 25/07 Q1004 R25/CLRD65 NOSIG RMK QFE729/0972 KLNP 300717Z AUTO 19003KT 10SM CLR 19/13 A3021 RMK AO2 KMDZ 300715Z AUTO 16003KT 1/4SM FG OVC003 12/12 A3005 RMK AO2 T01160116 KMFI 300654Z AUTO 00000KT 1/4SM FG VV001 13/11 A3006 RMK AO2 SLP179 T01280111 KMER 300735Z AUTO 31008KT 10SM CLR 20/12 A2995 RMK AO1 KLNR 300656Z AUTO 00000KT 9SM OVC025 18/17 A3005 RMK AO2 SLP169 T01780172 KLNS 300653Z AUTO 00000KT 6SM BR CLR 18/17 A3010 RMK AO2 SLP188 T01830172 KO69 300735Z AUTO 00000KT 8SM OVC006 16/15 A3002 RMK AO1 DXSK 292100Z 00000KT 9999 SCT010 BKN120 23/23 Q//// KLOL 300653Z AUTO 26010KT 10SM CLR 21/07 A3001 RMK AO2 SLP114 T02110072 KLPC 300735Z AUTO 27006KT 10SM CLR 17/13 A2998 RMK AO1 KMGC 300715Z AUTO 32003KT 3SM BR BKN003 OVC007 20/20 A3002 RMK AO2 KLOM 300735Z AUTO 00000KT 10SM CLR 18/17 A3010 RMK AO1 KMEV 300735Z AUTO 01006KT 10SM CLR 14/04 A3007 RMK AO2 KMGE 300658Z AUTO 10005KT 10SM FEW100 23/18 A3012 RMK AO2 CIG 110 RWY29 SLP191 T02250184 $ KMGG 300736Z AUTO 00000KT 7SM CLR 16/16 A2998 RMK AO2 T01620158 KMEZ 300735Z AUTO 00000KT 5SM SCT090 BKN120 21/21 A3001 RMK AO2 LCPH 300730Z 26006KT 230V290 9999 FEW030 31/23 Q1010 KMFR 300653Z AUTO 02003KT 10SM CLR 17/09 A2996 RMK AO2 SLP136 T01720094 KLOR 300653Z AUTO 00000KT 10SM FEW050 22/20 A3005 RMK AO2 SLP171 T02170200 KMGJ 300654Z AUTO 00000KT 4SM BR CLR 16/16 A3008 RMK AO2 SLP184 T01610156 TSNO $ KLOT 300735Z AUTO 36004KT 1 1/4SM BR OVC004 19/19 A3003 RMK AO2 T01850185 KLOU 300653Z AUTO 16004KT 10SM CLR 23/19 A3007 RMK AO2 SLP177 T02280194 TSNO EPLB 300730Z 16004KT 120V180 CAVOK 23/12 Q1024 EPKK 300730Z 04006KT CAVOK 22/19 Q1023 KMGM 300711Z 13004KT 10SM BKN011 OVC100 23/21 A3006 RMK AO2 T02280206 KMFV 300715Z AUTO 00000KT 10SM CLR 15/08 A3012 RMK AO2 KMHE 300653Z AUTO 16009KT 10SM CLR 19/18 A2994 RMK AO2 SLP131 T01890183 KMGN 300734Z AUTO 00000KT 7SM SCT002 13/12 A3004 RMK AO2 T01320129 FHAW 300550Z 14013KT 9999 FEW028 BKN045 22/17 Q1017 BLU VOHS 300710Z 27012KT 6000 SCT015 BKN100 28/23 Q1011 NOSIG KLOZ 300653Z AUTO 00000KT 7SM CLR 19/17 A3014 RMK AO2 SLP192 T01940167 KO86 300735Z AUTO 28005KT 10SM CLR 13/05 A3001 RMK AO1 KLPR 300653Z AUTO 30006KT 6SM -RA BR FEW055 BKN100 OVC110 19/18 A3008 RMK AO2 SLP180 P0004 T01940178 TSNO KMGR 300715Z AUTO 00000KT 10SM CLR 22/21 A3005 RMK AO2 KMIA 300727Z 10006KT 3/4SM +TSRA BR FEW012 BKN028CB OVC075 24/23 A2996 RMK AO2 CONS LTGICCA ALQDS TS ALQDS MOV NW P0066 T02440233 $ LCRA 300650Z 18006KT 9999 FEW040 32/09 Q1009 NOSIG KLQK 300735Z AUTO 07003KT 10SM SCT120 19/18 A3013 RMK AO2 T01910184 KMHK 300652Z AUTO 00000KT 5SM BR OVC009 18/17 A3005 RMK AO2 CIG 007V010 SLP170 T01780172 KMIB 300723Z AUTO 18001KT 10SM CLR 20/17 A2971 RMK AO2 KMIC 300653Z AUTO 16004KT 7SM CLR 18/16 A2998 RMK AO2 SLP148 T01780161 KMHL 300735Z AUTO 00000KT 3SM BR BKN022 OVC029 22/22 A3002 RMK AO2 LTG DSNT S EPKT 300730Z 12007KT CAVOK 25/17 Q1023 KLRD 300656Z AUTO 13010KT 10SM CLR 26/20 A3001 RMK AO2 T02610200 SLP149 EPLL 300730Z 12004KT CAVOK 21/15 Q1023 VOHY 300640Z 27010KT 5000 HZ SCT010 SCT015 BKN080 29/20 Q1011 NOSIG KMIE 300653Z AUTO 21003KT 10SM FEW080 21/19 A3004 RMK AO2 SLP164 T02110194 KMGW 300653Z AUTO 00000KT 10SM CLR 19/15 A3012 RMK AO2 SLP190 T01940150 TSNO KLRF 300658Z AUTO 07002KT 10SM CLR 21/20 A2999 RMK AO2 SLP155 T02090201 KMGY 300653Z AUTO 00000KT 9SM -RA FEW070 BKN100 20/17 A3007 RMK AO2 LTG DSNT W-N RAB31 SLP174 P0003 T02000172 KMHR 300245Z 23007KT 10SM FEW100 24/07 A2993 KMHS 300656Z AUTO 00000KT 10SM CLR 12/09 A3002 RMK AO2 SLP161 T01170089 KP08 300735Z AUTO 20003KT 10SM CLR 28/19 A2989 RMK AO2 KLRJ 300715Z AUTO 19009G14KT 10SM OVC008 18/17 A3003 RMK AO2 LEAB 300700Z 10006KT CAVOK 19/17 Q1021 NOSIG KMHT 300653Z 00000KT 10SM BKN150 18/14 A3004 RMK AO2 SLP184 T01830139 KLSB 300715Z AUTO 04003KT 10SM CLR 22/13 A3018 RMK AO2 LTG DSNT SE KMHV 300720Z AUTO 27019G24KT 10SM CLR 26/10 A2996 RMK A01 KLSE 300653Z AUTO 13003KT 6SM BR CLR 16/15 A3003 RMK AO2 SLP164 T01560150 KLSF 300733Z AUTO 12005KT 10SM BKN027 OVC110 23/22 A3004 RMK AO2 CIG 027V110 BKN V FEW KLRO 300735Z AUTO 00000KT 8SM FEW012 23/23 A3009 RMK AO2 LTG DSNT NE-S LEAG 300730Z AUTO 07011KT 9999 FEW013 SCT015 OVC031 23/22 Q1016 EPMO 300730Z 13005KT 080V170 CAVOK 22/10 Q1023 UWSS 300730Z 30007G12MPS 9999 SCT030 19/11 Q1009 R30/010095 NOSIG RMK QFE743 LEBA 300700Z 00000KT CAVOK 24/16 Q1014 KMIS 300735Z AUTO 00000KT 10SM BKN039 BKN050 28/20 A3001 RMK A01 LEBB 300730Z 00000KT CAVOK 24/20 Q1013 NOSIG KNAK 300654Z AUTO VRB04KT 10SM CLR 22/17 A3009 RMK AO2 SLP192 T02170172 LEAL 300730Z VRB02KT 9999 FEW040 28/18 Q1017 NOSIG KMKC 300654Z 36003KT 10SM BKN013 OVC018 20/19 A3002 RMK AO2 SLP161 T02000189 KNBC 300656Z AUTO 05003KT 10SM CLR 24/23 A3007 RMK AO2 SLP183 T02440228 KLRU 300715Z AUTO 14005KT 10SM CLR 23/12 A3018 RMK AO2 T02310116 LEAM 300730Z 00000KT 9999 FEW020 28/20 Q1016 KMIV 300654Z AUTO 00000KT 10SM CLR 18/17 A3011 RMK AO2 SLP194 T01830167 KMIW 300653Z AUTO 00000KT 1/4SM FG VV002 16/15 A3005 RMK AO2 SLP172 T01560150 KMKE 300652Z 36003KT 1/2SM BR OVC002 17/16 A3004 RMK AO2 SFC VIS 2 1/2 SLP170 T01670161 LEAO 300700Z 06008KT 030V090 CAVOK 21/17 Q1018 LEBG 300700Z 03006KT CAVOK 18/12 Q1019 KNBG 300655Z AUTO 00000KT 7SM CLR 21/20 A3001 RMK AO2 SLP160 T02110200 $ KMKG 300655Z AUTO 02003KT 3SM BR OVC003 19/17 A3002 RMK AO2 SLP164 T01890167 KMJQ 300733Z AUTO 20009KT 3/4SM BR OVC002 16/16 A3001 RMK AO2 LEAS 300730Z 14004KT 0500 R29/0650U R11/0800U FG VV001 18/18 Q1013 TEMPO 1200 BCFG BKN002 KLUA 300735Z AUTO 00000KT 7SM CLR 16/16 A3012 RMK AO2 KNCA 300656Z AUTO 00000KT 10SM CLR 20/18 A3010 RMK AO2 SLP196 T02000183 KP28 300656Z AUTO 00000KT 16/15 A3005 RMK AO1 SLP163 T01610150 KMKJ 300715Z AUTO 00000KT 10SM CLR 18/16 A3023 RMK AO2 T01760161 KMLB 300729Z AUTO 04013KT 10SM FEW016 SCT021 26/24 A2998 RMK AO2 T02560239 LEBL 300730Z 32006KT 270V350 9999 FEW010 23/16 Q1019 NOSIG KMLC 300653Z AUTO 14005KT 9SM -RA OVC100 24/21 A2996 RMK AO2 RAB02 SLP134 P0005 T02440211 KMKL 300653Z AUTO 17005KT 10SM CLR 23/19 A3005 RMK AO2 SLP169 T02330194 KLSV 300658Z AUTO 19010KT 10SM CLR 33/04 A2980 RMK AO2 SLP061 T03310035 KLUD 300715Z AUTO 21004KT 10SM CLR 23/16 A2998 RMK AO2 T02320163 KMKN 300735Z AUTO 10003KT 10SM OVC110 23/19 A3003 RMK AO2 T02250186 KMLE 300715Z AUTO 00000KT 10SM CLR 18/17 A3004 RMK AO2 T01810166 KMKO 300653Z AUTO 00000KT 5SM BR CLR 23/22 A2996 RMK AO2 SLP138 T02280217 KMLF 300652Z AUTO 21009KT 10SM CLR 21/06 A3004 RMK AO2 SLP089 T02060061 403560139 KMJX 300735Z AUTO 00000KT 10SM CLR 17/14 A3012 RMK AO1 KLUF 300658Z AUTO 06004KT 10SM CLR 33/16 A2982 RMK AO2 SLP081 T03300155 404280273 $ LECH 291600Z 12008KT 070V150 9999 FEW022 26/21 Q1020 KMLI 300730Z 00000KT 1/4SM R09/1400V2000FT FG VV002 16/15 A3003 RMK AO2 T01610150 LEDA 300730Z 08009KT CAVOK 23/15 Q1020 UWUU 300730Z 20006MPS 9999 BKN022CB 17/15 Q0995 R14L/210150 NOSIG RMK QFE736/0981 KMKS 300735Z AUTO 00000KT 10SM CLR 23/19 A3009 RMK AO2 LTG DSNT SE KLTS 300658Z AUTO 03006KT 10SM CLR 22/16 A2998 RMK AO2 SLP136 T02170160 $ VOML 300730Z 30011KT 8000 FEW012 SCT020 30/25 Q1010 NOSIG KMLJ 300715Z AUTO 00000KT 10SM BKN120 22/18 A3010 RMK AO2 VOMM 300710Z 27008KT 8000 FEW020 35/23 Q1006 NOSIG LEBT 300700Z AUTO 00000KT CAVOK 25/18 Q1019 KLUK 300730Z AUTO 00000KT 1/2SM R21L/P6000FT FG CLR 18/18 A3008 RMK AO2 T01830183 KMKT 300735Z 17005KT 6SM CLR 15/13 A3001 RMK AO1 KNBT 300656Z AUTO 33004KT 10SM CLR A3009 RMK AO2 SLP195 PWINO PNO $ KLUL 300715Z AUTO 00000KT 10SM SCT070 24/23 A3003 RMK AO2 T02370231 KLUM 300735Z AUTO 09003KT 1/2SM FG VV005 14/14 A3003 RMK AO2 T01420140 LDLO 300700Z 30007KT CAVOK 26/21 Q1020 LECO 300730Z 17004KT 0150 R21/0700N R03/0325N FG VV002 19/19 Q1013 TEMPO 1200 BCFG DXXX 300700Z 22008KT 8000 FEW010 25/24 Q1016 NOSIG KMLP 300653Z AUTO VRB04KT 10SM -RA BKN050 OVC060 09/04 A2998 RMK AO2 RAB45 SLP062 P0000 T00940044 EPPO 300730Z VRB02KT CAVOK 19/11 Q1021 LEBZ 300700Z 00000KT CAVOK 25/18 Q1014 KMMH 300735Z AUTO 00000KT 10SM CLR 14/02 A3023 RMK AO1 KMMI 300735Z AUTO 00000KT 10SM CLR 19/18 A3014 RMK KMLS 300653Z AUTO 15013G20KT 10SM CLR 28/08 A2970 RMK AO2 SLP025 T02780083 403780144 KLVJ 300653Z AUTO 00000KT 10SM CLR 23/19 A3001 RMK AO2 SLP160 T02330194 KLWA 300734Z AUTO 00000KT 4SM BR OVC005 20/19 A3000 RMK AO2 T01950188 KMMK 300653Z AUTO 00000KT 9SM FEW055 17/15 A3008 RMK AO2 SLP185 T01670150 TSNO $ KMLT 300653Z AUTO 00000KT 10SM BKN110 17/15 A3002 RMK AO2 SLP168 T01670150 KLVK 300734Z AUTO 21003KT 10SM BKN018 18/14 A3000 RMK AO2 KLWB 300715Z AUTO 00000KT 1/4SM FG OVC001 16/15 A3020 RMK AO2 T01550145 KMLU 300653Z AUTO 00000KT 10SM CLR 23/20 A2999 RMK AO2 SLP155 T02330200 KLWC 300652Z AUTO 00000KT 10SM BKN037 18/18 A3003 RMK AO2 SLP165 T01830178 KMML 300735Z AUTO 20008KT 6SM CLR 17/14 A2996 RMK AO1 KLVL 300721Z AUTO 00000KT 10SM CLR 17/17 A3013 RMK AO2 LECV 300700Z 10005KT CAVOK 21/07 Q1021 KLWD 300717Z AUTO 00000KT 3/4SM BR OVC002 18/17 A3005 RMK AO2 T01830172 KLVM 300653Z AUTO 20018G28KT 10SM CLR 26/05 A2983 RMK AO2 PK WND 22033/0624 SLP036 T02610050 403170100 KLVN 300726Z AUTO 18003KT 1/2SM FG OVC001 16/16 A3000 RMK AO2 KMNE 300715Z AUTO 00000KT 10SM CLR 24/19 A2999 RMK AO2 T02370194 KP53 300656Z AUTO 19007KT 18/16 A3000 RMK AO1 SLP156 T01830156 KLUX 300735Z AUTO 00000KT 10SM CLR 19/19 A3013 RMK AO2 KMNH 300733Z AUTO 20011KT 10SM SCT110 15/05 A3026 RMK AO2 KMNI 300735Z 00000KT 7SM BKN048 20/16 A3010 RMK AO2 PWINO KLVS 300653Z AUTO 00000KT 10SM CLR 12/08 A3036 RMK AO2 SLP175 T01220083 402830089 KP58 300651Z AUTO 00000KT 19/17 A3004 RMK AO1 SLP168 T01890172 KP59 292251Z AUTO 35010KT 21/15 A2998 RMK AO1 SLP147 T02110150 KP60 300656Z AUTO 27008G27KT 230V310 11/09 A3029 RMK AO1 PK WND 28027/0649 PRESRR SLP173 P0004 T01110089 402170044 $ KMOB 300656Z AUTO 00000KT 10SM CLR 23/22 A3004 RMK AO2 SLP169 T02280217 KMMT 300658Z AUTO 00000KT 10SM CLR 20/17 A3011 RMK AO2 SLP197 T02020173 $ UWWW 300730Z 30008MPS 270V330 9999 FEW033 SCT100 BKN200 19/07 Q1001 R23/CLRD60 TEMPO 30015MPS RMK QFE740/0986 KMMU 300715Z AUTO 00000KT 1/2SM HZ VV005 14/12 A3009 RMK AO2 KNEL 300700Z AUTO 00000KT 10SM CLR 18/16 A3010 RMK AO2 SLP191 T01780161 PNO $ KMOD 300653Z AUTO 32013KT 10SM CLR 21/10 A2995 RMK AO2 SLP141 T02110100 KMMV 300653Z AUTO 18012KT 10SM -RA FEW041 BKN050 OVC070 19/12 A2982 RMK AO2 RAE09B30 SLP097 P0000 T01890117 KLWM 300654Z AUTO 19004KT 10SM BKN060 18/14 A3008 RMK AO2 SLP183 T01830144 KMNM 300735Z AUTO 28003KT 1/2SM OVC001 15/13 A3003 RMK AO1 EPSC 300730Z VRB02KT CAVOK 19/12 Q1021 KMNN 300653Z AUTO 00000KT 7SM BKN039 19/18 A3008 RMK AO2 SLP180 T01940178 TSNO KNFE 300656Z AUTO 00000KT 10SM CLR 19/17 A3011 RMK AO2 SLP198 T01940167 $ KNFG 300654Z AUTO 00000KT 6SM CLR 21/18 A2987 RMK AO2 SLP113 T02110178 $ KNDZ 300656Z AUTO 08003KT 10SM CLR 22/20 A3004 RMK AO2 SLP157 T02220200 $ LEGA 300700Z 00000KT CAVOK 21/15 Q1018 KLWS 292055Z 28025KT 7SM BKN060 A2979 RMK VIS E 4SM KP68 300653Z AUTO 33003KT 17/02 A3009 RMK AO1 SLP096 T01670022 KLWT 300654Z AUTO 12006KT 10SM CLR 17/10 A2982 RMK AO2 SLP049 T01720100 403220161 TSNO KP69 300652Z AUTO 00000KT 15/14 A2988 RMK AO1 SLP105 T01500139 KLXL 300734Z AUTO 17003KT 4SM BR OVC004 16/15 A2996 RMK AO2 KNFL 300656Z AUTO 29008KT 10SM CLR 22/05 A3000 RMK AO2 SLP129 T02220050 FGSL 300700Z 00000KT 6000 -TSDZ SCT007 FEW016CB OVC030 24/23 Q1017 TEMPO 4000 TSRADZ KLWV 300653Z AUTO 34004KT 6SM BR CLR 22/21 A3004 RMK AO2 SLP167 T02170206 LEGE 300730Z 00000KT CAVOK 22/17 Q1019 KNEW 300653Z AUTO 20004KT 10SM FEW050 25/20 A3001 RMK AO2 SLP156 T02500200 TSNO KLXN 300715Z AUTO 20004KT 10SM CLR 17/15 A3005 RMK AO2 T01720150 KMOP 300735Z AUTO 00000KT 4SM BR BKN010 OVC026 19/17 A3003 RMK AO2 T01850173 KLYH 300654Z AUTO 00000KT 10SM CLR 18/16 A3015 RMK AO2 SLP201 T01780156 KMNZ 300735Z AUTO 10SM -RA OVC120 25/18 A3002 RMK AO2 T02450181 KMOR 300715Z AUTO 00000KT 10SM CLR 20/18 A3015 RMK EPRZ 300730Z 12004KT 060V150 CAVOK 22/17 Q1024 LDOS 300730Z 09001KT 040V340 CAVOK 27/18 Q1022 KLXT 300714Z AUTO 02004KT 10SM SCT007 BKN041 19/18 A3003 RMK AO2 T01940183 $ KMOT 300654Z AUTO 20006KT 8SM CLR 27/16 A2973 RMK AO2 SLP052 T02670156 KMQB 300715Z AUTO 00000KT 3SM BR OVC019 20/20 A3004 RMK AO2 T01960195 LEHC 300700Z 08008KT CAVOK 22/10 Q1020 LDPL 300730Z 30005KT 250V340 CAVOK 27/22 Q1021 NOSIG KLXV 300653Z AUTO 00000KT 10SM CLR 08/02 A3050 RMK AO2 SLP156 T00780017 402170011 KNFW 300652Z AUTO 28003KT 10SM BKN100 26/19 A2997 RMK AO2 SLP134 T02610189 KMQE 300654Z AUTO 23010KT 19/16 A3008 RMK AO1 SLP191 T01890156 KMPO 300653Z AUTO 30004KT 4SM BR CLR 15/14 A3014 RMK AO2 SLP198 T01500139 KMOX 300735Z AUTO 15008KT 3SM BR CLR 17/16 A2991 RMK AO2 KLXY 300735Z AUTO 13012G18KT 10SM CLR 25/18 A2999 RMK AO2 T02450184 KNGP 300656Z AUTO 00000KT 10SM CLR 23/19 A2997 RMK AO2 SLP149 T02330194 LEGR 300730Z VRB01KT CAVOK 24/16 Q1018 KMQI 300715Z AUTO 04004KT 10SM CLR 23/21 A3009 RMK AO2 T02340214 KMQJ 300736Z AUTO 18004KT 7SM SCT049 SCT060 21/ A3005 RMK AO1 LEGT 300700Z 05006KT CAVOK 22/12 Q1019 LEIB 300730Z 05008KT 9999 FEW015 BKN040 28/24 Q1017 NOSIG KNHK 300652Z AUTO 00000KT 10SM CLR 19/17 A3010 RMK AO2 SLP194 T01940167 KMRB 300653Z AUTO 20003KT 5SM BR CLR 17/17 A3009 RMK AO2 SLP185 T01720167 TSNO KMRC 300735Z AUTO 00000KT 10SM CLR 20/20 A3007 RMK KNGU 300659Z 00000KT 10SM SCT065 BKN230 19/17 A3013 RMK AO2 SLP201 T01940167 KP92 300653Z AUTO 00000KT 26/21 A2999 RMK AO1 SLP155 T02610211 KMPV 300651Z AUTO 00000KT 10SM CLR 17/15 A3011 RMK AO2 SLP193 T01670150 KLYV 300734Z AUTO 19008KT 1 1/4SM BR OVC003 17/16 A3001 RMK AO2 KNID 300656Z AUTO 19009KT 10SM CLR 28/06 A2987 RMK AO2 SLP087 T02780056 $ KMRF 300735Z AUTO 01008KT 10SM CLR 15/09 A3020 RMK AO1 KMRH 300658Z AUTO 01003KT 10SM CLR 22/21 A3010 RMK AO2 SLP191 T02220206 TSNO KMPZ 300715Z AUTO 00000KT M1/4SM +DZ OVC001 19/17 A3003 RMK AO2 T01850168 LDRI 300730Z 12005KT 080V180 CAVOK 27/18 Q1021 KMQS 300735Z AUTO 00000KT 5SM BR CLR 18/18 A3012 RMK AO2 KMRJ 300715Z AUTO 00000KT 10SM OVC019 18/16 A3005 RMK AO2 LDSB 300600Z 15003KT CAVOK 21/14 Q1023 EPWA 300730Z 16005KT 120V190 CAVOK 22/11 Q1023 NOSIG KLZU 300045Z 00000KT 10SM CLR 23/16 A3016 KMRN 300715Z AUTO 00000KT 10SM CLR 18/17 A3020 RMK AO2 T01780167 KNIP 300653Z AUTO 16007KT 10SM -RA CLR 26/21 A3004 RMK AO2 SLP166 P0003 T02560211 $ KMQY 300656Z AUTO 00000KT 10SM CLR 19/19 A3010 RMK AO2 T01940194 SLP198 KLZZ 300035Z AUTO 34007KT 10SM CLR 29/18 A2998 RMK AO2 T02850175 KOAJ 300735Z AUTO 00000KT 10SM CLR 19/16 A3011 RMK AO1 LFBA 300730Z AUTO 11005KT CAVOK 22/15 Q1016 KOAK 300653Z 27015KT 10SM SCT012 19/16 A3000 RMK AO2 SLP158 T01890156 $ KMRT 300734Z AUTO 23006KT 10SM SCT120 20/19 A3007 RMK AO2 T01990186 KNJK 300656Z AUTO 26010KT 10SM CLR 34/10 A2973 RMK AO2 SLP084 T03440100 $ KMSL 300653Z AUTO 00000KT 10SM CLR 20/18 A3010 RMK AO2 SLP185 T02000183 KMTC 300658Z AUTO 11003KT 10SM BKN060 BKN075 19/19 A3003 RMK AO2 SLP170 T01940188 LFBC 300730Z AUTO 13007KT 9999 OVC005 22/20 Q1015 KNJM 300657Z AUTO 34004KT 10SM CLR 22/18 A3011 RMK AO2 SLP198 T02170183 $ LFBD 300730Z AUTO 13008KT CAVOK 23/18 Q1015 KMSN 300653Z AUTO 00000KT 5SM BR OVC024 18/17 A3003 RMK AO2 SLP169 T01780167 KOBE 300735Z AUTO 07003KT 23/23 A2998 RMK AO2 LTG DSNT E THRU S PWINO LFBE 300730Z AUTO 00000KT CAVOK 22/14 Q1016 KMSO 300709Z AUTO 33013KT 6SM HZ SCT023 BKN110 16/11 A2987 RMK AO2 T01610106 VOTR 300710Z 27006KT 8000 FEW016 FEW025TCU 36/22 Q1007 NOSIG KMSP 300721Z 14005KT 4SM BR BKN002 BKN250 17/16 A2999 RMK AO2 T01720161 KMRY 300654Z AUTO 18006KT 10SM CLR 18/13 A3002 RMK AO2 SLP174 T01780133 LDSP 300730Z VRB01KT CAVOK 29/18 Q1021 NOSIG LFBG 300730Z AUTO 14008KT CAVOK 24/13 Q1015 KMTH 300710Z AUTO 06011KT 10SM BKN018 BKN024 A2985 RMK AO2 LTG DSNT NE AND E $ LFBH 300730Z AUTO 15013KT CAVOK 23/18 Q1014 LFAQ 300730Z AUTO 07005KT 5000 BR NSC 20/18 Q1016 LEJR 300730Z 12015G27KT 080V160 CAVOK 28/21 Q1012 LFBI 300730Z AUTO 17005KT 140V200 CAVOK 22/13 Q1016 KMSS 300653Z AUTO 23006KT 9SM CLR 17/16 A3005 RMK AO2 SLP175 T01720156 KMTJ 300653Z AUTO 12007KT 10SM CLR 18/06 A3019 RMK AO2 SLP137 T01780061 403220111 EPWR 300730Z 13006KT 100V160 CAVOK 24/18 Q1022 VOTV 300640Z 24012KT 6000 SCT015 31/25 Q1010 NOSIG LFAT 300730Z AUTO VRB02KT CAVOK 20/18 Q1016 LELC 300700Z 36006KT 9999 FEW020 26/21 Q1017 NOSIG KNLC 300656Z AUTO 31018KT 10SM CLR 24/08 A2992 RMK AO2 SLP130 T02390083 LFBL 300730Z AUTO 12008KT CAVOK 23/11 Q1018 KMSV 300735Z AUTO 00000KT 1/2SM OVC002 14/14 A3013 RMK AO1 LFBM 300730Z AUTO 13008KT 9999 FEW008 22/19 Q1015 KMTN 300733Z AUTO 17003KT 10SM CLR 22/20 A3011 RMK AO2 KMTO 300653Z AUTO 21004KT 9SM FEW100 21/18 A3002 RMK AO2 SLP160 T02060178 $ KOCF 300735Z AUTO 02003KT 10SM CLR 22/21 A2999 RMK AO1 LFBO 300730Z AUTO 14015KT CAVOK 24/17 Q1017 KMSY 300653Z 17003KT 10SM FEW020 FEW250 24/19 A3001 RMK AO2 SLP164 T02390194 KMTP 300654Z AUTO 22005KT 23/19 A3011 RMK AO1 SLP194 T02280189 LFBP 300730Z AUTO 12004KT 9999 SCT002 21/20 Q1015 KOCH 300735Z AUTO 00000KT 10SM CLR 21/18 A2999 RMK AO1 KMUI 300658Z AUTO 00000KT 5SM BR CLR 17/17 A3009 RMK AO2 SLP189 T01690166 KNKT 300654Z 34004KT 10SM CLR 23/19 A3011 RMK AO2 SLP194 T02280194 LFBT 300730Z AUTO 00000KT CAVOK 22/17 Q1016 LFCK 300730Z AUTO 12026G36KT CAVOK 24/14 Q1018 LELL 300730Z VRB02KT CAVOK 22/17 Q1020 LFBU 300730Z AUTO 15009KT 120V180 CAVOK 24/11 Q1016 LEMD 300730Z VRB02KT CAVOK 24/11 Q1019 NOSIG KMTV 300715Z AUTO 00000KT 5SM BR CLR 18/18 A3017 RMK AO2 T01770177 LELN 300700Z VRB02KT 9999 VCTS FEW058CB 20/10 Q1018 KMTW 300656Z AUTO 1/4SM FG OVC001 13/13 A3005 RMK AO2 SLP194 T01280128 PNO $ KMVE 300734Z AUTO 20006KT 10SM CLR 17/17 A2996 RMK AO2 LELO 300700Z 07013KT 030V110 CAVOK 23/16 Q1018 KNKX 300655Z 00000KT 10SM CLR 23/18 A2988 RMK AO2 SLP111 T02330178 $ KMUO 300658Z AUTO 32010KT 10SM -RA SCT070 OVC090 23/12 A2990 RMK AO2 RAE07DZB07E19RAB22E49DZB49E53RAB53 SLP095 P0000 T02280116 403340214 $ LEMG 300730Z 14003KT 080V180 9999 SCT010 BKN020 28/24 Q1016 NOSIG LFBY 300700Z AUTO 08007KT //// // ////// 21/20 Q1015 LEMH 300730Z 09011KT 060V120 9999 FEW018 28/22 Q1018 KOCQ 300735Z AUTO 00000KT M1/4SM OVC001 12/12 A3004 RMK AO1 T01150115 KMVH 300735Z AUTO 11006KT 10SM CLR 21/08 A2985 RMK AO2 EPZG 300730Z 00000KT CAVOK 20/14 Q1021 LFBZ 300730Z AUTO 11007KT 9999 OVC005 21/20 Q1014 LFCR 300730Z AUTO 12014KT CAVOK 23/12 Q1020 KMWA 300735Z AUTO 20004KT 10SM SCT080 OVC100 22/20 A3004 RMK AO2 LTG DSNT S KOEB 300735Z AUTO 00000KT 7SM BKN025 BKN050 OVC060 19/19 A3003 RMK AO2 T01940190 KMUT 300715Z AUTO 00000KT OVC002 17/16 A3004 RMK AO2 KMVL 300654Z AUTO 17003KT 10SM CLR 17/14 A3007 RMK AO2 SLP183 T01670144 TSNO KMWC 300715Z AUTO 00000KT 1 3/4SM BR OVC003 16/15 A3004 RMK AO2 KNMM 300656Z AUTO 07004KT 10SM FEW035 23/21 A3006 RMK AO2 SLP184 T02280206 $ KMVN 300735Z AUTO 00000KT 10SM SCT100 BKN110 19/16 A3003 RMK AO1 KOCW 300735Z AUTO 00000KT 10SM CLR 19/18 A3011 RMK AO2 T01850176 KODO 300653Z AUTO 15003KT 10SM CLR 21/13 A3012 RMK AO2 SLP155 T02110128 LEMO 300700Z 00000KT CAVOK 25/14 Q1012 NOSIG KMWH 300652Z AUTO 17009KT 10SM CLR 17/09 A2977 RMK AO2 SLP077 T01720094 KMWK 300715Z AUTO 00000KT 10SM CLR 20/18 A3017 RMK AO2 T01990175 KMWL 300653Z AUTO 17006KT 10SM BKN100 23/20 A2998 RMK AO2 SLP136 T02280200 KMWM 300734Z AUTO 19009KT 3SM BR OVC002 16/16 A3000 RMK AO2 KMWN 300655Z 28028KT 0SM FG VV000 08/08 RMK KODX 300653Z AUTO 00000KT 10SM CLR 13/13 A3002 RMK AO2 SLP159 T01280128 $ KOFF 300658Z AUTO 20004KT 10SM CLR 18/17 A3003 RMK AO2 SLP169 T01750167 $ KMWO 300735Z AUTO 00000KT 5SM BR SCT042 SCT060 21/19 A3007 RMK AO2 T02080190 KMXF 300723Z AUTO 08003KT 10SM OVC010 22/21 A3005 RMK AO2 RAE15DZB15E23 KOEO 300715Z AUTO 00000KT 10SM CLR 16/16 A3002 RMK AO2 T01620162 KMVY 300653Z AUTO 23004KT 10SM CLR 19/17 A3010 RMK AO2 SLP191 T01890167 KNOG 300656Z AUTO 17004KT 10SM CLR 21/18 A2999 RMK AO2 SLP136 T02110178 TSNO $ LEPA 300730Z 07009KT 9999 FEW020 SCT044 28/23 Q1017 NOSIG PTKK 302353Z 23008KT 3SM SHRA SCT010CB BKN120 OVC280 26/25 A2992 RMK SHRAB40 CB ALQDS MOV NE SLP133 60048 8/327 T02560247 10289 20256 52019 KNPA 300656Z AUTO 03005KT 10SM SCT024 24/22 A3002 RMK AO2 SLP167 T02390217 $ KOGA 300715Z AUTO 24003KT 10SM CLR 18/11 A3005 RMK AO2 T01760106 LFGA 300730Z AUTO 18003KT 130V200 CAVOK 23/18 Q1020 KMWT 300653Z AUTO 00000KT 1 1/2SM BR CLR 20/19 A2998 RMK AO2 SLP140 T02000194 $ KOGB 300653Z AUTO 03003KT 10SM CLR 22/16 A3010 RMK AO2 SLP190 T02170161 KOFK 300656Z AUTO 18009KT 4SM BR OVC003 17/17 A3003 RMK AO2 SLP159 T01720167 KOGD 300653Z 16014KT 10SM CLR 28/06 A2988 RMK AO2 SLP042 T02780061 403560189 KMYF 300653Z AUTO 00000KT 10SM CLR 23/20 A2989 RMK AO2 SLP114 T02330200 TSNO KMXO 300715Z AUTO 00000KT 1/4SM FG OVC001 14/14 A3004 RMK AO2 KOFP 300654Z AUTO 18004KT 10SM CLR 19/17 A3013 RMK AO2 SLP202 T01940167 PTKR 300650Z 25011KT 15SM SCT017 SCT120 BKN320 30/25 A2981 RMK SLP096 T03000247 KNQA 300735Z AUTO 00000KT 10SM FEW080 26/24 A3002 RMK LDZA 300730Z VRB01KT CAVOK 24/19 Q1022 NOSIG LFGJ 300730Z AUTO VRB03KT CAVOK 23/14 Q1020 KMYL 300651Z AUTO 00000KT 10SM OVC090 13/11 A2993 RMK AO2 SLP090 T01280111 402500122 LDZD 300730Z 25003KT 170V320 CAVOK 26/23 Q1021 NOSIG KNOW 300715Z AUTO 26004KT 10SM -RA SCT065 BKN075 OVC090 14/13 A2972 RMK AO2 T01360130 LEPP 300730Z 18007KT 150V220 CAVOK 24/10 Q1019 ESCF 300720Z 23005KT CAVOK 14/13 Q1019 KMYP 300724Z AUTO 24015KT 10SM CLR 09/00 A3076 RMK AO2 KMZG 300735Z AUTO 12006KT 10SM BKN040 BKN048 29/21 A2996 RMK A01 KMZH 300734Z AUTO 21003KT 4SM BR CLR 15/15 A2995 RMK AO2 KMYR 300735Z AUTO 00000KT 10SM FEW023 SCT033 SCT080 24/18 A3012 RMK AO1 KNQI 300656Z AUTO 00000KT 10SM CLR 21/17 A2998 RMK AO2 SLP149 T02110172 TSNO $ GABS 300730Z 24006KT 9999 FEW015 SCT020 FEW030TCU 23/23 Q1017 NOSIG KNRB 300652Z AUTO 14010KT 9SM -RA SCT110 25/23 A3002 RMK AO2 TSE0557 PRESFR SLP165 P0005 T02500228 $ KMYV 300653Z AUTO 15008KT 10SM CLR 19/09 A2993 RMK AO2 SLP138 T01940094 ESDF 300720Z 19004KT 160V230 CAVOK 18/16 Q1021 FJDG 300655Z 12014G22KT 9999 FEW020 SCT080 SCT220 31/27 A2990 RMK SLP122 T03110266 KMYZ 300715Z AUTO 00000KT M1/4SM FG OVC001 A3006 RMK AO2 LERI 300700Z 00000KT 9999 FEW015 SCT025 24/21 Q1017 NOSIG WIBB 300700Z 20005KT 5000 FU SCT015 33/24 Q1009 LESA 300730Z VRB02KT 9999 FEW060CB 25/14 Q1017 KOJA 300735Z AUTO 00000KT 10SM CLR 18/17 A3003 RMK AO2 KOJC 300705Z AUTO 00000KT 10SM BKN012 20/19 A3003 RMK AO2 T02000189 LGAD 300720Z 00000KT CAVOK 27/13 Q1018 KPAE 300726Z 19012KT 10SM -RA SCT009 BKN055 OVC075 13/12 A2975 RMK AO2 P0004 T01330122 $ KNSE 300656Z AUTO 09003KT 10SM CLR 20/19 A3004 RMK AO2 RAB45E54 SLP158 P0000 T02000194 $ KNQX 300653Z AUTO 06011KT 10SM CLR 26/24 A2986 RMK AO2 TSB08B13B28E42 SLP111 T02610244 PNO $ KPAH 300653Z AUTO 30004KT 10SM BKN050 OVC100 24/20 A3003 RMK AO2 LTG DSNT SW SLP166 T02390200 KMZZ 300715Z AUTO 00000KT 7SM OVC070 20/16 A3004 RMK AO2 T01970163 FIMP 300700Z 11014KT 9999 VCSH SCT016 BKN050 23/15 Q1024 KNSI 300657Z AUTO 29027G39KT 10SM CLR A2990 RMK AO2 PK WND 30039/0655 SLPNO PNO $ LERS 300730Z 03003KT 350V070 CAVOK 24/16 Q1019 KNRS 300715Z AUTO 22003KT 10SM FEW008 A2988 RMK AO2 $ FIMR 300500Z 11017KT 9999 BKN018 24/18 Q1024 LERT 300700Z 12018G28KT 080V150 CAVOK 27/21 Q1011 NOSIG KOKB 300652Z AUTO 00000KT 10SM CLR 21/19 A2986 RMK AO2 SLP112 T02110189 LFKB 300730Z VRB03KT CAVOK 24/13 Q1021 NOSIG LFJL 300730Z AUTO 18007KT CAVOK 24/15 Q1019 KOKC 300652Z 04006KT 10SM FEW050 FEW070 SCT250 23/19 A2999 RMK AO2 SLP137 T02280189 LGAL 300720Z 08007KT CAVOK 27/17 Q1020 LFKC 300730Z 00000KT CAVOK 28/16 Q1020 NOSIG KNTD 300656Z AUTO 28007KT 10SM CLR 23/19 A2985 RMK AO2 SLP107 T02280189 CHINO N VISNO N $ KPAM 300708Z AUTO 05003KT 10SM FEW005 22/22 A3002 RMK AO2 DZE08 KPAN 300735Z AUTO 00000KT 10SM CLR 21/12 A3019 RMK AO2 KPAO 300347Z 30012KT 10SM SKC 20/14 A2999 RMK LAST LESO 300730Z 01003KT 310V040 9999 FEW009 22/21 Q1014 KPBF 300653Z AUTO 32003KT 10SM CLR 22/20 A2999 RMK AO2 SLP152 T02170200 $ LFKF 300730Z AUTO 09008KT 060V120 9999 NCD 28/21 Q1020 KPBG 300653Z AUTO 25003KT 10SM CLR 18/15 A3004 RMK AO2 SLP172 T01830150 KPBH 300735Z AUTO 19003KT 4SM BR OVC003 14/14 A3005 RMK AO2 T01420142 KPBI 300718Z 14012G24KT 10SM TS SCT022CB SCT035 OVC049 26/24 A2998 RMK AO2 WSHFT 0703 TSB17 FRQ LTGICCCCG N-S TS N-S MOV NW T02560239 LFJR 300730Z AUTO 15007KT CAVOK 22/19 Q1015 LFKJ 300730Z 04004KT 010V070 CAVOK 26/11 Q1020 NOSIG WIDD 300700Z 14014KT 9999 SCT014 32/23 Q1012 METAR WAAA 300700Z 28010KT 250V340 9999 FEW021 33/17 Q1010 NOSIG LEST 300730Z VRB02KT 4000 BR VCFG FEW001 17/17 Q1014 NOSIG KOKK 300735Z AUTO 19003KT 6SM BKN075 BKN085 19/17 A3004 RMK AO1 LFLB 300730Z VRB01KT CAVOK 23/18 Q1021 NOSIG LESU 291700Z 22012KT CAVOK 29/13 Q1021 LETL 300730Z AUTO 14007KT CAVOK 18/15 Q1023 LGBL 300720Z 31004KT CAVOK 30/09 Q1020 LFLC 300730Z AUTO VRB02KT CAVOK 24/11 Q1019 LGAV 300720Z 02018KT CAVOK 30/11 Q1019 NOSIG PTPN 300652Z 09013KT 15SM SCT018 BKN300 30/25 A2979 KOKM 300715Z AUTO 04004KT 10SM CLR 22/21 A2997 RMK AO2 LTG DSNT E T02180210 KOLE 300735Z AUTO 22003KT 7SM -RA SCT070 OVC120 15/15 A3012 RMK AO2 LETO 300700Z 02003KT CAVOK 22/08 Q1019 NOSIG KOLF 300713Z AUTO 00000KT 3SM HZ CLR 20/10 A2966 RMK AO2 T02000100 KOLG 300715Z AUTO 20004KT 10SM CLR 16/16 A2998 RMK AO1 ESGG 300720Z 23006KT 9999 SCT007 BKN009 15/13 Q1020 KNUI 300653Z AUTO 19006KT 10SM CLR 22/18 A3010 RMK AO2 SLP192 T02220183 KOMA 300652Z 19005KT 10SM SCT018 19/17 A3004 RMK AO2 SLP167 T01940167 LFKS 300730Z AUTO VRB02KT CAVOK 27/19 Q1021 ESGJ 300720Z AUTO 21005KT 9999 FEW061/// BKN075/// 13/12 Q1020 WIEE 300700Z 27006KT 210V340 4500 FU SCT020 30/25 Q1011 LEVC 300730Z 00000KT 9999 FEW030 26/20 Q1018 NOSIG KNTU 300656Z 00000KT 10SM SCT070 22/17 A3010 RMK AO2 SLP196 T02170172 KPDC 300715Z AUTO 00000KT 1/4SM FG OVC001 17/16 A3004 RMK AO2 T01700161 LFMC 300730Z AUTO 00000KT 9999 ////// 22/13 Q1021 LFLL 300730Z 13007KT 100V160 CAVOK 25/14 Q1020 NOSIG LEVD 300730Z VRB01KT 9999 FEW050TCU 21/16 Q1019 KOLM 300654Z AUTO 21004KT 10SM -RA SCT060 BKN080 OVC090 13/12 A2977 RMK AO2 SLP081 P0026 T01330122 KPCM 300735Z AUTO 00000KT 10SM CLR 23/23 A2999 RMK AO2 KOKV 300735Z AUTO 21004KT 10SM CLR 20/17 A3009 RMK AO2 LFMD 300730Z AUTO 01003KT 320V050 CAVOK 25/15 Q1020 LFLN 300730Z AUTO VRB02KT CAVOK 23/13 Q1019 KPBX 300735Z AUTO 00000KT 10SM CLR 20/17 A3014 RMK AO2 T01980170 GAGO 291100Z 20012KT 4000 DU 23/22 Q1016 LFLP 300730Z AUTO 00000KT CAVOK 22/16 Q1022 ESGP 300720Z 25007KT 9999 SCT012 17/13 Q1019 KNUQ 300656Z 32003KT 10SM SCT017 18/14 A3002 RMK AO2 SLP167 T01830144 KOKZ 300735Z AUTO 11003KT 10SM SCT021 SCT120 23/19 A3009 RMK AO2 LTG DSNT SW T02310185 KOMH 300715Z AUTO 00000KT 10SM CLR 18/17 A3013 RMK AO2 LFMH 300730Z VRB03KT CAVOK 24/11 Q1020 NOSIG PTSA 291950Z 29010KT 10SM SCT018 SCT130 BKN300 28/25 A2983 LAST LFMI 300730Z AUTO 08003KT 040V110 9999 // NSC 25/18 Q1020 LFLS 300730Z AUTO 09006KT CAVOK 23/16 Q1022 ESGR 300720Z AUTO 20007KT 180V240 9999 SCT011/// BKN018/// 17/13 Q1019 KOLS 300654Z AUTO 07003KT 10SM CLR 23/14 A3010 RMK AO2 SLP112 T02330144 403720183 KONA 300734Z AUTO 00000KT 10SM BKN001 15/14 A3003 RMK AO2 KPEA 300715Z AUTO 00000KT 2SM BR OVC010 16/16 A3006 RMK AO2 T01630163 LFMK 300730Z AUTO 08016KT 9999 OVC013 22/18 Q1018 KOMK 300653Z AUTO 16014KT 10SM CLR 18/06 A2971 RMK AO2 SLP057 T01830056 KPDK 300653Z AUTO 00000KT 10SM FEW110 23/18 A3012 RMK AO2 SLP182 T02280183 LFLU 300730Z AUTO VRB03KT CAVOK 21/16 Q1020 ESIB 300650Z 22008KT 9999 FEW008 SCT100 15/14 Q1019 KOLU 300735Z AUTO 18007KT 3SM OVC003 A3004 RMK AO1 LFML 300730Z VRB03KT CAVOK 24/17 Q1020 NOSIG KOLV 300735Z AUTO 15006KT 10SM CLR 23/22 A3002 RMK A01 P000 KOMN 292250Z 11005KT 7SM SCT020 28/24 A3005 RMK LAST LFLW 300730Z AUTO 11007KT CAVOK 22/10 Q1021 PTRO 300650Z 14SM SCT016TCU BKN120 BKN300 30/25 A2978 RMK TCU VC ALQDS MOV E KPCW 300732Z AUTO 00000KT 10SM -RA BKN060 OVC070 20/19 A3004 RMK AO2 KNUW 300656Z 14015G18KT 10SM BKN015 OVC030 14/13 A2976 RMK AO2 SLP076 T01440128 LFMN 300730Z 34006KT 320V030 CAVOK 27/12 Q1020 NOSIG LFMO 300730Z AUTO 00000KT CAVOK 21/17 Q1021 LFLX 300730Z 12003KT 080V160 CAVOK 25/14 Q1017 NOSIG LFLY 300730Z AUTO 20006KT CAVOK 25/14 Q1020 KOLY 300715Z AUTO 00000KT 4SM BR CLR 20/19 A3003 RMK AO2 LFMP 300730Z AUTO 08007KT CAVOK 23/19 Q1019 KPCZ 300735Z AUTO 00000KT 1/4SM FG OVC001 13/13 A3006 RMK AO2 P0001 T01330127 KOLZ 300715Z AUTO 00000KT A3005 RMK AO2 PWINO LEVS 300730Z VRB03KT CAVOK 24/13 Q1020 KOOA 300715Z AUTO 00000KT 3/4SM BR OVC001 17/17 A3005 RMK AO2 T01710167 LFOA 300730Z AUTO 13004KT 100V170 CAVOK 25/12 Q1018 LEVT 300730Z 11008KT 080V160 CAVOK 24/13 Q1018 LFOB 300730Z AUTO VRB02KT 9999 2800 NSC 21/19 Q1016 LFMT 300730Z 04006KT CAVOK 22/16 Q1020 NOSIG KPDT 300653Z AUTO 14008KT 10SM CLR 14/07 A2985 RMK AO2 SLP095 T01440067 LFMU 300730Z AUTO 05006KT 020V090 9999 BKN012 23/17 Q1020 LGEL 300720Z 36009KT CAVOK 31/09 Q1019 KONL 300735Z AUTO 17007KT 10SM CLR 18/17 A3000 RMK AO2 T01800173 LFOC 300730Z AUTO 20008KT CAVOK 24/17 Q1017 KONM 300715Z AUTO 20005KT 10SM CLR 21/11 A3020 RMK AO2 T02090106 LFMV 300730Z AUTO 36003KT 330V050 CAVOK 21/17 Q1021 ETAD 300726Z AUTO 00000KT 8000 HZ CLR 23/19 A3010 RMK AO2 LFOE 300730Z AUTO VRB02KT CAVOK 20/18 Q1016 LEVX 300730Z VRB01KT CAVOK 20/19 Q1013 NOSIG KNXF 300656Z AUTO 00000KT 8SM CLR A2987 RMK AO2 SLPNO $ KONO 300653Z AUTO 35008KT 10SM CLR 20/06 A2984 RMK AO2 SLP090 T02000056 403170150 KPDX 300653Z 17013KT 10SM -RA OVC050 18/14 A2981 RMK AO2 RAB32 SLP094 P0000 T01830139 $ KPEO 300653Z AUTO 00000KT 7SM BKN065 OVC085 18/17 A3009 RMK AO2 SLP182 T01830172 RCKH 300738Z 10003KT 040V130 2000 -SHRA FEW008 BKN012 FEW015CB OVC035 26/25 Q1009 TEMPO 3000 SHRA RMK CB SW A2981 KONP 300735Z AUTO 19010KT 4SM RA BKN004 BKN009 OVC016 14/14 A2988 RMK AO2 P0002 LFMY 300730Z AUTO 00000KT CAVOK 24/16 Q1021 LFOH 300730Z AUTO 09004KT CAVOK 20/18 Q1015 KPEQ 300715Z AUTO 06005KT 10SM CLR 21/13 A3009 RMK AO2 T02070126 LEXJ 300730Z VRB01KT 2000 BR BKN003 19/18 Q1013 KPGA 300653Z AUTO 22003KT 10SM CLR 28/08 A3003 RMK AO2 SLP092 T02830078 403720206 TSNO LFOJ 300730Z AUTO 20007KT CAVOK 25/15 Q1017 LFPB 300730Z AUTO 18004KT CAVOK 25/19 Q1016 LFOK 300730Z AUTO 20008KT CAVOK 24/18 Q1018 KONT 300653Z 26003KT 10SM CLR 26/14 A2989 RMK AO2 SLP098 T02560139 KNYC 300651Z AUTO 26004KT 10SM CLR 23/15 A3012 RMK AO2 SLP188 T02330150 $ LFPC 300730Z AUTO 16005KT CAVOK 23/20 Q1016 KPGD 300653Z AUTO 06006KT 10SM CLR 23/23 A2996 RMK AO2 SLP147 T02330233 WIHH 300600Z 04015KT 6000 SCT018 35/19 Q1012 NOSIG KOPF 300735Z AUTO 18010G22KT 3SM +TSRA BR FEW006 FEW013 OVC017 22/22 A2998 RMK AO2 WSHFT 0652 LTG DSNT ALQDS P0102 T02170217 $ KPEX 300733Z AUTO 14004KT 3SM BR OVC002 17/17 A2997 RMK AO2 T01690165 PTTP 300655Z 26007KT 15SM FEW018 FEW300 28/24 A2984 RMK SLP105 T02820243 KONX 300735Z AUTO 00000KT 10SM CLR 20/18 A3011 RMK AO2 T02020180 VQPR 300630Z 14009KT 8000 FEW010 SCT020 BKN080 24/13 Q1016 NOSIG LFOP 300730Z AUTO 10003KT CAVOK 21/19 Q1016 KNYG 300656Z AUTO 25005KT 10SM SCT080 22/16 A3011 RMK AO2 SLP198 T02220161 KNXP 300656Z AUTO 31006KT 10SM CLR 31/04 A2995 RMK AO2 SLP099 T03060039 $ LFPG 300730Z 18006KT CAVOK 24/19 Q1016 NOSIG KONZ 300735Z AUTO 10003KT 10SM SCT070 OVC090 21/18 A3003 RMK AO2 KPEZ 300735Z AUTO 14003KT 10SM CLR 24/17 A2999 RMK AO2 T02350172 LFQA 300730Z AUTO 10004KT CAVOK 24/18 Q1017 ETAR 300658Z AUTO 06001KT 9999 CLR 20/19 A3010 RMK AO2 SLP187 T02000191 $ LFQB 300730Z AUTO 12005KT 070V160 CAVOK 26/16 Q1018 LFOT 300730Z AUTO VRB03KT CAVOK 24/16 Q1016 KNYL 300657Z AUTO 26006KT 10SM CLR 34/18 A2974 RMK AO2 SLP067 T03440183 404500311 KOPL 300715Z AUTO 00000KT 10SM CLR 20/20 A3000 RMK AO2 T02010196 LFOV 300730Z AUTO VRB01KT 9999 BKN003 20/18 Q1015 KPHD 300717Z AUTO 31003KT 5SM -RA BR SCT043 BKN075 OVC120 21/19 A3009 RMK AO2 LTG DSNT NW-NE RAB0657 P0002 T02060194 LFPM 300730Z AUTO 19005KT CAVOK 25/18 Q1017 KOPN 300715Z AUTO 09004KT 10SM BKN055 OVC075 23/22 A3011 RMK AO2 LFPN 300730Z AUTO 20009KT CAVOK 26/18 Q1016 ESKN 300720Z 24006KT 9999 FEW035CB BKN060 14/13 Q1019 KPHF 300654Z 00000KT 10SM CLR 17/16 A3012 RMK AO2 SLP197 T01720161 LFPO 300730Z 18005KT CAVOK 24/19 Q1016 NOSIG LFQG 300700Z AUTO 11005KT 080V150 CAVOK 22/14 Q1018 LEZG 300730Z 14009KT 9999 SCT018 22/18 Q1019 WIII 300730Z 03012KT 9999 FEW020 34/20 Q1010 NOSIG LGHI 300650Z 36009KT 310V070 CAVOK 28/11 Q1016 KPIA 300654Z 05004KT 6SM BR BKN023 BKN038 22/19 A3002 RMK AO2 SLP161 T02170194 KORB 300721Z AUTO 17003KT 10SM CLR 16/14 A2988 RMK AO2 KPIB 300735Z AUTO 00000KT 4SM FEW046 FEW055 22/19 A3004 RMK AO1 LFRB 300730Z 07005KT 050V110 1500 BR OVC002 16/15 Q1015 NOSIG LFPT 300730Z AUTO VRB01KT CAVOK 24/20 Q1016 GAMB 300600Z 00000KT CAVOK 25/24 Q1014 LEZL 300730Z VRB02KT CAVOK 26/18 Q1013 NOSIG KPHL 300654Z 21006KT 10SM BKN250 22/17 A3011 RMK AO2 SLP194 T02220167 KORC 300715Z AUTO 18007KT 10SM OVC006 17/17 A3003 RMK AO2 LFRC 300730Z AUTO 04005KT 010V070 9999 OVC006 17/15 Q1016 LFRD 300730Z AUTO VRB03KT 3300 BR OVC002 17/17 Q1015 KORD 300651Z 00000KT 3SM BR BKN005 OVC047 18/18 A3003 RMK AO2 SLP165 T01830178 KPGV 300735Z AUTO 00000KT 7SM CLR 20/20 A3012 RMK AO2 LFPV 300730Z AUTO /////KT CAVOK 24/18 Q1017 KORE 300727Z AUTO 00000KT 7SM FEW002 14/14 A3008 RMK AO2 T01440139 KPIE 300653Z AUTO 04008KT 10SM CLR 24/22 A2998 RMK AO2 SLP151 T02440217 KPHN 300735Z AUTO 00000KT 5SM BR OVC065 18/18 A3004 RMK AO2 KORF 300651Z AUTO 00000KT 10SM CLR 20/17 A3011 RMK AO2 SLP196 T02000172 TSNO RCMQ 300730Z 19011KT 9000 -RA SCT006 BKN016 BKN040 25/23 Q1008 NOSIG RMK A2978 KPHP 300655Z AUTO 20007KT 10SM CLR 22/11 A2987 RMK AO2 SLP087 T02170106 403500144 KORG 300735Z AUTO 00000KT 2SM BR CLR A3000 RMK AO2 LFRG 300730Z AUTO VRB03KT 6000 BKN002 BKN130 18/18 Q1016 GAKY 291800Z 12004KT 9999 SCT030 33/25 Q1010 LFRH 300730Z AUTO 04006KT 0750 0600 R25/1000U R07/1100D FG VV/// 16/16 Q1015 KPIH 300653Z AUTO 24006KT 10SM CLR 17/14 A2989 RMK AO2 RAB05E16 SLP064 P0000 T01670144 403610167 KORH 300654Z AUTO 25008KT 10SM CLR 17/14 A3010 RMK AO2 SLP189 T01720144 LFQQ 300730Z AUTO 10006KT 070V140 5000 BR NSC 20/17 Q1016 LFRI 300730Z AUTO 14007KT 110V170 CAVOK 22/18 Q1015 KOSA 300715Z AUTO 00000KT 10SM CLR 24/19 A2999 RMK AO1 T02360193 LFRJ 300730Z AUTO 08005KT 040V110 2000 1100 R26/1700N R08/P2000 BR VV/// 16/16 Q1015 LFSB 300730Z 12006KT 100V160 CAVOK 25/18 Q1021 NOSIG KOQT 300653Z AUTO 00000KT 10SM FEW120 22/19 A3013 RMK AO2 SLP186 T02220189 KPHT 300735Z AUTO 15003KT 10SM FEW110 21/19 A3006 RMK LFRK 300730Z AUTO 10003KT 0800 0700 R31/1600U FG VV/// 18/18 Q1016 KOQU 292050Z 25011KT 15SM BKN250 28/10 A3010 RMK LAST ESMK 300720Z AUTO 16005KT 9999 NCD 19/14 Q1021 KORL 300653Z 07010KT 10SM CLR 23/23 A2997 RMK AO2 RAE24 SLP150 P0001 T02330233 KPIL 300653Z AUTO 15007KT 10SM CLR 27/24 A2997 RMK AO2 SLP147 T02720244 KOSC 300733Z AUTO 00000KT M1/4SM FG OVC002 13/13 A3004 RMK AO2 T01300128 ETEB 300658Z AUTO 19001KT 9999 CLR 23/17 A3015 RMK AO2 SLP197 T02280169 LFRL 300730Z AUTO 06005KT 0800 0600 R23/0800N R05/1100D FG VV/// 16/15 Q1015 RCNN 300730Z 12007KT 8000 -RA SCT010 FEW012CB BKN018 BKN040 25/24 Q1008 NOSIG RMK A2978 CB NW MOV E LFRM 300730Z AUTO VRB03KT CAVOK 24/17 Q1016 LFSD 300730Z AUTO 18007KT CAVOK 23/14 Q1020 LFRN 300730Z AUTO 01004KT 340V040 1600 BR OVC002 17/17 Q1015 LFRO 300730Z AUTO VRB02KT 9999 OVC006 17/16 Q1016 KPHX 300651Z 08004KT 10SM SCT140 BKN160 30/21 A2982 RMK AO2 SLP076 T03000206 404390267 LGIO 300720Z 16002KT CAVOK 29/08 Q1022 LFSG 300730Z AUTO 18010KT CAVOK 25/13 Q1020 KNZY 300652Z 00000KT 10SM CLR 22/19 A2986 RMK AO2 SLP112 T02220194 $ LFRQ 300730Z AUTO 06004KT 030V100 0400 0350 R28/0550N FG VV/// 16/16 Q1015 ESNG 300720Z AUTO VRB03KT 9999 NCD 14/07 Q1010 KOSH 300734Z 27003KT 1/2SM R36/2200VP6000FT FG VV003 16/15 A3004 RMK AO2 T01560150 LGIR 300720Z 31016KT CAVOK 27/20 Q1014 NOSIG PTYA 300653Z 30010KT 10SM -SHRA FEW016TCU SCT030 BKN130 OVC300 27/25 A2979 RMK SHRAB40 TCU OHD SLP088 T02730254 ESMQ 300720Z AUTO 23006KT 9999 BKN069/// 16/14 Q1021 KPIR 300653Z AUTO 17006KT 10SM CLR 23/14 A2985 RMK AO2 SLP090 T02330144 LFSI 300730Z AUTO 17005KT 140V200 CAVOK 25/16 Q1018 KORS 300735Z AUTO 19008KT 10SM FEW012 SCT047 15/13 A2971 RMK AO2 KQAJ 300655Z AUTO 36010G20KT 240V040 9999 FEW200 44/04 A2970 RMK AO2 SLP043 T04390035 LFRS 300730Z VRB03KT CAVOK 20/18 Q1014 NOSIG LFRT 300730Z AUTO VRB03KT 8000 OVC003 16/16 Q1016 KPIT 300651Z 20004KT 10SM SCT100 BKN150 22/17 A3009 RMK AO2 SLP185 T02170167 ESMS 300720Z 18005KT CAVOK 18/15 Q1021 KPKB 300653Z AUTO 00000KT 9SM CLR 19/17 A3011 RMK AO2 SLPNO T01890167 LFRU 300730Z AUTO 09005KT 050V120 5000 BR OVC003 16/15 Q1016 LGKC 300650Z /////KT CAVOK 27/14 Q1019 ESNK 300720Z AUTO 35004KT 9999 OVC110/// 10/10 Q1014 ESMT 300720Z AUTO 17003KT 9999 SCT014/// BKN068/// 17/14 Q1021 KQAL 300556Z 02006KT 9999 FEW200 34/04 A2973 RMK SLP061 T03410044 10341 20245 50005 LHBC 300545Z 09003KT CAVOK 22/19 Q1023 LFSL 300730Z AUTO 13009KT 100V160 CAVOK 25/12 Q1018 LFRV 300730Z AUTO 04009KT 0200 FG VV/// 16/16 Q1015 ESNL 300720Z AUTO VRB02KT 9999 FEW057/// SCT110/// 13/08 Q1013 KPKD 300653Z AUTO 17007KT 8SM OVC003 18/16 A2992 RMK AO2 SLP129 T01780161 LFSN 300730Z AUTO 17005KT 140V210 CAVOK 25/14 Q1019 ESNN 300720Z AUTO VRB02KT 9999 NCD 11/09 Q1014 ESOE 300720Z AUTO 23008KT 200V270 9999NDV FEW016/// 16/13 Q1018 LGKF 300650Z 00000KT CAVOK 29/17 Q1018 LFSO 300730Z AUTO 18010KT CAVOK 26/13 Q1019 KQBG 300555Z AUTO 26013G21KT 10SM FEW017 SCT021 BKN027 27/19 A3021 RMK AO2 SLP224 T02680194 10261 20238 51017 ESNO 300720Z AUTO 13004KT 9999 BKN012/// OVC110/// 16/11 Q1013 ESMX 300720Z AUTO 00000KT 9999 BKN040/// 14/12 Q1021 KOTG 300735Z AUTO 20011KT 8SM OVC004 16/14 A3002 RMK AO1 LFTH 300730Z AUTO 02003KT CAVOK 25/20 Q1020 LFRZ 300730Z AUTO 05005KT 2600 BR OVC002 18/17 Q1014 KOTH 300735Z 18010G15KT 10SM BKN024 OVC033 18/14 A2991 RMK AO1 ESNQ 300720Z AUTO 20009KT 9999 NCD 13/06 Q1008 GANR 300600Z 22008KT CAVOK 26/22 Q1014 KQAT 300655Z 11007KT 9000 HZ CLR 39/05 A2975 RMK SLP065 T03850045 LFST 300730Z AUTO 21003KT 140V290 CAVOK 24/19 Q1019 ESNS 300720Z 25005KT CAVOK 13/09 Q1013 ESPA 300720Z 25004KT 210V280 CAVOK 14/08 Q1012 ESOK 300720Z AUTO 23010KT 9999 FEW014/// 15/12 Q1018 KOSU 300653Z AUTO 25006KT 4SM RA BR FEW055 FEW070 BKN110 21/19 A3008 RMK AO2 LTG DSNT NE RAB18 TSE07 SLP177 P0006 T02060189 $ LGKL 300720Z 00000KT CAVOK 31/11 Q1017 ESNU 300720Z VRB02KT CAVOK 14/10 Q1014 KOTM 300653Z AUTO 05003KT 1/4SM FG VV002 19/19 A3003 RMK AO2 SLP163 T01890189 TSNO $ ESNV 300720Z AUTO 20003KT 160V240 9999 NCD 13/07 Q1013 ESPE 300720Z AUTO VRB03KT 9999 NCD 14/08 Q1012 LGKO 300720Z 36011KT CAVOK 28/14 Q1014 LFSX 300730Z AUTO VRB03KT CAVOK 25/18 Q1020 ESNX 300720Z AUTO 26007KT 220V280 9999NDV NCD 14/08 Q1012 LGKP 300720Z 31017KT 9999 FEW018 28/20 Q1013 KQAY 300655Z AUTO 02007KT 9000 CLR 41/11 A2969 RMK AO2 SLP047 T04100109 LHBP 300730Z 11006KT 080V140 CAVOK 26/19 Q1023 NOSIG ETGG 300720Z 04005KT 9999 SCT050 BKN090 16/15 Q1021 BLU LGKR 300720Z 00000KT CAVOK 28/20 Q1019 NOSIG ESNZ 300720Z 30004KT CAVOK 12/08 Q1014 ETHA 300720Z AUTO 23003KT //// // ////// 23/17 Q1023 /// VRMM 300700Z 23013KT 9000 -SHRA FEW017 FEW018CB OVC100 28/25 Q1013 CB NNE NW OVERHEAD TEMPO 4000 SHRA WIMM 300700Z AUTO 32004KT 300V360 9999NDV NCD 29/26 Q1011 KS39 300740Z AUTO 20008KT 10SM CLR 13/04 A2992 RMK AO2 ETHB 300720Z AUTO /////KT //// // ////// ///// Q//// /// KQCL 300655Z AUTO 13007KT 100V160 9999 CLR 31/16 A2985 RMK AO2 SLP037 T03060158 LHDC 300715Z 07001KT CAVOK 25/19 Q1023 NOSIG ETHC 300720Z 09013KT 6000 VCTS FEW010 FEW012CB SCT070 BKN120 17/17 Q1018 WHT KPMD 300653Z AUTO 26007KT 10SM CLR 26/09 A2998 RMK AO2 SLP118 T02560094 LGKV 300720Z 00000KT CAVOK 28/14 Q1020 LGLM 300720Z 03012G22KT CAVOK 28/14 Q1020 KPKV 300735Z AUTO 14003KT 10SM CLR 24/22 A2999 RMK AO2 T02360217 LFTW 300730Z AUTO 07004KT 040V110 CAVOK 23/17 Q1020 KPLN 300707Z AUTO 31003KT 5SM BR SCT002 11/11 A3005 RMK AO2 T01110106 KOVE 300653Z AUTO 13007KT 10SM CLR 22/09 A2994 RMK AO2 SLP140 T02220089 $ KOUN 300735Z AUTO 01004KT 10SM BKN038 BKN049 21/19 A2998 RMK AO2 ETHE 300720Z AUTO 07005KT //// // ////// 17/16 Q1018 /// ESOW 300720Z AUTO /////KT 9999 NCD 16/12 Q1018 ETHF 300720Z 29003KT 8000 VCFG FEW003 19/17 Q1019 BLU+ KQDG 300656Z AUTO 12010KT 9999 CLR 20/19 A2994 RMK AO2 LTG DSNT NW SLP141 T02030185 $ LGKZ 300650Z 00000KT CAVOK 24/07 Q1025 ETGQ 300420Z AUTO 23002KT //// // ////// 18/17 Q1018 /// LGLR 300650Z 00000KT CAVOK 24/09 Q1022 BLU KOWA 300735Z AUTO 00000KT 2SM BR OVC003 17/16 A3002 RMK AO2 KPNA 300715Z AUTO 13005KT 10SM BKN100 13/05 A3015 RMK AO2 LGMK 300720Z 36013KT CAVOK 26/18 Q1016 KOWB 300656Z AUTO 18005KT 10SM CLR 22/21 A3005 RMK AO2 T02220205 SLP171 KQEB 300655Z AUTO 00000KT 9999 FEW022 18/12 Q1027 RMK AO2 SLP232 T01780115 KPNC 300653Z AUTO 04004KT 10SM CLR 18/16 A3001 RMK AO2 SLP151 T01780161 KOVL 300732Z AUTO 17006KT 5SM BR BKN002 14/13 A2996 RMK AO2 KPLU 300715Z AUTO 00000KT 6SM -DZ OVC004 14/14 A2979 RMK AO2 ETHL 300720Z AUTO 26004KT 7000 // ////// 22/17 Q1022 /// KOWD 300653Z AUTO 22004KT 10SM CLR 19/16 A3007 RMK AO2 SLP182 T01940161 ETIC 300658Z AUTO 00000KT 9999 CLR 20/17 A3014 RMK AO2 SLP191 KPNE 300654Z AUTO 00000KT 10SM CLR 23/16 A3011 RMK AO2 SLP195 T02280156 TSNO ETHN 300720Z 20005KT 9999 FEW170 26/15 Q1021 BLU+ LFVP 300000Z 27011KT CAVOK 17/16 Q1016 NOSIG KPMP 300728Z AUTO 15005KT 8SM -TSRA FEW026 BKN035 OVC049 27/25 A2996 RMK AO2 LTG DSNT ALQDS P0024 T02720250 KQEI 300730Z AUTO 31005KT 9999 CLR 30/14 A2985 RMK A02 TSNO ETIH 300658Z AUTO 00000KT 9999 CLR 21/17 A3016 RMK AO2 SLP197 KQEJ 300730Z AUTO 29002KT 9999 BKN055 31/13 A2980 RMK A02 TSNO KOVS 300653Z AUTO 00000KT 10SM OVC024 18/17 A3005 RMK AO2 SLP173 T01830172 PWAK 300658Z AUTO 36008KT 9999 CLR 30/25 A2982 RMK AO2 SLP104 T03000247 $ ETHS 300720Z 10013KT 6000 -TSRA SCT007 BKN018CB BKN040 15/15 Q1019 RERA WHT ESSA 300720Z 25010KT 9999 SCT018 16/12 Q1017 NOSIG KQFB 300730Z AUTO 36001KT 9999 FEW032 28/18 A2988 RMK A02 TSNO KOXB 300653Z AUTO 00000KT 10SM CLR 18/17 A3011 RMK AO2 SLP195 T01830167 TSNO LGMT 300720Z 36005KT 330V030 CAVOK 27/18 Q1018 KPOB 300658Z AUTO 00000KT 10SM CLR 19/18 A3012 RMK AO2 SLP201 T01930175 $ KPOC 300347Z 25004KT 10SM CLR 27/14 A2991 RMK LAST ESSB 300720Z AUTO 24009KT 9999 FEW180/// 16/11 Q1018 KQEL 300730Z AUTO 21002KT 9999 CLR 30/14 A2985 RMK A02 TSNO KOXC 300735Z 00000KT 10SM FEW050 18/14 A3010 RMK AO1 ETIK 300658Z AUTO 00000KT 9999 CLR 21/20 A3014 RMK AO2 SLP195 T02090197 $ WIOO 300630Z 08004KHSFU SCT012 33/24 Q1009 NOSIG KPNM 300734Z AUTO 15004KT 7SM CLR 16/16 A2998 RMK AO2 KPMV 300735Z AUTO 22005KT 5SM BR CLR 16/15 A3005 RMK AO2 T01560148 ESSD 300720Z AUTO 25007KT 9999 OVC021/// 15/11 Q1016 KQEN 300730Z AUTO / // CLR / / RMK A02 TSNO KPOE 300658Z AUTO 22004KT 10SM CLR 24/19 A2999 RMK AO2 SLP154 T02400190 KPOF 300653Z AUTO 00000KT 9SM OVC080 22/21 A3002 RMK AO2 SLP161 T02220206 KQFG 300655Z AUTO VRB06KT 9999 CLR 34/14 A2975 RMK AO2 SLP025 T03400135 KOWP 300735Z AUTO 02004KT 10SM SCT046 BKN050 BKN060 23/20 A2998 RMK AO2 T02300195 KQEQ 300730Z AUTO 24006G10KT 9999 CLR 28/18 A2968 RMK A02 TSNO RCSS 300731Z 29006KT 260V330 9999 -DZ FEW012 SCT020 BKN050 27/23 Q1007 NOSIG RMK A2976 KQER 300730Z AUTO 8000 /OVC016 28/15 A2981 RMK A02 TSNO KOXI 300735Z AUTO 00000KT 1 3/4SM BKN065 18/18 A3001 RMK AO1 KQES 300730Z AUTO 9999 CLR 25/20 A2986 RMK A02 TSNO KPNS 300653Z AUTO 08004KT 10SM CLR 23/20 A3003 RMK AO2 SLP168 T02280200 LGPA 300650Z 03018G28KT CAVOK 28/12 Q1015 KPPA 300715Z AUTO 12003KT 10SM CLR 20/13 A3013 RMK AO2 T02040128 ESTA 300720Z AUTO 12003KT 9999 BKN049/// BKN064/// 16/14 Q1020 KPNT 300715Z AUTO 00000KT 1SM BR OVC029 19/19 A3003 RMK AO2 T01900190 ESSL 300720Z AUTO VRB03KT 9999NDV FEW068/// SCT097/// 14/12 Q1019 KQEV 300730Z AUTO 34002KT 9999 CLR 31/13 A2981 RMK A02 TSNO WIPP 300700Z 12011KT 100V150 9999 BKN010 35/20 Q1010 NOSIG FKKD 300700Z 08001KT 2000 RADZ SCT003 OVC008 FEW008CB 25/24 Q1015 TEMPO 1200 RADZ KQEW 300730Z AUTO 21003KT 9999 CLR 29/16 A2981 RMK A02 TSNO RCTP 300730Z 34011KT 9999 -SHRA SCT009 BKN012 BKN022 26/23 Q1008 NOSIG RMK A2977 KPPF 300652Z AUTO 36003KT 10SM CLR 19/19 A3001 RMK AO2 RAB23E26 SLP154 P0000 T01940189 KQEX 300730Z AUTO 22006KT 9999 CLR 29/16 A2985 RMK A02 TSNO LGNX 300650Z 01017KT CAVOK 25/18 Q1015 KQEY 300730Z AUTO 32004KT 9999 FEW055 FEW065 29/14 A2984 RMK A02 TSNO ESSP 300720Z 21004KT CAVOK 15/14 Q1019 RERA KQFQ 300655Z AUTO VRB04KT 10SM FEW055 29/17 A2979 RMK AO2 SLP085 T02880171 $ KOXR 300651Z AUTO 27007KT 9SM CLR 22/19 A2984 RMK AO2 SLP104 T02220189 KOZA 300715Z AUTO 00000KT 10SM CLR 25/12 A3009 RMK AO2 KQFT 300730Z AUTO 21004KT 9999 CLR 30/14 A2979 RMK A02 TSNO ESST 300720Z AUTO 26005KT 230V290 9999 SCT015/// 15/11 Q1017 KQFU 300730Z AUTO 08002KT 9999 CLR 30/15 A2983 RMK A02 TSNO KPOU 300653Z AUTO 13004KT 10SM CLR 17/16 A3006 RMK AO2 SLP175 T01720156 FKKL 291600Z 04010KT 9999 FEW016 FEW028TCU 28/24 Q1013 KQFV 300730Z AUTO 1200 /CLR 31/19 / RMK A02 TSNO ESTL 300720Z AUTO 21007KT 9999NDV FEW049/// 18/15 Q1021 KPOV 300725Z AUTO 35000KT 7SM SCT042 SCT060 BKN110 A3008 RMK AO2 KOXV 300715Z AUTO 00000KT 6SM BR OVC018 17/16 A3004 RMK AO2 ESUD 300720Z AUTO VRB02KT 9999 SCT068/// OVC100/// 13/08 Q1013 ESSV 300720Z 22008KT CAVOK 18/14 Q1020 FKKN 300700Z 24004KT 9999 SCT016 20/20 Q1020 KQFX 300730Z AUTO 24001KT 9999 CLR 31/15 A2981 RMK A02 TSNO KPPO 300715Z AUTO 00000KT 2 1/2SM BR OVC002 A3003 RMK AO2 KPOY 300735Z AUTO 27006KT 10SM CLR 21/02 A2990 RMK AO2 KPPQ 300715Z AUTO 00000KT 7SM SCT060 21/20 A3002 RMK AO2 LTG DSNT SW T02090200 KPQI 300735Z AUTO 20003KT 10SM OVC100 16/13 A2998 RMK AO1 LFYR 300730Z AUTO VRB02KT CAVOK 24/17 Q1017 GBKR 291605 18006KT 9999 TS SCT012 FEW018CB BKN120 32/25 Q//// THUNDER HEART AT SOUTHLY FKKR 300700Z 26004KT 9999 FEW013 25/24 Q1013 NOSIG KPRB 300653Z AUTO 33014G21KT 10SM CLR 19/08 A2996 RMK AO2 SLP138 T01940078 TSNO KPQL 300653Z AUTO 00000KT 7SM CLR 21/21 A3002 RMK AO2 SLP168 T02060206 TSNO KPRC 300653Z AUTO 20007KT 10SM CLR 21/13 A3015 RMK AO2 SLP124 T02060128 403220161 $ KQGV 300655Z 34008KT 9999 CLR 44/03 A2971 RMK SLP045 WND DATA ESTMD QNH1006 PA +668 KPQN 300734Z AUTO 21012G17KT 2 1/2SM BR OVC004 17/16 A3000 RMK AO2 KQHN 300655Z 24007KT 3000 DU CLR 28/M05 A2988 RMK SLP039 Q1012 DA5642 KQGX 300658Z AUTO 19008KT 160V230 9999 CLR 43/16 A2966 RMK AO2 SLP045 T04330159 $ KPRG 300715Z AUTO 17004KT 7SM OVC080 19/19 A3003 RMK AO2 T01930187 LGPZ 300720Z 06006KT CAVOK 30/11 Q1019 KOZR 300658Z AUTO 00000KT 10SM M 21/20 A3005 RMK AO2 SLP176 T02090204 $ KOZS 300735Z AUTO 14004KT 10SM SCT080 20/19 A3002 RMK AO2 LGSA 300720Z 34007KT CAVOK 26/19 Q1017 VTBD 300730Z 26006KT 210V320 9999 FEW020 SCT040 BKN120 34/23 Q1007 NOSIG ESUT 300720Z AUTO 07003KT 9999 FEW016/// SCT031/// OVC053/// 11/09 Q1011 KPSC 300653Z AUTO 09003KT 10SM CLR 17/09 A2981 RMK AO2 SLP093 T01720094 KRAC 300653Z AUTO 34003KT 1/2SM FG VV002 17/16 A3005 RMK AO2 SLP175 T01720161 ETML 300720Z AUTO 25002KT //// // ////// 18/14 Q1020 /// KOZW 300735Z AUTO 13003KT 2 1/2SM -RA SCT043 OVC049 19/19 A3004 RMK AO2 T01880185 KPRN 300656Z AUTO 00000KT 8SM OVC004 22/20 A3005 RMK AO2 SLP172 T02170200 PNO $ ETMN 300720Z 07006KT 9999 FEW025CB SCT120 BKN250 17/14 Q1019 BLU+ KPSF 300736Z AUTO 00000KT 2 1/2SM BR CLR 13/13 A3009 RMK AO2 T01330128 KPRO 300735Z AUTO 00000KT 1/4SM FG OVC002 15/14 A3004 RMK AO2 T01460143 LGRP 300720Z 26005KT CAVOK 28/17 Q1012 NOSIG KQL5 300655Z VRB03KT 9000 HZ FEW100 FEW150 SCT200 34/18 A2971 RMK AO2A SLP018 T03430180 $ KQHY 300656Z AUTO 03004KT 10SM CLR 22/21 A3005 RMK AO2 SLP177 T02180206 ETNH 300720Z AUTO 05004KT 3800 // ////// 16/14 Q1020 /// KQIR 300658Z 09002KT 8000 HZ CLR 39/24 A2964 RMK AO2A SLP038 T03910242 VTCC 300730Z 19006KT 9999 SCT040 34/19 Q1008 A2978 NOSIG LGSK 300650Z /////KT CAVOK 28/19 Q1020 KT20 300715Z AUTO 19003KT 10SM CLR 23/20 A2999 RMK AO2 LTG DSNT E AND SW T02320200 KPTB 300715Z AUTO 00000KT 7SM CLR 17/17 A3013 RMK AO2 T01700170 KPSK 300715Z AUTO 00000KT 10SM CLR 18/18 A3020 RMK AO2 T01750175 LIBC 300650Z 01010KT CAVOK 28/14 Q1021 KRAL 300653Z AUTO 00000KT 10SM CLR 27/15 A2988 RMK AO2 SLP100 T02670150 ETNL 300720Z 11003KT 9999 FEW045 SCT110 BKN130 17/14 Q1021 BLU VTBO 300700Z 21008KT 8000 SCT022 30/26 Q1009 LIBD 300720Z 32008KT CAVOK 28/14 Q1021 KRBD 300653Z 00000KT 10SM OVC085 26/17 A2997 RMK AO2 SLP139 T02560172 LGSM 300720Z 03009KT CAVOK 29/17 Q1016 KPSM 300658Z 21005KT 10SM BKN170 BKN200 18/15 A3004 RMK AO2A SLP174 T01760149 KPSN 300330Z AUTO 15003KT 10SM SCT065 26/21 A3000 RMK AO2 T02650210 LHKE 300715Z 08004KT CAVOK 27/18 Q1023 NOSIG RMK BLU LIBF 300650Z 31010KT CAVOK 27/16 Q1020 ETNN 300720Z 10002KT 9999 FEW110 23/20 Q1017 BLU+ VTCH 300700Z VRB03KT 9999 SCT025 33/21 Q1007 A2975 INFO KPSO 300735Z AUTO 00000KT 10SM CLR 12/06 A3040 RMK AO2 T01150064 LGRX 300720Z 01007KT CAVOK 31/12 Q1018 LGSO 300650Z 36014KT CAVOK 26/18 Q1017 KPRX 300735Z 16005KT 10SM CLR 24/17 A2996 RMK AO1 LIBG 300650Z 35004KT 310V040 CAVOK 28/17 Q1020 KRAP 300652Z AUTO 16007KT 8SM CLR 21/07 A2990 RMK AO2 SLP089 T02110067 403390128 $ KPSP 300653Z 33009KT 10SM CLR 37/08 A2976 RMK AO2 SLP070 T03720083 KRBG 300653Z AUTO 00000KT 10SM CLR 18/11 A2991 RMK AO2 SLP125 T01830111 LGTG 300650Z 34011KT CAVOK 29/10 Q1020 BLU KQKG 300655Z AUTO 33003KT 6SM CLR 24/12 A3023 RMK AO2 SLP160 T02410117 $ LIBH 300655Z /////KT CAVOK 27/17 Q1020 RMK SKC QUK / QUL / VIS MAR 15 KM VIS MIN 9999 VTBS 300730Z 21008KT 9999 FEW020 SCT120 BKN300 34/22 Q1008 NOSIG LGSR 300720Z 35015KT CAVOK 28/17 Q1015 VTCL 300700Z 22005KT 9999 FEW025 SCT120 BKN300 34/22 Q1007 A2975 INFO VTBU 300730Z 26008KT 9999 FEW020TCU BKN300 32/20 Q1008 A2978 LICA 300650Z VRB02KT 9999 SCT025 25/21 Q1021 KRAS 300735Z AUTO 15004KT 10SM SCT044 27/19 A2996 RMK AO2 T02720194 KRCA 300658Z AUTO 18008KT 10SM CLR 22/07 A2988 RMK AO2 SLP087 T02200071 403460156 $ ETNS 300720Z AUTO 06005KT 4800 // ////// 17/14 Q1020 /// LICB 300650Z VRB02KT CAVOK 28/19 Q1021 KPTK 300653Z AUTO 13003KT 4SM BR BKN050 OVC060 18/18 A3005 RMK AO2 SLP171 T01830178 TSNO KPUB 300653Z AUTO 07008KT 10SM CLR 20/06 A3011 RMK AO2 SLP126 T02000061 403330133 ETNT 300720Z AUTO 07008KT 9000 // ////// 18/12 Q1019 /// VTCN 300700Z 18004KT 9999 SCT025 SCT100 32/20 Q1006 A2973 LICC 300720Z 23005KT 190V260 CAVOK 27/13 Q1020 KPUC 300653Z AUTO 06006KT 10SM OVC120 22/01 A3012 RMK AO2 SLP099 T02170011 403220139 KRBL 300654Z AUTO 14003KT 10SM CLR 21/11 A2991 RMK AO2 SLP125 T02110111 LICD 300650Z 07005KT 9999 FEW030 27/21 Q1020 VTCP 300700Z 18005KT 9999 FEW025 BKN300 33/22 Q1007 A2974 KRCE 300715Z AUTO 36005KT 10SM CLR 19/19 A3002 RMK AO2 LIBN 300655Z 35007KT CAVOK 27/24 Q1019 RMK SKC VIS MIN 9999 WIND THR14 01007KT BLU KPTN 300735Z AUTO 00000KT 8SM CLR 21/19 A3002 RMK AO1 ETNW 300720Z AUTO 12006KT 5000 // ////// 18/17 Q1018 /// LICF 300655Z 03003KT 9999 FEW025 27/22 Q1019 RMK FEW QUK 1 QUL 0 VIS MAR 18 KM MON LIB NC VIS MIN 9999 KPSX 300653Z AUTO 15005KT 10SM CLR 25/22 A2998 RMK AO2 SLP153 T02500222 KRBO 300715Z AUTO 00000KT 10SM CLR 22/17 A2998 RMK AO2 T02240172 LICG 300655Z /////KT 9999 FEW015 25/22 Q1020 RMK FEW VIS MIN 9999 WIND THR08 29002KT WIND THR21 29002KT BLU LIBP 300650Z VRB03KT CAVOK 24/20 Q1021 LGSY 300650Z 36011KT CAVOK 27/19 Q1018 BLU KT35 300715Z AUTO 00000KT 10SM CLR 26/19 A3000 RMK AO2 T02600185 VTCT 300700Z 23007KT 9999 FEW025 SCT050 BKN085 32/24 Q1007 A2974 LIBR 300715Z 33010KT 9999 SCT012 26/22 Q1020 NOSIG LICJ 300720Z 01003KT CAVOK 27/21 Q1021 LGTS 300720Z VRB03KT CAVOK 26/13 Q1022 NOSIG KPUJ 300735Z AUTO 00000KT 7SM -RA SCT048 BKN055 OVC090 22/22 A3012 RMK AO2 KPTS 300735Z AUTO RMK AO2 PWINO PNO TSNO KPTT 300735Z AUTO 00000KT 7SM CLR 15/14 A3008 RMK AO2 KPVB 300715Z AUTO 09003KT 10SM OVC019 19/17 A3005 RMK AO1 T01850168 LICL 300655Z 00000KT CAVOK 27/16 Q1019 RMK SKC QUK 0 QUL 0 VIS MAR 16 KM VIS MIN 9999 KPVC 300735Z 24008KT 10SM CLR 19/15 A3008 RMK AO1 LIBV 300655Z 35007KT CAVOK 25/12 Q1021 RMK SKC VIS MIN 9999 WIND THR32 35008KT WIND THR14 35008KT BLU KPVD 300651Z 25007KT 10SM SCT070 20/17 A3009 RMK AO2 SLP188 T02000172 KRCM 300735Z AUTO 33003KT 7SM CLR 19/18 A3000 RMK AO2 KRDD 300653Z 20004KT 10SM CLR 22/07 A2989 RMK AO2 SLP117 T02220072 KPTV 300735Z AUTO 29004KT 10SM CLR 24/14 A2992 RMK AO1 ETOU 300658Z AUTO 00000KT 9999 CLR 23/20 A3009 RMK AO2 SLP185 T02260204 $ GCGM 300700Z 27007KT 9999 FEW025 21/17 Q1017 RMK R09/29005KT ARP/29006KT GCFV 300730Z 34005KT 300V020 9999 FEW025 23/17 Q1015 KPTW 300654Z AUTO 00000KT 10SM CLR 18/17 A3012 RMK AO2 SLP193 T01780172 KPVE 300735Z AUTO 00000KT 10SM CLR 20/19 A3006 RMK KRBW 300735Z AUTO 00000KT 10SM CLR 23/21 A3009 RMK AO2 LTG DSNT S KPVF 300735Z AUTO 15005KT 10SM 15/08 A3004 RMK AO1 LIBY 300655Z 02008KT CAVOK 26/21 Q1019 RMK SKC QUK 2 QUL 1 N VIS MAR 15 KM VIS MIN 9999 KPVG 300735Z AUTO 00000KT 8SM 14/13 A3013 RMK AO1 KRDG 300654Z AUTO 00000KT 10SM CLR 20/17 A3008 RMK AO2 SLP190 T02000172 KQMH 300655Z AUTO 06005KT CLR 27/00 A3000 RMK AO2 SLP029 T02710004 PWINO TSNO $ LICR 300650Z 01011KT CAVOK 28/21 Q1020 KRCR 300715Z AUTO 15003KT 10SM SCT095 20/20 A3003 RMK AO2 GCHI 300700Z 35009KT 9999 FEW020 24/19 Q1016 LIEA 300720Z 01003KT 340V060 CAVOK 27/17 Q1020 KPWA 300653Z AUTO 36008KT 10SM CLR 21/18 A2999 RMK AO2 SLP140 T02110183 KPVJ 300715Z AUTO 01005KT 10SM CLR 24/22 A2994 RMK AO2 T02350218 LIEB 300655Z 27005KT CAVOK 23/19 Q1021 RMK SKC QUK 2 QUL 0 VIS MAR 30 KM MON LIB VIS MIN 9999 LICT 300655Z 14002KT CAVOK 28/20 Q1020 RMK SKC VIS MIN 9999 WIND THR13 /////KT BLU KRDK 300715Z AUTO 00000KT 1SM BR BKN002 OVC013 17/17 A3005 RMK AO2 VIS M1/4V4 LIEC 300655Z 05011KT 9999 FEW015 25/22 Q1020 RMK FEW QUK 3 QUL 0 VIS MAR 20 KM VIS MIN 9999 KPWC 300734Z AUTO 19005KT 10SM OVC006 17/17 A2996 RMK AO2 LIED 300655Z 06002KT 9999 FEW020 26/23 Q1019 RMK FEW VIS MIN 9999 WIND THR35 36003KT WIND THR17 36002KT BLU KRCV 300730Z AUTO 00000KT 10SM SCT120 13/08 A3039 RMK AO2 T01300075 KRDM 300656Z AUTO 18008KT 10SM CLR 14/05 A2991 RMK AO2 SLP106 T01440050 LIEE 300720Z 15003KT CAVOK 28/21 Q1020 KPUW 300653Z AUTO 00000KT 10SM BKN095 13/09 A2990 RMK AO2 SLP116 T01330094 FLHN 300700Z 08009KT CAVOK 24/06 Q1023 KRCX 300735Z AUTO 17004KT 7SM OVC016 16/15 A3006 RMK AO2 T01600152 KPWG 300706Z AUTO 16006KT 10SM CLR 27/18 A2999 RMK AO2 SLP156 T02720178 LICZ 300655Z 28003KT CAVOK 27/16 Q1020 RMK SKC VIS MIN 9999 WIND THR28 25004KT A3015 BLU KRCZ 300715Z AUTO 00000KT 10SM CLR 19/17 A3013 RMK AO2 T01920169 KRDR 300658Z AUTO 17008KT 10SM CLR 20/20 A2978 RMK AO2 SLP086 T02030198 $ ETSA 300720Z 23009KT 9999 FEW300 24/16 Q1022 BLU+ KPWK 300727Z AUTO 00000KT 2 1/2SM BR OVC002 18/17 A3004 RMK AO2 T01780172 ETSB 300720Z AUTO 22006KT 9999 // ////// 23/18 Q1019 /// KRDU 300651Z 00000KT 10SM BKN150 BKN180 BKN250 19/16 A3014 RMK AO2 SLP200 T01940161 KPVU 300735Z AUTO 11007KT 10SM SCT120 24/09 A2998 RMK AO1 KPWM 300651Z AUTO 19003KT 10SM CLR 18/16 A3003 RMK AO2 SLP170 T01830161 KRFD 300710Z 04004KT 9SM BKN007 OVC029 19/17 A3005 RMK AO2 T01940167 KPVW 300715Z AUTO 30006KT 10SM CLR 18/13 A3011 RMK AO2 T01760130 KPXE 300715Z AUTO 00000KT 10SM SCT110 24/22 A3009 RMK AO2 T02400215 LIEO 300720Z VRB02KT CAVOK 25/21 Q1021 KREO 300652Z AUTO 22013KT 21/M01 A2995 RMK AO1 SLP095 T02111011 KT65 300715Z AUTO 00000KT 10SM CLR 24/22 A2996 RMK AO2 T02360215 ETSH 300720Z 10004KT 9999 SCT130 BKN180 21/17 Q1020 BLU KRFI 300715Z AUTO 00000KT 10SM CLR 22/19 A3000 RMK AO2 T02160192 ETSI 300720Z AUTO 30002KT 9000 // ////// 23/17 Q1021 /// LHPA 300715Z 17003MPS CAVOK 28/19 Q1022 NOSIG RMK BLU KPWT 300735Z AUTO 18008KT 10SM BKN028 BKN034 13/12 A2980 RMK AO1 ETSL 300720Z 21006KT 9999 FEW140 24/18 Q1022 BLU+ ETSN 300720Z AUTO 29002KT //// // ////// 23/16 Q1021 /// LGZA 300720Z 02006KT CAVOK 30/16 Q1018 GCLA 300730Z 30005KT 9999 SCT030 23/19 Q1016 KRGK 300735Z AUTO 17004KT 10SM CLR 17/16 A3000 RMK AO2 FLKK 300700Z 04002KT 9000 -HZ 23/15 Q1024 KPYM 300652Z AUTO 00000KT 10SM CLR 18/17 A3009 RMK AO2 SLP189 T01780172 KT82 300715Z AUTO 16003KT 10SM CLR 25/15 A3004 RMK AO2 T02500150 LHPP 300715Z 10003KT CAVOK 28/19 Q1023 FMCH 300700Z 23008KT 9999 FEW020 27/21 Q1020 NOSIG KRHI 300700Z AUTO 22006KT 5SM BR BKN004 15/14 A3006 RMK AO2 T01500144 LHPR 300715Z 17007KT CAVOK 28/19 Q1022 AGGH 300700Z 09007KT 9999 HZ FEW020 SCT100 28/23 Q1010 KRIC 300654Z 21003KT 10SM SCT230 20/17 A3012 RMK AO2 SLP202 T02000167 KPYX 300715Z AUTO 00000KT 10SM SCT100 16/12 A3010 RMK AO2 T01560120 KRHP 300715Z AUTO 00000KT 10SM BKN120 18/18 A3018 RMK AO2 T01810181 GCLP 300730Z 36008KT 9999 FEW023 23/18 Q1016 NOSIG KQRH 300656Z AUTO 27005G17KT 9999 FEW210 41/13 A2972 RMK AO2 SLP057 T04140129 KPZQ 300735Z AUTO 22005KT 7SM CLR 16/15 A3005 RMK AO2 T01550145 KSAA 300735Z AUTO 14008KT 10SM CLR 13/02 A3021 RMK AO2 KQSA 300658Z VRB02KT 9999 FEW120 28/01 A2989 RMK AO2A SLP022 T02790011 $ KRIL 300653Z AUTO 00000KT 10SM CLR 17/07 A3015 RMK AO2 SLP138 T01720067 403220100 KSAC 300653Z AUTO 18003KT 10SM CLR 18/12 A2995 RMK AO2 SLP140 T01780122 KSAD 300651Z AUTO 15006KT 10SM CLR 26/13 A3005 RMK AO2 SLP117 T02560133 403780239 KRHV 300447Z 32010KT 10SM FEW180 20/13 A3002 RMK LAST FMEE 300730Z 11017KT 9999 VCSH FEW026 FEW036TCU BKN080 25/15 Q1023 NOSIG KSAF 300653Z AUTO 13004KT 10SM CLR 17/09 A3032 RMK AO2 SLP158 T01720094 402890122 KQSF 300655Z AUTO VRB04KT 9999 CLR 27/M02 A3003 RMK AO2 SLP064 T02741020 KU16 300658Z AUTO 19024G31KT 5SM HZ CLR 31/04 A2983 RMK AO2 PK WND 19031/0657 SLP729 T03110044 $ 08/30/15 01 FMCZ 300730Z 05004KT 010V100 9999 SCT023TCU BKN093 25/20 Q1019 TEMPO SHRA KSBA 300653Z 10003KT 10SM CLR 25/15 A2983 RMK AO2 SLP099 T02500150 KQTA 300656Z 31004KT 9999 CLR 38/05 A2983 RMK AO2A SLP079 T03780045 KSBD 300350Z 23005KT 10SM SKC 29/12 A2989 KRKD 300735Z AUTO 00000KT 10SM CLR 16/14 A3002 RMK AO1 KRIV 300658Z AUTO 00000KT 10SM CLR 23/14 A2991 RMK AO2 SLP111 T02340138 LHSM 300715Z 00000KT CAVOK 25/20 Q1022 NOSIG ETWM 300720Z AUTO 04005KT 4700 // ////// 16/14 Q1018 /// KSAN 300651Z 31003KT 10SM CLR 24/20 A2988 RMK AO2 SLP119 T02390200 $ LHSN 300715Z 09004KT CAVOK 26/18 Q1023 NOSIG RMK BLU KRIW 300653Z AUTO 22009KT 10SM CLR 22/03 A2999 RMK AO2 SLP076 T02220033 403330111 KQSN 300655Z AUTO VRB03KT 9999 CLR 27/M07 A2997 RMK AO2 SLP032 T02731069 $ FMEP 300730Z AUTO 14013KT 9999 FEW068 BKN082 24/15 Q1023 KQTI 300555Z AUTO 05006KT 9999 CLR 35/07 A2971 RMK AO2 SLP058 T03490072 10330 20284 52009 KSAR 300735Z AUTO 20004KT 10SM OVC070 22/20 A3002 RMK AO2 LTG DSNT SE T02170200 KSAT 300651Z 17008KT 10SM BKN190 26/18 A3002 RMK AO2 SLP146 T02610183 KSAV 300653Z AUTO 03005KT 10SM FEW031 24/22 A3007 RMK AO2 SLP182 T02390222 TSNO KSBM 300733Z AUTO 00000KT 1/4SM FG VV001 13/13 A3004 RMK AO2 T01280128 KSCD 300735Z AUTO 12004KT 7SM -RA OVC017 22/22 A3008 RMK AO2 P0002 T02220222 LHUD 300715Z 11003KT CAVOK 27/17 Q1023 GBYD 300700Z 17012KT 9999 BKN010 SCT100 24/23 Q1010 KSBN 300737Z 00000KT 4SM BR BKN011 BKN100 19/18 A3002 RMK AO2 T01890183 $ KSAW 300737Z AUTO 21003KT 3/4SM BR OVC002 15/14 A3002 RMK AO2 T01450138 LJCE 300730Z 26002KT CAVOK 22/19 Q1022 RMK BLU KSBO 300735Z AUTO 08003KT 10SM CLR 24/20 A3008 RMK AO2 LTG DSNT W KSCF 300735Z AUTO 16009KT 10SM SCT033 28/21 A3000 RMK A01 KSBP 300256Z 32016KT 10SM CLR 20/17 A2994 RMK AO2 SLP135 T02000172 53003 KRKP 300653Z AUTO 17005KT 10SM CLR 27/18 A2997 RMK AO2 SLP150 T02720183 KSCH 300153Z 00000KT 10SM CLR 21/16 A3010 RMK LAST KSAZ 300733Z AUTO 17006KT 10SM OVC006 17/17 A2993 RMK AO2 KRKR 300735Z AUTO 00000KT 10SM BKN090 OVC120 24/20 A2996 RMK AO2 T02380203 LIMA 300700Z VRB02KT CAVOK 23/19 Q1023 KRKS 300654Z AUTO 23005KT 10SM CLR 20/00 A3014 RMK AO2 SLP104 T02000000 403060133 KSBS 300735Z AUTO 00000KT 10SM CLR 11/04 A3024 RMK AO1 T01070040 KSDA 300715Z AUTO 00000KT 1/2SM FG OVC001 15/15 A3005 RMK AO2 KSDB 300648Z AUTO 34022G28KT 10SM CLR 21/09 A3012 RMK AO2 PK WND 34028/0648 SLP138 T02110094 $ KSCK 300655Z AUTO 28008KT 10SM CLR 19/12 A2996 RMK AO2 SLP145 T01890122 LIMC 300720Z 01006KT CAVOK 24/17 Q1022 NOSIG KU42 300735Z AUTO 16009KT 10SM CLR 26/08 A2995 RMK AO1 T02560075 LIME 300720Z 01005KT 350V070 CAVOK 26/17 Q1022 KRME 300653Z AUTO 00000KT 10SM SCT060 BKN085 16/15 A3009 RMK AO2 SLP187 T01610150 LIMF 300720Z VRB01KT CAVOK 24/19 Q1023 KSDF 300656Z 17008KT 10SM FEW070 BKN250 23/19 A3006 RMK AO2 SLP174 T02330194 KQVF 300655Z AUTO 17011G17KT 10SM FEW022 28/21 A3013 RMK AO2 SLP201 T02790214 LIMG 300650Z 00000KT CAVOK 23/13 Q1021 KRMG 300653Z AUTO 00000KT 10SM OVC110 22/20 A3011 RMK AO2 RAB42E52 SLP186 P0000 T02170200 KSBY 300654Z AUTO 00000KT 10SM CLR 17/16 A3010 RMK AO2 SLP196 T01720161 LIMH 300655Z /////KT CAVOK 05/M24 Q1040 RMK SKC MON LIB VAL S CLD SCT VIS MIN 9999 KQTZ 300655Z 03009KT 8000 HZ CLR 40/04 A2971 RMK SLP055 WND DATA ESTMD ALSTG/SLP ESTMD KSCR 300715Z AUTO 00000KT 10SM CLR 17/17 A3014 RMK AO2 T01710165 LIMJ 300720Z VRB02KT CAVOK 27/18 Q1021 KSEA 300729Z 20009KT 7SM RA FEW055 OVC070 14/13 A2978 RMK AO2 P0013 FKYS 300700Z 04004KT 9999 SCT003 OVC010 FEW020CB 21/20 Q1021 BECMG TSRA LIML 300720Z VRB02KT CAVOK 26/20 Q1022 NOSIG KSDL 300653Z 25003KT 10SM CLR 31/19 A2987 RMK AO2 SLP083 T03060189 404280278 KRNC 300735Z AUTO 00000KT 9SM CLR 20/20 A3012 RMK KSDM 300653Z AUTO 00000KT 10SM CLR 22/19 A2989 RMK AO2 SLP116 T02170194 KRND 300658Z AUTO 18004KT 10SM FEW210 25/19 A3001 RMK AO2 SLP153 T02470187 $ KRMN 300735Z AUTO 00000KT 10SM CLR 19/16 A3015 RMK AO2 T01910163 KSEE 300715Z AUTO 00000KT 10SM CLR 25/18 A2990 RMK AO2 LIMP 300650Z 23004KT 200V260 CAVOK 24/18 Q1022 KSEG 300653Z AUTO 00000KT 3SM BR CLR 15/14 A3009 RMK AO2 SLP186 T01500139 KRNH 300715Z AUTO 16003KT 10SM CLR 16/16 A3001 RMK AO2 T01610158 LIMS 300655Z 27004KT CAVOK 23/22 Q1021 RMK SKC VIS MIN 9999 WIND THR30 06001KT BLU KROA 300654Z 00000KT 10SM OVC150 19/16 A3017 RMK AO2 SLP203 T01940161 KSFB 300653Z AUTO 06011KT 10SM -RA FEW070 FEW120 23/22 A2997 RMK AO2 RAB39 SLP147 P0001 T02280217 KQVT 300455Z AUTO RMK AO2 SLPNO PWINO PNO TSNO $ LIMU 300655Z 02006KT CAVOK 26/19 Q1022 RMK SKC QUK 2 QUL 1 E VIS MAR 25 KM VIS MIN 9999 KROC 300654Z 19003KT 10SM OVC070 20/17 A3007 RMK AO2 SLP181 T02000172 KRNM 300653Z 15003KT 10SM CLR 20/12 A2992 RMK AO2 SLP113 T02000117 $ KSEM 300740Z AUTO 00000KT 10SM FEW095 22/20 A3005 RMK AO2 KQWM 300655Z 35010KT 6000 HZ CLR 44/04 A2971 RMK SLP047 QNH1006 LIMW 300720Z AUTO VRB01KT CAVOK 21/17 Q1026 VTPH 300700Z 13011KT 9999 FEW032 32/26 Q1008 KSFF 300653Z AUTO 21007KT 10SM CLR 16/07 A2984 RMK AO2 SLP092 T01560067 KRNO 300655Z 01003KT 10SM FEW080 SCT180 19/08 A3005 RMK AO2 SLP119 T01890078 $ KRMY 300734Z AUTO 00000KT 10SM OVC045 19/18 A3002 RMK AO2 T01910178 KSDY 300735Z AUTO 00000KT 7SM CLR 19/13 A2968 RMK AO1 KRNP 300735Z AUTO 12004KT 3SM BR BKN030 OVC036 19/19 A3003 RMK AO2 T01900186 KSEP 300735Z AUTO 20004KT 7SM OVC075 24/17 A3003 RMK AO2 T02400174 KROG 300657Z AUTO 12004KT 10SM FEW070 SCT090 BKN120 22/21 A3002 RMK AO2 RAB13E24 SLP149 P0000 T02220211 TSNO $ LIMZ 300650Z 24003KT CAVOK 21/18 Q1023 KQXH 300655Z 31014G21KT 9999 CLR 28/15 A2995 RMK AO2A SLP113 T02810148 $ LIPA 291955Z 02003KT CAVOK 24/19 Q1021 RMK SKC VIS MIN 9999 WIND THR05 05005KT WIND THR23 01005KT A3016 BLU GCRR 300730Z 01005KT 300V070 9999 FEW030 23/19 Q1015 KU68 300735Z AUTO 29005KT 10SM CLR 19/01 A2985 RMK AO2 LIPB 300650Z VRB01KT CAVOK 21/17 Q1024 KRNT 300701Z AUTO 14/13 A2978 RMK AO2 RAEMM P0003 T01440128 PWINO $ KSET 300654Z AUTO 7SM BKN055 OVC075 21/21 A3001 RMK AO2 PK WND 33028/0646 SLP155 T02110206 LIPC 300655Z 28003KT CAVOK 25/22 Q1020 RMK SKC VIS MIN 9999 WIND THR11 27003KT WIND THR29 28004KT BLU FNBC 300700Z VRB02KT 4000 BR NSC 19/19 Q1018 VTPO 300700Z 23009KT 9999 SCT022 SCT120 BKN300 32/23 Q1006 KSFM 300735Z AUTO 00000KT 10SM CLR 16/13 A3005 RMK AO1 KRNV 300735Z AUTO 13008KT 10SM CLR 25/21 A2999 RMK AO2 T02450207 KRPD 300715Z AUTO 14003KT 4SM BR CLR 15/14 A3003 RMK AO2 T01500141 VTPP 300700Z 14004KT 9999 SCT023 BKN300 33/22 Q1007 LIPE 300720Z 24004KT 200V280 CAVOK 26/18 Q1021 LIPF 300655Z 00000KT CAVOK 23/21 Q1020 RMK SKC VIS MIN 9999 KSGF 300652Z 16007KT 10SM BKN100 22/19 A3001 RMK AO2 SLP148 T02170189 KSFO 300656Z 27012KT 10SM SCT013 BKN019 19/16 A3001 RMK AO2 SLP162 T01890156 $ FNBG 300700Z 00000KT 8000 SCT006 OVC015 19/19 Q1019 LIPH 300715Z 00000KT CAVOK 23/19 Q1020 KSGH 300656Z AUTO 22004KT 10SM CLR 19/19 A3010 RMK AO2 T01940194 LTG DSNT W TSE16RAE32 P0003 SLP183 KSEZ 300715Z AUTO 13007KT 10SM 23/11 A3015 RMK AO2 KRPH 300715Z AUTO 00000KT 10SM SCT085 SCT120 22/15 A2997 RMK AO2 T02210150 KSFQ 300715Z AUTO 00000KT 10SM CLR 17/13 A3013 RMK AO2 T01670130 LIPI 291655Z 23004KT CAVOK 30/21 Q1020 RMK FEW FEW200 VIS MIN 9999 WIND THR06 22003KT BLU KROS 300735Z AUTO 17004KT 3SM BR SCT110 15/15 A2998 RMK AO2 T01510145 KRPJ 300735Z AUTO 00000KT 2 1/2SM BR SCT006 SCT010 OVC029 18/18 A3004 RMK AO2 T01800176 KSGJ 300658Z AUTO 12011KT 10SM FEW120 25/23 A3001 RMK AO2 RAE42 SLP161 P0003 T02500233 FNCA 300700Z 08004KT 9999 OVC023 22/20 Q1018 KRQB 300734Z AUTO 00000KT 5SM BR OVC009 17/17 A3004 RMK AO2 T01720168 KQXT 300655Z 25007G13KT 9999 CLR 32/M02 A2981 RMK SLP044 WND DATA ESTMD ALSTG/SLP ESTMD Q1009 LIQC 300655Z ///02KT 9999 SCT025 26/23 Q1020 RMK SCT QUK 1 QUL 0 VIS MAR 25 KM VIS MIN 9999 KSHD 300715Z AUTO 00000KT 10SM SCT070 18/16 A3016 RMK AO2 T01830158 KROW 300651Z AUTO 00000KT 10SM CLR 19/16 A3016 RMK AO2 SLP147 T01940156 403280178 $ KRQE 300653Z AUTO 00000KT 10SM CLR 17/08 A3030 RMK AO2 SLP123 T01720078 403220078 TSNO LIPO 300650Z 31002KT CAVOK 25/17 Q1021 KROX 300735Z AUTO 19008KT 10SM CLR 19/16 A2980 RMK AO2 KSFY 300735Z AUTO 00000KT 10SM OVC024 19/18 A3004 RMK AO2 T01910175 LIPQ 300720Z VRB01KT CAVOK 24/20 Q1020 KSFZ 300735Z AUTO 21003KT 10SM CLR 16/16 A3009 RMK AO1 VTSB 300700Z 20004KT 8000 FEW020 BKN300 32/26 Q1009 A2981 LIPR 300715Z 00000KT CAVOK 27/20 Q1020 KSGR 300653Z AUTO 00000KT 10SM CLR 23/19 A2999 RMK AO2 SLP156 T02280194 LIPS 300655Z 35004KT CAVOK 26/15 Q1020 RMK SKC VIS MIN 9999 WIND THR26 00000KT WIND THR08 00000KT BLU VTSC 300700Z 01010KT 9000 SCT028 BKN200 32/26 Q1009 A2982 RWY20 INFO G LIRA 300720Z 02005KT CAVOK 25/16 Q1021 KSGS 300732Z AUTO 00000KT 2 1/2SM BR CLR 17/16 A3000 RMK AO2 T01700162 GCTS 300730Z VRB02KT 9999 FEW022 23/17 Q1016 NOSIG KSGT 300735Z AUTO 08005KT 10SM CLR 24/18 A2998 RMK AO1 LIPU 300650Z VRB02KT CAVOK 25/14 Q1020 KSGU 300735Z 12009KT 10SM CLR 29/11 A2992 RMK AO1 KSHL 300715Z AUTO 18008KT 8SM OVC005 17/16 A3001 RMK AO2 VTSF 300700Z 22004KT 140V300 9999 FEW020 34/25 Q1009 A2980 INFO H / RWY 01 KSHM 300656Z AUTO 05004KT 10SM CLR 16/04 A3024 RMK AO2 SLP162 T01560036 $ LIQN 291750Z VRB03KT 110V180 CAVOK 29/13 Q1021 LIRE 300655Z /////KT CAVOK 25/17 Q1020 RMK SKC VIS MIN 9999 WIND THR31 35003KT BLU VTSG 300700Z 21009KT 180V240 9000 FEW020 SCT300 32/22 Q1011 A2985 KSHN 300653Z AUTO 25005KT 10SM FEW100 13/12 A2975 RMK AO2 RAE12 SLP073 P0000 T01280117 KRPX 300655Z AUTO 27000KT 40SM 22/04 A2972 RMK A01 T02160044 VTSH 300700Z 06002KT 6000 FEW020CB BKN300 34/23 Q1009 A2981 LIPX 300720Z 25003KT CAVOK 26/16 Q1021 LIRF 300720Z VRB03KT CAVOK 24/17 Q1021 NOSIG KRQO 300735Z AUTO 33006KT 10SM CLR 18/17 A3001 RMK AO2 KSIF 300735Z AUTO 00000KT 5SM BR CLR 18/18 A3014 RMK AO2 T01800180 LIRG 300655Z 27001KT CAVOK 25/16 Q1021 RMK SKC MON NE LIB VIS MIN 9999 BLU LIPY 300650Z 20003KT CAVOK 25/19 Q1021 WMBA 300700Z 21007KT 100V250 9000 FEW017CB SCT150 BKN260 32/25 Q1010 LIRH 300655Z 00000KT CAVOK 21/17 Q1021 RMK SKC MON LIB NC VIS MIN 9999 WIND THR16 /////KT BLU LIPZ 300720Z VRB01KT CAVOK 25/18 Q1020 LIRI 291650Z 00000KT CAVOK 29/22 Q1019 KSHR 300653Z AUTO 17004KT 10SM CLR 17/07 A2983 RMK AO2 SLP054 T01670072 403830094 FMMI 300730Z 09010KT 060V120 9999 SCT017 BKN020 17/15 Q1028 NOSIG VTSM 300700Z 33006KT 7000 FEW020 BKN300 32/25 Q1010 A2984 LIRL 300655Z 07002KT CAVOK 25/20 Q1020 RMK SKC MON LIB NC VIS MIN 9999 WIND THR30 06002KT BLU KSJC 300734Z AUTO 29008KT 10SM BKN020 18/15 A3001 RMK AO2 KRRL 300735Z AUTO 00000KT 1/2SM FG OVC001 10/10 A3006 RMK AO2 T01000100 LIRM 300655Z 03004KT 9999 FEW030 27/22 Q1020 RMK FEW VIS MIN 9999 WIND THR06 01003KT BLU KTAD 300654Z AUTO 01004KT 10SM CLR 17/08 A3023 RMK AO2 SLP149 T01670078 403110122 KSHV 300656Z 00000KT 10SM SCT160 BKN260 23/20 A2998 RMK AO2 SLP149 T02330200 VTSP 300730Z 26009KT 7000 FEW018 BKN300 31/23 Q1011 A2985 NOSIG LIRN 300720Z VRB01KT CAVOK 30/13 Q1021 VTSR 300300Z 20004KT 160V240 6000 FEW025 29/25 Q1012 A2990 VOR/DME RWY02 INFO J LIRP 300715Z 12004KT 080V160 CAVOK 22/20 Q1021 NOSIG VTSS 300730Z 23008KT 9999 FEW018CB SCT020 BKN120 31/25 Q1009 A2981 NOSIG LIRQ 300720Z 00000KT CAVOK 25/19 Q1021 VTST 300700Z 22010KT 9999 FEW020 BKN300 33/24 Q1009 A2981 RWY08 INFO H WMAU 300700Z 13015KT 8000 TS FEW017CB SCT020 BKN270 32/26 Q//// QFF1009 LIRS 300655Z VRB02KT CAVOK 21/19 Q1021 RMK SKC VIS MIN 9999 WIND THR03 /////KT WIND THR21 03001KT BLU KSKA 300658Z AUTO 18009KT 10SM CLR 14/07 A2983 RMK AO2 SLP094 T01350065 $ LIRT 300255Z 35006KT CAVOK 19/08 Q1026 RMK SKC MON INVIS VAL INVIS VIS MIN 9999 VTUD 300700Z 27003KT 240V310 9999 FEW035 BKN160 OVC210 30/23 Q1007 A2974 KRRT 300734Z AUTO 21008KT 10SM CLR 19/17 A2981 RMK AO2 LIRU 300650Z VRB02KT CAVOK 22/17 Q1021 FMMT 300700Z 14004KT 9999 SCT017 26/18 Q1023 NOSIG KRSL 300653Z AUTO 17007KT 10SM CLR 14/14 A3005 RMK AO2 SLP164 T01440144 LIRV 300655Z 06005KT CAVOK 25/20 Q1022 RMK SKC MON E SE LIB NC VIS MIN 9999 BLU FMNM 300700Z 10012KT CAVOK 28/14 Q1019 NOSIG KTAN 300652Z AUTO 00000KT 10SM CLR 19/17 A3008 RMK AO2 SLP184 T01890167 KSJN 300654Z AUTO 00000KT 10SM FEW120 21/10 A3021 RMK AO2 SLP124 T02110100 403220133 KRSN 300735Z AUTO 00000KT 10SM CLR 24/19 A3001 RMK AO2 T02440194 FMNN 300700Z 03004KT 9999 FEW020 27/18 Q1019 LIRX 300655Z 21005KT CAVOK 22/12 Q1021 RMK SKC VIS MIN 9999 VIS MAR 30 KM KSKF 300658Z AUTO 16005KT 10SM FEW190 25/18 A3000 RMK AO2 SLP151 T02490182 $ KRSP 300654Z AUTO 10SM CLR 21/16 A3014 RMK AO2 SLP198 T02060156 $ VTUI 300700Z 34002KT 9999 FEW025 BKN100 31/25 Q1007 A2974 RWY23 INFO H KSIY 300653Z AUTO 00000KT 10SM CLR 14/04 A2999 RMK AO2 SLP148 T01390044 TSNO LIRZ 300650Z VRB03KT 9999 FEW080 23/18 Q1022 VTUK 300700Z 29006KT 9999 FEW025CB SCT030 34/21 Q1006 A2973 CB E INFO I RWY03 VTUL 300700Z 31008KT 280V340 9999 BKN030 OVC100 31/23 Q1007 A2976 KSJS 300715Z AUTO 00000KT 10SM SCT090 20/18 A3013 RMK AO2 T01980178 KSJT 300651Z 16003KT 10SM CLR 24/14 A3004 RMK AO2 SLP146 T02390144 KRST 300654Z AUTO 16006KT 6SM BR CLR 15/14 A3004 RMK AO2 SLP171 T01500144 KSLB 300715Z AUTO 20008G13KT 9SM OVC004 16/16 A3005 RMK AO2 KTCC 300653Z AUTO 00000KT 10SM CLR 17/12 A3017 RMK AO2 SLP153 T01720122 403330167 KSLC 300653Z 16011KT 10SM FEW110 FEW160 BKN220 28/07 A2989 RMK AO2 SLP051 CB DSNT NE AND SE AND NW T02780067 403560228 VTUO 300700Z 25007KT 1710V360 9000 FEW020 SCT120 BKN300 32/25 Q1008 A29778 INFO H RWY 22 KRSV 300735Z AUTO 18003KT 4SM BR CLR 20/19 A3004 RMK AO2 T01960191 KRSW 300653Z AUTO 05008KT 10SM CLR 24/22 A2993 RMK AO2 SLP134 T02440222 KRTN 300653Z AUTO 00000KT 10SM CLR 16/09 A3031 RMK AO2 SLP171 T01560089 403000100 KRUE 300653Z AUTO 00000KT 8SM CLR 22/21 A2998 RMK AO2 SLP146 T02170206 $ KSLE 300656Z AUTO 17012G20KT 10SM BKN048 OVC110 18/12 A2982 RMK AO2 SLP097 T01830122 KTBN 300658Z AUTO 16003KT 10SM FEW070 SCT085 20/19 A3002 RMK AO2 SLP158 T01970186 KSJX 300735Z AUTO 00000KT 1/2SM FG OVC008 14/13 A3004 RMK AO2 T01370134 VVCR 300730Z 16013KT 9999 FEW017 37/23 Q1006 NOSIG GCXO 300730Z 29007KT 9999 FEW004 SCT008 18/17 Q1018 NOSIG KSLG 300735Z AUTO 14003KT 6SM BKN120 22/18 A2998 RMK AO1 KRUG 300715Z AUTO 16008KT 6SM HZ CLR 20/17 A2975 RMK AO2 KSLH 300735Z AUTO 00000KT 7SM CLR 11/11 A3004 RMK AO2 T01150111 KTAZ 300715Z AUTO 19004KT 7SM SCT100 18/18 A3002 RMK AO2 VVCT 300730Z 26012KT 180V350 9999 BKN015 33/22 Q1009 NOSIG KSLI 300658Z AUTO 00000KT 10SM CLR 23/21 A2985 RMK AO2 SLP111 T02270211 KTBR 300735Z AUTO 00000KT 10SM SCT018 SCT120 22/22 A3007 RMK AO2 LTG DSNT S AND W T02180218 FNGI 300700Z 26006KT CAVOK 19/11 Q1020 VTUU 300700Z 22006KT 170V280 9000 SCT024 31/25 Q1007 A2975 NOSIG KRTS 300735Z AUTO 27008KT 10SM CLR 15/07 A3009 RMK AO2 LJLJ 300730Z VRB02KT CAVOK 22/17 Q1023 NOSIG VTUV 300100Z 22009KT 9000 FEW025 SCT100 BKN300 27/24 Q1009 A2980 INFO B RWY 18 KSLK 300651Z AUTO 22003KT 10SM SCT120 14/13 A3008 RMK AO2 SLP182 T01440128 LJMB 300730Z VRB01KT CAVOK 23/16 Q1022 VVDN 300730Z 36008KT 9999 FEW015 SCT060 BKN270 34/25 Q1005 NOSIG VTUW 300700Z 07003KT 9999 SCT022 BKN120 BKN300 27/26 Q1006 A2972 INFO F RWY15 KTCL 300653Z AUTO 10004KT 10SM FEW120 23/21 A3007 RMK AO2 SLP180 T02280211 LIVD 300655Z 00000KT CAVOK 15/09 Q1029 RMK FEW FEW200 VIS MIN 9999 KTCM 300723Z AUTO 18005KT 7SM R16/5500FT -RA FEW004 SCT025 SCT034 OVC065 14/14 A2977 RMK AO2 CIG 047 RWY34 $ LIVE 300655Z /////KT CAVOK 13/11 Q1030 RMK SKC VIS MIN 9999 KSLN 300653Z AUTO 00000KT 10SM CLR 17/15 A3005 RMK AO2 SLP169 T01670150 KSME 300715Z AUTO 00000KT 5SM BR CLR 19/19 A3013 RMK AO2 KSMF 300653Z 17007KT 10SM CLR 18/10 A2993 RMK AO2 SLP135 T01830100 KSKX 300735Z AUTO 05004KT 10SM CLR 12/02 A3039 RMK AO1 KTBX 300735Z AUTO 11011KT 10SM CLR 20/M01 A3021 RMK AO2 KSLO 300735Z AUTO 18006KT 10SM OVC065 22/18 A3002 RMK AO2 T02150175 KTDF 300715Z AUTO 00000KT 10SM CLR 17/16 A3016 RMK AO2 KRUQ 300715Z AUTO 00000KT 10SM CLR 18/18 A3014 RMK AO2 T01830183 KSLR 300715Z AUTO 17003KT 10SM CLR 26/19 A2999 RMK AO2 T02580190 KTCS 300653Z AUTO 21004KT 10SM CLR 24/11 A3019 RMK AO2 SLP127 T02440111 403390194 TSNO KSNA 300653Z AUTO 20004KT 10SM CLR 23/21 A2986 RMK AO2 SLP109 T02280206 TSNO KTEB 300651Z 19003KT 10SM CLR 21/15 A3008 RMK AO2 SLP185 T02110150 $ EVRA 300720Z 23005KT 180V260 9999 SCT004 OVC007 16/15 Q1021 NOSIG KRUT 300735Z AUTO 00000KT 10SM CLR 16/13 A3009 RMK AO1 KSNC 300655Z AUTO 21004KT 10SM CLR 20/19 A3010 RMK AO2 LKCV 300700Z 00000KT CAVOK 22/18 Q1021 NOSIG RMK BLU BLU KSMN 300735Z AUTO 03003KT 10SM SCT110 19/06 A2981 RMK AO1 LIVO 300655Z 00000KT CAVOK 16/14 Q1025 RMK SKC VIS MIN 9999 KSMO 300651Z AUTO 16004KT 10SM CLR 23/20 A2985 RMK AO2 SLP107 T02280200 KRWF 300727Z AUTO 18008KT 2 1/2SM BR OVC002 17/16 A2997 RMK AO2 T01670161 LIVP 300655Z VRB02KT CAVOK 15/07 Q1032 RMK SKC MON LIB VAL FOSCHIA SKC SUP VIS MIN 9999 KSMQ 300653Z AUTO 00000KT 4SM BR CLR 17/15 A3008 RMK AO2 SLP186 T01670150 KSNH 300735Z AUTO 00000KT 10SM CLR 19/00 A3007 RMK LIVR 300655Z 12006KT CAVOK 14/M10 Q1032 RMK SKC MON LIB VIS MIN 9999 KRWI 300653Z AUTO 00000KT 10SM CLR 20/17 A3012 RMK AO2 SLP199 T02000172 KTDR 300656Z AUTO 02005KT 10SM CLR 22/22 A3003 RMK AO2 SLP173 T02190218 TSNO $ KRVS 300653Z AUTO 04004KT 10SM BKN080 24/20 A2997 RMK AO2 SLP152 T02440200 KSMS 300735Z AUTO 00000KT 10SM 26/26 A3011 RMK AO2 KSOA 300715Z AUTO 00000KT 10SM CLR 25/13 A3010 RMK AO2 LIVT 300655Z 00000KT CAVOK 24/20 Q1019 RMK SKC QUK 0 QUL 0 VIS MAR 10 KM VIS MIN 9999 KSNK 300715Z AUTO 27004KT 10SM CLR 20/13 A3008 RMK AO2 T02010127 TSNO KRWL 300653Z AUTO 24005KT 10SM CLR 18/M02 A3017 RMK AO2 SLP109 T01781022 403000056 KSNL 300735Z AUTO 04003KT 23/22 A2998 RMK AO2 PWINO FNHU 300700Z 00000KT 4000 BR NSC 18/14 Q1026 FMSD 300700Z 06014KT 9999 FEW020 SCT033 24/17 Q1022 KRXE 300729Z AUTO 08011KT 10SM FEW050 SCT100 SCT110 17/12 A2991 RMK AO2 LTG DSNT NE-SE RAB04E25 TSE16 P0000 T01720117 KSMX 300651Z AUTO 35004KT 10SM CLR 18/16 A2996 RMK AO2 SLP147 T01780161 KTDZ 300653Z AUTO 10005KT 4SM BR SCT060 OVC080 21/19 A3005 RMK AO2 SLP171 T02110194 KSPA 300735Z AUTO 00000KT 10SM SCT120 21/17 A3013 RMK AO2 KSNS 300653Z 26006KT 10SM CLR 19/11 A2999 RMK AO2 SLP165 T01890111 KSNT 300651Z AUTO 19007KT 18/04 A3003 RMK AO1 SLP049 T01780039 402670111 KSPB 300653Z AUTO 23004KT 8SM -RA OVC040 17/14 A2980 RMK AO2 SLP091 P0002 T01670139 KSPD 300056Z AUTO 14009KT 24/07 A3016 RMK AO1 SLP162 T02440067 KRWV 300715Z AUTO 00000KT 10SM CLR 23/20 A3003 RMK AO2 KTEW 300735Z AUTO 00000KT 5SM BR BKN037 BKN048 OVC055 19/18 A3003 RMK AO2 T01920175 KSPF 300715Z AUTO 20017G28KT 10SM CLR 28/04 A2988 RMK AO2 KTEX 300735Z AUTO 14007KT 10SM CLR 13/04 A3047 RMK AO2 T01300044 KSNY 300653Z AUTO 20012KT 9SM CLR 20/04 A3009 RMK AO2 SLP130 T02000039 403390083 KSPG 300653Z AUTO 06010KT 10SM CLR 26/23 A2996 RMK AO2 SLP143 T02560228 KSOP 300735Z AUTO 00000KT 10SM CLR 17/13 A3014 RMK AO1 KTFP 300715Z AUTO 17005KT 10SM CLR 24/19 A2997 RMK AO2 T02400190 KSPI 300652Z 20004KT 10SM BKN034 BKN045 BKN055 22/19 A3001 RMK AO2 SLP157 T02220194 KTGI 300711Z AUTO 19006KT 10SM CLR 23/19 A3011 RMK AO1 KTHA 300735Z AUTO 12003KT 10SM OVC100 21/19 A3012 RMK KSPL 300735Z AUTO 16011KT 10SM CLR 28/24 A2995 RMK AO1 KRYN 300245Z 32007KT 10SM FEW035 BKN047 26/21 A2997 RMK LAST KSOW 300735Z AUTO 19012KT 10SM CLR 17/07 A3028 RMK AO2 KSQE 300735Z AUTO 13008KT 10SM FEW026 28/22 A3000 RMK A01 KSQI 300735Z AUTO 00000KT 5SM OVC029 A3001 RMK AO1 KSPR 300735Z AUTO 13008KT 10SM FEW032 29/22 A2998 RMK A01 KSPS 300652Z AUTO 20005KT 10SM CLR 24/13 A2997 RMK AO2 SLP133 T02390128 MBGT 300300Z 08010KT 6000 SCT012 27/23 Q1017 FNMA 300700Z 00000KT 2000 BR OVC007 16/15 Q1021 EVVA 300720Z AUTO 19004KT CAVOK 17/16 Q1020 KSRB 300735Z AUTO 00000KT 10SM FEW120 21/20 A3011 RMK KRYT 300653Z AUTO 00000KT 9SM CLR 18/ A3009 RMK AO2 SLP179 T0183 $ KSQL 300735Z AUTO 27005KT 10SM OVC019 19/15 A3002 RMK AO2 KSRC 300656Z AUTO 00000KT 10SM BKN090 21/20 A3002 RMK AO2 SLP166 T02110200 TSNO KRZL 300735Z AUTO 26003KT 5SM BR SCT044 BKN049 BKN060 20/20 A3002 RMK AO2 FNKU 300700Z 31004KT CAVOK 18/12 Q1024 KRYV 300715Z AUTO 00000KT 5SM BR SCT005 OVC027 17/17 A3003 RMK AO2 T01660166 KSPW 300734Z AUTO 19010KT 1/4SM FG OVC003 17/15 A3003 RMK AO2 T01670150 $ KRYW 300735Z AUTO 19007KT 10SM CLR 26/18 A3003 RMK AO2 T02580176 LIYW 300658Z AUTO 00000KT 9999 CLR 26/17 A3015 RMK AO2 SLP207 T02550168 KRZN 300715Z AUTO 15003KT 10SM CLR 16/15 A3000 RMK AO2 T01600153 KTIF 300715Z AUTO 19006KT 10SM CLR 18/16 A3003 RMK AO2 T01830155 KRYY 292356Z 11008KT 10SM SKC 25/17 A3014 WMKA 300700Z 24008KT 6000 FEW017CB SCT140 BKN280 31/25 Q1010 LJPZ 300730Z VRB01KT CAVOK 26/22 Q1020 WMKB 300700Z 22008KT 160V270 7000 VCSH FEW020 SCT140 BKN280 29/24 Q1010 NOSIG KRZR 300735Z AUTO 00000KT 10SM BKN095 19/18 A3012 RMK WMKC 300700Z 35007KT 6000 -SHRA FEW017CB BKN280 28/24 Q1009 WMKD 300700Z 10005KT 9999 FEW017CB SCT018 BKN280 33/26 Q1009 NOSIG KTIK 300658Z 05005KT 10SM FEW047 22/19 A2998 RMK AO2A VIS 2V2 1/2 SLP145 T02220186 $ KRZT 300734Z AUTO 00000KT 10SM CLR 20/19 A3009 RMK AO2 WMKE 300700Z 14009KT 9999 FEW017CB BKN240 32/25 Q1009 KSSC 300658Z AUTO 03003KT 10SM OVC200 20/16 A3009 RMK AO2 SLP189 T02030163 $ FNLU 300700Z 14006KT 9999 SCT023 21/18 Q1017 NOSIG GEML 300730Z 10009KT 070V130 6000 SCT004 BKN008 BKN020 26/24 Q1016 KTHV 300653Z AUTO 00000KT 10SM CLR 18/16 A3009 RMK AO2 SLP189 T01780161 KW13 300715Z AUTO 00000KT 10SM OVC065 20/16 A3015 RMK AO1 T01990158 KSSF 300653Z AUTO 15005KT 10SM CLR 25/18 A2998 RMK AO2 SLP141 T02500183 FNMO 300700Z 21007KT 3000 BR OVC004 16/16 Q1019 WMKI 300700Z 20008KT 120V230 6000 FEW017CB SCT140 BKN280 32/24 Q1010 KTIP 300715Z AUTO 00000KT 5SM BR OVC060 21/20 A3002 RMK AO2 T02080201 WMKJ 300700Z 19007KT 150V240 9999 FEW017CB SCT130 BKN280 30/24 Q1010 RETS KSRQ 300653Z AUTO 07007KT 10SM CLR 24/22 A2994 RMK AO2 SLP138 T02390222 WMKK 300730Z 15008KT 120V200 5000 HZ FEW017CB SCT140 BKN280 31/24 Q1009 NOSIG KSSI 300732Z AUTO 21007KT 10SM BKN022 BKN036 OVC065 26/23 A3004 RMK AO2 LTG DSNT NE RAE05 TSE08 P0000 T02560233 KSRR 300735Z AUTO 10SM CLR 15/11 A3036 RMK AO2 WMKL 300700Z 24005KT 9999 FEW022 BKN280 29/25 Q1011 WMKM 300700Z 17007KT 080V240 6000 FEW017CB SCT022 BKN280 32/27 Q1010 LKKB 300700Z VRB02KT CAVOK 22/18 Q1020 NOSIG WMKN 300700Z 09005KT 8000 TS FEW017CB SCT018 BKN300 32/26 Q1010 KSTC 300719Z AUTO 15005KT 3SM BR CLR 14/14 A2997 RMK AO2 T01440144 KTKC 300732Z AUTO 21015G22KT 5SM BR SCT005 SCT009 18/17 A2996 RMK AO2 T01770170 KW22 300715Z AUTO 00000KT 9SM CLR 17/17 A3014 RMK AO2 WMKP 300730Z 26009KT 200V310 8000 -RA FEW012 SCT020 BKN260 26/24 Q1010 NOSIG KTIW 300721Z AUTO 15005KT 10SM -RA SCT003 BKN046 OVC090 13/13 A2977 RMK AO2 P0000 T01330128 KUBE 300715Z AUTO 17005KT 3/4SM BR OVC004 13/13 A3001 RMK AO2 KSTE 300715Z AUTO 00000KT 7SM OVC015 13/13 A3006 RMK AO2 T01280125 KTIX 300050Z 07006KT 7SM SCT040 BKN100 26/25 A3004 RMK LAST KUAO 300653Z AUTO 19012KT 10SM BKN049 OVC120 18/12 A2983 RMK AO2 SLP100 T01780122 $ KSTF 300735Z AUTO 13005KT 10SM SCT060 21/20 A3004 RMK AO2 LLBG 300720Z 25005KT 9999 SCT030 30/21 Q1011 NOSIG KTKI 300653Z AUTO 00000KT 10SM CLR 24/19 A2997 RMK AO2 SLP141 T02440194 KSTJ 300653Z AUTO 04003KT 9SM OVC034 18/17 A3004 RMK AO2 SLP169 T01780172 KSUA 300555Z AUTO 00000KT TS 25/23 A3001 RMK AO2 LTG DSNT ALQS P0012 KW29 300729Z AUTO 18003KT 10SM 22/17 A3010 RMK AO1 KSTK 300725Z AUTO 19005KT 10SM CLR 17/06 A3006 RMK AO2 KSTL 300651Z 00000KT 10SM BKN065 OVC130 24/19 A3002 RMK AO2 SLP155 T02440189 $ KW31 300735Z AUTO 00000KT 10SM CLR 18/17 A3013 RMK AO1 T01790168 KSUE 300735Z AUTO 00000KT 1 1/4SM CLR 14/13 A3006 RMK AO1 KSTP 300719Z AUTO 14005KT 6SM BR FEW005 17/17 A3000 RMK AO2 T01670167 KTLH 300653Z AUTO 00000KT 10SM CLR 24/22 A3003 RMK AO2 SLP167 T02390217 $ VVNB 300730Z 34005KT 290V030 9999 FEW023 BKN083 30/21 Q1005 NOSIG KSTS 300653Z AUTO 00000KT 10SM CLR 17/13 A2998 RMK AO2 SLP145 T01670133 KTMA 300715Z AUTO 00000KT 10SM OVC009 23/23 A3005 RMK AO2 T02280226 KTMB 300717Z AUTO 07006KT 10SM -TSRA FEW120 24/ A2995 RMK AO2 LTG DSNT ALQDS TSB11 P0000 T0239 $ LKKU 290900Z 01008KT 350V150 CAVOK 26/18 Q1024 KSVC 300735Z AUTO 03008KT 10SM 18/14 A3028 RMK AO2 P0001 KTKV 300735Z AUTO 00000KT 1/2SM FG OVC001 13/12 A3006 RMK AO2 T01260122 LKKV 300730Z VRB02KT CAVOK 22/17 Q1022 LKLN 300700Z AUTO 06002KT //// ////// 22/17 Q1021 KSUN 300735Z AUTO 24005KT 10SM SCT120 18/06 A3000 RMK AO2 KTME 300735Z AUTO 00000KT 10SM CLR 23/20 A3000 RMK AO2 KW43 300715Z AUTO 18018G24KT 10SM CLR 27/02 A2991 RMK AO2 KUDG 300735Z AUTO 00000KT 10SM CLR 19/16 A3013 RMK AO1 KUCP 300730Z AUTO 00000KT 3SM -RA BR CLR 19/19 A3008 RMK AO2 LTG DSNT NW RAB06 P0000 KSVH 300715Z AUTO 00000KT 10SM CLR 18/17 A3014 RMK AO2 T01810171 LKNA 300700Z 11008KT 080V160 CAVOK 23/17 Q1022 NOSIG RMK BLU BLU KSUS 300654Z AUTO 00000KT 10SM SCT070 22/21 A3000 RMK AO2 SLP152 T02220206 KTMK 300735Z AUTO 00000KT 10SM SCT010 OVC029 15/13 A2985 RMK AO2 P0002 KTNB 300735Z AUTO 00000KT 7SM CLR 15/14 A3025 RMK AO2 T01450142 KSUT 300715Z AUTO 00000KT 10SM CLR 22/18 A3011 RMK AO2 T02150183 KSUU 300658Z AUTO 24016KT 10SM CLR 18/14 A2993 RMK AO2 SLP142 T01790137 PWINO PNO $ KSVN 300737Z AUTO 27004KT 10SM -RA VCTS SCT010 23/23 A3004 RMK AO2 LTG DSNT W-N RAB02 TSE37 $ KSUW 300715Z AUTO 00000KT 7SM CLR 15/15 A2995 RMK AO2 T01480147 KSUX 292252Z 15008KT 10SM CLR 21/17 A3003 RMK AO2 SLP166 T02110172 KSWF 300645Z 00000KT 10SM SKC 18/16 A3009 KUCY 300735Z AUTO 14004KT 10SM CLR 23/23 A3003 RMK VVPB 300730Z 07006KT CAVOK 34/25 Q1005 NOSIG KTOA 300253Z 31008KT 20SM SKC 27/18 A2983 RMK LAST FNSA 300600Z 15005KT 9999 BKN090 18/15 Q1015 KTOB 300734Z AUTO 19005KT 7SM SCT100 16/15 A3003 RMK AO2 LKMT 300730Z VRB02KT 8000 NSC 22/18 Q1022 NOSIG KTOC 300735Z AUTO 00000KT 10SM OVC120 21/21 A3014 RMK AO2 T02130206 KW63 300735Z AUTO 00000KT 10SM CLR 20/16 A3012 RMK AO1 KSWO 300653Z AUTO 10SM CLR 19/18 A3000 RMK AO2 SLP145 T01940183 TSNO KTOI 300653Z AUTO 00000KT 10SM FEW008 SCT047 22/21 A3007 RMK AO2 SLP175 T02170206 KTPA 300653Z VRB05KT 10SM FEW150 BKN230 24/21 A2998 RMK AO2 SLP151 T02390211 $ KUES 300715Z AUTO 00000KT 3SM BR BKN003 OVC032 15/15 A3005 RMK AO2 LLET 300650Z 02012KT CAVOK 31/14 Q1011 KTOL 300652Z 13004KT 4SM BR SCT075 SCT100 BKN120 19/19 A3004 RMK AO2 RAE47 SLP167 P0000 T01940189 $ KTNU 300715Z AUTO 07004KT 10SM OVC019 18/17 A3005 RMK AO2 LKPD 300700Z 11004KT 020V180 CAVOK 24/19 Q1020 NOSIG RMK BLU BLU KSWW 300715Z AUTO 24007KT 10SM CLR 22/12 A3009 RMK AO2 T02240117 VVPQ 300730Z 29008KT 9999 FEW015 FEW017TCU SCT040 29/26 Q1010 NOSIG TCU/NW KSYF 300735Z AUTO 19012KT 10SM CLR 18/07 A3008 RMK AO2 T01780070 KTPF 300735Z AUTO 03005KT 10SM CLR 25/23 A2997 RMK AO2 FNSO 291600Z 21006KT 9999 SCT017 BKN100 24/19 Q1014 KTOP 300653Z AUTO 00000KT 10SM CLR 18/17 A3004 RMK AO2 SLP167 T01780167 KW75 300710Z AUTO 00000KT 10SM CLR 18/17 A3011 RMK AO1 T01750165 KTPH 300656Z AUTO 33008KT 10SM CLR 23/04 A3006 RMK AO2 SLP082 T02330039 KTOR 300653Z AUTO 14007KT 9SM CLR 22/05 A3001 RMK AO2 SLP101 T02170050 403560111 KSYI 300735Z AUTO 00000KT 10SM OVC095 21/21 A3011 RMK LLHA 300650Z 23007KT 200V270 9999 FEW030 30/20 Q1010 KSXS 300656Z AUTO 10002KT 10SM CLR 21/20 A3007 RMK AO2 SLP181 T02100203 KW78 300715Z AUTO 00000KT 10SM CLR 18/17 A3013 RMK AO1 T01800172 KSXT 300725Z AUTO 19011G19KT 1/4SM FG VV002 10/10 A3000 RMK AO2 RAE14 P0000 T01000100 FNUB 291700Z 02007KT CAVOK 24/11 Q1023 KTPL 300735Z AUTO 16006KT 10SM CLR 26/16 A3000 RMK AO1 KW81 300735Z AUTO 00000KT 10SM CLR A3012 RMK AO1 FNSU 300700Z 00000KT 0900 FG OVC009 20/19 Q1020 KSYM 300730Z AUTO 00000KT 10SM OVC046 20/19 A3013 RMK AO2 KUGN 300710Z AUTO 00000KT 1 1/4SM BR OVC002 17/17 A3003 RMK AO2 T01720172 KTQE 300733Z AUTO 20003KT 5SM BR OVC014 18/17 A3003 RMK AO2 T01780172 KSYN 300733Z AUTO 00000KT 7SM CLR 16/15 A2999 RMK AO2 T01600150 FNUE 291600Z 12005KT CAVOK 31/// Q1018 FNUG 300700Z 00000KT 3000 BR OVC012 18/17 Q1020 WMSA 300700Z 17010KT 3000 HZ FEW017CB SCT140 BKN270 33/26 Q1009 KTQH 300735Z AUTO 00000KT 10SM CLR 22/21 A2997 RMK AO2 KSYR 300654Z 00000KT 10SM BKN065 OVC075 18/16 A3007 RMK AO2 SLP178 T01830156 LKPR 300730Z 02002KT CAVOK 23/18 Q1021 NOSIG LLIB 300650Z 15006KT 100V180 9999 FEW030 28/20 Q1012 KSZL 300708Z AUTO 02003KT 1/2SM R19/1200FT FG VV001 19/19 A2999 RMK AO2 VIS 1/2V3 $ GFLL 292000Z 15005KT BKN010 FEW027CB 26/24 Q1012 RMK-NE/SW MBPV 292300Z 08007KT 9000 SCT010 BKN060 29/26 Q1016 KW96 300735Z AUTO 00000KT 10SM CLR 17/16 A3012 RMK AO1 T01680163 KTRI 300653Z 00000KT 10SM OVC250 18/17 A3016 RMK AO2 SLP189 T01830172 MDAB 292200Z 04008KT 8000 VCSH FEW016CB SCT018 BKN070 30/27 Q1015 CB/S/SW VCSH/SW KSZT 300735Z AUTO 19004KT 10SM CLR 13/10 A2984 RMK AO2 KTRK 300715Z AUTO 20008KT 10SM CLR 13/07 A3014 RMK AO2 KW99 300715Z AUTO 00000KT 7SM CLR 15/15 A3014 RMK AO2 T01520147 KTRL 300653Z AUTO 14005KT 10SM CLR 26/20 A2997 RMK AO2 SLP140 T02610200 KUIL 300733Z AUTO VRB03KT 3SM BR BKN012 BKN016 OVC028 14/13 A2972 RMK AO2 T01390128 KTRM 300652Z AUTO 35014G21KT 10SM CLR 36/11 A2968 RMK AO2 SLP056 T03560106 TSNO KVAD 300658Z AUTO 04002KT 10SM FEW190 22/21 A3003 RMK AO2 DZE04 SLP170 P0000 T02210211 $ KUIN 300729Z AUTO 02005KT 1 1/4SM BR SCT014 19/19 A3001 RMK AO2 T01940189 KVAF 300735Z AUTO 11008KT 10SM FEW035 FEW043 SCT060 28/22 A2998 RMK A01 KTTA 300735Z AUTO 00000KT 7SM CLR A3013 RMK AO2 LKTB 300730Z 09010KT CAVOK 24/18 Q1021 NOSIG KTTD 300653Z AUTO 13005KT 10SM BKN055 OVC100 18/13 A2983 RMK AO2 SLP100 T01830128 KTTF 300733Z AUTO 00000KT 2 1/2SM BR OVC075 19/19 A3003 RMK AO2 T01910185 KUKF 300735Z AUTO 00000KT 7SM CLR 17/17 A3021 RMK AO2 KTSP 300735Z AUTO RMK AO2 PWINO PNO FZRANO KVBG 300658Z AUTO 34011KT 10SM CLR 17/16 A2996 RMK AO2 SLP147 T01660162 TSNO MDBH 300000Z 13013KT 9999 FEW014CB SCT014 BKN080 BKN300 28/25 Q1016 CB/SE/S/W/NW/N FOOG 300700Z /////KT 3000 RADZ SCT006 OVC026 23/22 Q1017 VVTS 300730Z 27009KT 230V310 9999 SCT017 FEW020TCU 34/23 Q1007 NOSIG KUKI 300656Z AUTO 28003KT 10SM CLR 17/11 A3003 RMK AO2 SLP161 T01670111 KVCB 300653Z AUTO 22003KT 10SM CLR 20/09 A2995 RMK AO2 SLP139 T02000089 FOOL 300700Z 15007KT 7000 -DZ FEW008 BKN030 23/22 Q1016 NOSIG KTTN 300653Z AUTO 00000KT 10SM CLR 19/16 A3009 RMK AO2 SLP183 T01940161 FOON 300700Z /////KT 9999 FEW010 OVC020 22/20 Q1015 KVAY 300654Z AUTO 00000KT 10SM CLR 18/16 A3010 RMK AO2 SLP193 T01780161 KTTS 300724Z AUTO 07009KT 10SM FEW200 BKN220 24/23 A2998 RMK AO2 DZB14E24 KVBT 300735Z AUTO 00000KT 10SM FEW100 22/19 A3000 RMK AO1 KUKT 300735Z AUTO 00000KT 10SM CLR 16/15 A3011 RMK AO1 KTUL 300653Z 32003KT 10SM BKN046 OVC065 23/21 A2997 RMK AO2 SLP139 T02280211 KTVC 300711Z 00000KT 6SM BR BKN007 16/14 A3003 RMK AO2 T01560139 KULM 300733Z AUTO 19009KT 4SM BR OVC002 16/16 A2998 RMK AO2 KVBW 300735Z AUTO 00000KT 7SM CLR 17/16 A3014 RMK AO2 T01650158 KVDF 300735Z AUTO 00000KT 10SM CLR 23/22 A2998 RMK AO2 KTVF 300735Z AUTO 18007KT 10SM CLR A2983 RMK AO1 KTUP 300653Z AUTO 15005KT 10SM CLR 22/19 A3005 RMK AO2 SLP171 T02170194 RJAA 300730Z 05005KT 360V080 7000 -SHRA BR FEW002 SCT004 BKN005 21/20 Q1011 NOSIG RMK 1ST002 3ST004 6ST005 A2987 KTVI 300735Z AUTO 00000KT 2SM VCTS BR SCT005 BKN009 OVC024 21/21 A3005 RMK AO2 LTG DSNT N KVDI 300735Z AUTO 03003KT 10SM CLR 22/21 A3007 RMK AO2 LTG DSNT W KTUS 300653Z 12014KT 10SM CLR 29/14 A2999 RMK AO2 SLP097 T02890144 404060256 KVCT 300651Z AUTO 14003KT 10SM CLR 23/21 A2999 RMK AO2 SLP155 T02330206 $ KTVK 300715Z AUTO 34003KT 1/4SM FG OVC001 17/17 A3006 RMK AO2 KTVL 300653Z AUTO 16010G17KT 10SM BKN042 BKN050 16/07 A3015 RMK AO2 SLP147 T01560067 KVCV 300715Z AUTO 00000KT 10SM CLR 25/07 A3000 RMK AO2 RJAF 300700Z 33007KT 9999 -SHRA FEW005 SCT007 BKN020 20/18 Q1012 KTWF 300653Z AUTO 19008KT 10SM CLR 23/03 A2992 RMK AO2 SLP062 T02280033 403330189 MDCY 300000Z 04010KT 9999 FEW016CB SCT018 SCT300 28/26 Q1014 CB/W/ RJAH 300700Z 06006KT 020V080 3500 -RADZ BR SCT003 BKN005 OVC010 21/20 Q1011 KTVR 300653Z AUTO 00000KT 10SM CLR 19/18 A3000 RMK AO2 SLP164 T01940178 KUNI 300715Z AUTO 00000KT 10SM SCT080 18/18 A3009 RMK AO2 T01780178 RJBB 300730Z 25008KT 9999 -SHRA FEW008 SCT015 BKN030 25/24 Q1009 NOSIG RJBD 300700Z VRB04KT 9999 FEW010 SCT025 BKN130 27/23 Q1010 KVEL 300653Z AUTO 28004KT 10SM CLR 17/04 A3007 RMK AO2 SLP116 T01720044 403220133 RJBE 300700Z 24004KT 9999 FEW006 SCT025 BKN040 25/24 Q1009 KTWM 300734Z AUTO 00000KT 2SM HZ CLR 16/13 A2994 RMK AO2 SABE 300700Z 14011KT CAVOK 16/13 Q1013 KUNO 300653Z AUTO 00000KT 10SM SCT055 OVC090 21/18 A3005 RMK AO2 SLP164 T02060183 KTVY 300735Z AUTO 18014KT 10SM CLR 27/05 A2991 RMK AO2 SAAR 300700Z 00000KT CAVOK 19/16 Q1010 KVER 300735Z AUTO 00000KT 1/2SM FG BKN003 BKN043 21/21 A3000 RMK AO2 T02080209 RJCB 300700Z 16009KT 9999 FEW035 21/14 Q1015 KVES 300715Z AUTO 17003KT 10SM OVC110 20/20 A3006 RMK AO2 LTG DSNT E RJCC 300730Z 17009KT 9999 FEW009 SCT013 BKN060 20/18 Q1014 RMK 1ST009 4ST013 7SC060 A2997 EYKA 300720Z 22005KT 160V260 9000 NSC 16/12 Q1024 KTXK 300653Z AUTO 17003KT 10SM CLR 24/19 A2998 RMK AO2 SLP146 T02390194 KUNU 300735Z AUTO 00000KT 1SM BR OVC025 16/16 A3006 RMK AO2 T01620160 RJAW 300700Z 11010KT 9999 SCT020 30/23 Q1011 RMK 3CU020 A2988 KUNV 300735Z AUTO 00000KT 5SM BR BKN085 16/15 A3010 RMK AO2 T01560150 RJCH 300700Z 10013KT 9999 FEW025 23/16 Q1013 RJCK 300700Z 19009KT 9999 FEW020 19/15 Q1015 RJBT 300700Z 36003KT 340V040 8000 FEW000 SCT007 BKN015 22/20 Q1010 RJDC 300700Z 25009KT 9999 FEW025 BKN/// 27/23 Q1009 RJCM 300700Z 07006KT 9999 FEW030 20/05 Q1015 LLOV 300650Z 36004KT CAVOK 28/12 Q1013 RJCN 300700Z 07006KT CAVOK 19/11 Q1015 SADF 300700Z 14003KT CAVOK 15/14 Q1012 SACO 300700Z 25004KT CAVOK 12/09 Q1013 KUOX 300735Z AUTO 15007KT 10SM CLR 21/19 A3005 RMK AO2 PWINO PNO KTYQ 300735Z AUTO 00000KT 7SM SCT120 19/17 A3005 RMK AO2 T01940173 FQCH 300700Z 00000KT 9999 FEW015 19/10 Q1024 KTYR 300653Z 19009KT 10SM CLR 26/18 A2999 RMK AO2 SLP148 T02610178 FQBR 291400Z 07016KT 9999 BKN018 26/22 Q1015 RJEB 300700Z 10005KT 9999 FEW050 BKN120 18/12 Q1015 KTYS 300653Z 00000KT 10SM SCT065 OVC150 22/18 A3011 RMK AO2 SLP185 T02170183 $ RJEC 300700Z 29005KT 9999 FEW020 BKN045 BKN090 23/15 Q1014 KVGT 300653Z 25008KT 10SM CLR 34/03 A2982 RMK AO2 SLP079 T03390033 RJCW 300700Z 08008KT CAVOK 20/11 Q1015 KVIH 300653Z AUTO 19005KT 10SM CLR 18/18 A3002 RMK AO2 SLP154 T01830178 $ KTZR 300715Z AUTO 20007KT 10SM -RA SCT050 BKN075 OVC090 20/19 A3008 RMK AO2 LTG DSNT SW AND W P0001 T01970186 RJDT 300700Z VRB02KT 9000 FEW020 BKN/// 25/21 Q1010 MDJB 292300Z 00000KT 9999 FEW016CB SCT018 SCT070 BKN300 26/23 Q1015 CB/NE/E/SE/NW/N LLSD 300650Z 21009KT 180V240 9999 SCT030 29/22 Q1010 RJFF 300730Z 33006KT 9999 FEW020 SCT120 BKN/// 27/21 Q1009 RMK 1CU020 3AC120 A2981 KUSE 300735Z AUTO 16005KT 3SM BR FEW032 BKN065 OVC075 18/18 A3004 RMK AO2 RJFG 300700Z 28004KT 9999 FEW015 SCT170 BKN/// 26/23 Q1011 KVJI 300715Z AUTO 00000KT 10SM CLR 20/16 A3018 RMK AO2 T01950162 RJFK 300700Z 25003KT 210V280 9999 -RA FEW004 SCT080 BKN100 24/22 Q1012 KUTA 300735Z AUTO 12004KT 10SM CLR 23/21 A3001 RMK AO2 TSNO KY19 300715Z AUTO 19005KT 10SM CLR 20/17 A2980 RMK AO2 RJFM 300700Z 13004KT 9999 -RA FEW010 SCT030 BKN140 26/23 Q1010 KWAL 300654Z AUTO 00000KT 10SM CLR 18/18 A3011 RMK AO2 SLP194 T01830178 RJFO 300700Z 09004KT 9999 FEW020 BKN/// 26/22 Q1009 KY23 300715Z AUTO 12003KT 7SM CLR A3003 RMK AO2 RJGG 300730Z 14007KT 9999 FEW010 BKN060 BKN180 26/22 Q1009 NOSIG SAEZ 300700Z 00000KT 9000 NSC 12/10 Q1013 RJFR 300700Z 32008KT 9999 FEW020 SCT140 BKN/// 27/24 Q1009 RJFS 300700Z 21005KT 9999 FEW020 BKN/// 27/22 Q1009 RJFT 300700Z 23008KT 9999 FEW020 SCT040 BKN090 26/22 Q1011 RJFU 300700Z 23004KT 9999 FEW020 SCT035 BKN/// 27/23 Q1009 EYPA 300720Z 22006KT 190V260 9999 SCT017 BKN160 18/14 Q1022 KVLD 300653Z AUTO 00000KT 10SM CLR 23/22 A3003 RMK AO2 SLP176 T02280222 RJFY 292136Z 25006KT 8000 -SHRA BR FEW001 SCT012 BKN025 23/22 Q1010 RETS RMK 2ST001 4CU012 6CU025 A2984 3000E-S KUTS 300653Z AUTO 20003KT 10SM CLR 24/18 A3001 RMK AO2 SLP156 T02440183 KVKS 300735Z AUTO 00000KT 10SM FEW060 20/19 A3000 RMK A01 KUVA 300715Z AUTO 13005KT 10SM CLR 25/17 A3001 RMK AO2 T02520170 KVLL 300735Z AUTO 00000KT 3SM BR OVC055 20/19 A3006 RMK AO2 T01950190 GGOV 300300Z 04007KT 100V180 9999 SCT005 SCT014TCU 25/24 Q1010 NOSIG KVKY 300735Z AUTO 00000KT 10SM FEW037 FEW055 28/21 A3001 RMK A01 KWDG 300715Z AUTO 36005KT 10SM CLR 18/17 A3000 RMK AO2 MDLR 300300Z 10005KT 9999 FEW018 SCT070 25/23 Q1016 KY50 300724Z AUTO 00000KT M1/4SM FG OVC001 15/15 A3006 RMK AO2 TSNO KY49 300715Z AUTO 20006KT 10SM OVC008 17/17 A2991 RMK AO2 T01740165 KVNC 300715Z AUTO 09011KT 10SM CLR 25/23 A2994 RMK AO2 LMML 300715Z 36008KT 340V040 CAVOK 29/22 Q1020 NOSIG KUUU 300653Z AUTO VRB03KT 10SM FEW070 21/18 A3009 RMK AO2 SLP188 T02110183 KY51 300715Z AUTO 00000KT 10SM BKN016 16/16 A3006 RMK AO1 T01600159 SBAF 300700Z 18001KT CAVOK 18/15 Q1019 RJKA 300700Z 16008KT 9999 FEW015 SCT170 BKN/// 29/24 Q1009 KWDR 300715Z AUTO 00000KT 10SM SCT095 OVC110 22/18 A3015 RMK AO1 LTG DSNT SE KVOA 300735Z AUTO 11011KT 10SM CLR 30/21 A3000 RMK A01 EYSA 300720Z 23008KT CAVOK 15/13 Q1023 SBAN 300700Z 10007KT CAVOK 18/12 Q1021 SBBE 300700Z 08009KT CAVOK 24/21 Q1012 KY63 300733Z AUTO 16010KT 10SM CLR 18/17 A2990 RMK AO2 T01750170 FQIN 291500Z 06009KT 9999 FEW020 26/21 Q1018 SBBH 300700Z 10008KT CAVOK 18/14 Q1022 SBBI 300100Z 18002KT CAVOK 16/07 Q1023 SBAR 300700Z 13009KT 9999 SCT015 25/21 Q1017 SBCA 291719Z 04020KT CAVOK 26/12 Q1021 SBAT 292145Z 00000KT 9999 FEW040TCU 33/17 Q1011 SBCB 292100Z 080//KT CAVOK 23/17 Q1021 SBAU 292200Z 17006KT CAVOK 27/06 Q1017 SBCC 292000Z 09011KT 9999 FEW020 34/14 Q1012 KVOK 300704Z AUTO 00000KT 10SM OVC021 17/17 A3005 RMK AO2 DZE04 KY70 300734Z AUTO 11003KT 2SM DZ SCT003 OVC021 18/18 A3002 RMK AO2 T01800180 KVPC 300653Z AUTO 00000KT 10SM OVC100 21/19 A3012 RMK AO2 SLP185 T02110189 KUXL 300735Z AUTO 00000KT 10SM CLR 22/21 A3000 RMK AO2 T02150211 MDPC 300700Z 12005KT 9999 FEW018 28/25 Q1015 SBAX 291300Z 12009KT CAVOK 23/14 Q1026 SBCF 300700Z 14005KT CAVOK 15/15 Q1022 SBCG 300700Z 11010KT 050V130 CAVOK 21/10 Q1016 KUYF 300735Z AUTO 25005KT 10SM BKN110 17/17 A3007 RMK AO2 SBCH 300300Z 07006KT CAVOK 18/11 Q1020 SBBQ 292300Z 11004KT CAVOK 16/14 Q1026 KVNY 300651Z AUTO 12004KT 10SM CLR 27/17 A2986 RMK AO2 SLP100 T02670167 SBBR 300700Z 00000KT CAVOK 15/12 Q1021 SBCJ 300130Z 06002KT CAVOK 21/20 Q1018 KUZA 300654Z AUTO 01003KT 9SM FEW120 19/17 A3014 RMK AO2 SLP195 T01940172 SBBU 300700Z 12008KT CAVOK 19/12 Q1019 SBCM 292045Z 00000KT CAVOK 25/17 Q1015 FPST 300700Z 19004KT 9999 FEW020 BKN110 24/21 Q1016 NOSIG SBBV 300700Z 10002KT 9999 FEW020 SCT080 24/21 Q1012 SBBW 292200Z 06010KT 9999 FEW025 30/15 Q1015 SAME 300700Z 18009KT CAVOK 18/02 Q1012 SBCO 300300Z 00000KT 3000 BR NSC 14/13 Q1015 SBCP 300200Z 00000KT CAVOK 20/18 Q1023 MDPP 300600Z 00000KT 9999 SCT018 SCT300 26/25 Q1015 SBCR 300000Z 17004KT CAVOK 27/16 Q1013 SBCT 300700Z 12002KT 8000 NSC 09/08 Q1022 KVPS 300655Z 04005KT 10SM CLR 23/20 A3003 RMK AO2A SLP175 T02260201 $ KVRB 300653Z 02004KT 10SM SCT025 BKN038 BKN055 26/24 A2997 RMK AO2 RAB18E51 SLP148 P0004 T02610239 FQMA 300700Z 01007KT 9999 BKN020 23/20 Q1021 NOSIG SBDN 300700Z 12012KT CAVOK 19/10 Q1017 RJNG 300415Z 18007KT 9999 -SHRA FEW010 SCT015 BKN025 25/24 Q1010 RMK 1CU010 4CU015 6CU025 A2983 SBEG 300700Z 04004KT CAVOK 25/23 Q1011 SBCY 300700Z 26002KT CAVOK 26/17 Q1012 KWHP 292347Z 14007KT 10SM SKC 35/12 A2989 SBCZ 300545Z 27002KT CAVOK 23/23 Q1013 KVQQ 300650Z 10004KT 7SM FEW015 SCT030 BKN060 23/22 A3003 RMK RAB0450E0650 KVPZ 300726Z AUTO 00000KT 1 1/2SM BR OVC003 21/19 A3002 RMK AO2 T02060194 TSNO $ RJOA 300700Z 13003KT 9999 FEW005 SCT050 BKN/// 24/22 Q1011 RJNK 300700Z 05005KT 9999 -RA FEW003 BKN005 BKN008 23/21 Q1009 RJOB 300700Z 36003KT 300V050 9999 FEW015 SCT030 BKN050 25/20 Q1010 EYVI 300720Z 24005KT 200V270 9999 NFEW010 BKN140 16/12 Q1024 NOSIG RJOC 300700Z 09009KT 9999 FEW020 BKN/// 26/20 Q1010 KVQT 300735Z AUTO 16010KT 10SM CLR 29/22 A2999 RMK A01 SAOC 300700Z 27002KT CAVOK 13/11 Q1012 MDSD 300700Z 03005KT 9999 FEW016CB SCT018 BKN300 25/23 Q1014 CB/NE/SW RJOF 300650Z 20008KT 9999 FEW030 BKN150 BKN200 27/23 Q1009 RMK 2CU030 5AC150 A2982 KVSF 300654Z AUTO 00000KT 10SM CLR 16/14 A3008 RMK AO2 SLP184 T01560144 KWJF 300656Z 26009KT 10SM CLR 26/09 A2997 RMK AO2 SLP120 T02610094 RJOH 300700Z 06008KT 9999 FEW015 SCT130 BKN180 24/18 Q1011 SBFI 300700Z 10006KT CAVOK 16/13 Q1016 RJOI 300655Z 18006KT 9999 BKN050 OVC100 27/23 A2983 RMK SLP100 T02720233 SBES 292100Z 07011KT CAVOK 21/15 Q1021 RJNS 300700Z 28007KT 9999 -SHRA FEW000 SCT030 BKN100 25/24 Q1010 SANT 300700Z 36008KT CAVOK 18/11 Q1008 RJOK 300700Z 18003KT 150V250 9999 FEW015 SCT120 BKN/// 26/23 Q1009 RJNT 300729Z VRB02KT 3500 -SHRA BR FEW003 SCT005 BKN009 22/21 Q1010 RMK 1ST003 3ST005 5CU009 A2984 KVTA 300715Z AUTO 27006KT 3SM RA BR BKN042 BKN070 OVC100 20/18 A3008 RMK AO2 P0016 T02000183 SBFL 300700Z 31007KT CAVOK 18/16 Q1016 RJOM 300700Z 23004KT 9999 FEW020 SCT120 BKN180 25/22 Q1009 SBFN 292200Z 13012KT 9999 FEW019 26/23 Q1016 RJNW 300700Z 03004KT 310V070 9999 -SHRA FEW008 SCT010 BKN015 21/20 Q1011 LOAN 300700Z 13008KT 40KM SCT300CI RMK SCT RJOO 300700Z 21005KT 160V250 9999 VCSH FEW010 SCT030 BKN080 27/22 Q1009 RJOP 300247Z 15008KT 8000 -SHRA FEW005 SCT015 BKN025 24/23 Q1009 RMK 2ST005 4CU015 5CU025 A2982 RJNY 300528Z 22003KT 130V260 9999 -SHRA FEW004 SCT007 BKN020 24/23 Q1010 RETS RMK 1ST004 4ST007 6CU020 A2985 1ST004 N 4ST007 ALL QUAD FQNP 300700Z 03002KT CAVOK 24/15 Q1020 RJOR 300700Z 06003KT 9999 FEW015 SCT025 BKN045 23/20 Q1010 RJOS 300219Z 15008KT 8000 -SHRA SCT005 BKN030 BKN080 24/23 Q1009 RMK 3ST005 5CU030 7AC080 A2982 SBFS 291900Z /////KT 9999 SCT015 ///// Q//// KVTI 300715Z AUTO 00000KT 3/4SM BR OVC001 15/14 A3004 RMK AO2 T01460138 RJOT 300700Z 26006KT 9999 FEW015 SCT025 BKN050 25/22 Q1010 VYMD 300630Z 18007G17KT 7000 BKN020 FEW025CB 34/24 Q1006 SBGL 300700Z 10002KT CAVOK 18/16 Q1019 MDST 300700Z VRB03KT 9999 FEW017CB FEW019 SSCT080 23/22 Q1015 CB/SE SBGM 292300Z 12002KT 9999 SCT027 29/24 Q1011 FQPB 300700Z 16004KT 9999 BKN020 26/21 Q1020 LOAV 300700Z 21004KT 40KM SCT300CI 23/16 RMK SCT RJOW 300700Z 34004KT 290V050 9999 FEW008 BKN/// 25/24 Q1010 KVTN 300652Z AUTO 23010KT 10SM CLR 21/14 A2998 RMK AO2 SLP127 T02060144 SBGO 300700Z 15002KT CAVOK 22/12 Q1019 RJOY 300700Z 26005KT 9999 VCSH FEW008 SCT020 BKN030 26/22 Q1009 RJOZ 291619Z 35004KT 9999 FEW010 SCT015 BKN025 23/22 Q1008 RMK 2ST010 4CU015 5CU025 A2978 KVTP 300732Z AUTO 20008KT 170V280 10SM CLR 11/03 A3052 RMK AO2 SBFZ 300700Z 13010KT 9999 FEW020 24/21 Q1015 KXBP 300735Z AUTO 00000KT 10SM CLR 20/18 A2999 RMK AO2 T01990179 SBGR 300700Z 08004KT CAVOK 14/14 Q1022 KVUJ 300715Z AUTO 00000KT 10SM CLR 19/18 A3018 RMK AO2 LTG DSNT SE SARC 300700Z 05004KT 010V100 CAVOK 20/14 Q1011 KWMC 300556Z AUTO 27015G20KT 10SM CLR 21/06 A3001 RMK AO2 SLP107 T02110056 10300 20211 51019 SBGW 292300Z 05003KT 360V080 CAVOK 20/13 Q1022 SARE 300700Z 05005KT CAVOK 19/15 Q1011 SARF 300700Z 05010KT CAVOK 21/14 Q1012 KVUO 300653Z AUTO 16007G17KT 10SM OVC049 19/13 A2981 RMK AO2 RAB03E12B41E53 SLP093 P0000 T01890128 SBIH 292100Z 12004KT 9999 FEW027TCU 33/22 Q1008 KVVG 300715Z AUTO 05004KT 10SM 23/22 A2988 RMK A01 SARI 300700Z 05005KT CAVOK 14/14 Q1017 RJSA 300700Z 03003KT 350V070 9999 FEW015 SCT025 BKN035 23/18 Q1012 SASA 300700Z 23003KT CAVOK 12/06 Q1014 SBHT 300245Z 00000KT CAVOK 23/23 Q1014 RKJB 300700Z 28005KT 250V310 9999 FEW020 SCT180 27/23 Q1009 NOSIG SBIL 300700Z 22004KT 9999 SCT025 22/21 Q1019 RJSC 300700Z 34006KT 8000 -RA FEW003 SCT025 BKN035 19/18 Q1012 SARL 300700Z 05004KT CAVOK 17/15 Q1013 SBJF 300146Z 03003KT CAVOK 16/15 Q1025 RJSF 300700Z 34006KT 1500 R01/P1800N RA BCFG BR SCT002 BKN003 BKN004 18/18 Q1013 SBIP 292017Z 02005KT 9999 FEW035 BKN050 26/16 Q1020 SARP 300700Z 05004KT CAVOK 19/14 Q1015 RJSH 292236Z VRB02KT 5000 BR FEW004 SCT020 BKN200 19/18 Q1014 RMK 1ST004 3SC020 A2994 RJSI 300700Z 21003KT 170V290 9999 FEW008 SCT015 BKN030 20/17 Q1013 SASJ 300700Z 32008KT CAVOK 15/08 Q1012 SCBA 300700Z AUTO 29017KT CAVOK 02/M02 Q1007 RJSK 300700Z 14005KT 090V170 9999 -RA FEW010 SCT020 BKN110 22/18 Q1012 RKJK 300658Z AUTO 29010KT 10SM CLR 29/19 A2981 RMK AO2 SLP099 T02850192 VISNO RWY18 CHINO RWY18 $ RJTC 300712Z 01005KT 2500 -RA BR SCT003 BKN005 BKN008 21/19 Q1011 RMK 3ST003 5ST005 7ST008 A2988 RJTE 292311Z 07002KT 8000 -RA FEW006 SCT012 BKN040 22/19 Q1012 RMK 1ST006 4SC012 7SC040 A2991 KVVV 300721Z AUTO 14004KT 7SM CLR 17/15 A2991 RMK AO2 RJSN 300700Z 04006KT 9999 VCSH FEW010 SCT035 BKN040 23/20 Q1010 RJSO 291737Z 02009KT 9999 FEW008 SCT010 BKN015 19/17 Q1013 RMK 1ST008 4ST010 7SC015 A2994 RJTF 300720Z 01003KT 340V040 2500 -SHRA BR FEW004 SCT006 BKN008 21/21 Q1011 RMK 1ST004 3ST006 6ST008 A2987 SBKG 300700Z 10004KT 5000 BR SCT015 BKN090 19/19 Q1019 SCAP 300700Z AUTO VRB01KT //// // OVC014 04/04 Q1019 SBJP 300700Z 19004KT 160V220 9999 BKN021 22/21 Q1017 SBIZ 300300Z 00000KT CAVOK 27/21 Q1013 SBJR 300100Z 00000KT CAVOK 18/17 Q1021 RJTI 300700Z 06005KT 9999 -SHRA FEW010 BKN015 22/21 Q1011 RJSR 300700Z 11004KT 9999 FEW015 SCT030 BKN/// 23/20 Q1012 SCAR 300700Z 09005KT 9999 OVC019 16/12 Q1013 RJSS 300720Z 08009KT 8000 -RA FEW006 SCT009 BKN025 20/19 Q1012 RMK 1ST006 3ST009 7SC025 A2990 SBLB 292100Z 12007KT CAVOK 26/14 Q1022 W///S2 SCAT 300700Z AUTO 31002KT 9000 // ///013 13/10 Q1013 RJTL 300649Z 07004KT 030V090 6000 -RA FEW003 BKN006 BKN010 21/20 Q1011 RMK 1ST003 5ST006 7ST010 A2987 SBJU 300700Z 18006KT 9999 FEW020 25/19 Q1019 SBJV 300225Z 28001KT CAVOK 16/16 Q1019 KVWU 300728Z AUTO 18003KT 10SM CLR 18/17 A2986 RMK AO2 RJTO 300700Z 22003KT 200V260 9999 -SHRA FEW015 SCT030 BKN100 24/24 Q1010 SCCF 300700Z 11019KT CAVOK 07/M20 Q1024 RJSY 300700Z 07014KT 9999 FEW004 SCT020 BKN050 20/17 Q1011 SBKP 300700Z 11011KT CAVOK 17/12 Q1020 SCCH 292200Z 19004KT 9999 BKN020 OVC070 16/14 Q1016 SCCI 300700Z 25013KT 9999 FEW040 SCT080 04/03 Q0989 NOSIG SBMA 300700Z 00000KT CAVOK 23/23 Q1012 SCDA 300700Z 01004KT 9999 OVC021 17/11 Q1013 RJTT 300730Z 05008KT 9999 -SHRA FEW007 SCT009 BKN012 23/21 Q1010 TEMPO FEW005 BKN008 RMK 1ST007 3ST009 7CU012 A2984 RJTU 300135Z 01004KT 4000 -RA BR FEW006 SCT010 BKN015 21/18 Q1014 RMK 1ST006 3ST010 6SC015 A2995 SAVC 300700Z 27027G39KT CAVOK 07/M06 Q1003 SBME 300700Z 05010KT CAVOK 20/18 Q1019 SBLO 300700Z 20003KT CAVOK 14/10 Q1019 SBMG 300200Z 03008KT CAVOK 21/05 Q1019 SBLP 292045Z 14009KT 9999 FEW030 34/11 Q1016 RJTY 300729Z AUTO 03004KT 1 3/4SM -RA BR OVC004 21/21 A2991 RMK AO2 VIS 1 3/4V2 1/2 DZB05E28RAB28 SBLS 300100Z 17005KT CAVOK 19/15 Q1024 SBMK 300400Z 17004KT CAVOK 20/14 Q1021 KVYS 300715Z AUTO 03004KT 4SM BR SCT007 OVC044 19/18 A3004 RMK AO2 T01920183 SBML 292200Z 18004KT CAVOK 26/15 Q1020 KWRB 300658Z AUTO 00000KT 10SM SCT020 BKN120 22/21 A3008 RMK AO2 SLP186 T02210208 FQTT 300700Z 16003KT 5000 HZ NSC 24/17 Q1020 SAWE 300400Z 29005KT 100FG FEW014 01/01 Q0985 SBMN 300700Z 09003KT CAVOK 26/23 Q1011 SBNF 300300Z 29004KT 9999 FEW011 18/18 Q1019 SBMO 300700Z 12002KT 9999 SCT018 SCT070 23/21 Q1018 SCCY 300000Z 27007G17KT 9999 BKN030 04/M02 Q1005 SAWG 300700Z 25010KT 9999 SCT030 BKN080 04/02 Q0989 SAWH 300700Z 36004KT 9999 SCT014 SCT018 BKN090 02/00 Q0986 SBMQ 300700Z 03006KT CAVOK 26/24 Q1012 LOIH 300700Z 00000KT 35KM SKC 21/18 Q1019 KXIH 300735Z AUTO 19007KT 10SM 28/18 A2998 RMK A01 SBMS 292145Z 04011KT CAVOK 28/21 Q1014 KWRI 300658Z AUTO 22002KT 10SM CLR 18/17 A3008 RMK AO2 SLP185 T01800165 $ SCFA 300700Z 00000KT 9999 BKN016 15/11 Q1012 NOSIG SBMT 300200Z 13004KT CAVOK 17/14 Q1023 SCEL 300700Z 00000KT 7000 NSC 09/06 Q1014 NOSIG KWRL 300653Z AUTO 00000KT 10SM CLR 19/06 A2986 RMK AO2 SLP059 T01940056 403670094 FQVL 300700Z 07006KT 020V110 9999 SCT020 24/19 Q1021 SBOI 292000Z 12006KT 9999 SCT030 SCT100 31/22 Q1012 SBPA 300700Z 00000KT 4000 BR NSC 14/13 Q1015 SBPB 292145Z 04013KT 9999 FEW017 27/23 Q1012 SBNT 300700Z 16006KT 9999 FEW023 23/20 Q1016 SBPC 292200Z 00000KT CAVOK 16/11 Q1024 RKPC 300700Z 06006KT 9999 SCT025 OVC120 25/20 Q1010 NOSIG SCFM 291700Z 35007KT 9999 BKN020 OVC080 07/04 Q0984 SCGE 292100Z 28014KT 9999 FEW015 BKN090 OVC200 16/11 Q1016 SBPF 291900Z 35014KT CAVOK 24/15 Q1019 RKNY 300700Z 09004KT 050V120 7000 SCT025 BKN120 23/20 Q1010 NOSIG SBPJ 300700Z 18003KT 5000 FU NSC 25/16 Q1013 SBPK 291915Z 31011KT CAVOK 29/10 Q1012 LPBJ 300700Z 10005KT CAVOK 21/17 Q1013 RKPK 300700Z 19009KT 4800 BR NSC 27/21 Q1010 NOSIG SCFT 300700Z AUTO VRB02KT 8000 RA ///026 03/02 Q1014 MGCB 292300Z 02004KT 9999 SCT016 SCT200 23/18 QFE869.9 KWST 300653Z AUTO 00000KT 10SM FEW070 17/16 A3010 RMK AO2 SLP191 T01720161 $ SBPL 300700Z 14007KT CAVOK 23/18 Q1018 SBPP 292200Z 03004KT CAVOK 24/10 Q1018 SBPR 292047Z 10011KT CAVOK 24/15 Q1023 LPAZ 300730Z 04006KT 9999 FEW025 18/12 Q1018 SBPS 300700Z 24004KT 6000 -RA SCT006 BKN016 OVC050 21/20 Q1020 SBRB 300700Z 30002KT CAVOK 23/22 Q1012 SCIC 300700Z AUTO 16005KT 1300 R/////// BR BKN002 OVC004 11/11 Q1014 SAZM 300600Z 27003KT CAVOK 13/04 Q1012 SBPV 300700Z 00000KT 5000 FU NSC 23/21 Q1011 KXLL 300735Z AUTO 00000KT 10SM CLR 19/17 A3011 RMK AO2 SAZN 300700Z 32006KT CAVOK 09/05 Q1014 SCIE 300700Z 13003KT 2000 BR OVC003 12/11 Q1016 SBRF 300700Z 02004KT 9999 BKN020 OVC050 22/21 Q1016 MGCP 291900Z 22006KT 9999 TS FEW018 FEW024CB SCT200 33/27 QFE 1005.1 CB/TS N/NNW CB E SCGZ 291800Z 30004KT 9999 FEW036 SCT100 06/02 Q0983 SAZS 300700Z 00000KT 7000 RA BKN020 02/00 Q1014 KWVI 300653Z AUTO 00000KT 10SM CLR 17/14 A3000 RMK AO2 SLP159 T01720139 SBRJ 300700Z 33003KT CAVOK 18/17 Q1019 LPCS 300730Z 09002KT 050V120 9999 FEW024 24/17 Q1012 KXNA 300653Z AUTO 01003KT 8SM BKN110 22/22 A3000 RMK AO2 SLP142 T02220217 SBSC 300700Z 22003KT CAVOK 17/17 Q1021 FSIA 300700Z 16016KT 9999 -SHRA FEW014CB BKN017 BKN080 27/25 Q1013 TEMPO VIS 5000 SBQV 300200Z 12009KT 9999 SCT010 18/16 Q1025 KWVL 300735Z AUTO 00000KT 10SM BKN055 BKN110 16/14 A3001 RMK AO1 KWWD 300735Z AUTO 00000KT 10SM BKN060 19/17 A3012 RMK AO1 SBSG 300700Z 22004KT 9999 FEW020 20/20 Q1016 RKSG 300658Z 01002KT 5SM HZ FEW050 30/14 A2981 RMK AO2A SLP097 T02950142 $ SCIP 300700Z 11005KT 060V150 9999 SCT020 14/07 Q1024 NOSIG SBRP 300700Z 10006KT CAVOK 16/10 Q1018 SCIR 291800Z 33007KT 0100 FG OVC002 14/13 Q1016 RKSI 300730Z 30010KT 9999 FEW030 27/17 Q1010 NOSIG SBTA 300300Z 00000KT 8000 NSC 14/13 Q1022 SBSJ 300700Z 00000KT 8000 SCT015 17/15 Q1021 KXMR 300718Z AUTO 07007KT 10SM CLR 25/24 A2998 RMK AO2 RAB0658E01DZB07E10RAB10 SBTC 292020Z 10004KT 9999 FEW020 SCT080 28/22 Q1019 SBSL 300700Z 08011KT 9999 SCT015 SCT080 26/20 Q1013 SBSM 300300Z 36010KT CAVOK 24/15 Q1015 SBTE 300700Z 00000KT CAVOK 24/21 Q1013 SBSN 300700Z 09008KT 9999 FEW020 BKN100 27/24 Q1011 SBTF 292245Z 02003KT 9999 TS FEW018 SCT030CB OVC100 27/26 Q1010 SCJO 292200Z 26005KT 9999 SCT035 SCT200 12/06 Q1016 RKSO 300658Z 26007KT 7SM FEW030 30/18 A2979 RMK AO2A SLP090 T02970179 SBSP 300700Z AUTO 06005KT 010V110 CAVOK 17/13 Q1022 SBSR 300700Z 11002KT CAVOK 20/09 Q1019 SBUA 292300Z 23001KT CAVOK 26/24 Q1010 RKSS 300700Z 27009KT 9999 SCT030 29/18 Q1009 NOSIG KWWR 300735Z AUTO 09003KT 10SM CLR 16/15 A3009 RMK AO2 MGES 300000Z 03006KT 9999 FEW018TCU FEW025CB 25/20 QFE909.4 FEW200 CB NNE/NE TCU ESE/S/SSW SBST 292300Z 00000KT 9999 SCT024 18/16 Q1020 LPFL 291800Z 01006KT 340V040 9999 FEW030 21/11 Q1019 SBSV 300700Z 09006KT 9999 SCT017 FEW020TCU 24/20 Q1018 RKTN 300700Z 13005KT 9999 FEW030 BKN200 28/18 Q1009 NOSIG SBUF 292145Z 13011KT CAVOK 28/17 Q1018 SBUG 292200Z 04006KT CAVOK 23/16 Q1012 LPFR 300730Z 09009KT CAVOK 25/20 Q1012 SBTT 292300Z 22001KT CAVOK ///// Q1010 SBUL 300700Z 06009KT CAVOK 19/14 Q1021 RKTU 300700Z 28004KT 9999 FEW030 30/13 Q1009 NOSIG VYYY 300700Z 19012KT 4000 -RA BKN014 FEW018CB OVC100 26/26 Q1009 SBVH 292200Z 11004KT CAVOK 29/19 Q1015 SBUR 300700Z 01007KT CAVOK 21/14 Q1020 SCMK 291600Z 29012KT 9999 FEW010 11/04 Q1007 KWYS 300725Z AUTO 36007KT 10SM CLR 12/10 A3011 RMK AO2 MGGT 300700Z 36010KT 9999 FEW015 SCT200 19/16 Q1025 A3027 KXPY 300735Z AUTO 00000KT 10SM CLR 27/20 A3001 RMK A01 YABA 300730Z AUTO 25009KT 9999 // SCT047 BKN056 OVC064 15/04 Q1018 LPHR 300730Z 04009KT 9999 BKN040 19/12 Q1019 KXSA 300735Z AUTO 00000KT 10SM CLR 18/16 A3012 RMK AO2 T01830159 SBVT 300700Z 30003KT 9999 SCT020 OVC026 19/17 Q1021 MGHT 300700Z 00000KT CAVOK 14/13 QFE819.5 OVC200 WSAP 300700Z 20014KT 9999 FEW020TCU BKN300 32/23 Q1010 KYIP 300723Z AUTO 00000KT 4SM HZ FEW065 OVC080 21/18 A3005 RMK AO2 T02060178 TSNO MHAM 300000Z 18016KT 9999 FEW032TCU 33/26 TCU N E SCON 300700Z AUTO VRB02KT 9999 ///033 07/06 Q1015 LPLA 300700Z /////KT 9999 FEW023 SCT040 17/15 Q1020 MHCA 300600Z 06002KT 9999 FEW030 24/22 Q1013 LQBK 300700Z 36003KT CAVOK 23/19 Q1022 NOSIG KYKM 300653Z AUTO 19015G21KT 10SM CLR 19/09 A2978 RMK AO2 SLP077 T01890089 KYKN 300735Z AUTO 14006KT 3SM SCT008 17/16 A2997 RMK AO1 SCPQ 300700Z AUTO 01003KT 340V040 9999 -RA BKN034 06/05 Q1015 MHCH 300000Z 03010KT 9999 FEW032TCU SCT080 35/20 TCU N NW SBYS 300200Z 19002KT CAVOK 15/10 Q1021 LPMA 300730Z 23002KT 9999 FEW015 24/19 Q1015 SCRD 292200Z 21013KT CAVOK 22/13 Q1014 SCQP 300700Z 00000KT CAVOK 09/09 Q1015 KXVG 300736Z AUTO 19008KT 164V224 10SM OVC006 18/17 A2992 RMK AO2 SCRM 300700Z 13022KT 9999 BKN010 M09/M10 Q0982 MGMM 300700Z 00000KT CAVOK 23/22 Q1014 A2994 SCSE 292300Z 24004KT 9999 FEW015 13/11 Q1012 LOWG 300720Z VRB02KT CAVOK 21/17 Q1022 NOSIG KYNG 300729Z 28003KT 2SM TSRA SCT036CB OVC060 19/18 A3009 RMK AO2 RAB06 TSB24 OCNL LTGICCC W TS W MOV NE P0007 T01940183 LOWI 300720Z 27005KT 240V310 CAVOK 22/15 Q1023 NOSIG SCTB 292200Z 25005KT CAVOK 23/07 Q1016 MGMT 300000Z 00000KT 9999 FEW014TCU BKN200 31/25 QFE1006.8 TCU E LOWK 300720Z VRB01KT CAVOK 21/16 Q1024 NOSIG SEAM 292300Z 15004KT 9999 VCSH BKN023 SCT100 14/09 Q1028 LOWL 300720Z 09003KT 040V170 CAVOK 24/16 Q1020 NOSIG SCTE 300700Z 00000KT 5000 -DZ OVC004 07/07 Q1016 NOSIG SCSN 300700Z AUTO 11002KT //// R/////// // ///////// 10/10 Q1013 SECA 292300Z 07012KT 050V120 9999 BKN040 26/13 Q1016 LOWS 300720Z 15008KT CAVOK 24/12 Q1021 NOSIG MGPB 300700Z 00000KT 9999 FEW018 25/25 Q1012 A2988 FEW200 LPPD 300730Z 08006KT 050V120 9999 FEW020 BKN035 18/13 Q1018 SCTN 300710Z AUTO 01010KT 9999 RA FEW016 SCT019 OVC033 07/05 Q1015 LOWW 300720Z 14016KT CAVOK 25/18 Q1020 NOSIG LOWZ 300700Z 00000KT 40KM FEW300CI 17/14 Q1024 RMK FEW LOXT 300650Z VRB02KT 65KM SCT300CI 25/18 Q1019 RMK SCT SCVD 300700Z 00000KT 9999 BKN031 OVC100 08/08 Q1015 SECO 292300Z 31001KT 9999 FEW026 BKN100 26/23 Q1013 LOXZ 300650Z VRB01KT 50KM SCT350CI 16/12 Q1025 RMK COTRA/SCT LPPR 300730Z VRB02KT 0500 R17/0650 FG VV001 18/18 Q1012 LPPS 300730Z 31004KT 9999 SCT010 23/22 Q1015 SECU 300200Z 34006KT 9999 BKN030 141/09 Q1027 LPPT 300730Z 06004KT 360V080 CAVOK 22/18 Q1012 SCVM 300700Z 00000KT CAVOK 13/11 Q1013 YBAF 300730Z AUTO 14006KT 120V200 9999 // NCD 19/10 Q1014 MGQZ 300000Z 05020KT 9999 OVC010 17/12 QFE769.7 MTN E CUB/CL YBAS 300730Z AUTO 11007KT 9999 // NCD 25/M03 Q1018 MGSJ 300700Z 00000KT CAVOK 26/25 Q1011 A2985 FEW080 OVC200 MGRT 300000Z 00000KT 9999 SCT018 BKN090 27/2 Q1012 A2988 PCPN NE/E VOL. STA. MARIA Y SANTIAGUITO EN ACTIVIDAD YBBN 300730Z 27009KT CAVOK 19/03 Q1014 LRBC 300730Z VRB02KT CAVOK 27/17 Q1025 YBCG 300730Z AUTO 17007KT 9999 // SCT079 17/12 Q1014 YBCK 300730Z AUTO 20008KT //// // ////// 22/00 Q1017 YAMB 300730Z AUTO 22005KT 9999 // NCD 20/01 Q1014 LRAR 300730Z 14007KT 110V170 CAVOK 29/16 Q1022 MHLC 300600Z 13002KT 9999 FEW024TCU 24/23 Q1012 A2989 NOSIG LRBM 292200Z AUTO 07003KT 040V100 9999 FEW015/// SCT240/// 22/15 Q1023 YBDG 300730Z AUTO 15010KT 9999 // NCD 11/04 Q1021 MHLE 300000Z 02004KT 9999 FEW024TCU SCT200 21/14 TCU NE S YBCS 300730Z 03007KT 9999 FEW025 SCT037 25/20 Q1014 SEGS 292300Z 03007KT 350V070 9999 FEW016 26/20 Q1011 A2985 LRBS 300730Z 05011KT 010V090 CAVOK 29/17 Q1024 NOSIG YBCV 300730Z AUTO 20007KT 9999 // NCD 19/M01 Q1018 SEGU 300600Z 22009KTCAVOK 22/18 Q1011 NOSIG RMK A2987 LRCK 300730Z 05014KT CAVOK 29/15 Q1022 NOSIG MGTU 300000Z 09006KT 9999 FEW020 BKN090 26/24 LRCL 300730Z 00000KT CAVOK 25/18 Q1025 MHLM 300600Z 01002KT 9999 FEW025 SCT080 27/27 Q1013 A2991 NOSIG YBDV 300730Z AUTO 18005KT //// // ////// 23/M02 Q1019 LRCT 300700Z 14004KT 8000 SCT200 23/16 Q1025 BLU BLU SEJD 292300Z 00000KT 9999 FEW040 BKN100 24/23 Q1015 LRCV 300730Z 10010KT 070V130 CAVOK 27/17 Q1024 LQMO 300700Z VRB02KT CAVOK 25/16 Q1020 ROAH 300730Z 19012KT 9999 SCT019 BKN/// 31/25 Q1008 RMK 3CU019 A2978 BGBW 300650Z AUTO 08004KT 040V100 9999NDV OVC060/// 08/06 Q1007 GMAD 300730Z 23003KT 170V290 8000 SCT010 BKN016 22/19 Q1014 NOSIG MHNO 300000Z 33012KT 9999 SCT040CB 27/22 Q1013 CB NE SW TCU NE SE SW W HZ GMAG 300700Z 32002KT 8000 OVC016 21/20 Q1013 NOSIG FTTA 300700Z 20006KT 9999 SCT020 29/23 Q1016 FTTC 300700Z 20006KT CAVOK 26/22 Q1014 HDAM 300600Z 28012KT CAVOK 39/21 Q1007 YBHI 300730Z AUTO 17009KT 9999 // NCD 14/M01 Q1022 MGZA 300000Z 06006KT 9999 FEW020 FEW028CB 31/20 QFE984.4 FEW200 CB NE/E SEMC 292300Z 19003KT 160V220 9999 FEW013 SCT030 BKN100 19/18 Q1018 FTTJ 300700Z 22005KT CAVOK 26/24 Q1014 NOSIG YBHM 300730Z AUTO 34007KT 9999 // BKN075 OVC090 23/19 Q1014 MHPL 292200Z 36002KT 9999 SCT028TCU 32/25 Q1010 TCU ALL HZ GMAT 300700Z 35005KT 6000 SCT010 BKN016 21/18 Q1014 NOSIG YARG 300730Z AUTO 02008KT 9999 // NCD 32/12 Q1014 BGGH 300650Z AUTO 18002KT 6000NDV -RA OVC003/// 06/06 Q1003 SELT 300700Z 18010KT 9999 SCT030 10/10 Q1030 LRIA 300730Z VRB01KT CAVOK 25/16 Q1025 YARM 300730Z AUTO 28010KT 9999 // NCD 09/02 Q1016 FVBU 300700Z 04007KT 010V070 CAVOK 24/06 Q1026 NOSIG RODN 300659Z AUTO 17009KT 10SM SCT028 30/27 A2980 RMK AO2 FTTY 300700Z 00000KT 3000 HZ 32/21 Q1015 YCBB 300730Z AUTO 22009KT //// // ////// 10/04 Q1018 SEMT 300700Z 19008KT 9999 BKN026 22/21 Q1012 RMK A2989 WSSL 300700Z 17013KT 140V210 9999 FEW020TCU BKN300 33/20 Q1010 RMK 0630Z Q1011 LQSA 300730Z VRB01KT CAVOK 21/15 Q1026 NOSIG SENL 292200Z 12003KT CAVOK 27/21 Q1013 YBKE 300730Z AUTO 22007KT //// // ////// 16/M00 Q1019 MHSC 292358Z 35015KT 9999 FEW050 SCT120 30/20 A2987 RMK A02A SLP073 MHRO 300200Z 02006KT 9999 FEW020 SCT200 29/24 Q1011 A2986 NOSIG YCAR 300730Z AUTO 21012KT 9999 // NCD 23/14 Q1018 YCAS 300730Z AUTO 11009KT //// // ////// 16/10 Q1014 WSSS 300730Z 21006KT 170V260 9999 FEW017 FEW018TCU BKN300 32/22 Q1010 NOSIG FVCZ 300600Z 09005KT 3000 HZ NSC 21/18 Q1025 FVFA 300600Z 09004KT 050V140 8000 NSC 22/07 Q1022 NOSIG MHTE 300000Z 08002KT 9999 BKN028TCU 32/24 Q1009 TCU ALL HZ YCBP 300730Z AUTO 03010KT //// // SCT092 21/M01 Q1019 MHTG 300700Z 27002KT 9999 FEW028 20/17 Q1018 A3006 NOSIG GMFF 300700Z 19003KT 160V220 9999 SCT033 SCT200 24/14 Q1015 NOSIG YBMA 300730Z AUTO 18010KT 9999 // NCD 27/M03 Q1016 YBKT 300730Z AUTO 19008KT //// // ////// 33/05 Q1013 MHSR 300000Z 36004KT 9999 SCT025CB BKN250 24/18 CB N W NW TCU N SE S WNW HZ YBLN 300730Z AUTO 26007KT //// // ////// 15/04 Q1019 GMFK 300700Z 08007KT 9999 FEW030 SCT080 28/09 Q1024 NOSIG GMFM 300700Z 11006KT CAVOK 26/12 Q1015 NOSIG BGJN 300650Z AUTO 00000KT 9999NDV FEW045/// OVC100/// 05/04 Q1005 GMFO 300600Z VRB01KT 9999 FEW026 SCT230 22/21 Q1017 NOSIG YBNA 300730Z AUTO 20008KT 9999 // NCD 17/13 Q1014 YBLT 300730Z AUTO 20007KT 9999 // BKN030 08/04 Q1022 MHTR 300000Z 08006KT 9999 SCT024TCU BKN250 30/25 TCU SE S SW W HZ YBMK 300730Z AUTO 11008KT 9999 // SCT014 SCT059 BKN066 22/19 Q1014 SERB 292300Z 03012KT 9999 BKN033 SCT100 14/09 Q1028 FVHA 300700Z 08010KT 6000 NSC 23/08 Q1027 NOSIG YCEE 300730Z AUTO 13009KT //// // ////// 14/07 Q1021 SEQM 300700Z 06003KT 9999 SCT030 10/07 Q1025 NOSIG RMK A3028 YCDO 300730Z AUTO 20006KT //// // ////// 09/06 Q1020 BGKK 300650Z AUTO 03002KT 0650NDV FG VV004/// 02/02 Q1015 YCCY 300730Z AUTO 19010KT //// // ////// 29/M03 Q1015 ROIG 300700Z 21014KT 9999 FEW015 BKN190 BKN/// 29/26 Q1007 LQTZ 300700Z VRB02KT CAVOK 22/19 Q1023 SESA 300300Z 22010KT 9999 BKN012 22/19 Q1012 YCDU 300730Z AUTO 05010KT 9999 // NCD 22/04 Q1017 YCEM 300730Z AUTO 20006KT //// // ////// 10/05 Q1022 SESD 292300Z 00000KT 6000 BCFG SCT007 SCT013 OVC100 24/22 Q1010 GLRB 300730Z 00000KT 9999 BKN013 24/23 Q1016 NOSIG SERO 300500Z VRB02KT 9999 VCSH BKN013 23/22 Q1012 YBNS 300730Z AUTO 11005KT 9999 // NCD 10/06 Q1021 YBOK 300730Z AUTO 25013KT 9999 // NCD 14/04 Q1016 YCFL 300730Z AUTO 10007KT //// // ////// 25/20 Q1014 SESM 292300Z 13002KT 9999 BKN050 OVC100 21/19 Q1017 A3005 YAYE 300730Z AUTO 02004KT 350V060 9999 // NCD 28/01 Q1016 LROD 300730Z 10004KT 070V140 CAVOK 27/18 Q1023 YCFS 300730Z AUTO 18010KT 9999 // SCT035 BKN041 BKN077 17/10 Q1015 SGAS 300700Z 05006KT CAVOK 21/12 Q1012 SEST 2912300Z 16010KT 9999 BKN020 23/20 Q1009 A2981 HEBA 300600Z 35010KT CAVOK 28/22 Q1013 NOSIG FVKB 300600Z 00000KT CAVOK 23/13 Q1019 YBPN 300730Z AUTO 25001KT 9999 // OVC028 22/20 Q1014 LSGC 300720Z 07001KT CAVOK 21/14 Q1025 SETN 292300Z 23007KT 9999 -DZ BKN 2600FT OVC 8000FT 25/23 Q1008 A2979 LSGG 300720Z VRB01KT 9999 FEW070 23/15 Q1022 NOSIG LROP 300730Z 07012KT 040V100 CAVOK 29/17 Q1024 NOSIG YCHK 300730Z AUTO 17011KT 130V260 9999 // NCD 28/01 Q1015 HEAR 300600Z 24006KT CAVOK 29/23 Q1011 NOSIG SETU 292300Z 03006KT 9999 VCSH OVC016 10/09 Q1031 HECA 300730Z 32004KT 6000 BKNT025 27/21 Q1013 NOSIG HEAT 300600Z 34003KT CAVOK 25/19 Q1014 NOSIG HEBL 300600Z 35008KT CAVOK 31/10 Q1011 NOSIG HEAX 300600Z 35011KT 9999 FEW020 29/21 Q1012 NOSIG MHYR 300000Z 09005KT 9999 SCT025TCU 29/19 TCU ALL HZ YBRK 300730Z 19003KT CAVOK 23/12 Q1014 YBRL 300730Z AUTO 05013KT //// // ////// 31/06 Q1013 LSGS 300720Z VRB01KT CAVOK 17/15 Q1023 YBRM 300730Z 27009KT 9999 FEW025 26/18 Q1015 YCIN 300730Z AUTO 31006KT 190V340 //// // SCT069 32/15 Q1012 GMMB 300700Z AUTO 17003KT 130V200 7000NDV NCD 23/23 Q1013 GMMC 300700Z 22006KT 8000 TS SCT016 FEW020CB BKN100 23/21 Q1010 FWCL 300700Z 11010KT 7000 NSC 25/12 Q1023 NOSIG YBSG 300730Z AUTO 27009KT //// // NCD 29/18 Q1012 GMME 300700Z 23010KT 3500 BR BKN005 23/21 Q1012 NOSIG GMMH 300700Z 01017KT 5000 BKN008 20/19 Q1014 NOSIG GMMI 300700Z AUTO VRB01KT //// FEW005/// OVC010/// 21/20 Q1013 NOSIG LRSB 300730Z 08003KT CAVOK 24/16 Q1026 LTAC 300720Z 03016KT CAVOK 23/06 Q1022 NOSIG SGEN 292100Z 04010KT CAVOK 28/13 Q1014 KZZV 300653Z AUTO 31004KT 8SM SCT055 BKN080 20/17 A3009 RMK AO2 SLP179 T02000172 TSNO GMML 300700Z 03010KT 9999 OVC020 22/17 Q1014 NOSIG YBRY 300730Z AUTO 32002KT 9999 // BKN092 26/03 Q1016 YBTH 300730Z AUTO 20008KT 9999 // OVC058 10/04 Q1017 ROMY 300700Z 20012KT 9999 SCT016 BKN/// 29/25 Q1008 LTAF 300720Z VRB03KT 9999 FEW035 32/09 Q1009 NOSIG GMMN 300730Z 23006KT 180V250 6000 SCT006 SCT016 23/21 Q1014 NOSIG LTAG 300720Z 05007KT 9999 FEW035 32/09 Q1010 NOSIG SGES 300700Z 09008KT CAVOK 16/14 Q1015 LTAI 300720Z 36018KT CAVOK 32/02 Q1012 NOSIG YBSU 300730Z AUTO 23009KT 9999 // NCD 18/05 Q1014 YBTL 300730Z AUTO 01006KT 350V050 9999 // SCT125 25/18 Q1013 LTAJ 300720Z 36003KT 330V040 9999 SCT040 29/07 Q1012 NOSIG LTBA 300720Z VRB05KT CAVOK 26/19 Q1021 NOSIG YBUD 300730Z AUTO 21005KT 9999 // SCT062 20/09 Q1014 YCKN 300730Z AUTO 09010KT 9999 // SCT016 25/21 Q1013 LTAL 300650Z VRB03KT CAVOK 21/07 Q1025 LRTC 300730Z 02008KT 350V050 CAVOK 28/14 Q1024 LTBD 291350Z 10008KT CAVOK 36/08 Q1012 LRSM 300730Z AUTO VRB01KT 9999 NCD 29/17 Q1023 FVMV 300600Z 00000KT CAVOK 16/08 Q1024 LTAN 300650Z 01016KT CAVOK 21/04 Q1021 NOSIG LTBF 300650Z 01012KT CAVOK 25/14 Q1020 NOSIG GMMW 300700Z 08005KT 050V110 5000 BR SCT008 BKN015 24/23 Q1015 NOSIG LTAP 300720Z 03011KT CAVOK 24/11 Q1020 NOSIG GMMX 300730Z 22004KT 190V260 8000 NSC 22/19 Q1015 NOSIG BGSF 300650Z AUTO 04006KT 9999NDV - FEW033/// BKN075/// 07/04 Q1005 LTBH 300650Z 02011KT 340V050 CAVOK 26/16 Q1019 LTAR 300650Z 04006KT 330V140 9999 SCT040 18/07 Q1022 GMMZ 300700Z VRB02KT 8000 FEW040 23/13 Q1022 NOSIG LTAS 300650Z 17004KT 070V220 CAVOK 23/14 Q1021 LTCA 300650Z 16004KT 120V210 9999 FEW035 26/08 Q1016 NOSIG LTBJ 300720Z 35015KT CAVOK 30/08 Q1016 NOSIG LTCB 300650Z 35006KT 8000 SCT030 BKN100 25/17 Q1019 LTAT 300720Z 10004KT 040V160 9999 FEW040 25/10 Q1016 NOSIG LTAU 300720Z 01003KT 310V060 9999 SCT040 19/10 Q1020 NOSIG LTCC 300720Z 05004KT 330V120 CAVOK 31/07 Q1012 NOSIG LTCD 300650Z 00000KT 9999 FEW045 23/09 Q1020 NOSIG LRSV 300730Z 15006KT 090V200 CAVOK 24/15 Q1026 LRTM 300730Z VRB02KT CAVOK 24/17 Q1025 LTAW 300650Z 00000KT 9999 SCT034 BKN100 17/11 Q1021 YDBY 300730Z AUTO 34009KT //// // ////// 33/17 Q1013 LTCE 300720Z 09012KT 9999 FEW030 19/07 Q1023 NOSIG LTCF 300650Z VRB02KT CAVOK 18/08 Q1025 LTAY 300650Z 10009KT CAVOK 22/09 Q1020 LTCG 300720Z 29005KT 250V330 9999 FEW035 BKN090 25/19 Q1019 NOSIG LTBQ 300650Z VRB03KT 9999 FEW023 24/19 Q1021 NOSIG LTAZ 300720Z 03012KT 350V070 9999 FEW040 21/09 Q1020 LTCI 300650Z 30006KT 260V320 9999 FEW040 22/10 Q1021 NOSIG LTBR 300720Z VRB02KT CAVOK 23/13 Q1021 NOSIG LRTR 300730Z AUTO VRB03KT NCD 27/16 Q1023 LSMA 300650Z AUTO 00000KT 9999NDV NCD 20/17 Q1023 RMK BLU LTDA 300650Z 07003KT 040V100 9999 FEW035 27/14 Q1010 LTCJ 300720Z 00000KT CAVOK 33/10 Q1011 LTBS 300720Z 02015KT CAVOK 33/07 Q1012 NOSIG YCMM 300730Z AUTO 00000KT //// // ////// 16/08 Q1020 BIAR 300700Z 19003KT CAVOK M02/M03 Q1018 LTCK 300650Z 18005KT 140V230 CAVOK 24/06 Q1019 LTBU 300720Z 02010KT 360V070 CAVOK 30/11 Q1021 LTCL 300650Z 19002KT CAVOK 32/11 Q1012 LSMD 300650Z AUTO VRB02KT 9999NDV NCD 23/16 Q1022 RMK BLU LTCM 300650Z 28007KT 250V310 CAVOK 26/16 Q1020 LSME 300650Z AUTO VRB01KT 9999NDV NCD 22/17 Q1022 RMK BLU BGTL 300658Z AUTO 00000KT 9999 BKN032 OVC050 03/01 A2980 RMK AO2 SLP075 T00290008 LTCN 300650Z 19003KT 9999 FEW035 25/14 Q1013 HEGN 300600Z 33013KT CAVOK 31/14 Q1009 NOSIG LTCO 300650Z 35007KT 9999 FEW035 19/09 Q1022 LTCP 300650Z 04008KT 010V080 CAVOK 32/08 Q1012 LTBY 300650Z 25005KT 220V290 CAVOK 22/08 Q1022 LTBZ 300450Z 05007KT CAVOK 16/09 Q1022 YCMT 300730Z AUTO 24005KT //// // ////// 25/06 Q1015 YCNK 300730Z AUTO 12005KT //// // ////// 14/07 Q1016 LTCR 300650Z 26004KT 170V320 CAVOK 34/08 Q1011 LTCS 300720Z VRB05KT CAVOK 30/07 Q1014 YCNM 300730Z AUTO 21008KT //// // ////// 13/05 Q1018 LTCT 300650Z 36003KT 290V090 CAVOK 24/11 Q1020 YCOE 300730Z AUTO 05010KT //// // ////// 27/18 Q1013 LTCU 300650Z 04017KT 9999 FEW035 27/06 Q1017 LTCV 291450Z 19006KT CAVOK 36/02 Q1009 LSMM 300650Z AUTO VRB01KT 9999NDV FEW081 19/16 Q1023 RMK BLU YBWP 300730Z AUTO 26007KT 9999 // NCD 28/20 Q1012 LSMP 300650Z AUTO VRB02KT 9999NDV NCD 20/17 Q1022 RMK BLU RORS 300700Z 19013KT 9999 FEW015 BKN/// 29/25 Q1008 LSMS 300550Z VRB01KT CAVOK 17/15 Q1023 YCOM 300730Z AUTO 20013KT 9999 // SCT043 04/02 Q1019 YBWW 300730Z AUTO 25011KT 9999 // NCD 14/03 Q1016 LTFC 300720Z VRB04KT CAVOK 23/05 Q1020 YBWX 300730Z AUTO 24013KT //// // ////// 25/15 Q1016 LTFD 300650Z 06018KT CAVOK 28/12 Q1018 YCNY 300730Z AUTO 16007KT //// // ////// 31/M03 Q1014 LTFE 300720Z 05009KT 020V090 CAVOK 32/09 Q1014 NOSIG LTFG 300650Z 05011KT 020V080 CAVOK 33/10 Q1010 LTFH 300650Z 30014KT 9999 SCT036 25/19 Q1019 NOSIG BIEG 300700Z 17005KT CAVOK 00/M01 Q1018 RPLB 300700Z 22009KT 9999 FEW020 BKN080 30/24 Q1008 NOSIG RMK A2977 LTFJ 300720Z 05008KT 010V090 CAVOK 27/19 Q1021 NOSIG GMTA 300700Z VRB02KT 5000 BR SCT006 SCT026 25/23 Q1014 NOSIG RPLC 300705Z 19007KT 7000 -SHRA FEW018CB SCT020 BKN090 29/24 Q1010 RMK A2981 ROTM 300658Z 18010KT 9999 SCT020 BKN050 BKN150 30/25 A2981 RMK SLP078 T03000250 RPLI 300700Z 25010KT 9999 FEW018CB FEW019 BKN290 31/25 Q1008 NOSIG RMK A2977 CB SE AND S FWKI 300700Z 11014KT CAVOK 23/09 Q1024 NOSIG RPLL 300700Z 28010KT 9999 SCT025 BKN100 32/25 Q1008 NOSIG RMK A2977 RPMD 300700Z 18007KT 160V220 9999 FEW016TCU SCT090 BKN290 32/22 Q1008 RMK A2977 TCU SW QUAD FVTL 300600Z 04006KT CAVOK 20/07 Q1026 GMTN 300700Z 06003KT 1000 -DZ BR BKN006 SCT016 24/22 Q1015 NOSIG HEMA 300630Z 34012KT CAVOK 31/18 Q1010 NOSIG GMTT 300730Z 11018KT 8000 SCT016 BKN200 27/21 Q1012 NOSIG HEMM 300600Z 07010KT CAVOK 27/22 Q1014 NOSIG BIHN 291200Z 33016KT 9999 BKN045 OVC060 10/// Q1010 HELX 300600Z 27002KT CAVOK 31/17 Q1011 NOSIG RPMZ 300700Z 16002KT 9999 FEW017CB FEW018 34/27 Q1011 RMK A2985 CB N NCAI 300700Z AUTO 22006KT //// ///// 21/16 Q1014 FVWN 300600Z 09003KT CAVOK 17/06 Q1023 MKJP 300700Z 12018KT 9999 OVC032 30/23 Q1011 MKJS 300700Z VRB02KT 9999 FEW022 27/23 Q1011 YCUN 300730Z AUTO 25007KT //// // ////// 18/10 Q1019 BIIS 291800Z 03005KT CAVOK 07/01 Q1016 LUBL 300730Z 07004KT 020V100 9999 SCT048 24/12 Q1026 YDLQ 300730Z AUTO 21009KT //// // ////// 12/04 Q1021 YCWA 300730Z AUTO 21007KT 170V260 9999 // BKN088 25/02 Q1017 GOGG 300700Z 12006KT 9999 BKN011 BKN130 25/25 Q1012 BIKF 300730Z 00000KT CAVOK 07/04 Q1018 GOGK 300700Z VRB02KT 8000 SCT013 OVC130 25/23 Q1012 HEPS 300600Z 24007KT 2000 BR NSC 27/24 Q1011 NOSIG GOGS 300700Z 18014KT 3000 TSRA SCT013 FEW026CB OVC120 25/24 Q1011 YCWR 300730Z AUTO 23009KT //// // ////// 11/06 Q1019 HESC 300600Z 36008KT CAVOK 26/06 Q1020 NOSIG HESG 300600Z 31009KT CAVOK 29/15 Q1011 NOSIG HESH 300600Z 36014KT CAVOK 32/17 Q1008 NOSIG YDPO 300730Z AUTO 29011KT 9999 // NCD 09/04 Q1022 HESN 300600Z 01004KT CAVOK 31/09 Q1011 NOSIG LSZA 300720Z VRB01KT 9999 FEW060 23/19 Q1023 NOSIG LSZB 300720Z VRB01KT 9999 FEW070 21/19 Q1022 NOSIG LSZC 300720Z AUTO VRB03KT CAVOK 22/17 Q1022 LSZG 300720Z VRB02KT CAVOK 22/18 Q1022 NOSIG LSZH 300720Z 14005KT CAVOK 24/19 Q1022 NOSIG HETR 300700Z 30025KT CAVOK 29/22 Q1009 RPVM 300700Z 25004KT 9999 FEW020 SCT300 32/26 Q1008 RMK A2977 LSZL 300651Z AUTO 00000KT 9999NDV NCD 23/19 Q1023 RMK BLU LSZR 300720Z AUTO VRB02KT CAVOK 23/19 Q1022 LSZS 300720Z 00000KT CAVOK 10/10 Q1031 MMAA 300645Z 34005KT 7SM SCT080 BKN100 OVC300 29/25 A2985 RMK 8/072 FXMM 300700Z 30004KT 9999 SCT035 BKN090 16/04 Q1025 NOSIG CAHR 300700Z AUTO 21005KT 17/14 RMK AO1 SLP149 T01660135 55010 BIRK 300700Z 00000KT CAVOK 07/03 Q1018 GOOD 300700Z 18004KT 9999 FEW012 BKN130 26/24 Q1011 MMAN 300440Z 10007KT 10SM FEW070 26/17 A3005 RMK 8/300 ISOL SC S YFBS 300730Z AUTO 20008KT //// // ////// 09/06 Q1019 GOOG 300600Z 16008KT 8000 NSC 27/23 Q//// MMAS 300445Z 27005KT 10SM SKC 18/08 A3026 MMCB 292343Z 00000KT 8SM SCT020TCU SCT100 BKN200 26/16 A3002 RMK 8/231 HZY LUKK 300730Z 04003KT CAVOK 26/08 Q1025 R08/CLRD65 NOSIG FYGB 300700Z AUTO 02009KT //// // ////// 26/00 Q1023 GOOK 300700Z 10004KT 9999 SCT013 BKN130 26/25 Q1012 RERA YFDF 300730Z AUTO 17004KT 120V240 9999 // NCD 28/03 Q1015 MMCE 292344Z 36007KT 7SM FEW015CB SCT080 BKN300 29/25 A2986 RMK SLP108 57011 964 8/963 CBBC 300722Z AUTO 17006KT 9SM -RA FEW029 SCT046 BKN060 OVC077 12/11 A2952 RMK SLP996 DENSITY ALT 300FT FYGF 300500Z 01006KT //// // ////// 18/00 Q1023 YEML 300730Z AUTO 21008KT 9999 // NCD 23/09 Q1015 MMBT 292340Z 35013KT 5SM BKN040CB BKN200 25/22 A2988 RMK 8/303 VC +TSRA W AND NW HZY MMCL 300341Z 00000KT 10SM BKN090 31/27 A2982 RMK 8/070 MMCM 300147Z 00000KT 7SM SCT020 BKN100 28/24 A2989 RMK 8/520 MMCN 300145Z 22004KT 10SM SCT200 34/22 A2972 RMK 8/001 HZY DSNT CB 1QUAD AND ESE MMCP 300140Z 02010KT 7SM SCT250 29/25 A2985 RMK 8/001 DSNT CB E AND S GOOY 300730Z 11007KT 9999 SCT008 SCT130 27/25 Q1010 TEMPO BKN008 MMCS 300243Z 11012KT 10SM FEW050 SCT080 SCT250 30/14 A3004 RMK SLP046 52007 903 8/462 MMCT 292040Z 09010KT 8SM BKN020 34/24 A2989 RMK 8/400 MSGTX MMMD MMCU 300440Z 36008KT 10SM BKN080 BKN100 24/11 A3016 RMK 8/070 HZY MMCV 292340Z 09017KT 10SM SCT015CB 33/17 A2991 RMK SLP123 57004 910 8/300 PCPN E TCU N MMDO 300243Z 04005KT 10SM SKC 20/03 A3020 RMK SLP088 52016 905 MMCZ 300647Z 05005KT 7SM FEW015 SCT250 25/25 A2991 RMK 8/403 CB LTGIC NE/SE BIVM 292300Z 02007KT CAVOK 09/06 Q1014 MMEP 300140Z 18004KT 6SM SCT012CB BKN030 OVC250 25/22 A2998 RMK 8/307 BINOVC MMES 300240Z VRB02KT 7SM SKC 23/21 A2983 RMK HZ GOSM 300700Z 22004KT CAVOK 27/24 Q1012 GOSP 300700Z 22002KT CAVOK 27/22 Q1011 GOSS 300700Z 19004KT 120V240 9999 SCT010 BKN130 27/24 Q1011 GOTK 300600Z 00000KT 1500 BR BKN008 24/24 Q1013 MMGL 300650Z 00000KT 10SM SKC 16/12 A3016 MMGM 300152Z 00000KT 10SM SCT100 35/28 A2969 RMK 8/070 HZY FYKM 300700Z 06003KT CAVOK 22/09 Q1022 MMIA 300049Z 00000KT 5SM BCFG BKN015CB BKN100 25/23 A2996 RMK 8/960 BCFG ALQDS YERN 300730Z AUTO 27007KT //// // ////// 23/M00 Q1019 GOTT 300700Z 16006KT CAVOK 25/24 Q1013 FYKT 300700Z 23012KT CAVOK 21/06 Q1019 MMHO 300640Z 15006KT 10SM BKN200 34/17 A2985 RMK 8/008 HZY DSNT LTGIC N NCPY 300700Z AUTO 07003KT //// ///// 28/23 Q1011 NCRG 300700Z 24016KT 9999 FEW025 21/13 Q1012 RMK SUSPECT WIND SHEAR ON APPROACH FYML 300200Z AUTO 09004KT //// // ////// 20/00 Q1018 YESP 300730Z AUTO 21015KT 9999 // BKN072 15/11 Q1018 MMIO 300140Z 36010KT 10SM SKC 24/14 A3015 YGBI 300730Z AUTO 04008KT //// // ////// 27/21 Q1013 FYLZ 300700Z AUTO 34010KT //// // ////// 14/10 Q1017 MMIT 300240Z 32010G20KT 7SM SCT025 29/22 A2984 RMK 8/100 TZ CI FYOA 300500Z AUTO 29004KT //// // ////// 17/07 Q1017 YFLI 300730Z AUTO 30008KT 9999 // OVC044 10/04 Q1021 FYOG 300500Z AUTO 18009KT //// // ////// 12/10 Q1016 MNBL 292300Z 36008KT 9999 FEW018CB SCT023 30/25 Q1008 CB/SE YGDH 300730Z AUTO 06004KT //// // ////// 13/04 Q1017 FYOO 300600Z AUTO 18003KT //// // ////// 16/04 Q1019 MNCH 292300Z 00000KT 9999 SCT025TCU SCT300 33/24 Q1006 TCU/N MMMA 300140Z 08004KT 8SM SKC 28/24 A2997 MMLM 300243Z 22008KT 10SM FEW130 FEW230 32/24 A2978 RMK SLP085 8/031 MMMD 300646Z 06004KT 7SM SKC 27/25 A2993 FYOW 300600Z AUTO 22004KT //// // ////// 13/04 Q1021 MMLO 300650Z 03009KT 8SM SKC 18/08 A3028 MMLP 300440Z 18008KT 10SM SKC 30/22 A2985 YGEL 300730Z 20010KT 9999 FEW034 19/11 Q1019 MMLT 300040Z 16006KT 8SM FEW040 FEW210 35/25 A2972 RMK 8/101 MMML 300447Z 18005KT 10SM SKC 36/18 A2972 MMMM 300143Z 19006KT 8SM SCT030 SCT230 19/15 A3016 RMK 8/508 MMMT 300043Z 36010KT 7SM BKN030 BKN070 28/20 A2984 RMK 8/230 MMNL 300040Z 00000KT 10SM SKC 37/13 A2989 YGFN 300730Z AUTO 15007KT 9999 // NCD 16/10 Q1015 MMMV 292140Z 05010KT 8SM SKC 36/16 A2992 RMK HZY SKBG 300400Z VRB02KT 9999 FEW017 BKN080 23/21 A2999 FYRN 300700Z 09006KT CAVOK 21/02 Q1021 MMMX 300654Z 36006KT 15SM SCT020 BKN080 BKN200 17/10 A3034 NOSIG RMK 8/532 MMMY 300646Z 08005KT 10SM SKC 25/19 A3000 SKAR 300400Z 00000KT 9999 SCT025 21/18 A3005 MMMZ 300640Z 36009KT 10SM SCT030 BKN090 OVC230 28/24 A2984 RMK 8/477 HZY MMPA 300040Z 09006KT 6SM BKN250 28/24 A2996 RMK 8/009 HZY MMPB 300342Z 31005KT 10SM SCT020 BKN080 OVC200 14/13 A3034 RMK 8/463 SKCC 300500Z 18020KT 9999 FEW023 BKN090 27/19 A2991 MMPE 291859Z RTD 15011KT 10SM SKC 38/17 A2981 RMK 8/000 HZY SKBO 300700Z 02006KT 9999 FEW020 10/09 A3034 SKCG 300700Z 01005KT 9999 SCT015 28/27 A2974 MMPG 292340Z 10005KT 8SM SKC 36/19 A2994 RMK HZY SKBQ 300700Z 02010KT CAVOK 29/26 A2975 SKCL 300700Z 36005KT 9999 FEW040 SCT100 20/18 A2995 MMPN 292345Z 18006KT 7SM TS SCT020CB BKN080 BKN270 23/17 A3011RMK 8/978 HZY TSRA NE MMOX 300645Z 24003KT 7SM BKN025 OVC100 18/16 A3025 RMK 8/77/ MMPQ 292342Z 00000KT 4SM BKN030CB BKN080 28/24 A2983 RMK 8/990 RA W MSGTX MMMD MMPR 300651Z 00000KT 12SM SCT020 BKN090 28/26 A2985 RMK 8/47/ TCU-W MMPS 292341Z 18008KT 7SM SCT020TCU BKN240 31/24 A2988 RMK 8/204 HZY YHBA 300730Z AUTO 35003KT 9999 // SCT064 SCT073 19/15 Q1014 SKEJ 292300Z 02004KT 9999 SCT015 33/25 A2967 YFRT 300730Z AUTO 28018KT //// // ////// 27/08 Q1013 BKPR 300730Z VRB01KT CAVOK 22/09 Q1026 NOSIG MMQT 300642Z 12006KT 8SM SKC 13/12 A3034 RMK CI FYWB 300700Z 07012KT 9999 OVC015 15/12 Q1021 MMSD 300341Z 27004KT 12SM FEW250 29/21 A2983 RMK 8/001 FYWE 300700Z 00004KT CAVOK 19/M03 Q1025 MNJG 292300Z 00000KT 9999 SCT020 25/18 Q1010 YGLA 300730Z AUTO 25005KT 9999 // NCD 23/10 Q1014 YGLB 300730Z AUTO 27007KT //// // SCT049 OVC058 10/04 Q1017 TAPA 300700Z 10005KT 9999 -SHRA BKN017 28/25 Q1014 NOSIG FYWH 300700Z 36008KT CAVOK 22/M01 Q1024 NOSIG GQNI 291800Z 18004KT 9999 BKN040TCU 35/20 Q1011 MMTB 300240Z 25006KT 6SM SCT020 SCT070 24/20 A2999 RMK 8/530 HZ MMSL 300141Z 27009KT 10SM SKC 30/24 A2983 RMK ISOL SC CI MMTC 300340Z 05016KT 10SM SKC 30/03 A3007 MMSM 300240Z 04004KT 7SM SCT020 SCT070 17/12 A3035 RMK 8/530 HZY YHAY 300730Z AUTO 20010KT //// // ////// 12/05 Q1021 MMRX 300143Z 11010KT 10SM FEW040 FEW100 27/20 A2993 RMK 8/530 HZY FU GQNN 300730Z 00000KT 7000 NSC 27/24 Q1011 NOSIG YGLI 300730Z AUTO 27009KT 9999 // NCD 10/03 Q1016 MMTG 300420Z RTD 00000KT 10SM SCT080 SCT300 23/20 A2999 RMK 8/032 MMSP 300644Z 15012KT 10SM SKC 16/12 A3027 RMK SC MMTJ 300640Z 00000KT 6SM SKC 22/18 A2991 GQPA 291800Z 04008KT CAVOK 42/M01 Q1009 MNJU 292300Z 06006KT 9999 FEW020TCU SCT300 30/23 Q1009 TCU/SE MMTM 300243Z 06010KT 7SM SCT010 28/23 A2995 RMK SLP142 57005 955 8/100 YFTZ 300730Z AUTO 26007KT 250V310 //// // ////// 34/11 Q1012 MMTO 300640Z 14003KT 6SM BKN015 BKN070 BKN200 14/12 A3041 RMK 8/432 HZY FYWW 300700Z 00000KT CAVOK 19/M03 Q1024 MMTP 300651Z 10004KT 10SM SCT080 BKN120 BKN200 26/24 A2988 RMK 8/066 YGLS 300730Z 03006KT CAVOK 23/13 Q1016 SKIB 292300Z 22006KT 9999 FEW040 BKN100 30/15 A2997 MMVA 300240Z 34005KT 7SM SCT010 BKN015TCU BKN070 26/24 A2994 RMK SLP136 52020 967 8/260 DSNT OCNL LTGCC N-S MMUN 300644Z 06005KT 7SM SCT015 BKN300 28/25 A2991 RMK 8/108 K04V 300729Z AUTO 34003KT 10SM CLR 12/05 A3040 RMK AO2 PWINO K06D 300715Z AUTO 17006KT 10SM BKN036 BKN042 OVC050 20/15 A2979 RMK AO2 K04W 300732Z AUTO 00000KT 1SM BR BKN006 15/15 A2998 RMK AO2 MNMG 300600Z 12006KT 9999 FEW021 SCT300 27/23 Q1010 A2983 NOSIG GQPP 300700Z 36014KT 8000 NSC 21/19 Q1012 NOSIG SKIP 292300Z 00000KT 9999 VCSH SCT010 BKN016 09/08 A3044 RMK VCSH/E/W GQPZ 300600Z 28008KT CAVOK 24/17 Q1013 MMVR 300347Z 26003KT 7SM FEW012 SCT080 BKN250 24/23 A2998 RMK 8/138 HZY K08D 300735Z AUTO 16005KT 10SM CLR 20/14 A2975 RMK AO2 LWOH 300730Z 24001KT CAVOK 24/10 Q1026 SLCA 292300Z 00000KT 9999 NSC 29/15 Q1015 SLCB 300700Z 00000KT 9999 NSC 07/M04 Q1028 SKLC 292300Z 32006KT 9999 SCT017TCU SCT250 29/24 A2971 RMK TCU/S LXGB 300650Z 07009KT 8000 HZ FEW011 SCT019 BKN035 22/21 Q1016 TEMPO 7000 HZ SCT012 MNPC 292300Z 07010KT 7000 FEW016 30/25 Q1008 HZ NFFN 300700Z 14006KT 9999 FEW030 SCT050 21/13 Q1016 NOSIG YHID 300730Z AUTO 10014KT 9999 // NCD 26/21 Q1013 SKMD 292300Z 12010KT 9999 FEW040 27/11 A3003 MMZC 300646Z 00000KT 8SM SKC 14/07 A3030 SLCO 292200Z 35006KT 8000 FEW035 28/23 Q1011 SLCP 292200Z 00000KT 7000 NSC 31/20 Q1015 MMZH 300145Z 00000KT 7SM SCT100 BKN250 27/23 A2984 RMK 8/032 HZY SKLT 300600Z 00000KT CAVOK 25/24 A2987 MMZO 300145Z 00000KT 15SM SCT020 31/25 A2979 RMK 8/100 MMZP 300240Z 19005KT 7SM FEW020 SCT200 18/12 A3012 RMK 8/108 HZY SKMR 300100Z 00000KT 9999 SCT020 28/26 A2972 K11R 300715Z AUTO 00000KT 10SM CLR 24/21 A3001 RMK AO2 T02410210 YGTE 300730Z AUTO 10007KT //// // NCD 30/15 Q1013 YGTH 300730Z AUTO 23010KT 9999 // OVC049 13/06 Q1020 K12N 300654Z AUTO 00000KT 16/16 A3011 RMK AO1 SLP188 T01610156 SKMZ 291600Z 29010KT 9999 BKN080 22/14 A3030 YHLC 300730Z AUTO 03003KT //// // ////// 29/13 Q1015 MNRS 292300Z 13008KT 9999 FEW018CB 30/25 Q1007 CB/NE/E/SE/S SLET 292300Z 33008KT 9999 NSC 27/19 Q1012 TBPB 300700Z 10014KT 9999 FEW012CB SCT014 28/26 Q1013 NOSIG SKPC 292200Z 00000KT 9999 VCSH SCT020 SCT070 32/23 S2974 RMK VCSH/SE LWSK 300730Z 00000KT CAVOK 24/12 Q1024 NOSIG YGTN 300730Z AUTO 22007KT 9999 // NCD 31/09 Q1013 SKNV 300200Z 18004KT 9999 NSC 30/15 A2988 NFKD 290900Z AUTO 12016KT //// 21/16 Q1020 SKPE 300500Z 11008KT 9999 FEW017 SCT080 21/16 A3005 LYBE 300730Z 16003KT 120V200 CAVOK 27/17 Q1023 NOSIG MPBO 300100Z 00000KT(E) 9999 SCT020 OVC080 Q1011 SKPS 292300Z 12008KT 9999 BKN028 22/10 A3012 YHML 300730Z AUTO 18005KT 9999 // SCT021 OVC028 OVC033 08/06 Q1024 MPDA 300300Z 00000KT 9999 TS SCT015CB BKN080 Q1010 LYBT 300730Z 15003KT 080V190 CAVOK 27/18 Q1022 NOSIG SKPV 300000Z VRB02KT 9999 FEW017 SCT200 29/26 A//// SKRG 300700Z 00000KT 9999 SCT012 SCT200 12/10 A3027 SKRH 292300Z 10014KT 9999 FEW020 36/21 A2972 K14Y 300740Z AUTO 16007KT 7SM OVC004 17/16 A2995 RMK AO2 SKSA 291300Z 00000KT 8000 SCT080 27/22 A3000 RMK HZ NFNA 300700Z 13006KT 9999 BKN020 SCT048 21/15 Q1016 K0A9 300735Z AUTO 00000KT 10SM CLR 18/15 A3017 RMK SLJE 292200Z 00000KT 9999 NSC 30/22 Q1015 MPEJ 292200Z 34009KT 310V010 9999 FEW018 30/26 Q1007 K18A 300735Z AUTO 00000KT 10SM OVC110 22/19 A3013 RMK AO2 T02210187 SKSM 300400Z 00000KT 9999 FEW020 31/25 A2974 YHOO 300730Z AUTO 05006KT 020V110 //// // ////// 30/09 Q1015 SLJO 292200Z 00000KT 8000 FEW017 33/22 Q1011 SKSP 300700Z 08007KT 9999 FEW017 28/27 A2982 REDZ YHOT 300730Z AUTO 19004KT 9000 // ////// 01/M01 Q1019 NFNR 290900Z AUTO 15007KT //// 26/21 Q1015 SKUC 300000Z 30004KT 9999 BKN017 22/22 A2988 K19A 300735Z AUTO 00000KT 10SM BKN100 OVC110 20/19 A3013 RMK AO2 TDCF 300100Z 15002KT 9999 SCT016 25/23 Q1014 SKUI 300000Z 00000KT 6000 TS BKN015 FEW018CB OVC070 25/25 A2980 RMK CB S/W NGFU 300700Z 12014KT 9999 VCSH FEW019TCU 28/24 Q1009 K0E0 300735Z AUTO 00000KT 10SM CLR 11/09 A3033 RMK AO2 T01100088 K21D 300735Z AUTO 17005KT 7SM CLR 16/16 A3001 RMK AO2 SLMG 292200Z 00000KT 8000 FEW017 33/22 Q1011 SLLP 300700Z 05004KT 9999 NSC M04/M16 Q1039 YJAB 300730Z AUTO 10008KT //// // ////// 36/11 Q1011 K20U 300715Z AUTO 15009KT 10SM FEW050 20/09 A2976 RMK AO2 K20V 300736Z AUTO 00000KT 10SM CLR 10/05 A3032 RMK AO2 K0F2 300735Z AUTO 00000KT 10SM CLR 22/13 A2997 RMK AO2 T02170133 SKVP 300100Z 05006KT 9999 FEW020 BKN200 31/21 A2980 K0CO 300734Z AUTO 27007KT 10SM CLR 07/00 A3069 RMK AO2 YHSM 300730Z AUTO 18012KT 9999 // OVC036 13/05 Q1023 SKVV 292300Z 00000KT 9999 SCT020 SCT090 26/21 A2988 HKEL 300500Z 00000KT CAVOK 17/11 YHUG 300730Z AUTO 21011KT //// // ////// 28/M02 Q1015 NFTF 300700Z VRB02KT 9999 FEW017 BKN120 20/11 Q1019 RMK 59% SLOR 292100Z 07015G25KT 9999 NSC 17/M12 Q1036 K24J 300735Z AUTO 06003KT 10SM SCT023 OVC030 24/24 A3002 RMK AO1 NFTL 300600Z 16007KT 9999 FEW010 BKN100 21/12 Q1017 SLPO 292200Z 06008KT 9999 NSC 14/M06 Q1041 SLPS 292300Z 00000KT 9999 NSC 28/22 Q1012 SLRB 292300Z 00000KT 9999 NSC 28/24 Q1014 NFTV 300600Z 00000KT 9999 FEW009 SCT017 20/12 Q1017 LYKV 300730Z VRB01KT CAVOK 24/16 Q1024 NOSIG MPMG 300300Z 32003KT 9999 FEW020 27/25 Q1010 NOSIG K0J4 300658Z AUTO 00000KT 10SM CLR 19/18 A3007 RMK AO2 SLP178 T01940183 SLRI 292300Z 18005KT 5000 FU NSC 30/22 Q1011 K1A5 300735Z AUTO 00000KT 7SM 17/17 A3021 RMK AO2 T01650165 SLSA 292300Z 00000KT 9999 FEW020 29/22 Q1011 K1A6 300735Z AUTO 00000KT 10SM CLR 17/17 A3015 RMK AO2 T01710169 K1A9 300735Z AUTO 00000KT 10SM -DZ BKN007 OVC014 22/21 A3005 RMK AO2 T02150211 SLRQ 292200Z 00000KT 9999 NSC 32/24 Q1011 SLSI 292300Z 00000KT 9999 NSC 30/23 Q1013 LYNI 300730Z 18003KT 120V260 CAVOK 23/13 Q1024 NOSIG K1B7 292209Z 20003KT 10SM SKC 30/19 A3002 RMK LAST SLRY 292200Z 00000KT 9999 NSC 33/21 Q1012 SMJP 300700Z 11002KT CAVOK 24/23 Q1012 NOSIG SLTJ 300000Z 00000KT 9999 NSC 21/04 Q1020 MPPA 300300Z 34008KT 9999 FEW020 24/21 Q1010 SLSU 292300Z 02005KT 9999 NSC 16/06 Q1031 K28J 300735Z AUTO 07005KT 10SM CLR 22/20 A2998 RMK AO2 TSNO HKJK 300700Z 12005KT 060V170 9999 BKN021 19/13 Q1026 NOSIG LYPG 300730Z 07003KT 030V140 CAVOK 31/11 Q1020 NOSIG SLTR 292300Z 00000KT 8000 NSC 29/21 Q1012 HKKI 300700Z 09010KT 9999 FEW025CB 27/14 Q1021 ZBAA 300730Z 12002MPS 030V170 9999 SCT033CB 23/18 Q1012 NOSIG LZIB 300730Z 13005KT CAVOK 26/18 Q1021 NOSIG SLVM 292100Z 05010KT 9999 NSC 37/12 Q1008 K1F0 300710Z AUTO 00000KT 10SM CLR 23/17 A2993 RMK AO2 SLVR 300700Z 32010KT 9999 NSC 22/20 Q1013 HKML 300700Z 16014KT 9999 BKN023 27/22 Q1019 HKMO 300700Z 17006KT 9999 BKN024 27/22 Q1020 NOSIG GUCY 300700Z 12010KT 8000 -RA BKN013 BKN110 24/24 Q1014 TEMPO 5000 SLYA 292200Z 04008KT 9999 NSC 30/15 Q1011 YJLC 300730Z AUTO 16011KT //// // ////// 29/M01 Q1015 NGTA 300500Z 14030G20KT 9999 2RA BKN014CB OVC100 28/25 Q1008 K1H2 300715Z AUTO 17003KT 10SM BKN065 OVC120 21/17 A3004 RMK AO2 T02050174 CERM 300700Z AUTO 07002KT 15/14 RMK AO1 SLP142 T01510139 56007 K33V 300735Z AUTO 11006KT 10SM CLR 05/01 A3032 RMK AO2 HKNW 300700Z 11006KT 9999 BKN021 19/13 Q1025 MPTO 300700Z 00000KT 9999 FEW020 27/25 Q1008 NOSIG NGTT 300500Z 30021KT 9999 2RA OVC012CB 25/25 Q1008 K1J0 300729Z AUTO 00000KT 10SM SCT014 21/21 A3004 RMK AO2 T02110206 $ YIVO 300730Z AUTO 19007KT //// // ////// 14/05 Q1021 LYTV 300730Z VRB01KT CAVOK 31/13 Q1019 NOSIG LZKZ 300730Z 04004KT 360V090 CAVOK 26/17 Q1023 NOSIG K0S9 300735Z AUTO 11003KT 10SM SCT065 14/13 A2971 RMK AO2 K1K1 300710Z AUTO 00000KT 7SM CLR 15/15 A3004 RMK AO2 T01520145 LYUZ 300730Z 07005KT 020V130 CAVOK 25/12 Q1027 LYVR 300730Z 21006KT 170V240 CAVOK 30/16 Q1023 NOSIG K1L0 300735Z AUTO 00000KT 7SM CLR 23/21 A3001 RMK AO2 T02300213 GVAC 300700Z 02012KT 9999 SCT015 SCT100 25/21 Q1012 NOSIG K36U 300735Z AUTO 22004KT 10SM SCT110 19/09 A3007 RMK AO2 PWINO SOCA 300730Z AUTO 00000KT CAVOK 23/23 Q1013 GVBA 300700Z 03012KT 9999 BKN015 25/22 Q1012 NOSIG K2C8 300735Z AUTO 19005KT 4SM BR CLR 19/19 A2976 RMK AO2 K40B 300716Z AUTO VRB03KT 15/14 A2999 RMK AO1 SLP152 T01530143 57007 P0002 ZBHH 300700Z 07002MPS 020V110 9999 SCT040 FEW040CB 22/10 Q1013 RETS NOSIG K1M4 300656Z AUTO 00000KT 10SM CLR 20/20 A3012 RMK AO2 T02000200 SLP209 K0V4 300735Z AUTO 00000KT 10SM CLR 18/18 A3013 RMK AO1 T01800180 K2D5 300735Z AUTO 18009KT 10SM 19/19 A2985 RMK AO2 K40J 300735Z AUTO 00000KT 10SM SCT004 A3002 RMK AO2 LTG DSNT N YKII 300730Z AUTO 19011KT 9999 // BKN026 OVC031 09/05 Q1023 LZPP 300730Z 13010KT 090V160 CAVOK 27/19 Q1021 HLLM 300550Z 11003KT 8000 FEW025 26/18 Q1020 K0VG 300735Z AUTO 00000KT 9SM CLR 17/17 A3017 RMK AO2 YLBD 300730Z AUTO 26009KT 9999 // NCD 27/20 Q1014 K42J 300735Z AUTO 00000KT 10SM CLR 22/22 A3000 RMK AO1 TSNO K1P1 300735Z AUTO 00000KT 7SM CLR 15/15 A3006 RMK AO2 T01520145 TFFF 300730Z AUTO 08009KT 9999 FEW018 27/25 Q1013 K2G4 300725Z AUTO 23005KT 10SM CLR 17/13 A3020 RMK AO1 K2DP 300656Z AUTO 34003KT 10SM CLR 20/18 A3009 RMK AO2 LTG DSNT SE SLPNO T01960184 $ K2G9 300735Z AUTO 22003KT 10SM CLR 15/13 A3016 RMK AO2 LZSL 300730Z VRB02KT CAVOK 24/18 Q1024 TFFR 300730Z AUTO 09003KT 9999 FEW017/// BKN054/// 27/25 Q1013 MRLB 300200Z 11010KT 9999 FEW035 BKN130 29/20 A2981 K2I0 300735Z AUTO 22004KT 10SM SCT065 SCT080 24/20 A3005 RMK AO2 T02380202 YLEC 300730Z AUTO 29003KT //// // ////// 18/01 Q1021 K1R7 300735Z AUTO 00000KT 19/18 A3003 RMK AO2 LZTT 300730Z VRB02KT CAVOK 23/17 Q1026 NOSIG YKMP 300730Z AUTO 16006KT //// // ////// 16/08 Q1016 SMZO 300000Z 09005KT 9999 FEW018CB 27/23 Q1012 NOSIG K1S5 300735Z AUTO 00000KT 10SM CLR 13/10 A2980 RMK AO2 T01310100 K2J9 300735Z AUTO RMK AO1 YLEO 300730Z AUTO 22005KT 170V260 9999 // BKN076 BKN085 24/04 Q1016 YKNT 300730Z AUTO 34006KT //// // ////// 29/05 Q1015 MROC 300700Z 04002KT CAVOK 21/17 A3001 NOSIG K46U 300720Z AUTO 13012KT 10SM FEW041 FEW070 BKN110 18/11 A3002 RMK A01 K1QW 300656Z AUTO 18023G28KT 10SM CLR 11/08 A2977 RMK AO2 SLP076 T01140078 AYMO 300100Z 16010KT 9999 SCT018 SCT300 30/24 Q1012 K49A 300735Z AUTO 01003KT 10SM OVC100 A3017 RMK AO2 YKOW 300730Z AUTO 25010KT //// // NCD 28/20 Q1012 K3D2 300735Z AUTO 00000KT 7SM CLR 14/14 A3004 RMK AO2 T01410139 YLHI 300730Z AUTO 16001KT 9999 // SCT060 SCT076 OVC098 14/12 Q1014 K1V4 300654Z AUTO 17/15 A3005 RMK AO1 SLP168 T01670150 K1V6 300730Z AUTO 23010KT 10SM CLR 15/06 A3017 RMK AO2 SPCL 300700Z VRB01KT 9999 FEW015 SCT080 25/24 Q1014 RMK PP000 K3AU 300715Z AUTO 00000KT 7SM CLR 16/15 A3003 RMK AO2 YLHR 300730Z AUTO 10008KT //// // NCD 26/20 Q1013 LZZI 300730Z 06004KT CAVOK 24/18 Q1023 YKSC 300730Z AUTO 08007KT 9999 // BKN046 12/06 Q1023 AYNZ 300300Z VRB03KT 9999 BKN030 26/18 QNIL RMKS MRPV 300000Z 09009KT 9999 SCT035 BKN200 23/16 A2999 NOSIG YMBA 300730Z AUTO 02007KT //// // ////// 24/17 Q1015 YLIS 300730Z AUTO 15008KT 9999 // NCD 17/12 Q1014 ZBSJ 300700Z 07002MPS 360V110 6000 SCT026 25/20 Q1010 NOSIG OAHR 300655Z 01013KT 340V060 CAVOK 27/M08 Q1018 RMK SKC VIS MIN 9999 BLU YMBD 300730Z AUTO 07004KT 9999 // NCD 15/03 Q1022 YKRY 300730Z AUTO 23010KT //// // ////// 15/02 Q1016 ZBTJ 300730Z VRB01MPS 9999 FEW040CB 25/17 Q1010 RETS NOSIG AYPY 300700Z 15008KT 9999 SCT015 27/21 Q1011 RMKS YMAV 300730Z AUTO 19012KT 9999 // OVC033 10/05 Q1023 OAKB 300650Z 07003KT CAVOK 28/M03 Q1015 NOSIG RMK BLU BLU YLLE 300700Z AUTO 16009KT //// // ////// 21/M01 Q1019 YMAY 300730Z AUTO 29007KT 9999 // NCD 13/05 Q1019 GVNP 300700Z 01007KT 9999 BKN020 25/23 Q1012 NOSIG OBBI 300700Z 11007KT 080V140 6000 FEW015 36/30 Q1004 NOSIG K54J 300735Z AUTO 04003KT 10SM CLR 21/20 A3004 RMK AO2 T02050203 SPGM 292100Z /////KT 9999 FEW040 32/21 Q1013 RMK BIRD HAZARD RWY 19 PP000 YMCO 300730Z AUTO 23009KT //// // ////// 10/08 Q1019 NIUE 292000Z 17010KT 9999 -DZ S BKN018 20/12 Q1017 YMDG 300730Z AUTO 33005KT 290V350 //// // SCT062 13/06 Q1017 MTBO 300730Z AUTO 20001KT 9999 // OVC049 07/02 Q//// SPHI 300700Z 20006KT 9999 OVC015 19/18 Q1013 RMK PP000 SPHO 292300Z 02003KT 300V050 CAVOK 20/06 Q1027 RMK PP000 MSLP 300650Z 01005KT 9999 BKN064 27/24 Q1010 A2983 YMEK 300730Z AUTO 24008KT 9999 // OVC077 23/02 Q1018 K4A6 300735Z AUTO 00000KT 8SM BKN003 OVC110 20/20 A3011 RMK AO2 K3J7 300735Z AUTO 00000KT 10SM OVC110 21/21 A3009 RMK AO2 LTG DSNT S K4A7 300715Z AUTO 08003KT 10SM OVC085 22/20 A3011 RMK AO2 T02230198 YMEN 300730Z AUTO 19010KT 9999 // SCT025 SCT035 10/06 Q1022 K1YT 300656Z AUTO 18014G21KT 10SM CLR 16/09 A2978 RMK AO2 SLPNO T01620093 $ SPIM 300700Z 17006KT 9999 FEW008 OVC014 17/16 Q1013 NOSIG RMK PP000 K4A9 300735Z AUTO 00000KT 7SM -DZ BKN090 OVC100 20/18 A3011 RMK AO2 SPHY 291900Z /////KT 9999 SCT040 16/07 Q1035 RMK PP000 K3K3 300715Z AUTO 00000KT 10SM CLR 13/11 A3011 RMK AO2 PWINO YMER 300730Z AUTO 23008KT 9999 // NCD 12/04 Q1019 YMES 300730Z AUTO 08007KT 9999 // NCD 10/06 Q1022 SPJI 292100Z 00000KT 9999 SCT040 33/23 Q1019 RMK T.MAX 34.2 PP000 YMGB 300730Z AUTO 02008KT //// // ////// 28/21 Q1012 SPJJ 292120Z 08006KT 040V100 9999 FEW050 18/00 Q1027 OAMS 300650Z 27010KT 9999 FEW120 29/M02 Q1015 BLU+ BLU+ YMGD 300730Z AUTO /////KT 9999 // NCD 28/20 Q1012 SPJL 300200Z 05003KT CAVOK 06/M07 Q1041 RMK PP000 SPJR 292300Z 04010KT 010V090 CAVOK 19/07 Q1026 RMK PP000 YMHB 300730Z 21007KT 9999 FEW010 SCT020 BKN035 08/06 Q1024 ZBYN 300730Z 07003MPS 360V110 7000 -SHRA BKN040 FEW040CB 25/15 Q1010 RETS NOSIG YMIA 300730Z AUTO 18005KT 9999 // NCD 16/01 Q1022 K2V5 300735Z AUTO 24006KT 10SM CLR 19/07 A3009 RMK AO2 T01850067 YLRE 300730Z AUTO 19010KT 9999 // NCD 24/M01 Q1017 SPME 300300Z VRB01KT 9999 FEW017 BKN023 23/21 Q1012 RMK BIRD HAZARD RWY 32/14 PP000 SPLO 292100Z 19006KT CAVOK 18/13 Q1009 RMK TMAX 19.0 PP000 GVSV 300700Z 07018KT 9999 FEW022 25/20 Q1013 NOSIG K4BM 300736Z AUTO 23008KT 10SM CLR 10/00 A3062 RMK AO2 K3LF 300715Z AUTO 19005KT 7SM SCT041 SCT046 20/19 A3002 RMK AO2 T01990186 K2W6 300728Z AUTO 00000KT 10SM CLR 20/17 A3012 RMK AO1 YMHU 300730Z AUTO 28004KT 9999 // NCD 34/03 Q1012 K3N8 300735Z AUTO 18009KT 10SM CLR 19/17 A2987 RMK AO2 T01850171 YMIN 300730Z AUTO 24005KT //// // ////// 14/07 Q1022 SPMS 292300Z 00000KT 9999 FEW015 28/24 Q1014 RMK BIRD HAZARD RWY 09/27 PP000 YNAR 300730Z AUTO 23001KT //// // ////// 12/07 Q1020 YLST 300730Z AUTO 25007KT 210V290 9999 // SCT073 24/03 Q1017 YLTN 300730Z AUTO 25012KT //// // ////// 24/05 Q1017 DAAD 300700Z 22004KT 8000 NSC 24/17 Q1021 YNBR 300730Z AUTO 24008KT 9999 // NCD 14/03 Q1017 DAAE 300700Z 24006KT CAVOK 27/17 Q1016 YMMB 300730Z AUTO 21009KT 9999 // OVC037 11/05 Q1023 DAAG 300730Z 27004KT 3500 BR FEW016 27/26 Q1017 MSSS 300250Z 13004KT 9999 BKN047 25/24 Q1014 A2994 CB LTGIC TO NW YLTV 300730Z AUTO 23012KT 9999 // NCD 11/09 Q1021 DAAJ 300700Z 12005KT 9999 FEW046 29/12 Q1021 MUCC 300651Z 16006KT 120V220 9000 SCT020 27/23 Q1014 DABB 300730Z 22005KT 9999 FEW030 SCT230 30/18 Q1016 DABC 300730Z 09003KT 9999 FEW030 SCT200 23/15 Q1022 K4I3 300736Z AUTO 20004KT 7SM -RA SCT007 SCT012 SCT036 20/19 A3009 RMK AO2 LTG DSNT NE MUCF 300659Z AUTO 13005KT 080V200 24/24 Q1014 K2WX 300656Z AUTO 19008KT 21/11 A2977 RMK AO1 SLP050 T02060106 403560133 $ YMLT 300730Z AUTO 13014KT 9999 // NCD 08/01 Q1022 DAAP 300700Z /////KT 3000 HZ NSC 29/12 Q1015 YMML 300730Z 17009KT 9999 FEW024 BKN029 09/05 Q1023 NOSIG K4I7 300735Z AUTO 00000KT 7SM CLR 19/17 A3004 RMK AO2 K3R7 300735Z AUTO 00000KT 10SM CLR 22/21 A2999 RMK AO2 T02210210 YMNE 300730Z AUTO 26011KT 250V340 9999 // SCT076 23/04 Q1017 MUCL 300705Z AUTO VRB03KT 28/24 Q1011 DAAS 300600Z 00000KT 9999 FEW030 SCT233 18/15 Q1024 DAAT 300730Z VRB02KT 0800 HZ NSC 26/12 Q1025 MUCM 300650Z 06003KT 9000 BKN030 24/22 Q1016 YMNG 300730Z AUTO 21010KT 9999 // NCD 11/04 Q1021 TGPY 300700Z 09010KT 9999 FEW018 27/26 Q1012 DAAV 300700Z 00000KT 9999 FEW023 BKN200 26/20 Q1016 DAAY 300700Z /////KT 8000 SCT030 SCT100 22/16 Q1025 K5A6 300735Z AUTO 00000KT 10SM CLR 21/20 A3002 RMK AO2 T02110201 SPQT 300700Z 00000KT CAVOK 24/23 Q1013 RMK PP000 K65S 300735Z AUTO 17003KT 10SM CLR 14/09 A2983 RMK AO2 SPQU 300700Z VRB02KT CAVOK 12/M16 Q1025 RMK PP000 YNEN 300730Z AUTO 10008KT 9999 // SCT025 30/21 Q1013 DABS 300730Z 12006KT CAVOK 22/16 Q1023 MUCU 300651Z 02005KT 8000 FEW020 SCT070 27/20 Q1013 DABT 300700Z 00000KT 9999 FEW026 SCT200 20/16 Q1022 YMOG 300730Z AUTO 21009KT //// // ////// 21/08 Q1018 K3T5 300735Z AUTO 00000KT 10SM CLR 24/20 A2998 RMK AO2 T02430200 K66R 300735Z AUTO 00000KT 10SM CLR 22/20 A2999 RMK AO2 T02200200 SPRU 300700Z 14004KT 8000 OVC019 16/15 Q1012 RMK PP000 K5C1 300735Z AUTO 19003KT 10SM CLR 23/17 A3005 RMK AO1 SPSO 300700Z 22003KT 150V280 8000 OVC013 17/15 Q1012 RMK BR PP000 YMOR 300730Z AUTO 25009KT 9999 // NCD 14/02 Q1017 DAEF 300700Z 06010KT CAVOK 30/09 Q1017 SPST 300300Z 00000KT 9999 SCT020 24/21 Q1014 RMK BIRD HAZARD RWY 17/35 PP000 SPTN 300700Z VRB02KT 5000 BR SCT008 OVC013 13/12 Q1013 RMK PP000 DAEN 300700Z 03012KT CAVOK 29/11 Q1017 YMRB 300730Z AUTO 19006KT 9999 // NCD 24/10 Q1015 YNGU 300730Z AUTO 09010KT //// // ////// 32/08 Q1013 YNHL 300730Z AUTO 19009KT //// // ////// 13/04 Q1022 DAFH 300700Z 10008KT 9999 SCT030 SCT100 26/14 Q1022 MUHA 300655Z 00000KT 9000 SCT030 25/22 Q1011 SPTU 292300Z /////KT CAVOK 29/24 Q1010 RMK BIRD HAZARD RWY 01/19 PP000 K4M9 300715Z AUTO 08003KT 10SM 23/22 A3002 RMK AO2 LTG DSNT E MUGM 300656Z 32004KT 9999 FEW030 BKN160 BKN280 28/24 A2993 RMK SLP135 T02830244 MTPP 300000Z 09015KT 8000 SCT024 BKN070 29/// Q1013 A2994 MUHG 300651Z 08009GP99KT 7000 VCFG SCT030 OVC090 26/22 Q1014 K4O4 300735Z AUTO 00000KT 10SM CLR 22/19 A2997 RMK AO2 YMRY 300730Z AUTO 21005KT 9999 // NCD 13/07 Q1018 YMTG 300730Z AUTO 15007KT 9999 // SCT039 10/07 Q1024 YMTI 300730Z AUTO 11008KT //// // ////// 31/07 Q1013 K4MR 300656Z AUTO 21001KT 10SM CLR 17/15 A3020 RMK AO2 SLP171 T01720153 402950162 $ K5H4 300715Z AUTO 20007KT 10SM CLR 20/18 A2977 RMK AO2 SPZA 292130Z 24007KT CAVOK 30/12 Q1010 SPYL 292100Z 23011KT CAVOK 26/18 Q1009 RMK TX 27.0 BIRD HAZARD RWY 17/35 PP000 DBBB 300700Z 23008KT 8000 SCT012 25/24 Q1016 NOSIG K6A1 300735Z AUTO 5SM BR 24/24 A3009 RMK AO2 LTG DSNT S T02380238 K6A2 300735Z AUTO 00000KT 10SM BKN055 BKN070 OVC110 21/19 A3011 RMK AO2 LTG DSNT S SPZO 300700Z 00000KT 9999 NSC 03/M07 Q1034 RMK PP000 UAAA 300730Z 07004MPS 340V120 9999 FEW050CB SCT200 26/M02 Q1019 R88/CLRD65 NOSIG K6B0 300735Z AUTO 00000KT 10SM CLR 17/16 A3006 RMK AO2 T01730163 UAAH 300730Z 21006MPS 9999 FEW033 26/05 Q1019 R23/0///60 NOSIG RMK QFE726/0968 YMYB 300730Z AUTO 23007KT 9999 // NCD 21/06 Q1014 UACC 300730Z 19005MPS 9999 SCT040 OVC100 22/01 Q1013 R22/0/0070 NOSIG RMK QFE728/0971 DAOB 300700Z 00000KT 9999 FEW026 21/15 Q1022 TJBQ 300050Z 11013G18KT 10SM SCT016 27/24 A3002 RMK TWR CLOSED DAOF 300700Z 13010KT 1000 HZ SCT040 SCT100 29/12 Q1013 YNRC 300730Z AUTO 15005KT //// // ////// 12/06 Q1023 UACK 300730Z 24007MPS CAVOK 22/09 Q1007 R20/010070 NOSIG RMK QFE732/0976 DAOI 300600Z 00000KT CAVOK 25/20 Q1016 K79J 300735Z AUTO 00000KT 7SM OVC003 23/21 A3005 RMK AO2 CIG 002V007 UADD 300730Z 03005MPS 360V070 9999 NSC 26/M00 Q1018 R13/0///65 NOSIG RMK QFE706/0942 K5M9 300715Z AUTO 18003KT 10SM CLR 23/22 A3005 RMK AO2 T02250215 DAOL 300600Z 07008KT 4000 BR SCT013 BKN023 25/25 Q1016 UACP 300600Z 11005MPS 9999 BKN020CB OVC033 15/13 Q1006 NOSIG RMK QFE742/0990 DAON 300730Z 00000KT 8000 FEW010 SCT100 26/23 Q1017 DAOO 300730Z 08005KT 6000 FEW013 SCT233 26/24 Q1016 YPAD 300730Z 21007KT 9999 FEW049 13/04 Q1022 DAOR 300702Z 09012KT 4000 -TS FEW030CB SCT040 28/14 Q1022 K82C 300735Z AUTO 00000KT 10SM OVC021 17/16 A3004 RMK AO2 T01720163 YPAG 300730Z AUTO 35006KT 9999 // NCD 19/02 Q1021 DAOV 300700Z 15005KT 9999 BKN033 26/15 Q1018 DAOY 300700Z /////KT 9999 FEW026CB SCT030 21/15 Q1025 YNSM 300730Z AUTO 22012G25KT //// // ////// 19/07 Q1017 OEAB 300700Z 06008KT CAVOK 29/06 Q1025 NOSIG MUSC 300651Z 13008KT 100V170 8000 SCT025 24/22 Q1014 OEAH 300700Z 01018KT CAVOK 44/06 Q1004 NOSIG YPCC 300730Z 12015KT 9999 FEW030 BKN400 28/18 Q1016 OEBA 300700Z 32010KT 9999 SCT030 31/12 Q1021 NOSIG YOLD 300730Z AUTO 35003KT 9999 // NCD 19/01 Q1020 YNTN 300730Z AUTO 20009KT 9999 // NCD 33/09 Q1012 YPBO 300730Z AUTO 20009KT 9999 // NCD 26/02 Q1017 K82V 300735Z AUTO 19009KT 10SM CLR 18/02 A3011 RMK AO2 OEAO 292100Z 00000KT 9999 FEW040 37/08 Q1013 OEBH 300700Z 00000KT 8000 SKC 36/09 Q1015 NOSIG OEAR 300700Z 02003KT 9000 FEW040 37/25 Q1008 MWCB 300000Z 17011KT 9999 SCT014CB SCT030 31/26 Q1011 K6I2 300735Z AUTO 17007KT 10SM CLR 21/19 A3010 RMK AO2 YPEA 300700Z AUTO 24011KT 9999 // SCT045 BKN054 OVC068 17/09 Q1019 YPED 300730Z AUTO 23010KT 9999 // ////// 14/05 Q1022 K5R8 300735Z AUTO 00000KT 10SM CLR 19/19 A3000 RMK AO2 T01910191 YOLW 300730Z AUTO 28019KT //// // ////// 25/16 Q1016 YPDN 300730Z 34010KT 9999 FEW044 30/19 Q1012 RMK SMOKE ALOFT DAUA 300700Z 06013KT CAVOK 29/07 Q1014 DAUB 300700Z 12014KT 9999 FEW030CB BKN040 28/20 Q1020 TJIG 292245Z 09010KT 10SM SCT030 SCT080 29/24 A3001 RMK RYW09 IN USE ATIS M - RMK LAST DATM 300700Z 21014KT 2000 HZ NSC 29/20 Q1014 OEDF 300700Z 01008KT CAVOK 43/10 Q1003 NOSIG DAUE 300700Z 05008KT CAVOK 29/15 Q1019 UAII 300730Z 23002MPS 180V300 CAVOK 29/05 Q1017 R10/0///70 NOSIG RMK QFE727/0969 MWCR 300300Z 14006KT 9999 FEW016 30/27 Q1013 DAUG 300700Z 02006KT 8000 SCT046 BKN100 27/14 Q1021 DAUH 300730Z 07010KT 9999 FEW040 29/15 Q1018 YOOD 300730Z AUTO 09002KT //// // ////// 23/M01 Q1019 DAUI 300700Z 07016KT CAVOK 33/09 Q1015 YNWN 300730Z AUTO 26006KT 220V290 9999 // SCT095 28/03 Q1016 OEDM 300700Z 15010KT CAVOK 39/02 Q1013 DAUK 300700Z 09008KT 8000 BKN040 27/18 Q1019 DAUL 300700Z 00000KT 9999 FEW030 22/18 Q1022 DAUO 300700Z 11011KT 9999 SCT040 26/20 Q1018 MUVR 300653Z 15004KT 8000 FEW019CB SCT020 25/23 Q1012 OEDR 300700Z 10006KT 8000 SKC 42/17 Q1002 NOSIG UBBB 300730Z 21011KT CAVOK 30/10 Q1015 88CLRD70 NOSIG YOOM 300730Z AUTO 18007KT //// // ////// 19/M00 Q1020 UAKD 300700Z 21005G10MPS 7000 BKN060 OVC100 29/M01 Q1016 R22/0///65 NOSIG RMK QFE729/0972 K5T9 300740Z AUTO 14005KT 10SM CLR 26/15 A2998 RMK A01 DAUT 300700Z 10012KT 9000 NSC 31/13 Q1016 DAUU 300700Z 05014KT 3000 HZ BKN046 SCT100 28/15 Q1018 ZGGG 300730Z 02006MPS 9999 SCT040 29/23 Q1005 NOSIG UBBG 300730Z 32006KT 9999 FEW083 27/12 Q1017 R30/CLRD70 NOSIG K6L4 300735Z AUTO 00000KT 10SM CLR 19/17 A3015 RMK AO2 ZGHA 300700Z VRB01MPS 7000 SCT050 32/19 Q1007 NOSIG DAUZ 300700Z 07015KT 9999 SCT040 28/12 Q1017 UAKK 300730Z 25009G14MPS 210V280 CAVOK 27/M02 Q1016 R23/0///70 NOSIG RMK QFE715/0954 TIST 300653Z AUTO 09008KT 9SM -RA SCT026 SCT046 BKN060 28/25 A2996 RMK AO2 RAB46 SLP146 P0000 T02830250 TSNO UBBL 300700Z 13004KT 9999 SCT100 27/19 Q1017 R33/CLRD70 RMK MT OP UBBN 300730Z 02003KT 9999 NSC 26/10 Q1018 R14R/CLRD60 NOSIG RMK MT OP QFE688 TISX 300653Z AUTO 06007KT 10SM -RA FEW013 SCT028 SCT038 27/25 A2996 RMK AO2 RAB03E12B34 SLP144 P0006 T02670250 TSNO K5SM 300732Z AUTO 00000KT 10SM CLR 11/00 A3057 RMK AO2 UBBQ 300700Z 23004KT 9999 NSC 26/11 Q1018 R34/CLRD70 NOSIG RMK MT OP YPGV 300730Z 15010KT 9999 FEW023 27/20 Q1014 RMK FU FROM SE E YORG 300730Z AUTO 21011KT 9999 // NCD 07/04 Q1018 OEGN 300700Z 25008KT 9999 SCT030 35/29 Q1007 NOSIG K7BM 300733Z AUTO 34003KT 10SM CLR 15/00 A3050 RMK AO2 UBBY 300700Z VRB02KT 9999 NSC 25/12 Q1021 R33/////// NOSIG RMK MT OP OEGS 300700Z 16006KT CAVOK 40/13 Q1011 OEGT 300700Z 27016KT CAVOK 27/16 Q1012 NOSIG OEHL 300700Z 24004KT CAVOK 38/07 Q1014 NOSIG UBEE 300700Z 32004KT CAVOK 27/17 Q1016 R30/CLRD70 NOSIG YPKA 300730Z AUTO 29018KT 9999 // NCD 27/12 Q1014 YPKG 300730Z AUTO 21009KT 9999 // SCT058 BKN069 19/07 Q1017 TJMZ 291950Z 26011KT 10SM BKN040 33/25 A2998 YPJT 300730Z AUTO 24010KT //// // SCT062 17/05 Q1020 YPLC 300730Z AUTO 07006KT 9999 // NCD 14/10 Q1021 ZHCC 300700Z 17003MPS 110V250 7000 SCT030 30/21 Q1007 NOSIG ZGKL 300700Z 07003MPS 030V110 9999 FEW020 SCT026 OVC053 27/22 Q1008 NOSIG UAOO 300730Z 18003MPS 140V260 CAVOK 30/M00 Q1018 R24/CLRD70 NOSIG RMK QFE751/1002 OEJN 300700Z 28006KT 9999 FEW040 35/28 Q1006 NOSIG YPKS 300730Z AUTO 21009KT //// // ////// 08/05 Q1019 YPKT 300730Z AUTO 26008KT //// // ////// 30/17 Q1012 YPKU 300730Z AUTO 08006KT 9999 // SCT125 34/12 Q1012 OEKJ 300700Z VRB03KT CAVOK 43/05 Q1011 OEKK 300600Z 11005KT CAVOK 38/11 Q1009 NOSIG YPLM 300730Z AUTO 30007KT 9999 // SCT069 BKN087 BKN100 25/13 Q1017 K6R3 300735Z AUTO 00000KT 7SM CLR 21/20 A3000 RMK AO2 T02050195 TJPS 300550Z 00000KT 10SM FEW050 26/22 A2995 K6R6 300653Z AUTO VRB04KT 26/14 A3002 RMK AO1 SLP128 T02560139 OEMA 300700Z 00000KT 7000 SKC 40/02 Q1012 NOSIG K8A0 300715Z AUTO 00000KT 10SM SCT095 BKN110 20/20 A3010 RMK AO2 K96D 300715Z AUTO 7SM CLR 19/19 A2976 RMK AO2 YPMQ 300730Z AUTO 19008KT 9999 // NCD 16/08 Q1016 SUAA 292100Z 17005KT CAVOK 19/12 Q1009 YPOD 300730Z AUTO 13006KT 9999 // OVC028 09/06 Q1024 ZGNN 300700Z 01004MPS 9999 -RA FEW007 SCT013 25/23 Q1006 NOSIG UARR 300730Z 30008MPS 9999 BKN021CB BKN083 20/15 Q1003 R22/210360 TEMPO 29008G13MPS BKN006 BKN020CB RMK QFE749/0999 TJSJ 300656Z 08010KT 10SM SCT024 28/24 A2998 RMK AO2 SLP149 VCSH SW T02780244 UASK 300730Z 13003MPS 080V190 9999 FEW050 FEW230 26/00 Q1019 R12/090060 NOSIG RMK QFE738/0985 YPPD 300730Z AUTO 34015KT 9999 // NCD 26/15 Q1014 YPPF 300730Z AUTO 23009KT 9999 // NCD 14/05 Q1022 UATE 300730Z 19009MPS 6000 NSC 29/02 Q1016 R12/0///70 TEMPO 1500 DU RMK QFE760/1013 K7L2 300715Z AUTO 16010KT 10SM CLR 19/19 A2981 RMK AO2 YPPH 300730Z 27010KT CAVOK 18/05 Q1019 UATG 300730Z 23011G16MPS CAVOK 27/13 Q1011 R32/CLRD70 NOSIG RMK QFE760/1014 UASP 300730Z 20004MPS 160V240 9999 FEW040CB BKN100 26/M01 Q1013 R21/0///70 NOSIG RMK QFE749/0998 SUCA 292200Z VRB03KT CAVOK 18/14 Q1007 UASS 300730Z 23005MPS 200V280 CAVOK 30/M02 Q1017 R08/0///60 NOSIG RMK QFE742/0989 OEPA 300700Z 36002KT CAVOK 42/12 Q1008 NOSIG ZGOW 300700Z 15004MPS 120V180 6000 -SHRA SCT011 FEW026CB BKN040 27/26 Q1006 NOSIG ZHHH 300700Z 26002MPS 220V310 6000 NSC 33/23 Q1007 NOSIG K8D3 300656Z AUTO 17006KT 18/17 A2987 RMK AO1 SLP098 T01830172 UATT 300730Z 22012MPS 9999 FEW060CB OVC150 27/04 Q1005 R31/CLRD70 NOSIG RMK QFE734/0979 K7N0 300735Z AUTO 19003KT 10SM CLR 27/20 A3001 RMK AO1 CMGB 300730Z AUTO 18002KT 18/16 RMK AO1 SLP163 T01770162 58012 CMFM 300700Z AUTO 24002KT 14/13 RMK AO1 SLP149 T01410126 58013 UAUU 300730Z 18007MPS CAVOK 23/09 Q1003 R15/CLRD70 TEMPO 19015MPS RMK QFE736/0982 OERF 300700Z 13012KT 9999 BKN040 40/03 Q1008 SUDU 292100Z 31009KT CAVOK 25/17 Q1008 OERK 300700Z 10006KT CAVOK 41/02 Q1011 NOSIG OERR 300700Z 02007KT CAVOK 37/11 Q1009 NOSIG OETB 300700Z 29008KT CAVOK 30/11 Q1013 NOSIG OESK 300700Z 31005KT CAVOK 35/02 Q1011 NOSIG YPTN 300730Z AUTO 11007KT 9999 // NCD 35/08 Q1012 UCFM 300730Z 29003MPS CAVOK 27/04 Q1018 R08/CLRD70 NOSIG UCFO 300730Z 28004MPS 9999 FEW050TCU SCT164 25/09 Q1018 R12/CLRD70 NOSIG OETF 300700Z 03010KT CAVOK 34/08 Q1019 NOSIG ZGSZ 300700Z 18003MPS 160V220 9999 -SHRA BKN013 FEW020CB 27/25 Q1006 BECMG AT0840 FEW015 OERY 300600Z 10005KT 9000 SKC 40/03 Q1011 TKPK 300200Z 07014KT 9999 SCT018 28/26 Q1016 TKPN 292300Z 09012KT 9999 FEW017TCU 29/25 Q1015 K7R3 291756Z 31003KT 10SM SKC 31/19 A3006 RMK DA1700 OETR 300700Z 31008KT CAVOK 29/13 Q1012 NOSIG K9A5 300735Z AUTO 00000KT 2 1/2SM SCT001 SCT007 SCT028 21/18 A3012 RMK AO2 T02110178 SVAC 300000Z 18001KT 9999 BKN017 25/24 Q1012 YREN 300730Z AUTO 14004KT 060V170 //// // ////// 16/M03 Q1022 YPWR 300730Z AUTO 02006KT 9999 // NCD 18/M02 Q1020 OEWJ 300700Z 31012KT CAVOK 32/28 Q1007 NOSIG YPXM 300700Z AUTO 12015KT 9999 // SCT022 26/18 Q1016 SVBC 300700Z /////KT 9999 SCT010 27/24 Q1013 SVBI 300300Z 00000KT 9999 FEW017 SCT070 23/20 Q1015 SVBM 300600Z 09009KT 9999 BKN013 23/21 Q1015 MYGF 300000Z 12009KT 9999 FEW012CB OVC200 29/25 A2997 RMK CB SE-S/NW DSNT LTG S/NW TCU N/E/S-SW K9D7 300715Z AUTO 13006KT 8SM CLR 18/18 A2977 RMK AO2 HTAR 300600Z 12010KT 9999 BKN020 18/14 Q1025 OEYN 300700Z 12003KT 9999 SCT040 37/29 Q1004 NOSIG K7W4 300735Z AUTO 10SM CLR 19/17 A3012 RMK AO1 T01920166 SVCR 300600Z /////KT 9999 FEW013 31/26 Q1012 K7W6 300735Z AUTO 00000KT 7SM CLR 19/19 A3008 RMK AO2 T01890185 SULS 300700Z 01010KT 9999 FEW020 BKN200 13/11 Q1013 SVCU 300600Z 16003KT ///// 25/23 Q1014 HTDA 300600Z 00000KT 9999 FEW024 25/22 Q1020 NOSIG HTBU 300600Z 00000KT 9999 RETS FEW016 FEW018CB BKN080 20/17 Q1019 K9F2 291134Z 21005KT 8SM OVC030 25/23 A3002 SVCZ 300200Z /////KT 9999 FEW020 26/25 Q1009 SUMU 300700Z 00000KT CAVOK 12/09 Q1012 TEMPO BR HTDO 300600Z 09014KT 9999 FEW020 20/14 Q1022 NOSIG YSBK 300730Z AUTO 15009KT 9999 // SCT120 15/03 Q1017 YSCB 300730Z 29006KT 9999 FEW030 BKN044 11/04 Q1018 TLPC 300100Z 10007KT 9999 BKN020 28/25 Q1014 TEMPO SHRA SVGD 300300Z 25003KT 9999 FEW017 SCT070 23/22 Q//// SVGI 292000Z /////KT 9999 SCT010 32/23 Q//// YRMD 300730Z AUTO 19013KT //// // ////// 28/M01 Q1015 TLPL 300700Z 10017KT 9999 SCT023 BKN270 28/26 Q1013 NOSIG YSCN 300730Z AUTO 12003KT 9999 // SCT066 BKN115 14/06 Q1017 YSCO 300730Z AUTO 00000KT //// // ////// 14/04 Q1016 YSCR 300730Z AUTO 22009KT 190V250 //// // ////// 17/08 Q1018 SVGU 300600Z /////KT 9999 FEW017 23/22 Q1014 MZBZ 300200Z 110002KT 9999 FEW017 28/26 A2990 Q1012 NOSIG YSDU 300730Z AUTO 23012KT 9999 // BKN044 12/05 Q1018 HRYR 300730Z 12004KT 9999 FEW025 25/14 Q1024 NOSIG SVJC 291600Z 08025KT 9999 FEW060 XX/XX Q1011 YROM 300730Z AUTO 21009KT 9999 // NCD 17/03 Q1017 YSGE 300730Z AUTO 21008KT //// // ////// 16/01 Q1018 SUSO 300000Z 07009KT CAVOK 21/16 Q1011 MYNN 300300Z 16010KT 9999 SCT016 SCT180 29/23 A3002 K9L2 300655Z AUTO 24006KT 10SM CLR 26/09 A2994 RMK AO2 SLP112 T02560089 $ TNCA 300700Z10010KT 9999 FEW018 28/25 Q1011 A2986 NOSIG TNCB 300700Z AUTO 09010KT 060V130 //// ////// 29/25 Q1011 NOSIG HTIR 300600Z 00000KTS 9999 FEW018 19/11 Q1026 HSSJ 300700Z 28002KT 9999 FEW040 28/17 Q1016 TNCC 300700Z 12008KT 9999 FEW017 28/25 Q1011 NOSIG HTKA 300600Z 09008KT CAVOK 24/14 Q1021 TNCE 300700Z AUTO 07009KT //// ////// ///// Q1015 DFFD 300700Z 26005KT 9999 FEW020 24/23 Q1016 NOSIG YSHK 300730Z AUTO 20011KT //// // ////// 23/12 Q1018 ZJHK 300700Z 26003MPS 230V290 9999 FEW023 29/24 Q1005 NOSIG SVMC 292100Z /////KT 9999 FEW016 36/26 Q1008 HTKJ 300600Z 03006KT 9999 BKN022 BKN080 20/16 Q102 NOSIG HSSS 300730Z 18012KT 6000M SA Q1014 SVMD 300300Z 07006KT 9999 BKN033 18/17 Q1022 TNCM 300700Z 09008KT 9999 SCT018TCU 28/25 Q1014 A2997 RERA TCU NE K8W2 300735Z AUTO 00000KT 7SM CLR 16/16 A3012 RMK AO1 T01630155 SVMG 300700Z /////KT 9999 SCT010 26/24 Q1012 NOSIG SVMI 300700Z 00000KT 9999 FEW016 25/21 Q1012 NOSIG YSHT 300730Z AUTO 21011KT 9999 // NCD 11/05 Q1020 YSHW 300730Z AUTO 16007KT 9999 // SCT057 14/06 Q1017 HTMB 300600Z 10010KT 9999 FEW018 18/11 SVMN 292100Z 25005KT 9999 FEW020 37/// Q1007 UEEE 300730Z 30004MPS CAVOK 21/03 Q1019 R23L/09//60 NOSIG RMK QFE755 HTMG 300600Z 00000KT 9999 SCT022 21/18 Q1021 SVMT 291300Z 07004KT 9999 BKN010 30/22 Q1013 OIAA 300700Z 35008KT CAVOK 44/13 Q1004 OIAD 300200Z 31004KT 7000 NSC 35/09 Q1003 A2964 FEW100 K9MN 300733Z AUTO 15005KT 10SM CLR 16/17 A3003 RMK AO1 T01630165 YTAR 300730Z AUTO 01009KT 010V070 //// // ////// 22/M01 Q1019 YRTI 300730Z AUTO 21010KT //// // ////// 16/06 Q1020 OIAG 300700Z 31002KT CAVOK 44/M15 Q1003 OIAH 300700Z 00000KT CAVOK 40/M00 Q1010 OIAI 300100Z 15002KT CAVOK 33/06 Q1003 SVPA 300600Z /////KT 8000 BKN013CB 24/24 Q1015 TSRA OIBA 300700Z 10010KT 8000 NSC 37/28 Q1002 SVPC 291900Z 09011KT 9999 SCT040 33/// Q1011 OIBB 300700Z 23012KT 4000 HZ NSC 37/27 Q1002 A2960 HTMT 300600Z 14007KT 9999 FEW022 26/21 Q1020 DGAA 300700Z 24007KT 9999 SCT011 24/22 Q1016 NOSIG HTMU 300500Z 10005KT 9999 FEW020CB 21/14 Q1020 OIAM 300700Z 33018KT CAVOK 45/05 Q1003 HTMW 300600Z 09012KT 9999 FEW025 24/12 Q1018 NOSIG HUEN 300600Z 14010G20KT 6000 TSRA BKN017 FEW019CB OVC100 20/18 Q1021 OIBJ 300700Z 21006KT 7000 NSC 38/20 Q1010 OIBK 300700Z 12012KT 7000 NSC 39/24 Q1003 OIBL 300700Z 11016KT 5000 SA NSC 36/29 Q1003 OICC 300730Z 12006KT CAVOK 32/M05 Q1018 A3007 NOSIG OIAW 300730Z 34004KT CAVOK 44/17 Q1003 YSMH 300730Z AUTO 17003KT 9999 // NCD 22/16 Q1014 YSMI 300730Z AUTO 32008KT //// // ////// 09/05 Q1022 OIBP 300730Z 16002KT 9000 NSC 42/25 Q1003 A2962 OIBQ 300700Z 14006KT 5000 HZ NSC 36/32 Q1003 OICI 300700Z 34004KT CAVOK 34/M06 Q1018 A3008 OICJ 291550Z 03004KT CAVOK 29/02 Q1018 OIBS 300700Z 06014KT CAVOK 35/30 Q1004 OICK 300700Z 00000KT CAVOK 34/M01 Q1017 YTEE 300730Z AUTO 22010KT 150V220 9999 // NCD 26/M04 Q1016 KMG 300730Z AUTO 19010KT 9999 // SCT010 SCT024 06/05 Q1021 YSNF 300725Z AUTO 01013KT 6000 // SCT016 BKN022 OVC034 17/15 Q1017 YTEF 300730Z AUTO 33014KT //// // ////// 31/04 Q1013 OIBV 300700Z 20006KT 6000 NSC 36/28 Q1003 SVSA 300600Z /////KT 9999 SCT020 28/17 Q1013 OICS 300553Z 07002KT CAVOK 28/06 Q1019 YTEM 300730Z AUTO 23005KT //// // ////// 10/06 Q1020 CPBT 300600Z AUTO 24012KT 15/03 RMK AO1 PK WND 24017/0500 T01520029 UDSG 300700Z VRB01MPS 9999 NSC 20/07 Q1022 R02/CLRD70 NOSIG YSNW 300730Z AUTO 19006KT 9999 // OVC044 13/07 Q1018 SVST 291400Z 00000KT 9999 BKN035 ///// Q1015 CPEH 300600Z AUTO 23015KT 19/02 RMK AO1 PK WND 22025/0544 T01910015 YTGM 300730Z AUTO 18008KT //// // ////// 19/M02 Q1019 OIFK 300100Z 36004KT CAVOK 25/08 Q1017 HTTB 300600Z 09010KT CAVOK 22/12 Q1022 OIFM 300730Z 14004KT 7000 NSC 30/01 Q1019 A3012 HTSO 300600Z 09008KT 9999 FEW018 20/12 Q1025 OIGG 300730Z 08004KT CAVOK 27/17 Q1015 YTIB 300730Z AUTO 17010KT //// // ////// 16/M02 Q1021 SVVA 300400Z 36001KT 9999 BKN016 27/24 Q1015 OIFS 300700Z 10004KT CAVOK 27/04 Q1024 OIGK 291551Z 06006KT 9999 FEW020 15/11 Q1025 K9V9 300735Z AUTO 19012KT 10SM CLR 21/17 A2991 RMK AO2 T02120165 HTSU 300600Z 13006KT 9999 SKC 19/09 Q1025 SVVG 291600Z 00000KT 8000 VCHZ BKN090 XX/XX Q1008 YSRI 300730Z AUTO 10007KT 9999 // SCT079 SCT105 15/07 Q1017 DFOO 300700Z 22006KT CAVOK 23/21 Q1016 OIHH 300500Z 30002KT CAVOK 20/05 Q1022 SVVL 300600Z 23005KT 9999 SCT033 26/17 Q1015 YSRN 300730Z AUTO 19009KT 9999 // NCD 09/05 Q1022 OIHM 300100Z 12008KT CAVOK 18/03 Q1021 OIIE 300700Z 14011KT CAVOK 28/06 Q1019 OIHR 300730Z 02008KT 8000 NSC 28/04 Q1022 OIII 300730Z 21006KT 9999 FEW040 27/08 Q1020 A3013 OIIK 300700Z 12006KT CAVOK 26/12 Q1021 PAAD 300735Z AUTO 00000KT 1 3/4SM BR OVC003 00/00 A2945 RMK AO2 YSTH 300730Z AUTO 18008KT 9999 // SCT038 BKN047 OVC072 10/05 Q1021 OIIP 300600Z 00000KT CAVOK 23/12 Q1020 OJAI 300700Z 27012KT 7000 NSC 26/14 Q1015 NOSIG OIIS 300100Z 00000KT CAVOK 22/08 Q1018 PABA 300656Z AUTO 28005KT 3SM BR FEW008 02/01 A2943 RMK AO2 UPE0557 SLP963 T00170011 FZRANO $ OIKB 300730Z 17010KT 5000 HZ NSC 37/30 Q1004 A2966 PAAK 300736Z 09004KT 10SM OVC010 14/12 A2988 RMK AO1 OJAM 300700Z 30004KT 7000 NSC 26/10 Q1014 NOSIG YSSY 300730Z 19015KT 9999 FEW035 SCT060 15/07 Q1017 NOSIG ZJSY 300700Z 26004MPS 9999 SCT020 31/26 Q1005 TEMPO SHRA PABE 300653Z 32015G20KT 10SM CLR 06/02 A2974 RMK AO2 SLP074 T00560022 PAAP 300250Z 35007KT 10SM SCT030 14/08 A2924 RMK LAST NO SPECI PAAQ 300653Z AUTO 31004KT 10SM FEW085 06/03 A2925 RMK AO2 RAE16 SLP909 P0000 T00610033 TSNO OJAQ 300700Z 36010KT CAVOK 31/13 Q1010 NOSIG PABI 300653Z AUTO 29009KT 10SM BKN050 OVC070 04/02 A2935 RMK AO2 SLP957 T00440017 TSNO CPIR 300600Z AUTO 20013KT 18/03 RMK AO1 PK WND 23024/0507 T01760028 OIKK 300700Z 00000KT 9999 FEW040 31/M02 Q1022 A3019 YSTW 300730Z AUTO 24007KT 9999 // NCD 12/03 Q1017 PABL 300736Z AUTO 29005KT 10SM FEW027 BKN065 02/00 A2952 RMK AO1 PACD 300718Z AUTO 01011KT 10SM FEW006 BKN031 OVC048 09/09 A2979 RMK AO2 T00940089 TSNO $ OIKQ 300700Z 09016KT 7000 NSC 39/30 Q1004 PABR 300653Z AUTO 11006KT 10SM BKN065 00/M01 A2945 RMK SLP972 T00001006 TSNO VIA AUTODIAL HTZA 300600Z 22006KT 9999 BKN016 24/22 Q1020 NOSIG OIMB 300700Z 24006KT CAVOK 27/M05 Q1020 PABT 300653Z 00000KT 10SM BKN060 02/M01 A2940 RMK SLP967 T00221006 VIA AUTODIAL OIMC 300700Z 27010KT CAVOK 29/M01 Q1019 YTMO 300730Z AUTO 16007KT //// // ////// 26/M04 Q1017 PABV 300706Z AUTO 11007KT 10SM CLR 08/02 A2927 RMK AO2 SLP919 T00830017 OIMD 300700Z 01008KT CAVOK 26/M01 Q1017 PACM 300656Z AUTO 32019KT 10SM FEW029 BKN036 BKN042 07/03 A2983 RMK AO2 TSNO T00660027 PK WND 33026/0557 SLP098 $ YTNG 300730Z AUTO 23005KT 9999 // NCD 20/07 Q1015 YSWG 300730Z 29007KT 9999 FEW045 11/06 Q1019 PADE 300653Z AUTO 29018KT 10SM -RA FEW018 OVC049 05/01 A2951 RMK AO2 PK WND 28029/0630 SLP995 T00500011 TSNO PNO $ YSWH 300730Z AUTO 21006KT 9999 // NCD 14/04 Q1021 PADG 292355Z 31007KT 15SM BKN009 OVC012 02/01 A2945 UDYZ 300730Z VRB01MPS 9999 NSC 24/12 Q1018 R09/0///70 NOSIG YTNK 300730Z AUTO 09010KT 9999 // NCD 26/M02 Q1017 OINB 300100Z 00000KT 9999 FEW020 BKN090 23/21 Q1016 PADK 300736Z 25013G19KT 7SM OVC010 14/11 A2988 RMK AO1 PADL 300736Z 00000KT 10SM BKN070 07/04 A2962 RMK AO1 OIMM 300700Z 05008KT CAVOK 25/M07 Q1021 A3018 PAED 300658Z AUTO 00000KT 10SM FEW090 06/05 A2926 RMK AO2 SLP905 T00590051 PACV 300653Z 00000KT 10SM SCT080 BKN100 OVC150 07/04 A2915 RMK AO2 SLP871 T00670044 PADM 300656Z AUTO 29012G17KT 10SM SCT022 BKN060 06/03 A2973 RMK AO2 TSNO T00550027 BKN V SCT SLP056 $ OINE 300700Z 28004KT 9999 FEW030 30/18 Q1015 OIMN 300700Z 08004KT CAVOK 23/05 Q1022 UERP 300730Z 27005G10MPS CAVOK 12/M01 Q1020 NOSIG RMK QFE721 OING 300730Z 14006KT 9999 SCT030TCU 30/20 Q1016 PAEG 300653Z AUTO 00000KT 10SM OVC065 03/01 A2930 RMK AO2 SLP929 T00280006 TSNO $ UERR 300730Z 33004MPS CAVOK 18/M01 Q1023 R25/CLRD60 NOSIG RMK QFE736 OIMQ 300700Z 19006KT CAVOK 26/M02 Q1020 PADQ 300653Z 30011KT 10SM FEW010 SCT030 SCT055 11/04 A2937 RMK AO2 SLP946 T01060044 $ PAEH 300655Z AUTO 35028G35KT 10SM BKN027 09/05 A2977 RMK AO2 PK WND 33035/0651 SLP082 T00890047 PACZ 300655Z AUTO 36033G40KT 260V020 10SM BKN021 06/02 A2979 RMK AO2 PK WND 28043/0609 SLP093 T00570018 PAEI 300713Z AUTO 00000KT 10SM FEW015 BKN023 BKN060 04/03 A2937 RMK AO2 RAE01 CIG 023V060 BKN023 V SCT $ OIMS 291500Z 36010KT 9999 FEW035 29/03 Q1019 NSFA 300700Z 13009KT 9999 FEW025 SCT290 24/17 Q1014 PAFA 300653Z 33003KT 10SM -RA FEW013 BKN021 OVC035 06/03 A2937 RMK AO2 RAE10B40 SLP952 P0001 T00560028 PAFB 300708Z AUTO 00000KT 8SM SCT017 OVC024 05/04 A2938 RMK AO2 CIG 017V024 PAEL 300256Z VRB06KT 20SM SCT040 SCT100 11/07 A2921 RMK SPB E03018KT NOSPECI LAST PADU 300656Z AUTO 00000KT 5SM RA OVC022 16/13 A2984 RMK AO2 SLP109 P0013 T01560128 PAEM 300656Z AUTO 31016G20KT 9SM SCT020 OVC026 06/04 A2973 RMK AO1 P0001 OINN 300700Z VRB02KT 9999 SCT020 FEW025CB OVC080 24/21 Q1015 PAEN 300653Z AUTO 26004KT 10SM CLR 08/04 A2929 RMK AO2 SLP921 T00780039 TSNO PAFE 300736Z AUTO 08004KT 10SM SCT006 BKN070 A2926 RMK AO1 OINR 300700Z 08008KT 9999 FEW035 27/19 Q1014 PAGA 300658Z AUTO 26009KT 10SM SCT033 BKN040 OVC065 05/01 A2950 RMK AO2 SLP996 T00500006 PNO $ PAFM 300736Z AUTO 36004KT 10SM OVC120 03/M01 A2948 RMK AO1 OINZ 300700Z 30004KT 9999 FEW025TCU SCT030 28/21 Q1015 SYCJ 300700Z 07004KT 9999 FEW013 SCT090 25/24 Q1012 NOSIG PAFR 300733Z AUTO 00000KT 10SM CLR 03/03 A2926 RMK AO1 PAFS 300656Z AUTO 00000KT 10SM FEW037 BKN055 OVC075 04/M01 A2951 RMK AO2 TSNO T00441005 SLP002 $ PAGK 300653Z AUTO 33006KT 10SM FEW080 BKN110 04/M03 A2924 RMK AO2 SLP919 T00391028 TSNO YTRE 300730Z AUTO 16008KT 9999 // NCD 15/08 Q1016 PAGL 300736Z AUTO 31015G22KT 10SM OVC060 05/01 A2964 RMK AO1 PAHC 300656Z AUTO 25008KT 10SM FEW025 SCT036 BKN050 06/02 A2961 RMK AO2 TSNO T00550016 BKN V SCT SLP030 $ PAGM 300736Z AUTO 01009KT 10SM OVC120 07/M01 A2990 RMK AO1 PAGN 300730Z AUTO 00000KT 10SM FEW009 OVC023 10/10 A2921 RMK AO2 TSNO $ PAGS 300736Z AUTO 00000KT 10SM SCT046 08/06 A2918 RMK AO1 PAHL 300736Z AUTO 27005KT 10SM CLR 03/M01 A2945 RMK AO1 PAHN 300654Z AUTO 00000KT 10SM OVC040 08/07 A2921 RMK AO2 SLP895 T00780067 TSNO PAHO 300653Z AUTO 15003KT 10SM CLR 08/02 A2931 RMK SLP925 T00780022 TSNO $ VIA AUTODIAL PAGY 300653Z AUTO 00000KT 10SM OVC070 09/07 A2921 RMK AO2 SLP891 T00890072 TSNO PAIG 300656Z AUTO 30009KT 10SM CLR 07/02 A2954 RMK AO2 TSNO T00720016 SLP008 $ PAII 300736Z AUTO 33006KT 10SM CLR 09/06 A2962 RMK AO1 OISA 300055Z 00000KT CAVOK 16/M01 Q1021 NTAA 300730Z 07008KT 9999 FEW020 BKN040 27/22 Q1013 NOSIG PAIK 300701Z AUTO 30003KT 10SM OVC070 03/00 A2948 RMK AO2 SLP024 T00280000 PNO $ PAIL 300653Z AUTO 32015G24KT 10SM CLR 08/00 A2950 RMK AO2 SLP991 T00780000 TSNO PAIM 300729Z AUTO 00000KT 10SM OVC029 01/00 A2941 RMK AO2 SLP972 PAIN 300736Z AUTO 00000KT 10SM BKN042 OVC050 01/01 A2938 RMK AO1 OISF 300700Z 00000KT CAVOK 37/11 Q1014 PAHX 300656Z AUTO 29005KT 10SM BKN060 OVC075 05/03 A2960 RMK AO2 SLP025 T00500028 YTTI 300730Z AUTO 30009KT //// // ////// 29/22 Q1013 PAHY 300736Z AUTO RMK AO1 YTST 300730Z AUTO 34007KT 9999 // NCD 29/19 Q1013 OISL 300700Z 06004KT CAVOK 38/16 Q1009 PAIW 300719Z AUTO 33023G30KT 10SM -RA BKN015 OVC023 05/03 A2975 RMK AO2 PK WND 33031/0708 P0000 PAJN 300730Z 09004KT 10SM SCT008 BKN045 OVC070 09/08 A2921 RMK AO2 T00940083 DIAD 300500Z VRB02KT 8000 SCT013 22/21 Q1015 NOSIG PAKF 300721Z AUTO 36018G22KT 5SM -RA BR BKN013 OVC029 11/09 A2980 RMK AO2 P0001 $ CPRO 300700Z AUTO 19009KT 16/04 RMK AO1 PK WND 23030/0601 T01600044 OISR 300700Z 14004KT 8000 NSC 38/20 Q1007 PAKI 300656Z AUTO 31015G23KT 10SM BKN036 BKN043 07/02 A2983 RMK AO2 TSNO T00660022 BKN V SCT SLP103 $ ZLLL 300700Z 04010MPS 7000 BLSA FEW023 FEW033CB 26/07 Q1017 BECMG TL0840 07005MPS NSW OISS 300730Z 00000KT CAVOK 35/M03 Q1017 A3005 OITK 300600Z 03004KT CAVOK 20/12 Q1020 PAKK 300736Z AUTO 28005KT 10SM OVC060 04/M06 A2954 RMK AO1 OKBK 300730Z 01009KT CAVOK 45/09 Q1004 NOSIG OITL 300730Z 34006KT 9999 FEW030 FEW040TCU 21/13 Q1021 OITM 300700Z 06006KT 9999 FEW035 24/10 Q1020 SYGO 292200Z 04006KT 9999 FEW020CB SCT021 30/23 Q1011 CB S W NOSIG PAKN 300654Z 31008KT 10SM FEW055 07/03 A2955 RMK AO2 SLP005 T00670028 OITP 300700Z 35004KT CAVOK 26/20 Q1015 OISY 300700Z 00000KT CAVOK 29/01 Q1021 PAKP 300736Z AUTO 03003KT 10SM SCT005 BKN047 OVC055 M01/M07 A2933 RMK AO1 PALG 300733Z AUTO 29007KT 10SM SCT023 BKN070 06/03 A2966 RMK AO2 TSNO $ PALH 300653Z 00000KT 10SM SCT080 08/03 A2928 RMK AO2 SLP915 T00780033 YTWB 300730Z AUTO 25013KT 9999 // NCD 13/03 Q1017 CPRY 300700Z AUTO 22011KT 17/04 RMK AO1 PK WND 24019/0646 T01660043 OITR 300730Z 04004KT CAVOK 23/11 Q1020 DIAP 300730Z 25006KT 7000 BKN008 23/22 Q1017 TEMPO BKN004 PALJ 300250Z 08006KT 25SM BKN060 BKN100 10/06 A2941 RMK LAST EST PASS CLOSED NO SPECI OITT 300730Z 05002KT 9999 FEW030TCU 23/11 Q1022 A3018 PAKT 300653Z AUTO 14005KT 10SM FEW042 BKN065 13/11 A2931 RMK AO2 SLP927 T01280111 TSNO OITU 300050Z 00000KT CAVOK 15/11 Q1021 PAKU 300156Z 15003KT 10SM R24/P6000FT BKN048 06/00 A2946 PAMC 300653Z AUTO 27003KT 10SM OVC055 06/01 A2952 RMK AO2 SLP002 T00560006 TSNO DIBK 300700Z 24008KT 7000 SCT003 OVC010 20/20 Q1018 NOSIG CPST 300700Z AUTO 20007KT 13/05 RMK AO1 T01300052 PAKV 300653Z AUTO 22004KT 10SM BKN042 OVC110 05/00 A2955 RMK AO2 SLP008 T00500000 TSNO PAMD 300736Z AUTO 31004KT 10SM OVC120 09/02 A2917 RMK AO1 PAKW 300653Z AUTO 16005KT 10SM SCT050 BKN070 11/09 A2924 RMK AO2 SLP901 T01110094 TSNO $ CPSV 300700Z AUTO 20006KT 18/08 RMK AO1 T01760080 PALP 300252Z 22008KT 10SM SCT028 BKN039 06/01 A2944 RMK LAST OITZ 300700Z 16010KT CAVOK 22/11 Q1021 PAMH 300736Z AUTO RMK AO1 PANA 300723Z AUTO 32013KT 10SM FEW030 06/03 A2974 RMK AO2 PAMK 300656Z AUTO 32016KT 10SM BKN030 BKN041 OVC050 07/02 A2964 RMK AO2 TSNO T00660022 SLP035 $ PANC 300653Z 00000KT 10SM FEW055 SCT075 SCT180 07/03 A2927 RMK AO2 SLP913 T00670033 $ PALU 300735Z AUTO 33016KT 10SM FEW018 BKN026 04/01 A2954 RMK AO2 SLP002 PAMM 300436Z AUTO 17006KT 10SM SCT100 13/11 A2930 RMK AO1 DIBU 300500Z VRB02KT 6000 SCT006 OVC013 22/21 Q1016 NOSIG PAMO 300656Z AUTO 31019G23KT 10SM SCT020 OVC028 05/03 A2974 RMK AO2 TSNO T00500033 RAB24E38 P0000 SLP958 $ PAMR 300653Z 00000KT 10SM SCT090 08/04 A2927 RMK AO2 SLP911 T00780044 PANI 300736Z AUTO 29008G14KT 10SM OVC075 06/02 A2964 RMK AO1 UHBB 300730Z 03006MPS 9999 -TSRA BKN026CB BKN200 21/20 Q1014 RETS R36/090060 TEMPO 09008MPS 2100 -TSRA RMK QFE743/0991 DIDK 300500Z ///// 0400 FG SCT006 21/20 Q//// NOSIG DIDL 291700Z ///// 9999 SCT015 BKN100 28/22 Q1014 NOSIG PANN 300721Z AUTO 24003KT 10SM BKN019 OVC120 04/02 A2939 RMK AO2 T00390022 TSNO PAMY 300736Z AUTO 35019G24KT 10SM OVC035 08/M01 A2988 RMK AO1 PAOH 300656Z AUTO 08005KT 10SM CLR 08/08 A2922 RMK AO2 TSNO T00770077 SLP895 $ PAPB 300713Z AUTO 04010KT 10SM BKN018 09/07 A2994 RMK AO2 T00890072 TSNO PANT 300653Z AUTO 16006KT 10SM FEW006 BKN034 OVC060 13/12 A2932 RMK SLP930 T01280122 TSNO VIA AUTODIAL PAOM 300653Z AUTO 30014KT 10SM FEW039 OVC055 04/02 A2968 RMK AO2 CIG 048 NE SLP050 T00440017 TSNO PANV 300736Z AUTO 27008KT 10SM BKN070 04/M01 A2959 RMK AO1 PANW 300656Z AUTO 34012KT CLR 07/01 RMK AO2 PWINO TSNO T00660005 SLPNO $ UGKO 300730Z VRB05KT 9999 SCT040 26/17 Q1018 R07/09//70 NOSIG PAOO 300714Z AUTO 33020G27KT 10SM FEW022 BKN030 OVC035 07/02 A2985 RMK AO2 TSNO RAB0657E01 P0000 PK WND 33027/0709 $ PAPG 300736Z 00000KT 9SM BKN009 08/06 A2925 RMK AO1 PAPH 300736Z AUTO RMK AO1 PAOR 300653Z 00000KT 10SM FEW025 BKN046 OVC080 02/01 A2927 RMK AO2 RAE39 SLP929 P0000 T00220006 OIZB 300700Z 32029G39KT 4000 SA NSC 31/03 Q1009 PAOT 300653Z 32014KT 10SM FEW028 SCT060 05/00 A2951 RMK AO2 SLP992 T00500000 $ OIZC 300200Z 00000KT 4000 BR FEW030 25/23 Q1004 A2965 DIGA 300500Z 26004KT 8000 BKN005 21/21 Q1015 NOSIG PAOU 300656Z AUTO 35017KT FEW024 BKN035 11/11 A2977 RMK AO2 TSNO T01110111 BKN V SCT SLP085 $ PAPN 292226Z AUTO 34013G19KT 10SM OVC015 11/08 A2955 RMK AO2 PWINO TSNO $ CPXL 300700Z AUTO 25006KT 19/03 RMK AO1 T01930034 PAPO 300736Z AUTO 32018KT 9SM SCT014 BKN022 OVC029 03/01 A2954 RMK AO1 OIZH 300730Z 01010KT CAVOK 29/M00 Q1018 A3006 PAQH 300656Z AUTO 30013KT 10SM CLR 06/02 A2977 RMK AO2 SLP081 T00610022 OIZI 300700Z 25004KT CAVOK 40/02 Q1009 OIZJ 300700Z 12012KT 6000 NSC 34/30 Q1004 PAPT 300048Z 31010G16KT 25SM BKN070 08/05 A2933 RMK NO SPECI PARC 300736Z AUTO 00000KT 10SM SCT029 02/00 A2935 RMK AO1 OIYY 300700Z 27002KT CAVOK 32/01 Q1019 PASA 300736Z AUTO 33014G19KT 10SM OVC080 06/M01 A2990 RMK AO1 PAQT 300653Z AUTO 11004KT 10SM FEW039 OVC065 03/01 A2949 RMK AO2 SLP986 T00330011 TSNO PASC 300653Z 02006KT 10SM SCT120 BKN210 03/01 A2946 RMK AO2 SLP976 T00280006 PASD 300736Z AUTO 34014KT 10SM SCT075 BKN090 OVC120 11/09 A2974 RMK AO1 YWCA 300730Z AUTO 19008KT //// // ////// 15/03 Q1021 PASH 292213Z 30020G25KT 5SM FEW025 SCT030 BKN075 07/ A2964 RMK VIA PHONE PASI 300724Z 11006KT 10SM SCT025 BKN034 12/11 A2919 RMK AO2 RAE0658 P0000 T01170106 YWBL 300730Z AUTO 18010KT 9999 // OVC032 09/07 Q1024 OLBA 300700Z 22008KT 8000 SKC 29/22 Q1011 PATA 300652Z AUTO 34005KT 10SM BKN055 OVC080 04/M01 A2945 RMK AO2 SLP977 T00391006 TSNO PARS 300703Z AUTO 29008KT 10SM FEW024 05/03 A2968 RMK AO2 TSNO $ PASK 300736Z AUTO 28006KT 10SM OVC065 04/02 A2948 RMK AO1 PASL 300736Z AUTO RMK AO1 PATC 300655Z AUTO 01028G35KT 3SM -SHRA BKN010 03/03 A2970 RMK AO2 PK WND 36035/0557 SHRAB0555 SLP062 P0001 T00330026 PASM 300736Z AUTO 31012KT 9SM SCT016 BKN022 OVC028 04/02 A2971 RMK AO1 PASN 300709Z AUTO 04009KT 10SM BKN015 08/06 A2996 RMK AO2 T00780056 TSNO PATE 300711Z AUTO 32017KT 10SM -RA BKN009 BKN014 OVC021 04/03 A2970 RMK AO2 CIG 007V012 P0000 PASO 300653Z AUTO 18003KT 10SM SCT090 06/04 A2932 RMK AO2 SLP928 T00560044 TSNO YWBR 300730Z AUTO 29011KT //// // ////// 30/01 Q1014 PATG 300736Z AUTO 30013KT 10SM A2968 RMK AO1 PARY 300656Z AUTO 10SM 03/M01 A2947 RMK AO2 TSNO T00271005 SLP988 $ MSV 300730Z AUTO 18005KT 9999 // NCD 09/04 Q1017 PATK 300653Z AUTO 00000KT 10SM CLR 07/03 A2928 RMK AO2 SLP919 T00670033 TSNO PATL 300655Z AUTO 32001KT 10SM SCT042 BKN075 04/M02 A2954 RMK AO2 SLP012 T00391017 $ PASV 300655Z AUTO 35011KT 10SM BKN050 03/M01 A2950 RMK AO2 RAB0610E0627SHRAB0615E0625 SLP002 T00341014 MUI 300730Z AUTO 17007KT //// // NCD 10/02 Q1017 PASW 300247Z 32010KT 270V360 30SM SCT030 BKN050 13/00 A2929 RMK MAX 14 LAST NOSPECI PATO 300653Z AUTO 28005G15KT 10SM SCT085 09/02 A2924 RMK AO2 SLP901 T00890022 TSNO PASX 300736Z AUTO 00000KT 10SM FEW090 A2928 RMK AO1 UHHH 300730Z 00000MPS 9999 SCT030CB 23/19 Q1014 R23L/090060 TEMPO -TSRA RMK QFE754/1005 PASY 300656Z AUTO 19007KT 4SM BR CLR 09/09 A2973 RMK AO2 SLP069 T00940094 TSNO $ PATQ 300726Z AUTO 00000KT 10SM -RA BKN007 OVC033 01/01 A2944 RMK AO2 TSNO CIG 007V014 P0000 $ NSTU 300700Z 14014KT 10SM BKN023 24/16 A2996 RMK SLP147 T02420160 PAVC 300656Z AUTO VRB04KT 10SM FEW032 BKN046 BKN065 A2976 RMK AO2 TSNO RAE23 P0000 SLPNO $ PAVD 300736Z 26004KT 10SM BKN120 09/M01 A2917 RMK AO1 PAUN 300736Z AUTO 36003KT 10SM SCT033 BKN041 OVC049 05/01 A2958 RMK AO1 DIKO 300500Z 2201KT 8000 NSC 22/21 Q1016 NOSIG UIAA 300730Z 09004MPS 9999 NSC 25/13 Q1018 R29/CLRD70 NOSIG RMK QFE705 UGSB 300730Z 10003KT 9000 -TSRA SCT023CB BKN043 23/22 Q1021 R13/29//56 NOSIG PAUT 300715Z AUTO 30016G22KT 7SM DZ BKN019 OVC025 11/11 A2982 RMK AO2 T01100105 PAVL 300653Z AUTO 31011KT 8SM FEW032 FEW043 OVC075 03/02 A2954 RMK AO2 RAB15E30 SLP003 T00330017 TSNO PNO $ PAWD 300653Z AUTO 33013G22KT 10SM BKN075 12/00 A2922 RMK AO2 PK WND 34026/0620 SLP894 T01170000 TSNO PAWG 300736Z 14004KT 10SM SCT016 BKN039 OVC050 10/08 A2928 RMK AO1 WEA PAWI 300653Z AUTO 08003KT 10SM FEW020 BKN039 OVC090 02/M01 A2942 RMK SLP962 T00221006 TSNO $ VIA AUTODIAL UIBB 300730Z 36003MPS 9999 NSC 17/08 Q1021 R30/CLRD60 NOSIG RMK QFE722/0963 UGTB 300730Z VRB03KT CAVOK 27/13 Q1020 R31L/CLRD80 NOSIG PAWM 300702Z AUTO 31013KT 10SM SCT018 OVC060 04/02 A2962 RMK AO2 PAWN 300736Z AUTO 27010KT 10SM BKN065 01/M02 A2944 RMK AO1 DIMN 291700Z 24004KT 9999 BKN015TCU 27/22 Q1015 NOSIG YWHA 300730Z AUTO 13009KT 9999 // NCD 16/04 Q1021 PAYA 300653Z AUTO 07005KT -RA FEW021 SCT035 OVC050 08/07 A2911 RMK AO2 SLP859 P0003 T00830067 TSNO $ PAWS 300736Z 00000KT 10SM CLR 03/01 A2925 RMK AO1 ZLXY 300700Z VRB01MPS CAVOK 32/18 Q1006 NOSIG DIOD 291700Z 22008KT 9999 BKN013 FEW023CB SCT260 28/23 Q1013 NOSIG YWGT 300730Z AUTO 25007KT 9999 // NCD 13/06 Q1019 YVRD 300730Z AUTO 17003KT //// // ////// 34/07 Q1013 PAZK 300736Z AUTO 03005KT 10SM FEW024 SCT030 BKN038 01/M03 A2923 RMK AO1 UHMM 300730Z 20001MPS 9999 SCT100 OVC200 17/07 Q1013 NOSIG RMK QFE744 10CLRD70 YWIS 300730Z AUTO 21005KT //// // ////// 24/14 Q1014 OMAA 300700Z 19006KT 130V260 CAVOK 42/17 Q1003 A2963 NOSIG OMAD 300700Z 25005KT 220V290 CAVOK 40/18 Q1004 A2964 NOSIG ZMUB 300730Z 04002MPS 9999 SCT033 25/05 Q1021 NOSIG RMK QFE657.8 27 MOP OMAL 300700Z 15011KT 130V190 CAVOK 40/18 Q1006 A2973 NOSIG YWLG 300730Z AUTO 21009KT 9999 // ////// 15/03 Q1018 TQPF 292100Z 08012KT 9999 SCT019 BKN270 30/25 Q1015 YWLM 300730Z AUTO 19008KT 9999 // NCD 14/07 Q1017 DITB 300500Z 00000KT 9999 FEW013 22/21 Q1015 NOSIG UHPP 300730Z 18005MPS 7000 -SHRA BKN004 OVC030CB 11/10 Q1002 R34R/190150 NOSIG RMK MT OBSC QFE748/0998 EBBE 300725Z AUTO 10004KT 8000 NCD 19/16 Q1016 BLU DISP 300500Z VRB02KT 9999 FEW013 21/21 Q1015 NOSIG OMDB 300700Z 22004KT 180V260 CAVOK 41/15 Q1004 NOSIG DISS 291700Z ///// 9999 OVC015 25/22 Q1014 NOSIG EBBL 300725Z AUTO 09006KT 9999 NCD 20/16 Q1016 BLU EBAW 300720Z 10005KT 060V140 CAVOK 20/16 Q1016 NOSIG UIII 300730Z 30004MPS 9999 BKN014CB 17/14 Q1020 R30/290150 NOSIG RMK QFE720/0960 EBCI 300720Z 10003KT 060V180 7000 NSC 20/18 Q1017 NOSIG EBBR 300720Z 11006KT 080V140 9000 NSC 19/16 Q1016 NOSIG VAAH 300710Z 28005KT 6000 BKN020 SCT080 33/25 Q1006 NOSIG YWOL 300730Z AUTO 16007KT 9999 // BKN066 BKN082 14/07 Q1017 VABB 300710Z 30007KT 3500 HZ SCT018 SCT025 BKN090 29/24 Q1008 NOSIG KA08 300735Z AUTO 00000KT 10SM CLR 22/20 A3005 RMK AO2 T02150204 OMDW 300700Z 21008KT 180V240 CAVOK 43/14 Q1005 NOSIG EBCV 300725Z AUTO 11004KT 6000 NCD 19/17 Q1016 WHT UHSS 300730Z 20005MPS 9999 NSC 19/12 Q1015 R19/CLRD70 NOSIG RMK QFE760/1013 OMFJ 300700Z 11007KT 7000 NSC 35/30 Q1005 A2969 EBDT 300725Z AUTO 10007KT 9999 NCD 19/16 Q1016 BLU EBFN 300725Z VRB02KT 6000 FEW030 BKN047 19/18 Q1016 WHT EBFS 300725Z 20005KT 9999 FEW250 23/17 Q1017 BLU DIYO 300700Z 22006KT 8000 BKN010 23/22 Q1016 NOSIG YWUD 300730Z AUTO 05007KT //// // ////// 17/03 Q1020 YWTN 300730Z AUTO 22007KT //// // ////// 26/01 Q1016 UHWW 300730Z 17004MPS 9999 SCT033CB 23/18 Q1012 R25L/0///70 NOSIG RMK QFE757 TRPG 292200Z 11012KT 9999 HZ BKN014 27/25 Q1015 EBLB 300725Z AUTO 19005KT 9999 NCD 23/17 Q1019 BLU EBLG 300720Z 03003KT 360V120 8000 NSC 20/17 Q1017 NOSIG YWWL 300730Z AUTO 24006KT //// // ////// 09/06 Q1020 UKBB 300730Z VRB02MPS CAVOK 21/08 Q1025 88CLRD95 NOSIG YWYM 300730Z AUTO 35011KT //// // ////// 35/13 Q1011 CTNK 300700Z AUTO 21001KT 15/14 RMK AO1 SLP180 T01460135 58008 UKDD 300730Z 03004MPS CAVOK 23/10 Q1023 08090070 NOSIG UKDE 300730Z 34006MPS CAVOK 24/07 Q1022 02CLRD70 NOSIG YWYY 300730Z AUTO 32006KT 9999 // NCD 09/05 Q1022 TTCP 300700Z 09008KT 9999 FEW016 27/24 Q1012 NOSIG RMK JP-N UIUU 300730Z 28002MPS 5000 FU NSC 29/12 Q1015 R26/010095 NOSIG RMK QFE717/0956 EBOS 300720Z VRB02KT 9999 FEW040 19/15 Q1016 NOSIG UKDR 300730Z 01005MPS 330V080 CAVOK 23/06 Q1024 3609//70 NOSIG OMRK 300700Z 26003KT CAVOK 44/13 Q1004 A2965 NVSC 291500Z 10010KT 9999 SCT018 OVC040 25/20 Q1015 RMK RESH CTRA 300700Z AUTO 21006KT 19/18 RMK AO1 SLP076 T01910177 56010 VANP 300710Z 03003KT 1500 -RA SCT015 FEW030CB OVC080 26/23 Q1008 TEMPO 1000 -RA OMSJ 300700Z 22002KT CAVOK 42/14 Q1004 EDAC 300720Z 01001KT CAVOK 19/18 Q1020 EDAH 300720Z VRB03KT CAVOK 18/13 Q1021 EDBC 291550Z 12009KT 9999 FEW042 22/15 Q1022 UKHH 300730Z 32005MPS 290V010 CAVOK 21/06 Q1021 250///65 NOSIG NVVA 290900Z 10006KT 9999 SCT020 BKN040 22/19 Q1021 RMK RESH PFCL 300656Z AUTO 33010KT 10SM CLR 10/03 A2961 RMK AO2 SLP030 T01000033 YYNG 300730Z AUTO 27004KT //// // ////// 10/06 Q1019 ULAA 300730Z 11004MPS 070V150 9999 SCT040 12/03 Q1016 R08/CLRD70 NOSIG RMK QFE761/1014 EDDB 300720Z 07004KT 040V120 CAVOK 22/14 Q1020 NOSIG EDDC 300720Z 13006KT 080V160 CAVOK 24/18 Q1020 NOSIG EDDE 300720Z 02003KT 9000 NSC 20/17 Q1020 NOSIG EDDF 300720Z VRB01KT CAVOK 24/19 Q1019 NOSIG EDDG 300720Z 15003KT 090V210 9999 FEW005 SCT060 BKN250 20/20 Q1018 NOSIG EDDH 300720Z 08004KT 9999 FEW022CB BKN120 15/14 Q1019 NOSIG KAAA 300735Z AUTO 16003KT 10SM BKN050 21/19 A3000 RMK AO2 T02130192 PFEL 300658Z AUTO 00000KT 10SM FEW020 BKN042 OVC060 04/01 A2961 RMK AO2 RAB00E11 SLP031 P0000 T00440011 KC09 300715Z AUTO 00000KT 1/4SM FG OVC003 19/18 A3001 RMK AO2 T01850180 NVVV 300300Z 07006KT 9999 -SHRA BKN018 23/19 Q1014 RMK HZ EDDK 300720Z 13006KT CAVOK 24/19 Q1017 NOSIG EDDL 300720Z 04004KT 9999 FEW040TCU SCT110 21/18 Q1017 NOSIG EDDM 300720Z 24005KT 200V270 CAVOK 23/18 Q1021 NOSIG EDDN 300720Z VRB02KT CAVOK 23/17 Q1020 NOSIG KAAF 300653Z AUTO 03005KT 10SM CLR 22/22 A3001 RMK AO2 SLP163 T02170217 $ VCBI 300710Z 23012KT 200V260 9999 BKN016 31/25 Q1010 NOSIG EDDP 300720Z 04002KT CAVOK 21/18 Q1020 NOSIG UKKK 300730Z 28002MPS 200V360 CAVOK 21/08 Q1026 26CLRD70 NOSIG EDDR 300720Z 20008KT 170V240 CAVOK 23/15 Q1019 NOSIG EDDS 300720Z 07003KT 040V100 CAVOK 23/18 Q1020 NOSIG UKKM 300700Z AUTO 26002MPS 160V330 9999 NCD 20/08 Q1026 EDDT 300720Z 12004KT 070V150 CAVOK 22/12 Q1020 NOSIG ZPPP 300700Z 34003MPS 310V010 9999 SCT023 SCT043 21/11 Q1020 NOSIG KABE 300651Z 00000KT 5SM BR CLR 17/16 A3009 RMK AO2 SLP188 T01720156 EDDV 300720Z 11007KT 070V140 9999 FEW013TCU SCT080 18/18 Q1018 NOSIG EDDW 300720Z 03005KT 9000 FEW025TCU SCT100 BKN200 15/14 Q1019 NOSIG KAAO 300654Z AUTO 05003KT 7SM CLR 16/16 A3003 RMK AO2 SLP164 T01610156 UKLI 300730Z 13004MPS 080V170 CAVOK 25/17 Q1024 NOSIG KABH 300656Z AUTO 15010KT 10SM CLR A3022 RMK AO2 SLPNO $ KABI 300652Z 28004KT 10SM FEW120 22/18 A3003 RMK AO2 SLP140 T02220178 $ EDFH 300720Z 13007KT CAVOK 23/19 Q1020 UKLL 300730Z 14004MPS CAVOK 24/14 Q1025 13CLRD80 NOSIG KAAT 300655Z AUTO 18009KT 10SM CLR 10/06 A3004 RMK AO2 SLP142 T01000056 KACB 300733Z AUTO 00000KT 3SM BR OVC003 14/13 A3005 RMK AO2 T01400134 KC29 300715Z AUTO 00000KT 4SM OVC019 18/18 A3005 RMK AO1 T01810180 UKLN 300730Z 12003MPS 070V190 CAVOK 24/16 Q1025 1509//70 NOSIG EDFM 300720Z 16004KT 130V220 CAVOK 24/19 Q1019 KC35 300735Z AUTO 00000KT 7SM SCT026 15/15 A3004 RMK AO2 T01480148 UKLR 300730Z VRB02MPS CAVOK 22/10 Q1026 NOSIG KABQ 300652Z 28004KT 10SM FEW120 22/09 A3025 RMK AO2 SLP150 T02220094 403170189 KABR 300653Z AUTO 17008KT 10SM CLR 18/17 A2987 RMK AO2 SLP107 T01830172 KACJ 300735Z AUTO 10003KT 10SM VCTS OVC008 23/23 A3007 RMK AO2 LTG DSNT S UKLU 300730Z 10001MPS 9999 SCT200 27/18 Q1023 10090070 NOSIG KACK 300653Z AUTO 24005KT 10SM CLR 19/18 A3010 RMK AO2 SLP193 T01940178 KADC 300735Z AUTO 18004KT 5SM BR OVC005 17/16 A2992 RMK AO2 KADF 300711Z AUTO 00000KT 7SM CLR 21/21 A2998 RMK AO2 KABY 300728Z AUTO 15009KT 3/4SM +TSRA BR FEW012 OVC028 22/21 A3007 RMK AO2 TSB19 P0054 T02220211 KADG 300735Z AUTO 00000KT 2 1/2SM BR BKN070 19/18 A3004 RMK AO2 LTG DSNT S T01890183 KACP 300735Z AUTO 00000KT 5SM BR 19/18 A3000 RMK AO2 T01900184 KACQ 300735Z AUTO 16003KT 3SM BR CLR 13/13 A3003 RMK AO2 KADH 300735Z AUTO 12003KT 10SM CLR 22/20 A2995 RMK AO2 EDHI 291420Z 23008KT CAVOK 22/10 Q1022 EDGS 300720Z 17007KT CAVOK 23/19 Q1020 KACT 300651Z 19008KT 10SM CLR 28/18 A2999 RMK AO2 SLP146 T02780178 EDHK 300720Z 01005KT CAVOK 16/15 Q1020 EDHL 300720Z VRB02KT 9999 FEW035 BKN056 16/14 Q1020 RMK ATIS FOX KACV 300653Z AUTO 10003KT 10SM OVC038 17/15 A3001 RMK AO2 RAB19E46 SLP166 P0000 T01720150 KADM 300735Z AUTO 00000KT 7SM CLR 21/19 A2992 RMK AO2 T02070190 KAEG 300735Z AUTO 18007KT 10SM CLR 16/10 A3027 RMK AO2 T01630095 KACY 300654Z AUTO 00000KT 10SM CLR 21/17 A3011 RMK AO2 SLP195 T02060172 TSNO KADS 300735Z AUTO 00000KT 10SM SCT090 SCT110 27/19 A2997 RMK AO2 T02670191 KAEJ 300735Z AUTO 26004KT 10SM CLR 10/03 A3037 RMK AO2 T01020030 DNAA 300700Z 22003KT 9999 FEW007 24/21 Q1017 NOSIG EDJA 300720Z 22009KT CAVOK 24/16 Q1022 KAEL 300733Z AUTO 19003KT 1 1/2SM BR OVC001 16/16 A3003 RMK AO2 KADU 300735Z AUTO 00000KT 5SM BR OVC017 14/13 A3005 RMK AO2 UKON 300700Z 03004MPS 310V080 CAVOK 25/06 Q1024 NOSIG UKOO 300730Z 06004MPS 020V100 CAVOK 26/09 Q1024 34090065 NOSIG KADW 300658Z AUTO 20006KT 10SM CLR 20/18 A3010 RMK AO2 SLP197 T02030175 CWAE 300100Z 00000KT 15SM -RA FEW012 BKN028 OVC049 12/11 A2964 RMK SC2SC4SC2 LAST OBS/NEXT 301300UTC SLP035 DENSITY ALT 2600FT KAFF 300658Z AUTO 34005KT 10SM CLR 17/03 A3025 RMK AO2 SLP147 T01690032 402760087 CWAF 300700Z AUTO 22009KT 10/09 RMK AO1 T00990092 KAFJ 300735Z 00000KT 8SM CLR 15/14 A3010 RMK AO1 CWAJ 300700Z AUTO 02002KT 21/19 RMK AO1 SLP170 T02060192 58009 CWBA 300700Z AUTO 25002KT 18/16 RMK AO1 T01780156 KAFK 300735Z AUTO 26004KT 4SM BR CLR 15/15 A3005 RMK AO2 T01500150 KAGC 300653Z 18006KT 10SM CLR 20/15 A3009 RMK AO2 SLP184 T02000150 TTPP 300700Z 00000KT 9999 FEW018 26/25 Q1012 NOSIG KAFN 300652Z AUTO 18003KT 9SM CLR 16/15 A3009 RMK AO2 SLP191 T01560150 CWBE 300700Z AUTO 26004KT 17/15 RMK AO1 SLP179 T01660148 58010 KAEX 300653Z 00000KT 9SM CLR 23/19 A2998 RMK AO2 SLP154 T02280194 KAFO 300715Z AUTO 29009G14KT 10SM SCT110 17/08 A3009 RMK AO2 KC75 300735Z AUTO 00000KT 5SM BR SCT025 SCT050 BKN060 20/19 A3002 RMK AO2 T01950186 KAFP 300735Z AUTO 00000KT 18/17 A3013 RMK AO2 T01810165 CWAQ 300700Z AUTO 26012G23KT 22/09 RMK AO1 PK WND 28023/0655 SLP048 T02240088 55003 CWAR 300700Z AUTO 18003KT 15/14 RMK AO1 SLP151 T01450138 53005 PFKT 300658Z AUTO 30010KT 10SM OVC019 04/03 A2971 RMK AO2 RAE58 SLP063 P0000 T00440028 CWCA 300700Z 22005KT 15SM SCT070 06/06 A2989 RMK AC4 SLP121 CWBK 300700Z AUTO 22009KT 17/14 RMK AO1 SLP153 T01680135 56013 PFKW 300656Z AUTO 32012KT 10SM CLR 06/03 A2972 RMK AO2 SLP065 T00610028 CWAV 290900Z AUTO 27002KT 12/09 RMK AO1 SLP078 T01220091 53005 KAFW 300653Z 22007KT 10SM FEW090 FEW140 BKN300 23/17 A2996 RMK AO2 SLP130 T02330172 CWCF 300700Z AUTO 21004KT 19/17 RMK AO1 SLP037 T01910174 50003 CWBO 300700Z AUTO 22012G19KT 20/04 RMK AO1 PK WND 21025/0601 SLP024 T01950035 55002 CWCI 300600Z AUTO 18006KT 13/12 RMK AO1 SLP156 T01310123 57010 KAGS 300653Z AUTO 00000KT 10SM -RA FEW110 21/19 A3009 RMK AO2 RAB47 SLP187 P0000 T02060194 KAIA 300653Z AUTO 15008KT 10SM CLR 15/09 A3003 RMK AO2 SLP122 T01500089 403390078 EDMA 300720Z 26004KT 210V300 CAVOK 24/16 Q1021 RMK ATIS WHI CWDA 300600Z AUTO 00000KT 12/11 RMK AO1 SLP129 T01220112 55002 CWCJ 300700Z AUTO 21003KT 14/13 RMK AO1 SLP151 T01440133 58001 CWBS 300700Z AUTO 20014KT 19/18 RMK AO1 T01850179 KAIB 300735Z AUTO 10009KT 10SM CLR 18/03 A3022 RMK AO2 CWBT 300700Z AUTO 00000KT 10/10 RMK AO1 SLP122 T00980098 56008 KAID 291945Z 21008KT 10SM CLR 27/17 A3009 CWBU 300700Z AUTO 12003KT 14/12 RMK AO1 SLP042 T01350123 56004 CWDC 300700Z AUTO 12003KT 17/10 RMK AO1 SLP030 T01650095 56009 CWBV 300700Z AUTO 26007KT 18/17 RMK AO1 SLP169 T01840174 57013 KAHN 300651Z AUTO 00000KT 10SM OVC110 21/18 A3012 RMK AO2 SLP193 T02110183 EDLN 300720Z VRB01KT CAVOK 20/18 Q1017 RMK ATIS D CWCO 300600Z AUTO 17003KT 17/16 RMK AO1 SLP171 T01680158 58010 KAIG 300710Z AUTO 00000KT 1/4SM FG OVC001 10/10 A3006 RMK AO2 T01030103 CWBY 300700Z AUTO 00011KT 13/ RMK AO1 SLP117 T0125 57012 EDLP 300720Z 11007KT CAVOK 22/13 Q1018 RMK ATIS HOT KAHQ 300735Z AUTO 18004KT 7SM OVC007 17/16 A3004 RMK AO2 T01720161 CWBZ 300700Z AUTO 23004KT 18/17 RMK AO1 SLP165 T01810168 56012 UMBB 300700Z 11002MPS 9000 NSC 19/07 Q1025 NOSIG KD07 300656Z AUTO 16012KT 19/12 A2984 RMK AO1 SLP087 T01890122 403440167 OOMS 300650Z 02009KT 7000 NSC 34/27 Q1005 NOSIG CWDJ 300700Z AUTO 14007KT 20/11 RMK AO1 SLP040 T02010109 55018 KAIK 300735Z AUTO 06004KT 10SM CLR 21/13 A3013 RMK AO2 KBAB 300658Z AUTO 14006KT 10SM CLR 19/09 A2992 RMK AO2 SLP134 T01900085 $ CWEB 300700Z AUTO 10010KT 12/12 RMK AO1 5PAST HR 1009 SLP038 P0002 T01240119 50005 CWDK 300700Z AUTO 20009KT 16/01 RMK AO1 SLP038 T01580009 57006 CWCT 300700Z AUTO 20014KT 17/05 RMK AO1 PK WND 21018/0635 SLP994 T01730054 58003 KBAC 300735Z AUTO 20009KT 10SM FEW046 20/20 A2982 RMK AO2 KBAD 300658Z AUTO 23005KT 10SM BKN140 BKN160 23/20 A2998 RMK AO2 CIG 140 RWY33 SLP153 T02300195 CWDM 300700Z AUTO 26003KT 09/08 RMK AO1 SLP120 T00850078 55001 EDLV 300720Z 10008KT 050V130 8000 NSC 19/19 Q1017 RETS PFNO 300658Z AUTO 30011KT 10SM FEW060 03/01 A2949 RMK AO2 SLP987 T00330011 CWEE 300700Z AUTO RMK AO1 KBAF 300653Z AUTO 00000KT 10SM FEW050 SCT060 18/16 A3007 RMK AO2 SLP182 T01830161 EDLW 300720Z 09007KT CAVOK 21/16 Q1018 RMK ATIS I KAIO 300735Z AUTO 00000KT 10SM OVC017 17/17 A3005 RMK AO2 EDMO 291620Z 03009KT CAVOK 29/14 Q1022 CWEF 300600Z AUTO 22011KT 20/16 RMK AO1 SLP143 T01980157 56010 CWDO 302200Z AUTO 30012G18KT 17/12 RMK AO1 PK WND 31018/2158 SLP109 T01670118 52014 KAJG 300735Z AUTO 00000KT 4SM BR CLR 21/20 A3003 RMK AO2 CWDQ 300700Z AUTO 16002KT 17/14 RMK AO1 SLP149 T01690139 56008 CWEH 300700Z AUTO 29008KT 18/09 RMK AO1 SLP043 T01770091 52007 EEEI 300650Z 23009KT 9999 FEW015 FEW020CB FEW170 BKN220 17/15 Q1018 NOSIG KBAK 300150Z 00000KT 10SM SKC 22/21 A3006 KAIT 300733Z AUTO 18005KT 10SM CLR 17/14 A2993 RMK AO2 KBBB 300734Z AUTO 18005KT 7SM CLR 17/16 A2994 RMK AO2 CWDT 300600Z AUTO 14001KT 15/15 RMK AO1 SLP132 T01510149 58010 CWEK 300700Z AUTO 16017G22KT 13/13 RMK AO1 4PAST HR 0011 PK WND 17022/0700 SLP932 P0005 T01320127 50014 CWEL 300700Z AUTO 18014KT 15/11 RMK AO1 PK WND 18021/0629 SLP045 T01540108 51013 NWWW 300730Z AUTO VRB01KT 9999 OVC056 20/17 Q1016 KBBD 300715Z AUTO 00000KT 10SM CLR 24/16 A3003 RMK CWDV 300700Z AUTO 19002KT 17/17 RMK AO1 SLP127 T01710167 56014 CWFD 300700Z AUTO 36029G37KT CLR M02/ A2952 RMK ICG SLP050 KBAN 300652Z AUTO VRB03KT 10SM CLR 16/05 A3015 RMK AO2 SLP099 T01560050 $ DNEN 300700Z 27007KT 8000 FEW009 25/23 Q1016 NOSIG KAJO 300656Z AUTO 00000KT 10SM CLR 22/15 A2988 RMK AO2 T02220150 SLP109 $ KBBF 300735Z AUTO 18010KT 10SM CLR 28/20 A2996 RMK A01 ULLI 300730Z 27005MPS 230V330 9999 SCT027 18/12 Q1016 R28R/090070 NOSIG CWFF 300700Z AUTO 12005KT 17/13 RMK AO1 SLP039 T01670130 56009 KBBG 300735Z AUTO 00000KT 10SM OVC050 21/19 A3002 RMK AO2 LTG DSNT NE AND E KD25 300715Z AUTO 22005KT 5SM BR OVC003 15/15 A3004 RMK AO2 T01500150 CWEP 300700Z AUTO 22006KT 17/15 RMK AO1 SLP144 T01710147 56013 KAIZ 300735Z AUTO 00000KT 10SM CLR 21/18 A3001 RMK AO1 KAKH 300654Z AUTO 00000KT 10SM CLR 19/16 A3015 RMK AO2 SLP201 T01940161 CWDZ 300700Z AUTO 22012KT 17/03 RMK AO1 PK WND 22020/0650 T01710032 CWEQ 300700Z AUTO 19002KT 17/13 RMK AO1 SLP054 T01700130 51001 KAJR 300735Z AUTO 08003KT 10SM OVC110 21/18 A3016 RMK AO2 T02100181 CWER 300700Z AUTO 22014KT RMK AO1 PK WND 22017/0645 CWFJ 300700Z AUTO 21004KT 13/02 RMK AO1 T01300015 KALB 300651Z 19003KT 10SM FEW150 SCT240 18/14 A3007 RMK AO2 SLP182 T01780144 KBCB 300735Z AUTO 00000KT 10SM CLR 17/17 A3022 RMK AO2 T01740167 CWGB 300700Z AUTO 16003KT 16/10 RMK AO1 SLP042 T01560101 52009 CWEU 300700Z 02003KT 15SM FEW080 M02/M06 A2999 RMK AC1 SLP156 CWGD 300700Z AUTO 16004KT 18/16 RMK AO1 SLP172 T01800158 58010 KBCE 300653Z AUTO 00000KT 10SM CLR 12/08 A3031 RMK AO2 SLP138 T01170078 402670083 CWEW 300700Z AUTO 22004KT 19/17 RMK AO1 SLP164 T01860168 58010 KAKO 300653Z AUTO 17012KT 10SM CLR 19/06 A3012 RMK AO2 SLP135 T01890056 403280133 TSNO KBAX 300733Z AUTO 00000KT 7SM SCT025 OVC039 18/17 A3006 RMK AO2 T01750170 KBBP 300735Z AUTO 00000KT 7SM CLR 18/18 A3011 RMK AO2 KBAZ 300651Z AUTO 21004KT 10SM CLR 24/19 A3000 RMK AO2 SLP151 T02390194 EDNY 300720Z VRB02KT CAVOK 24/15 Q1022 RMK ATIS G EDOP 300720Z 07005KT 9999 BKN043 17/12 Q1021 RMK ATIS H KAKQ 300654Z AUTO 00000KT 6SM BR CLR 16/15 A3012 RMK AO2 SLP200 T01610150 TSNO KAJZ 300735Z AUTO 07005KT 7SM CLR 19/07 A3015 RMK AO2 T01860069 CWFQ 300700Z AUTO 17002KT 16/15 RMK AO1 SLP171 T01630154 58011 CWEZ 300700Z AUTO 19007KT 14/13 RMK AO1 SLP062 T01440129 53006 KALI 300653Z AUTO 14005KT 10SM CLR 20/17 A2998 RMK AO2 SLP149 T02000172 $ KAKR 300654Z AUTO 36003KT 9SM BKN044 BKN060 OVC120 22/19 A3007 RMK AO2 LTG DSNT S RAE0556 SLP174 P0000 T02170189 KAMA 300653Z AUTO 22005KT 10SM CLR 17/14 A3015 RMK AO2 SLP156 T01720144 ULMM 300730Z 17004MPS CAVOK 13/04 Q1012 R13/090070 NOSIG RMK QFE753 KD39 300734Z AUTO 15005KT 1 1/4SM BR OVC003 16/16 A2995 RMK AO2 T01630162 KALK 300656Z AUTO 09013KT 10SM CLR 23/11 A3018 RMK AO2 SLP116 T02280111 403390178 PNO $ KBCK 300735Z AUTO 00000KT M1/4SM FG OVC002 12/12 A3004 RMK AO2 T01240124 CWGL 300700Z AUTO 09003KT 16/15 RMK AO1 SLP173 T01620154 58013 KALM 300735Z AUTO 03008KT 10SM CLR 19/14 A3016 RMK AO2 CWGM 300700Z AUTO 24024G36KT 17/01 RMK AO1 PK WND 25037/0644 T01720005 KBBW 300653Z AUTO 00000KT 10SM CLR 18/15 A3005 RMK AO2 SLP152 T01780150 KBDE 300653Z AUTO 18006KT 10SM CLR 18/17 A2984 RMK AO2 SLP104 T01830167 TSNO KALN 300735Z AUTO 00000KT 10SM SCT055 SCT090 20/19 A3001 RMK AO2 T02010194 KALO 300733Z 09003KT 2SM R12/5500VP6000FT BR FEW002 13/13 A3003 RMK AO2 T01330128 KAMG 300653Z AUTO 07003KT 6SM BR FEW005 SCT020 23/23 A3005 RMK AO2 SLP171 T02330228 KBDG 300735Z AUTO 04003KT 10SM SCT110 17/01 A3025 RMK AO1 T01720006 KBDH 300735Z AUTO 18003KT 5SM BR OVC002 18/18 A2997 RMK AO2 NZAA 300730Z AUTO 25001KT 9999 OVC014/// 14/14 Q1017 BECMG FEW015 TEMPO 4000 RADZ BKN006 OOSA 300650Z 19008KT 9000 FEW015 BKN025 29/25 Q1008 NOSIG CWHI 300600Z AUTO 22013KT 15/05 RMK AO1 PK WND 21021/0530 T01520049 CWGR 300700Z AUTO 22004KT 18/18 RMK AO1 SLP133 T01830183 57011 ZSAM 300700Z 06005MPS 9999 BKN026 27/25 Q1007 NOSIG KALS 300652Z AUTO 10007KT 10SM CLR 11/06 A3035 RMK AO2 SLP187 T01110061 402720072 KBEA 300735Z AUTO 19003KT 10SM CLR 22/20 A2998 RMK AO2 T02240199 KBCT 300247Z 13012G22KT 10SM -RA SCT022 BKN042 28/25 A3000 RMK LAST KD50 300715Z AUTO 00000KT 3SM HZ CLR 17/10 A2971 RMK AO2 KANB 300653Z AUTO 06003KT 10SM FEW043 SCT060 22/21 A3010 RMK AO2 SLP184 T02220206 DNIB 292000Z 11008KT 9999 SCT010 25/23 Q1015 CWGT 300700Z AUTO 18008KT 16/10 RMK AO1 SLP046 T01580100 51014 KBDL 300651Z 21003KT 10SM SCT055 BKN070 BKN220 19/16 A3007 RMK AO2 SLP181 T01940161 CWHL 300700Z AUTO 14017KT 12/11 RMK AO1 4PAST HR 1010 PK WND 15021/0659 SLP938 P0005 T01180108 50014 KAND 300656Z AUTO 06003KT 10SM BKN120 22/17 A3013 RMK AO2 SLP192 T02170172 KBED 300656Z AUTO 00000KT 10SM BKN070 18/14 A3005 RMK AO2 SLP188 T01780139 TSNO EDQM 300720Z VRB02KT CAVOK 22/16 Q1022 CWID 300700Z AUTO 10008G16KT 16/10 RMK AO1 SLP938 T01610095 58035 CWHM 300700Z AUTO 22006KT 19/17 RMK AO1 T01930168 KBDN 300735Z AUTO 17007KT 10SM CLR 12/04 A2994 RMK AO2 KALW 300653Z AUTO 15005KT 10SM FEW110 19/06 A2985 RMK AO2 SLP101 T01940061 KANE 300734Z AUTO 00000KT 1/2SM FG BKN001 18/18 A2999 RMK AO2 KAMN 300734Z AUTO 00000KT 2 1/2SM BR OVC003 18/18 A3004 RMK AO2 T01750175 CWGW 300700Z AUTO 16007KT 14/04 RMK AO1 SLP084 T01440044 55001 KALX 300735Z AUTO 00000KT 5SM RA OVC007 22/21 A3008 RMK AO2 LTG DSNT SE P0006 T02200210 CWHN 300700Z AUTO 08005KT 9SM CLR 18/13 A2947 RMK SLP980 CWHO 302300Z AUTO 15003KT 09/07 RMK AO1 SLP113 T00860074 53004 CWGX 300700Z AUTO 02016KT 11/10 RMK AO1 PK WND 02021/0620 SLP050 T01100103 53015 KD55 300735Z AUTO 19006KT 7SM CLR 20/20 A2979 RMK AO2 PFSH 300658Z AUTO 33011KT 10SM SCT045 OVC090 07/02 A2959 RMK AO2 SLP034 T00670017 CWHP 300700Z AUTO 27005KT 13/ RMK AO1 SLP125 T0125 56007 CWIG 300700Z AUTO 21013KT RMK AO1 PK WND 22019/0609 CWGY 300700Z AUTO 16010KT 20/05 RMK AO1 PK WND 18019/0612 SLP014 T02040046 53003 KBEH 300715Z AUTO 28003KT 1 3/4SM BR BKN004 OVC009 20/19 A3000 RMK AO2 CIG 003V007 T02000194 $ CWGZ 292000Z 00000KT 15SM BKN030 04/M04 A2986 RMK SC7 5.2/2.3/0/0 LAST OB/NEXT 011200 WND ESTD SLP115 CWHQ 300700Z AUTO 25001KT 16/15 RMK AO1 T01550151 KBDR 300652Z AUTO 23010KT 10SM CLR 23/18 A3008 RMK AO2 SLP185 T02330178 KD57 300735Z AUTO 00000KT 10SM 17/13 A2977 RMK AO2 CWII 300700Z AUTO 22015KT 21/19 RMK AO1 PK WND 21021/0630 T02140192 KANJ 300655Z AUTO 00000KT 1/4SM FG VV002 16/15 A3003 RMK AO2 SLP166 T01560150 KD60 300715Z AUTO 08003KT 3SM BR CLR 15/14 A2976 RMK AO2 CWIJ 300700Z AUTO 17006KT 04/03 RMK AO1 SLP075 T00390028 58002 KANK 300735Z AUTO 00000KT 10SM CLR 16/06 A3040 RMK AO1 T01570058 OPKC 300725Z 22013KT 6000 SCT020 BKN030 31/23 Q1004 NOSIG CWHT 300700Z AUTO 00000KT 06/02 RMK AO1 SLP900 T00570020 58009 CWIK 300700Z AUTO 13004KT 17/13 RMK AO1 SLP055 T01690130 58020 CWJB 300700Z AUTO 24003KT 17/16 RMK AO1 T01730156 EDSB 300720Z 22005KT 180V250 CAVOK 24/18 Q1019 KBDU 300739Z AUTO 30003KT 10SM CLR 18/06 A3009 RMK AO2 ULOO 291930Z 27004MPS P6000 NSC 14/11 Q1016 R19/190060 RMK QFE758 CWJC 300600Z AUTO 15014KT 10/09 RMK AO1 PK WND 15019/0500 SLP090 T01010089 51008 CWIL 300700Z AUTO 14019KT 07/ A2972 RMK SLP072 KBFD 300653Z AUTO 00000KT 6SM -RA BR FEW042 FEW055 OVC100 16/14 A3014 RMK AO2 RAB19 SLP193 P0003 T01560144 DNIM 300700Z 27004KT 6000 BKN009 24/23 Q1016 CWJD 300700Z AUTO 30003KT 16/14 RMK AO1 SLP041 T01590135 52012 CWHV 300700Z AUTO 00000KT 16/16 RMK AO1 SLP159 T01560156 57012 KAMW 300716Z AUTO 14003KT 3/4SM BR CLR 14/14 A3004 RMK AO2 T01440144 $ NZAP 300700Z 06002KT 35KM SCT009 11/09 Q1016 RMK ALT VATSIM USE ONLY KBFF 300653Z AUTO 17012KT 9SM CLR 24/05 A3002 RMK AO2 SLP109 T02390050 403440111 CXAF 300700Z AUTO 19002KT 10/08 RMK AO1 T01020082 TUPJ 300100Z 09008KT 9999 SCT019 28/25 Q1016 RMK A3003 CXAG 300700Z AUTO 23007KT 15/10 RMK AO1 T01500103 CWIP 300700Z AUTO 30002KT 14/ RMK AO1 T0137 KANQ 300735Z AUTO 00000KT 5SM FEW024 OVC041 19/14 A3003 RMK KAOH 300653Z AUTO 00000KT 6SM BR SCT050 19/18 A3006 RMK AO2 SLP173 T01940183 CWJH 300700Z AUTO 00000KT 09/08 RMK AO1 SLP064 T00870076 58007 KBFI 300653Z 17009KT 3SM RA BR FEW010 SCT016 OVC048 16/15 A2977 RMK AO2 SLP082 T01560150 PNO $ OPLA 300725Z 21004KT 7000 SCT040 SCT100 36/24 Q1003 CWJI 300700Z AUTO 18006KT 23/09 RMK AO1 PK WND 23027/0602 SLP054 T02260088 53002 KAPA 300653Z 17009KT 10SM FEW140 SCT220 19/04 A3016 RMK AO2 SLP133 T01940039 403060128 PHBK 300656Z AUTO 09003KT 10SM CLR 27/23 A2990 RMK AO2 SLP127 T02670228 CXBA 300700Z AUTO 19012KT 20/09 RMK AO1 T01970088 CXAJ 300700Z AUTO 25001KT 12/10 RMK AO1 T01150098 CWIS 300700Z AUTO 26002KT 13/12 RMK AO1 SLP146 T01340120 58011 CXAK 300700Z AUTO 22009KT 13/07 RMK AO1 T01330069 KAPC 300718Z AUTO 27009KT 10SM SCT011 17/16 A3000 RMK AO2 T01670156 KBFL 300654Z AUTO 32010KT 10SM CLR 28/14 A2990 RMK AO2 SLP119 T02780139 KBGD 300651Z AUTO 00000KT 10SM CLR 20/12 A3012 RMK AO2 SLP158 T02000122 KBFM 300653Z AUTO 13005KT 10SM CLR 25/23 A3004 RMK AO2 SLP172 T02500228 CWKD 300700Z AUTO 00000KT 14/13 RMK AO1 SLP121 T01370132 58008 KANW 300735Z AUTO 19009KT 10SM CLR 19/16 A2999 RMK AO2 T01860163 KBGE 300715Z AUTO 00000KT 10SM SCT006 BKN018 22/21 A3004 RMK AO2 CWIW 300700Z AUTO 14007KT 17/14 RMK AO1 SLP035 T01690136 58010 EEKE 300650Z 26005KT 220V300 9999 FEW016 17/13 Q1020 KAOO 300653Z AUTO 25003KT 8SM CLR 16/13 A3012 RMK AO2 SLP190 T01560133 KAPF 300653Z AUTO 04009KT 10SM CLR 24/23 A2993 RMK AO2 SLP132 T02440228 KBGF 300735Z AUTO 09003KT 10SM FEW037 SCT060 BKN110 21/19 A3012 RMK DNJO 300700Z 29005KT 6000 BKN005 20/20 Q1019 CWIX 300700Z AUTO 23006KT 17/16 RMK AO1 T01670161 CWJO 300700Z AUTO 28008KT 17/15 RMK AO1 SLP135 T01710152 58012 NZCH 300730Z AUTO 21004KT 5000 -SHRA BKN007/// 08/08 Q1020 BECMG 9999 -RADZ BKN012 TEMPO 4000 DZ BKN004 NZCI 300736Z VRB03KT 30KM SCT050 11/09 Q1016 RMK NZNR VATSIM USE ONLY CWIY 300700Z AUTO 19005KT 15/14 RMK AO1 SLP150 T01490137 55005 CWKG 300700Z AUTO 21002KT 17/16 RMK AO1 SLP178 T01670156 58008 CWKH 300700Z AUTO 13/10 RMK AO1 SLP054 T01290095 51009 CWIZ 300700Z AUTO 19003KT 17/16 RMK AO1 T01710164 CXBI 300700Z AUTO 35001KT 15/14 RMK AO1 SLP182 T01480139 58012 CWJR 300700Z AUTO 05003KT 14/08 RMK AO1 SLP093 T01380075 58005 CXCA 300700Z AUTO 13005KT 14/14 RMK AO1 SLP131 T01420137 58005 KBHB 300735Z 00000KT 10SM CLR 17/17 A3002 RMK AO1 NZCM 300555Z 05017G26KT 9999 IC FEW060 FEW150 FEW250 M18/M25 A2914 RMK ICB20 SLP873 CWKK 300600Z AUTO 20011KT 15/15 RMK AO1 SLP123 T01500147 58010 CXAT 300600Z AUTO 07009KT 02/M04 RMK AO1 SLP139 T00171039 52003 CWLB 300700Z AUTO 16007KT 19/10 RMK AO1 SLP946 T01930103 56013 CWJT 300700Z AUTO 00000KT 16/16 RMK AO1 SLP159 T01630163 58009 CXBK 300700Z AUTO 14010KT 21/10 RMK AO1 SLP033 T02100104 55017 KBHC 300735Z AUTO 00000KT 7SM BKN019 BKN025 24/23 A3004 RMK AO2 LTG DSNT W EDTL 300720Z 18005KT 150V230 CAVOK 25/18 Q1019 CWJU 300700Z AUTO 24018G23KT 12/11 RMK AO1 PK WND 23026/0648 SLP926 T01230106 53008 CWLC 300700Z AUTO 14017KT 12/ RMK AO1 PK WND 14021/0636 T0119 KBGM 300653Z AUTO 13003KT 10SM OVC110 17/16 A3010 RMK AO2 SLP185 T01670156 CXCD 300700Z AUTO 01001KT 09/09 RMK AO1 5PAST HR M P0002 T00940090 50005 CWJV 300700Z AUTO 12006KT 15/12 RMK AO1 SLP041 T01460121 50004 CWKM 300700Z AUTO 10013KT 02/ A2942 RMK SLP970 KAPN 300728Z AUTO 00000KT 4SM BR CLR 12/12 A3005 RMK AO2 T01220117 KBFW 300735Z AUTO 00000KT 5SM BR CLR 14/13 A2994 RMK AO2 CWLE 300700Z AUTO 25008KT 23/11 RMK AO1 SLP039 T02260108 53009 CWJW 300700Z AUTO 18005KT 15/05 RMK AO1 PK WND 19017/0632 SLP994 T01540050 58004 VCRI 300610Z 23014KT 9999 SCT016 FEW018TCU 29/24 Q1010 NOSIG RMK SW CWJX 300700Z AUTO 22007KT 17/12 RMK AO1 SLP029 T01690122 50016 CXBO 300700Z AUTO 26006KT RMK AO1 CWKO 300700Z AUTO 22007KT 19/12 RMK AO1 PK WND 25027/0609 SLP063 T01910118 55001 UMII 300730Z 26003G06MPS P6000 SCT020 15/11 Q1022 R23/CLRD// NOSIG UNAA 300730Z VRB01MPS CAVOK 22/03 Q1019 R20/090065 NOSIG RMK QFE742 CWKP 300700Z AUTO 10009KT 02/ A2951 RMK SLP020 CXCH 300700Z AUTO 14/13 RMK AO1 T01420134 KBGR 300653Z 15003KT 10SM SCT120 OVC200 17/14 A3003 RMK AO2 SLP164 T01670144 CXBR 300700Z AUTO 24010KT 16/02 RMK AO1 PK WND 23020/0622 T01560019 CWLI 300700Z AUTO 07013KT 04/ A2947 RMK SLP990 KARA 300653Z AUTO 00000KT 8SM CLR 22/21 A3001 RMK AO2 SLP163 T02220206 KBHK 300651Z AUTO 14008KT 10SM CLR 22/09 A2979 RMK AO2 SLP055 T02170094 403720117 KARB 300711Z AUTO 00000KT 3SM BR OVC070 18/18 A3004 RMK AO2 T01830178 CXDB 300700Z AUTO 21018KT 15/03 RMK AO1 PK WND 19021/0652 T01470031 CXCK 300700Z AUTO 03002KT 03/02 RMK AO1 SLP919 T00320017 58011 NZDN 300710Z 02005KT 15KM -DZ BKN010 PLWR BKN018 07/06 Q1021 RMK VATSIM USE ONLY KBHM 300653Z 02004KT 10SM OVC075 22/21 A3010 RMK AO2 RAE38 SLP185 P0000 T02170206 $ KBID 300735Z AUTO 25008KT 10SM SCT070 21/19 A3009 RMK AO1 CWLM 300600Z AUTO 09005KT 13/13 RMK AO1 0003 SLP058 T01340126 50044 KBIE 300735Z AUTO 00000KT 4SM BR OVC005 17/16 A3005 RMK AO2 T01660161 EDVE 300550Z 00000KT CAVOK 17/17 Q1019 CXBW 300600Z AUTO 23017KT 19/02 RMK AO1 PK WND 24026/0505 T01940015 CWME 300700Z AUTO 16005KT 12/10 RMK AO1 SLP997 T01230103 51015 CWKW 300700Z AUTO ///// 01/ A2970 RMK SLP085 KBIF 300658Z AUTO 18002KT 10SM CLR 26/11 A3013 RMK AO2 SLP132 T02570112 403380192 $ KAQO 300715Z AUTO 00000KT 10SM CLR 26/17 A3004 RMK AO2 PWINO CWKX 300700Z AUTO 00000KT 09/08 RMK AO1 2PAST HR 7010 SLP887 P0001 T00920075 50002 KD95 300734Z AUTO 00000KT 3SM BR OVC048 18/18 A3005 RMK AO2 T01770177 KAQP 300734Z AUTO 14005KT 10SM CLR 18/16 A2992 RMK AO2 KARG 300735Z AUTO 00000KT 10SM CLR 23/19 A3001 RMK AO1 OPNH 300700Z 18010KT 7000M NSC 36/23 Q.1001 KAPY 300715Z AUTO 11006KT 10SM BKN022 25/20 A2997 RMK AO2 T02520200 CXCP 300700Z AUTO 21014KT 15/01 RMK AO1 PK WND 21024/0608 T01510013 CWLP 300700Z AUTO 13009KT 12/10 RMK AO1 PK WND 13017/0605 SLP010 T01180104 52016 KBIH 300656Z AUTO 36012KT 10SM OVC065 24/04 A2998 RMK AO2 SLP091 T02440039 UNBB 300730Z 19008MPS CAVOK 26/03 Q1015 R24/CLRD66 NOSIG RMK QFE739 KAQR 300735Z AUTO 16005KT CLR 25/20 A2994 RMK AO2 CXDI 300700Z AUTO 15001KT 18/17 RMK AO1 SLP172 T01790170 58008 KBIJ 300735Z AUTO 00000KT 10SM VCTS BKN013 BKN045 BKN120 23/22 A3005 RMK AO2 LTG DSNT E OPMT 300657Z 23014KTS 4000 DRW NSC 35/25 Q1002 NOSIG CXCS 300700Z AUTO 22011KT 18/06 RMK AO1 PK WND 21017/0620 T01790055 CWMJ 300700Z AUTO 20002KT 17/17 RMK AO1 SLP162 T01720167 58007 CWLS 300700Z AUTO 19002KT 17/15 RMK AO1 SLP182 T01650150 58008 CXEA 300700Z AUTO 21004KT 20/19 RMK AO1 SLP076 T02030190 58015 CWNB 300000Z AUTO RMK AO1 58011 CXDK 300700Z AUTO 17001KT 11/10 RMK AO1 SLP898 T01100095 KBJC 300736Z AUTO 31005KT 10SM CLR 18/07 A3012 RMK AO2 EDVK 300720Z 34004KT 310V030 4500 BR SCT007 18/18 Q1020 RMK ATIS H KBIL 300653Z 25012KT 10SM BKN170 OVC240 27/04 A2980 RMK AO2 SLP045 T02670039 403330172 $ KE11 300735Z AUTO 20004KT 10SM CLR 19/15 A3012 RMK AO2 T01920146 CWNC 300700Z AUTO 04004KT 18/16 RMK AO1 SLP172 T01780156 58008 CXEC 300700Z AUTO 20005KT 14/11 RMK AO1 SLP973 T01430111 52011 KASD 300653Z AUTO 00000KT 10SM CLR 22/21 A3001 RMK AO2 SLP160 T02170206 KCAD 300734Z AUTO 00000KT 1/2SM FG BKN001 OVC026 13/12 A3005 RMK AO2 T01350129 KAQV 300656Z AUTO VRB03KT 10SM CLR 24/18 A2999 RMK AO2 SLP152 T02390178 KARM 300715Z AUTO 00000KT 10SM CLR 21/20 A2999 RMK AO2 T02080198 DNMM 300700Z 00000KT 3500 BR SCT008 24/24 Q1017 TEMPO 3000 CWND 302322Z M01/M01 RMK T10111007 CWMM 300700Z AUTO 13002KT 15/14 RMK AO1 SLP065 T01450141 55000 KAQW 300732Z AUTO 00000KT 2SM BR CLR 13/13 A3010 RMK AO2 T01330128 KASE 300653Z 20007KT 10SM CLR 13/03 A3034 RMK AO2 SLP143 T01280028 402720067 KCAE 300656Z 00000KT 10SM BKN150 23/17 A3011 RMK AO2 SLP193 T02280167 DNMN 300700Z 19004KT 8000 SCT010 25/24 Q1013 CWNE 300700Z AUTO 24015KT 19/16 RMK AO1 PK WND 24019/0659 SLP136 T01940155 56011 KAQX 300735Z AUTO 00000KT 10SM BKN036 23/18 A3008 RMK AO2 KASG 300148Z 14003KT 10SM FEW044 SCT090 25/20 A3002 CWLX 300700Z AUTO 06005KT 04/ A2985 RMK SLP122 KCAG 300653Z AUTO 00000KT 10SM CLR 11/07 A3018 RMK AO2 SLP146 T01060067 403170050 CXDP 300700Z AUTO 27005KT 11/11 RMK AO1 T01130111 CXEG 300700Z AUTO 08/07 RMK AO1 T00780069 CWLY 300700Z AUTO 19018G28KT 160V230 9SM BKN110 BKN130 OVC150 15/12 A2962 RMK SLP031 DENSITY ALT 1200FT KASH 300651Z AUTO 00000KT 10SM CLR 16/14 A3006 RMK AO2 SLP189 T01610144 KE16 300730Z AUTO 30009KT 10SM CLR 18/15 A3002 RMK AO2 SOUTH WIND SOCK OUT OF SERVICE VEAT 291230Z 16006KT 4500 BR SCT020 SCT100 BKN200 29/26 Q1002 NOSIG UMKK 300730Z 17002MPS 130V210 CAVOK 19/13 Q1022 R24/CLRD70 NOSIG RMK QFE766/1021 CWNH 300700Z AUTO 21006KT 18/16 RMK AO1 SLP130 T01780157 58012 CWMQ 300700Z AUTO 25004KT 21/09 RMK AO1 SLP049 T02060093 52013 ZSHC 300730Z 10004MPS 070V150 CAVOK 30/22 Q1008 NOSIG KARR 300652Z AUTO 35003KT 1 1/4SM BR OVC007 19/18 A3004 RMK AO2 SLP170 T01890183 KBJI 300733Z AUTO 19004KT 10SM CLR 17/16 A2989 RMK AO2 T01710163 KBIS 300652Z 13007KT 9SM CLR 19/17 A2980 RMK AO2 SLP080 T01890172 VECC 300720Z 16010KT 3200 HZ SCT018 FEW030CB BKN090 32/27 Q1001 TEMPO TL0820 2000 TSRA KBJJ 300729Z AUTO 22004KT 10SM BKN027 BKN031 OVC039 20/18 A3010 RMK AO2 RAB05E20 P0000 T02000183 TSNO KASJ 300735Z AUTO 00000KT 10SM CLR 17/16 A3012 RMK AO2 T01670160 KCAK 300717Z 00000KT 7SM -TSRA FEW042CB OVC120 21/18 A3008 RMK AO2 RAB0657 TSB15 OCNL LTGIC S TS S MOV E P0002 T02110183 KBKB 300654Z AUTO 00000KT 10SM CLR 21/18 A2998 RMK AO2 SLP177 T02110178 $ KART 300656Z AUTO 00000KT 5SM BR FEW120 16/14 A3007 RMK AO2 SLP179 T01560139 VEBN 300630Z 32007KT 4500 HZ SCT020 SCT025 33/27 Q1002 CWNK 300700Z AUTO 17002KT 15/14 RMK AO1 T01510135 CWMT 300700Z AUTO 09006KT 10/07 RMK AO1 SLP992 T00980071 58019 CWOB 300729Z AUTO 03019KT M00/ A2965 KASL 300735Z AUTO 00000KT 7SM CLR 23/22 A3000 RMK AO1 T02300215 CWNL 300600Z AUTO 24004KT 17/17 RMK AO1 SLP172 T01700167 57008 CWOC 300700Z AUTO 32003KT 17/16 RMK AO1 SLP128 T01650160 58008 KBIV 300653Z AUTO 08003KT 3SM BR OVC012 20/19 A3002 RMK AO2 SLP163 T02000189 KBKD 300715Z AUTO 00000KT 7SM CLR 23/15 A2999 RMK AO2 T02340147 KARV 300710Z AUTO 23004KT 4SM BR OVC003 15/15 A3004 RMK AO2 T01540147 CWOD 300700Z AUTO 01002KT 13/13 RMK AO1 SLP112 T01280128 55006 CWNM 300700Z AUTO 08002KT 18/08 RMK AO1 SLP068 T01760079 56005 ZSFZ 300700Z 02002MPS 330V050 9999 OVC050 25/22 Q1008 NOSIG KARW 300735Z AUTO 00000KT 7SM TS SCT026 SCT031 SCT037 25/24 A3007 RMK AO2 LTG DSNT E AND SE KCBE 300729Z AUTO 00000KT 10SM CLR 17/16 A3015 RMK AO1 KBKE 300653Z AUTO 28006KT 10SM CLR 13/06 A2993 RMK AO2 SLP108 T01280056 TSNO KASN 300735Z AUTO 07004KT 10SM DZ SCT040 BKN060 OVC080 A3009 RMK AO2 LTG DSNT N P0001 CXDW 300700Z AUTO 24010KT 22/19 RMK AO1 T02180187 CWOE 300700Z AUTO 32017KT 19/06 RMK AO1 PK WND 31025/0618 SLP044 T01940055 50004 KCAO 300655Z AUTO 23006KT 10SM CLR 17/09 A3023 RMK AO2 SLP169 T01670089 403000150 KCBF 300735Z AUTO 18005KT 10SM BKN050 BKN055 17/17 A3005 RMK AO2 KBIX 300658Z AUTO 35002KT 10SM CLR 25/22 A3001 RMK AO2 SLP165 T02450217 KBKF 300658Z 19014KT 10SM SCT130 21/04 A3014 RMK AO2A SLP122 T02060037 403220138 KCBG 300736Z AUTO 16004KT 2SM HZ CLR 17/13 A2996 RMK AO2 CWNP 300700Z AUTO 00000KT 15/11 RMK AO1 SLP050 T01480110 53002 CWMZ 300600Z AUTO 20002KT 19/14 RMK AO1 SLP175 T01930143 58009 CWNQ 300700Z AUTO 20005KT 18/16 RMK AO1 SLP152 T01780164 57014 KCAR 300654Z AUTO 23006KT 8SM -RA OVC100 16/14 A2997 RMK AO2 RAB32 SLP152 P0001 T01610139 KCCA 300715Z AUTO 00000KT 3SM BR SCT002 19/19 A3002 RMK AO2 KAST 300655Z AUTO 18009KT 10SM SCT013 BKN026 OVC110 15/14 A2978 RMK AO2 SLP084 T01500139 KCBK 300715Z AUTO 22004KT 10SM CLR 15/11 A3010 RMK AO2 CXET 300700Z AUTO 17002KT 17/15 RMK AO1 SLP177 T01650150 58009 KATL 300652Z 14003KT 10SM BKN095 OVC200 23/17 A3011 RMK AO2 SLP187 T02280172 KBKL 300653Z 00000KT 10SM BKN090 21/18 A3005 RMK AO2 LTG DSNT NE AND W SLP171 P0002 T02060183 CWPC 300700Z AUTO 13005KT 21/16 RMK AO1 SLP177 T02100164 58011 KCAV 300735Z AUTO 20004KT 1SM BR SCT017 15/14 A3004 RMK AO2 KCBM 300738Z AUTO 13004KT 10SM BKN041 22/20 A3004 RMK AO2 $ CXFM 300700Z AUTO 23012KT 18/04 RMK AO1 T01800042 CWPD 300700Z AUTO 21005KT 13/12 RMK AO1 SLP116 T01280123 58013 UMMG 300700Z 19002MPS CAVOK 18/12 Q1024 NOSIG KBKN 300735Z AUTO 01003KT 10SM 17/17 A3003 RMK AO2 KASW 300735Z AUTO 00000KT 3SM BR SCT048 SCT080 SCT090 18/17 A3003 RMK AO2 CWPE 300700Z AUTO 30003KT 15/14 RMK AO1 SLP163 T01450136 58010 KBLF 300652Z AUTO 00000KT 10SM CLR 20/13 A3022 RMK AO2 SLP196 T02000128 KASX 300653Z AUTO 19004KT 10SM CLR 17/17 A2998 RMK AO2 SLP152 T01670167 CWPF 300730Z AUTO 00000KT 13/12 RMK AO1 T01320117 KAUG 300653Z AUTO 00000KT 10SM CLR 18/16 A3004 RMK AO2 SLP171 T01780156 KATP 300735Z AUTO 14012KT 10SM BKN027 OVC033 29/24 A3000 RMK A01 KBLH 300652Z AUTO 19004KT 10SM CLR 36/15 A2973 RMK AO2 SLP057 T03610150 PHHI 300723Z AUTO 06002KT 10SM SCT023 26/22 A2993 RMK AO2 DZB04E13 KAUH 300735Z AUTO 19005KT 1/4SM FG OVC003 17/17 A3004 RMK AO2 T01650165 NZGS 300726Z 00000KT 20KM BKN050 13/10 Q1016 RMK VATSIM USE ONLY CWNZ 300700Z AUTO 24005KT 14/14 RMK AO1 SLP132 T01430135 58003 CXGH 300600Z AUTO 15007KT 20/18 RMK AO1 T01970175 OPPS 300700Z 05008KT 4000 HZ FEW040 34/23 Q1004 KBLI 300713Z AUTO 17009KT 10SM BKN025 OVC080 17/12 RMK AO2 $ NZHK 300700Z 22004KT 20KM BKN009 11/09 Q1016 RMK ALT VATSIM USE ONLY CXFR 300700Z AUTO 12005KT 11/11 RMK AO1 T01140111 ULWC 300730Z 04004MPS 5000 -SHRA BKN019CB BKN/// 16/12 Q1010 R21/250157 TEMPO 2000 SHRA BKN005 RMK QFE748/0997 KATS 300735Z AUTO 00000KT 10SM CLR 21/15 A3016 RMK AO2 KCDA 300735Z AUTO 00000KT 5SM BR SCT120 15/14 A3009 RMK AO2 T01470141 KE38 300735Z AUTO 00000KT 10SM CLR 16/10 A3022 RMK AO2 T01580096 KBKS 300735Z AUTO 00000KT 10SM CLR 21/18 A2997 RMK AO1 T02120176 CXHA 300700Z AUTO 32001KT 19/18 RMK AO1 SLP165 T01900175 56007 UMMM 300730Z 29004MPS 9999 SCT026 BKN100 18/11 Q1024 R30/CLRD60 NOSIG RMK QFE749 EFHA 300720Z AUTO 26005KT 220V290 CAVOK 16/12 Q1015 KATT 300651Z AUTO VRB03KT 10SM CLR 26/18 A3002 RMK AO2 SLP150 T02610183 PFYU 300736Z 00000KT 10SM FEW037 05/02 A2937 RMK AO1 KBKT 300735Z AUTO 00000KT 10SM CLR 17/17 A3012 RMK AO1 T01720168 UNEE 300730Z 18006MPS CAVOK 22/08 Q1016 R23/CLRD60 NOSIG RMK QFE739 CWPK 300700Z AUTO 25002KT 16/15 RMK AO1 SLP148 T01570152 57006 KCDC 300653Z AUTO 20007KT 10SM CLR 21/07 A3011 RMK AO2 SLP103 T02060067 403280161 KAVC 300736Z AUTO 00000KT 10SM CLR 18/17 A3018 RMK AO2 T01790170 KBMC 300715Z AUTO 17016G22KT 10SM CLR 31/01 A2985 RMK AO1 T03070005 NZHN 300728Z VRB03KT 25KM FEW030 11/10 Q1016 RMK VATSIM USE ONLY KCDD 300721Z AUTO 18003KT 10SM CLR 16/15 A2991 RMK AO2 KBKV 300653Z AUTO 35004KT 10SM CLR 23/22 A2999 RMK AO2 SLP152 T02280217 KBLM 300735Z AUTO 24004KT 10SM CLR 19/14 A3011 RMK AO1 KAUM 300736Z AUTO 18004KT 10SM CLR 17/16 A3003 RMK AO2 CXHD 300700Z AUTO 21006KT 12/09 RMK AO1 T01220092 KBKW 300651Z AUTO 00000KT 10SM CLR 17/14 A3020 RMK AO2 SLP195 T01720139 KAUN 300735Z AUTO 14005KT 10SM CLR 18/08 A2999 RMK AO1 KATW 300735Z AUTO 32004KT 3SM BR OVC005 16/16 A3003 RMK AO2 EDXW 300720Z 00000KT 9999 FEW006 17/15 Q1020 RMK ATIS BRA KBKX 300735Z AUTO 17010KT 3SM OVC005 17/16 A2998 RMK AO1 KAUO 300735Z AUTO 00000KT SCT009 BKN013 OVC070 21/21 A3007 RMK AO2 P0001 PWINO $ KCCO 300735Z AUTO 13003KT 10SM SCT045 SCT050 OVC070 22/21 A3010 RMK AO2 LTG DSNT S T02150213 DNPO 300700Z 00000KT 8000 SCT007 24/23 Q1015 NOSIG CWPO 300700Z AUTO 19004KT 17/16 RMK AO1 SLP089 T01700159 58002 CXHF 300600Z AUTO 17/16 RMK AO1 T01730164 EFHF 300720Z 17003KT CAVOK 17/13 Q1016 KATY 300729Z AUTO 16008KT 7SM SCT003 17/17 A2993 RMK AO2 T01720167 KBMG 300653Z AUTO 00000KT 6SM BR SCT050 21/19 A3005 RMK AO2 SLP168 T02060194 CWOY 300700Z AUTO 14009KT 19/11 RMK AO1 SLP043 T01910111 57013 UMMS 300730Z 28003G06MPS 220V320 9999 FEW033 SCT200 19/09 Q1024 R31/CLRD// NOSIG KCDH 300735Z AUTO 00000KT 10SM CLR 21/19 A2996 RMK AO2 NZHS 300736Z VRB03KT 30KM SCT050 11/09 Q1016 RMK NZNR VATSIM USE ONLY CWQH 300700Z AUTO 18002KT 18/16 RMK AO1 T01780155 KCCR 300653Z 23004KT 10SM CLR 19/14 A3000 RMK AO2 SLP144 T01890139 KBMI 300734Z AUTO 07003KT 1/4SM R29/5000VP6000FT FG FEW016 BKN048 20/20 A3003 RMK AO2 NZHT 300700Z 00000KT 20KM SCT005 11/10 Q1016 RMK ALT VATSIM USE ONLY CWPR 300700Z AUTO 24002KT 14/08 RMK AO1 SLP061 T01410076 53007 KAUS 300653Z 20005KT 10SM BKN150 OVC250 25/19 A3001 RMK AO2 SLP149 T02500189 KBNA 300653Z 00000KT 10SM FEW100 21/19 A3010 RMK AO2 SLP184 T02110189 KCDJ 300652Z AUTO 00000KT 19/18 A3004 RMK AO1 SLP163 T01940183 CWPS 300600Z AUTO 21/17 RMK AO1 SLP173 T02120171 56006 CWRA 300700Z AUTO 32004KT 14/11 RMK AO1 SLP154 T01370110 52012 KAVK 300735Z AUTO 02003KT 10SM OVC050 17/16 A3005 RMK AO2 CWQK 300700Z AUTO 25010KT 15/ RMK AO1 SLP064 T0154 53006 CXIB 300700Z AUTO 30001KT 16/14 RMK AO1 SLP145 T01640141 56013 KBLU 300652Z AUTO 12004KT 10SM CLR 12/09 A3014 RMK AO2 SLP139 T01220094 EFHK 300720Z 20007KT 9999 FEW015 BKN075 17/13 Q1017 NOSIG KBML 300652Z AUTO 00000KT 10SM CLR 14/13 A3007 RMK AO2 SLP181 T01440133 KAVL 300654Z AUTO 00000KT 10SM CLR 19/16 A3020 RMK AO2 SLP200 T01940156 KCCU 300733Z AUTO 18012G17KT 10SM CLR 12/00 A3066 RMK AO2 KCEC 300712Z AUTO 18010KT 8SM OVC004 17/16 A3000 RMK AO2 T01670161 EEPU 300650Z 23008KT CAVOK 17/13 Q1019 KBLV 300658Z AUTO VRB01KT 10SM FEW080 22/19 A3001 RMK AO2 SLP162 T02200194 OPRN 300700Z 18006KT 6000 SCT040 34/22 Q1006.1/29.71 CXHM 300700Z AUTO 01002KT 19/17 RMK AO1 2PAST HR 6006 SLP169 P0001 T01860172 50002 KCDN 300735Z AUTO 00000KT 10SM CLR 21/17 A3012 RMK AO2 TSNO PGRO 300650Z VRB03KT 7SM FEW030 FEW120 28/24 A2982 KAUW 300654Z AUTO 10003KT 1/2SM FG VV003 12/12 A3005 RMK AO2 SLP178 T01220122 KCEF 300658Z AUTO 00000KT 10SM SCT048 SCT065 SCT230 17/15 A3006 RMK AO2 CIG 049 RWY05 SLP184 T01740152 PHJH 300345Z 05011KT 15SM FEW035 28/21 A2986 RMK LAST CWQO 300700Z AUTO 20012KT 12/12 RMK AO1 T01240119 CWPX 300700Z AUTO 20008KT 06/ A2966 RMK SLP063 CWRF 300700Z AUTO ///// 07/ A2993 RMK SLP162 KAVP 300654Z AUTO 11005KT 9SM CLR 17/14 A3010 RMK AO2 SLP183 T01720144 KCCY 300735Z AUTO 18004KT 3/4SM BR VV005 15/15 A3005 RMK AO2 KAWG 300735Z AUTO RMK AO2 PNO PWINO CWQP 300700Z AUTO 20004KT 18/18 RMK AO1 SLP179 T01810175 58006 CXHP 300700Z AUTO 07001KT 08/08 RMK AO1 T00810078 KBMQ 300653Z AUTO 17005KT 10SM CLR 27/16 A3004 RMK AO2 SLP153 T02670161 $ KAVQ 300735Z AUTO 32004KT 10SM CLR 29/15 A2992 RMK AO2 T02890154 CWPZ 300700Z AUTO 09003KT 10/07 RMK AO1 SLP954 T00960071 53024 CWRH 300700Z AUTO ///// 01/ A2967 RMK SLP073 KCDR 300653Z AUTO 19014KT 7SM CLR 24/07 A2993 RMK AO2 PK WND 18027/0605 SLP100 T02390067 403610100 CXHR 300700Z AUTO 21018KT 15/02 RMK AO1 PK WND 21025/0657 T01450015 CWQR 300700Z AUTO 11003KT 11/ RMK AO1 T0110 KCDS 300653Z AUTO 33007KT 10SM CLR 22/18 A3003 RMK AO2 SLP140 T02170178 OPSK 300700Z 13010KT 6000 HZ NSC 35/25 Q1002 RH 57 PC KAXA 300735Z AUTO 20008KT 10SM OVC013 16/16 A3003 RMK AO2 CWQS 300700Z AUTO 27012KT 15/12 RMK AO1 PK WND 27017/0613 SLP947 T01470116 51012 CWRJ 300700Z AUTO 24016G21KT 21/15 RMK AO1 PK WND 24028/0623 SLP024 T02050148 51011 CWSA 300725Z AUTO 24012KT 7SM BKN008 18/17 A3006 RMK SLP180 DENSITY ALT 200FT EGAA 300720Z 15004KT 9999 SCT004 BKN042 11/10 Q1019 KBMT 300735Z AUTO 00000KT 10SM CLR 20/20 A3000 RMK AO2 T02010195 CWRK 300700Z AUTO 00000KT 11/11 RMK AO1 SLP185 T01120112 58007 CYAB 300700Z 04007KT 25SM SKC 00/M05 A2994 RMK CALLOUT 6.0/0.1/0.0/0 SNW CVR/NIL SLP141 KBNL 300735Z AUTO 00000KT 10SM CLR 23/17 A3010 RMK AO2 EGAC 300720Z VRB03KT 9999 FEW010 BKN044 11/08 Q1019 UMOO 300730Z 30003MPS CAVOK 16/11 Q1023 R31/CLRD// NOSIG KAWM 300653Z AUTO 16006KT 10SM BKN110 24/22 A3000 RMK AO2 SLP154 T02440222 $ PGSN 300654Z 16004KT 10SM SCT025 29/25 A2980 RMK AO2 SLP113 T02940250 KCFD 300735Z AUTO 17003KT 10SM CLR 24/20 A3001 RMK AO2 T02400200 CWRM 300700Z AUTO 06002KT 09/08 RMK AO1 SLP995 T00890075 53005 CWSD 300700Z AUTO 24009KT 19/15 RMK AO1 SLP149 T01890149 56009 CWQV 300700Z AUTO 00000KT 17/16 RMK AO1 T01650155 KCDW 300653Z AUTO 00000KT 10SM CLR 19/16 A3010 RMK AO2 SLP195 T01940156 TSNO KCFE 300734Z AUTO 00000KT 10SM CLR 16/15 A2999 RMK AO2 T01620150 KAWO 291855Z AUTO 18024G42KT 10SM BKN060 OVC070 22/10 A2955 RMK AO1 EGAE 291550Z 24016KT 9999 SCT035 18/11 Q1013 CWRN 300700Z AUTO 21006KT 17/15 RMK AO1 SLP162 T01670147 56012 KBNO 300653Z AUTO 25007KT 10SM FEW080 14/01 A2996 RMK AO2 SLP111 T01440011 KAVX 300651Z AUTO 29013KT 10SM CLR 26/12 A2994 RMK AO2 SLP104 T02560122 CWSF 300700Z AUTO 18004KT 15/14 RMK AO1 SLP121 T01510140 56011 CWRO 300700Z AUTO 18009KT 12/11 RMK AO1 SLP934 T01190111 52010 NZKI 300700Z 19017KT 15KM VCSH SCT013 09/08 Q1019 RMK ALT VATSIM USE ONLY KAXH 291635Z AUTO 00000KT 10SM SCT045 A3007 RMK AO2 CWSG 300700Z AUTO 19007KT 16/14 RMK AO1 SLP118 T01580144 58011 PHJR 300653Z 06004KT 10SM FEW041 27/21 A2992 RMK AO2 SLP136 T02720211 ORBI 300730Z 02008KT CAVOK 40/09 Q1006 CYAH 300700Z AUTO 00000KT 9SM SCT075 OVC110 09/08 A2981 RMK SLP103 KBOI 300653Z 20004KT 10SM BKN100 23/10 A2987 RMK AO2 RAE0559 SLP082 P0000 T02280100 403390228 PGUA 300658Z AUTO 11004KT 10SM CLR 29/24 A2982 RMK AO2 SLP088 T02880236 $ NZKK 300729Z 23004KT 25KM SCT010 BKN014 14/13 Q1017 RMK NZAA VATSIM USE ONLY OPST 300700Z 23004KT 4000 FU SCT040 35/26 Q1003 NOSIG RH60 KCFJ 300735Z AUTO 00000KT 2SM BR CLR 15/15 A3004 RMK AO2 T01540154 CXKA 300700Z AUTO 21005KT 14/14 RMK AO1 SLP124 T01440137 50002 KBOK 300727Z AUTO 16008KT 1/4SM FG OVC001 16/16 A3000 RMK AO2 CYBB 292300Z VRB02KT 20SM FEW120 11/M01 A2993 RMK AC1 AC TR SLP138 CWSK 300700Z AUTO 13006KT 16/11 RMK AO1 SLP045 T01560109 53005 CWRT 300700Z AUTO 27009G19KT 15/03 RMK AO1 PK WND 29024/0649 T01450034 KCGC 300735Z AUTO 00000KT 10SM CLR 22/22 A2999 RMK AO2 EGBB 300720Z 36004KT 320V050 CAVOK 14/12 Q1019 KCEU 300654Z AUTO 00000KT 10SM SCT120 23/18 A3015 RMK AO2 SLP197 T02280183 KBPC 300735Z AUTO 23006KT 10SM CLR 15/11 A3010 RMK AO2 CWRU 300700Z AUTO 17021KT 13/11 RMK AO1 2PAST HR 1018 PK WND 17024/0623 SLP001 P0001 T01340114 50002 CWSL 300700Z AUTO 20002KT 15/13 RMK AO1 SLP042 T01530130 51004 CYBC 300734Z AUTO 26003KT 1/2SM R10/3000FT/U FG VV002 14/14 A2988 RMK SLP119 CYBD 300100Z 29010G18KT 260V330 8SM -RA SCT020 OVC060 15/13 A2935 RMK SC3SC5 LAST STFD OBS/NEXT 301300 UTC PRESRR SLP940 DENSITY ALT 700FT VDPP 300730Z 27013KT 140V220 9999 SCT017 FEW020CB SCT040 31/25 Q1007 CB CYAM 300700Z 00000KT 1/4SM R12/1400FT/N FG OVC002 15/15 A3003 RMK FG4SF4 CIG VRB 1-3 SLP171 KCEW 300728Z AUTO 04003KT 6SM BR CLR 19/19 A3005 RMK AO2 T01940194 KCGE 300727Z AUTO 00000KT 10SM CLR 18/16 A3010 RMK AO1 KAXN 300653Z AUTO 18007KT 10SM CLR 18/17 A2995 RMK AO2 SLP140 T01830172 PHKO 300653Z 36004KT 10SM BKN060 29/21 A2986 RMK AO2 SLP112 T02890211 EFIV 300720Z AUTO 18009KT 140V220 9999 BKN014 12/09 Q1010 KBNW 300735Z AUTO 13003KT 10SM OVC065 15/15 A3004 RMK AO2 KCGF 300245Z 14007KT 10SM -RA BKN050 OVC100 21/20 A3009 KAXO 291020Z 19010KT 7SM SCT015 26/22 A2999 EGBE 291720Z 23007KT 9999 FEW045 20/11 Q1018 CXKE 300700Z AUTO 23002KT 16/15 RMK AO1 SLP171 T01610150 56007 EFKE 300720Z AUTO 26006KT 210V300 CAVOK 16/11 Q1011 DNSO 300700Z 28003KT 9999 SCT013 24/22 Q1015 CWRX 300700Z AUTO 26006KT 01/ A2987 EFJO 300720Z AUTO 28007KT 250V340 CAVOK 15/12 Q1013 KBPG 300735Z AUTO 00000KT 10SM CLR 17/13 A3011 RMK AO2 T01700127 KCEY 300735Z AUTO 18006KT 10SM CLR 22/22 A3004 RMK AO1 CWTG 300700Z AUTO 26008KT 11/09 RMK AO1 SLP118 T01050087 56009 CWSP 300700Z AUTO 30010KT 14/12 RMK AO1 6PAST HR 3006 PK WND 30018/0606 SLP065 P0002 T01410120 50006 CWRY 300700Z AUTO 26006KT 16/05 RMK AO1 PK WND 27019/0601 SLP059 T01640054 53011 CYBG 300700Z 25005KT 25SM OVC026 17/15 A2992 RMK SC8 SLP132 ZSNB 300700Z 03003MPS 330V080 8000 SCT030 30/21 Q1008 NOSIG KCEZ 300653Z AUTO VRB03KT 10SM BKN110 14/07 A3020 RMK AO2 SLP146 T01390072 403170100 PHLI 300653Z 05010KT 10SM FEW017 SCT031 27/25 A2994 RMK AO2 SLP134 T02720250 $ CWRZ 302300Z AUTO 06008KT 16/14 RMK AO1 SLP139 T01570138 50002 KCGI 300653Z AUTO 23004KT 10SM OVC080 23/19 A3004 RMK AO2 RAB0554E14 SLP168 P0000 T02280194 KBPI 300653Z AUTO 35005KT 10SM CLR 11/02 A3014 RMK AO2 SLP105 T01110022 402940039 $ CWSR 300700Z AUTO 14007KT 17/11 RMK AO1 SLP003 T01670107 56013 CXKI 300700Z AUTO 15/15 RMK AO1 SLP153 T01490149 56007 KCHA 300653Z AUTO 00000KT 10SM BKN120 22/21 A3012 RMK AO2 SLP191 T02220206 EFKI 300720Z AUTO 28005KT 250V310 9999 FEW012 15/12 Q1012 KBOS 300654Z 24013KT 10SM FEW070 BKN240 22/16 A3006 RMK AO2 SLP180 T02170156 KCFS 300734Z AUTO 00000KT 4SM BR OVC042 17/17 A3004 RMK AO2 T01720170 KAXS 300735Z AUTO 04004KT 10SM CLR 24/16 A3001 RMK AO2 T02390156 NZMC 302300Z 30015G35KT 8000 SCT050 04/// Q0989 RMK VIS 50KM TO SOUTH VATSIM USE CYAS 292100Z 09008KT 15SM -RA BKN030 07/05 A2980 RMK SC6 LAST OBS/NEXT 201200UTC SLP098 EGBJ 291920Z 16003KT CAVOK 18/12 Q1018 CWSS 300700Z AUTO 24001KT 15/14 RMK AO1 SLP163 T01520135 55007 KBPK 300653Z AUTO 13004KT 6SM BR SCT065 BKN110 21/19 A3001 RMK AO2 LTG DSNT N AND NW SLP153 T02060194 KE80 300735Z AUTO 16005KT 10SM CLR 19/10 A3023 RMK AO2 T01930103 CXLB 300700Z AUTO 27007KT 18/17 RMK AO1 SLP175 T01760167 56010 CWST 300700Z AUTO 21009G17KT 19/16 RMK AO1 PK WND 22017/0656 SLP131 T01870157 58011 CYAT 300732Z AUTO 19005KT 170V230 9SM BKN100 BKN120 OVC140 16/16 A2975 RMK LTNG DIST SE SLP073 DENSITY ALT 300FT CYCB 300700Z 21003KT 15SM BKN035 06/06 A2970 RMK SC7 SLP058 CYBK 300700Z 18010KT 15SM FEW015 BKN080 09/05 A2989 RMK SC1AC5 SLP123 EFKK 300720Z AUTO 25006KT 210V320 CAVOK 16/12 Q1014 PGUM 300736Z 00000KT 10SM FEW016CB SCT025 SCT080 29/25 A2981 RMK AO2 CB W MOV W $ KAZC 300735Z AUTO 12003KT 10SM CLR M12/M18 A3012 RMK AO2 T11251181 CYBL 300400Z 16003KT 110V180 15SM FEW004 SCT060 BKN250 13/12 A2958 RMK SF2SC2CI3 LAST OBS/NEXT 301300UTC SLP018 DENSITY ALT 600FT KCHD 300347Z 08014KT 10SM -TSRA SCT050 BKN080 OVC120 30/18 A2987 RMK LTGCC ALQDS LAST KAXV 290945Z AUTO 15003KT 7SM BKN055 BKN065 17/16 A3013 RMK AO2 CXLC 300700Z AUTO 13009KT 10/07 RMK AO1 SLP028 T00960068 58013 KCFV 300652Z AUTO 33003KT 10SM CLR 19/18 A3000 RMK AO2 SLP151 T01940183 EGCC 300720Z 00000KT CAVOK 13/11 Q1019 NOSIG NZMF 300521Z 17012KT 50KM FEW040 SCT070 10/06 Q1016 RMK NZQN VATSIM USE ONLY CYCD 300400Z 11006KT 080V190 15SM FEW010 BKN040 OVC090 16/12 A2966 RMK SF1SC6AC1 LAST OBS/NEXT 301300 UTC SLP044 DENSITY ALT 500FT CXKM 300700Z AUTO 16005KT 12/08 RMK AO1 T01230075 KBOW 300735Z AUTO 00000KT 10SM CLR 23/ A2999 RMK AO2 LTG DSNT E KAZE 300735Z AUTO 00000KT 7SM SCT005 SCT120 24/24 A3004 RMK AO2 LTG DSNT W T02350235 CWSW 300100Z 18004G17KT 100V230 10SM VCSH OVC055TCU 20/06 A2981 RMK FU3TCU5 FU ALQDS LAST STFD OBS/NEXT 301300UTC SLP084 DENSITY ALT 5300FT CWTN 300700Z AUTO 29003KT 18/16 RMK AO1 SLP138 T01760160 58013 CYBN 300700Z AUTO 26002KT 6SM OVC045 16/16 A3006 RMK SLP181 EETN 300720Z 23009KT 9999 VCSH FEW012 SCT019CB 17/15 Q1017 TEMPO TSRA KAXX 300735Z AUTO 00000KT 10SM CLR 04/03 A3047 RMK AO2 T00370032 ZSNJ 300700Z 05004MPS 020V090 7000 FEW040 31/19 Q1007 NOSIG CYCG 300400Z VRB02KT 3SM FU SCT032 BKN074 20/07 A2975 RMK FU3SC1AC2 LAST OBS/NEXT 301300UTC SLP071 DENSITY ALT 2800FT CYAY 300700Z AUTO 12011KT 9SM BKN019 BKN034 BKN075 OVC089 11/10 A2991 RMK SLP128 EFJY 300720Z AUTO VRB02KT CAVOK 15/11 Q1015 CYAZ 300100Z 16007KT 5SM BR SCT005 BKN015TCU BKN220 14/14 A2958 RMK CF3TCU3CI1 LAST OBS/NEXT 301300UTC SLP018 DENSITY ALT 400FT CYBQ 300700Z AUTO 08010KT 9SM OVC006 08/07 A2982 RMK SLP111 TVSC 291800Z 12007KT 9999 BKN014 29/24 Q1014 CYBR 300700Z 04003KT 3SM FU BKN250 15/14 A2975 RMK CI6 SLP077 DENSITY ALT 1800FT KCGS 300725Z AUTO 00000KT 10SM CLR 22/17 A3010 RMK AO1 PHMK 300654Z AUTO 05008G14KT 10SM CLR 26/22 A2993 RMK AO2 SLP134 T02610222 TSNO KAYS 300735Z AUTO 13004KT 10SM SCT004 SCT025 25/25 A3005 RMK AO2 LTG DSNT NW T02500250 CYDA 300300Z 24003KT 20SM BKN025 BKN140 07/M00 A2930 RMK SC5AC2 CLIMAT 8.7/-0.9/0.0 LAST STFD OBS/NXT 301300 UTC SLP939 KBPT 300653Z AUTO 00000KT 8SM CLR 21/20 A2999 RMK AO2 SLP154 T02060200 EFMA 300720Z AUTO 24008KT 210V280 9999 FEW016 16/13 Q1017 EFKS 300720Z AUTO 14006KT 9999 OVC007 10/09 Q1012 KCHK 300735Z AUTO 35003KT 10SM CLR 20/18 A2998 RMK AO2 KBQK 300735Z AUTO 00000KT 10SM SCT017 BKN028 OVC055 22/22 A3006 RMK AO1 LTG DSNT N KCIC 300150Z 13015KT 40SM FEW060 SCT180 29/11 A2988 CWTT 300700Z AUTO 26006KT 18/16 RMK AO1 T01840158 CXKT 300700Z AUTO 00000KT 15/14 RMK AO1 SLP170 T01530137 56010 CYDB 300700Z AUTO 27006KT 9SM -RA OVC029 02/00 A2921 RMK SLP924 ZSOF 300700Z 36003MPS 330V030 9999 FEW033 31/20 Q1008 NOSIG EFKT 300720Z AUTO 14005KT 090V180 CAVOK 12/08 Q1010 CYCK 300712Z AUTO VRB02KT 5SM BR BKN070 BKN086 OVC140 18/18 A3005 RMK SLP173 DENSITY ALT 1000FT CYDC 300100Z 20013G19KT 170V240 25SM BKN050CB 19/06 A2970 RMK CB6 LAST STFD OBS/NEXT 301300 UTC SLP048 DENSITY ALT 3500FT CWTU 300700Z AUTO 19012KT 06/ A2983 RMK SLP122 KBRD 300653Z AUTO 19008KT 7SM OVC006 17/16 A2996 RMK AO2 SLP142 T01720161 EETU 300650Z 25010KT 9999 FEW005 16/14 Q1018 KCID 300652Z AUTO 33005KT 1/4SM FG VV002 15/15 A3005 RMK AO2 SLP172 T01500150 EFKU 300720Z AUTO 28007KT CAVOK 16/11 Q1014 CYBU 300730Z AUTO 04004KT 2 1/4SM 14/13 A2965 RMK CLD MISG SLP043 DENSITY ALT 1600FT CXMD 300700Z AUTO 04001KT 19/18 RMK AO1 SLP077 T01920175 53004 CWVD 300700Z AUTO 34016KT M02/ A2974 RMK SLP114 CYBW 300700Z AUTO 23008KT 220V280 9SM CLR 10/03 A2963 RMK SLP023 DENSITY ALT 4500FT KCHO 300653Z AUTO 00000KT 8SM CLR 19/18 A3011 RMK AO2 SLP190 T01940178 EGCN 300720Z 33002KT CAVOK 14/12 Q1020 KAZO 300653Z AUTO 18005KT 6SM BR BKN035 BKN045 OVC100 19/18 A3002 RMK AO2 SLP164 T01940178 PHNG 300657Z AUTO 08007KT FEW023 SCT027 SCT036 27/23 A2989 RMK AO2 SLP118 T02720228 $ CWVF 300700Z AUTO 18013KT 16/13 RMK AO1 T01620127 CYBX 300700Z 06007KT 15SM FEW030 BKN200 12/11 A2988 RMK SC1CI5 SLP118 CYDF 300700Z 20005KT 15SM FEW027 BKN090 15/13 A2993 RMK SC2AC5 SLP136 CYCO 300700Z 14006KT 15SM FEW030 FEW300 06/04 A2963 RMK SC1CI1 SC TR SLP036 KF05 300735Z AUTO 30004KT 10SM CLR 23/14 A2999 RMK AO1 T02280143 KBQP 300715Z AUTO 11003KT 10SM CLR 25/18 A2999 RMK AO2 T02500176 CYCP 300100Z VRB02KT 15SM -SHRA FEW003 FEW040 BKN060TCU 13/13 A2963 RMK SF1CF1TCU5 LAST OB/NEXT 301300 UTC SLP040 DENSITY ALT 2800FT CXMG 300700Z AUTO 18004KT 11/10 RMK AO1 T01070102 CWTY 300700Z AUTO 20009KT 19/17 RMK AO1 SLP147 T01890173 58014 CWUP 300700Z AUTO 35007KT 00/ A2981 RMK SLP120 EFLP 300720Z 27007KT 220V310 CAVOK 17/10 Q1015 KCGZ 300735Z AUTO 00000KT CLR 29/17 A2986 RMK AO1 CYCQ 300100Z 00000KT 35SM FEW040 BKN060TCU BKN120 14/12 A2934 RMK CU1TCU4AS2 LAST STFD OBS/NEXT 301300Z SLP949 DENSITY ALT 2900FT CWVH 300700Z AUTO 06007KT 03/ A2943 RMK SLP983 CWVI 300700Z AUTO 20009KT 16/11 RMK AO1 SLP961 T01570110 51015 CXMI 300700Z AUTO 27007KT 18/17 RMK AO1 SLP166 T01780166 55010 ZSPD 300730Z 08004MPS 050V110 9999 FEW026 28/21 Q1009 NOSIG EFMI 300720Z AUTO 26007KT 220V300 CAVOK 16/12 Q1015 KCHS 300656Z 05004KT 10SM FEW024 FEW075 SCT250 23/22 A3009 RMK AO2 SLP187 OCNL LTGIC DSNT E-S CB DSNT E-S T02330217 KDAA 300658Z AUTO 13002KT 10SM CLR 21/17 A3010 RMK AO2 SLP195 T02070174 CYCS 292000Z 15008KT 15SM FEW220 10/01 A2992 RMK CI2 10.7/8.4/0/NIL LAST STFD OBS/NEXT 301400Z SLP132 CWWA 300700Z AUTO 06003KT 14/11 RMK AO1 SLP062 T01410112 53002 CWUS 300700Z AUTO 17010G16KT 20/03 RMK AO1 SLP039 T01950030 53004 KDAB 300653Z 08006KT 10SM FEW009 FEW030 BKN120 OVC150 24/22 A3000 RMK AO2 RAE10 SLP159 FRQ LTGIC DSNT SE CB DSNT SE P0000 T02390222 $ PHNL 300653Z 06014KT 10SM FEW028 SCT039 SCT050 28/22 A2990 RMK AO2 SLP125 T02830222 CWWB 300700Z AUTO 27003KT 20/17 RMK AO1 SLP179 T01970174 56004 KBRL 300701Z AUTO 04006KT 1 3/4SM BR OVC002 20/20 A3003 RMK AO2 T02000200 EGEC 291750Z 23002KT 9999 FEW018 SCT033 15/11 Q1014 CYDL 300700Z AUTO 00000KT 9SM -RA SCT002 BKN045 OVC060 09/09 A2917 RMK SLP873 DENSITY ALT 3400FT CXMM 300700Z AUTO 10009KT 16/12 RMK AO1 6PAST HR 8021 PK WND 10022/0639 SLP948 P0002 T01640116 50006 EGDM 300650Z AUTO 34004KT 9999 FEW029/// BKN048/// 15/14 Q1018 CYED 300700Z AUTO 26004KT 9SM CLR 13/10 A2945 RMK SLP974 KCIN 300735Z AUTO 25004KT 6SM BR FEW018 OVC055 15/15 A3004 RMK AO2 NZNP 300618Z 28005KT 25KM HZ SCT012 SCT018 10/13 Q1017 RMK VATSIM USE ONLY CWVN 300700Z AUTO 19006KT 23/11 RMK AO1 SLP028 T02280113 58004 CWWE 300700Z AUTO 26005KT 16/16 RMK AO1 SLP180 T01640161 56011 CYDN 300700Z AUTO 24006KT 9SM BKN170 BKN190 18/13 A2971 RMK SLP060 DENSITY ALT 1700FT KBRO 300653Z 14007KT 10SM CLR 26/24 A2997 RMK AO2 SLP147 T02610239 CWUW 300728Z AUTO 07008KT 9SM OVC001 OVC034 OVC040 OVC051 M00/ A2980 PHOG 300654Z 05007KT 10SM FEW030 SCT070 27/22 A2991 RMK AO2 SLP132 T02670222 KBQX 300735Z AUTO 13010KT 10SM CLR 29/21 A2998 RMK A01 NZOH 300707Z VRB04KT 20KM FEW010 SCT015 BKN035 11/10 Q1017 RMK NZPM VATSIM USE O CXMO 300700Z AUTO 24003KT 15/03 RMK AO1 PK WND 22021/0606 T01480034 CWWF 300700Z AUTO 14009KT 20/11 RMK AO1 SLP048 T01960107 56019 CWUX 300700Z AUTO 16/15 RMK AO1 SLP128 T01630150 58011 VDSR 300730Z 28008KT 250V310 9999 SCT017 FEW018CB 33/24 Q1006 CB/SW CYCX 300700Z 22006KT 180V240 15SM FEW120 OVC180 17/15 A2999 RMK AC1AS7 DA550FT SLP157 KDAG 300650Z AUTO 27015G23KT 10SM CLR 30/08 A2989 RMK AO2 SLP089 T03000078 NZNR 300736Z VRB03KT 30KM SCT050 11/09 Q1016 RMK VATSIM USE ONLY CYDP 292300Z 13010KT 15SM SCT019 08/05 A2980 RMK SC4 LAST STAFFED OB/ NEXT 300800 SLP093 ORER 300700Z 32004KT 8000 NSC 36/06 Q1011 NOSIG CWVP 300700Z AUTO 33005KT 19/05 RMK AO1 SLP050 T01860054 51004 CYEG 300700Z 15006KT 15SM FEW160 09/06 A2947 RMK AC1 AC TR SLP983 DENSITY ALT 2600FT CYCY 300700Z AUTO 00000KT 9SM OVC075 02/01 A2989 RMK SLP125 NZNS 300730Z VRB02KT 20KM FEW009 FEW020 11/10 Q1017 RMK VATSIM USE ONLY CWVQ 300700Z AUTO 24007KT 19/17 RMK AO1 SLP163 T01870169 57012 CYDQ 300700Z AUTO 09006KT 9SM FEW100 09/09 A2937 RMK SLP952 DENSITY ALT 2500FT KCIR 300735Z AUTO 00000KT 5SM -TSRA SCT029 BKN039 OVC046 21/21 A3003 RMK AO2 LTG DSNT SE AND S P0004 T02070207 KF17 300735Z AUTO 19003KT 10SM CLR 26/19 A2998 RMK AO2 T02580185 UNKL 300730Z 17003MPS 090V230 CAVOK 22/00 Q1018 R29/CLRD65 NOSIG RMK QFE738 ZSQD 300700Z 14004MPS 9999 FEW033 28/17 Q1009 NOSIG PGWT 300650Z 12004KT 7SM FEW016 29/24 A2979 EGDR 300650Z 04005KT 9999 HZ FEW006 OVC100 14/13 Q1017 RERA BLU KBTA 300735Z AUTO 18003KT 7SM CLR 16/15 A3004 RMK AO2 T01600149 TVSV 300300Z 09014KT 9999 SCT016 BKN260 28/25 Q1015 CWXA 300700Z AUTO 25014G26KT 16/M00 RMK AO1 PK WND 22028/0640 SLP990 T01611004 55004 KCKB 300653Z AUTO 00000KT 9SM CLR 17/16 A3012 RMK AO2 SLP185 T01670156 TSNO NZNV 300706Z 10012KT 20KM FEW008 BKN022 08/06 Q1020 RMK VATSIM USE ONLY CYEK 300700Z AUTO 08008KT 9SM CLR 07/07 A2991 RMK SLP130 CWWK 300700Z AUTO 12004KT 16/13 RMK AO1 SLP065 T01560133 53003 CWVT 300700Z AUTO 12009G17KT 19/11 RMK AO1 PK WND 11017/0700 SLP011 T01940109 56022 CYFB 300700Z 32009KT 15SM FEW027 SCT050 BKN120 04/02 A2973 RMK SC2SC2AC3 SLP071 KDAL 300653Z 00000KT 10SM BKN085 BKN130 BKN250 28/18 A2997 RMK AO2 SLP139 T02780178 KCIU 300735Z AUTO 18004KT 2SM CLR 15/15 A3003 RMK AO1 VIS 1V4 KCKC 300734Z AUTO 18003KT 1SM BR VV007 14/13 A2997 RMK AO2 VIS 3/4V2 CWXC 300700Z AUTO 18002KT 16/16 RMK AO1 SLP120 T01590156 56011 CWWL 300700Z AUTO 17012KT 13/12 RMK AO1 SLP944 T01320117 52018 CWVU 300700Z AUTO 16007KT 14/14 RMK AO1 SLP190 T01430138 56011 CYFC 300700Z AUTO 19003KT 170V230 9SM BKN130 OVC150 16/15 A2999 RMK SLP156 CXNM 300700Z AUTO 26009KT 15/14 RMK AO1 T01470144 KDAN 300653Z AUTO 22003KT 10SM CLR 19/17 A3014 RMK AO2 SLP195 T01940172 NZPG 300425Z 09009KT 9999 FEW100 FEW200 M28/M32 A2917 RMK FATA MORGANA GRID N-NE GRID26009KT SDF/HDF LAST CYEN 300700Z 12010KT 2SM FU VV006 20/12 A2972 RMK FU8 MOON DIMLY VSBL SLP057 DENSITY ALT 3100FT PHNY 300658Z AUTO 04010G16KT 10SM CLR 23/22 A2997 RMK AO2 SLP125 T02330217 KCKF 300715Z AUTO 10005KT 10SM SCT010 SCT041 BKN060 24/23 A3006 RMK AO2 T02430233 EGEO 291520Z 22011KT 9999 SCT016 SCT046 15/12 Q1013 EGDX 300650Z AUTO 36003KT 9999 -RADZ FEW039/// OVC070/// 14/10 Q1018 EGFF 300720Z AUTO 03006KT 9999 OVC037 15/11 Q1018 CXNP 300700Z AUTO 19005KT 15/14 RMK AO1 SLP163 T01490142 56012 EGDY 300650Z AUTO 30003KT 9999 OVC050/// 15/14 Q1018 RERA CXMY 300700Z AUTO 12/12 RMK AO1 T01220116 KCKI 300735Z AUTO 00000KT 10SM SCT027 BKN055 21/21 A3010 RMK AO2 LTG DSNT E KCJR 300710Z AUTO 00000KT 10SM CLR 17/17 A3012 RMK AO2 T01730170 CWXI 300700Z AUTO 22013G18KT 16/14 RMK AO1 PK WND 22019/0602 SLP110 T01620136 55000 CYER 300727Z AUTO 07006KT 060V120 6SM -RA BR BKN003 OVC036 11/10 A2962 RMK PRESFR SLP029 KDCA 300652Z 19008KT 10SM BKN250 22/18 A3010 RMK AO2 SLP193 T02170178 CWWS 300700Z AUTO 25010G15KT 20/16 RMK AO1 SLP025 T01990164 51010 CXPA 300700Z AUTO 06004KT 08/08 RMK AO1 T00750075 NZPM 300707Z VRB04KT 20KM FEW010 SCT015 BKN035 11/10 Q1017 RMK VATSIM USE ONLY CYET 300709Z AUTO VRB02KT 6SM BR FEW001 09/09 A2951 RMK SLP996 DENSITY ALT 3500FT KBTL 300653Z AUTO 19006KT 10SM FEW049 SCT065 OVC100 20/18 A3003 RMK AO2 SLP164 T02000178 CXOL 300700Z AUTO 19010KT 11/04 RMK AO1 T01140044 CWXL 300700Z AUTO 26007KT 19/05 RMK AO1 PK WND 28018/0631 T01910051 CXPC 300700Z AUTO 14/14 RMK AO1 SLP168 T01440137 57010 KBTM 300653Z AUTO 06003KT 2 1/2SM HZ FEW030 SCT120 16/06 A2997 RMK AO2 SLP084 T01610061 403000122 KCKM 300735Z AUTO 12005KT 10SM 23/23 A3001 RMK AO1 EGGD 300720Z 05006KT 9999 FEW033 13/11 Q1019 CYEV 300700Z 04007KT 15SM -RA FEW030 OVC082 05/03 A2940 RMK SC2AC6 SLP960 KDAW 300651Z AUTO 00000KT 10SM CLR 18/15 A3004 RMK AO2 SLP170 T01830150 KCLE 300651Z 00000KT 10SM -RA FEW034 SCT050 OVC070 19/18 A3008 RMK AO2 TSE30 SLP180 P0003 T01940183 KCKN 300735Z AUTO 19011G16KT 10SM CLR 19/18 A2982 RMK AO2 KDBN 300735Z AUTO 00000KT 10SM OVC017 22/21 A3009 RMK AO2 LTG DSNT SW NZPP 300700Z 22005KT 10KM VCDZ BKN009 12/11 Q1016 RMK ALT VATSIM USE ONLY CYGE 300000Z 12007KT 20SM FEW060 SCT080 BKN110 18/13 A2964 RMK SC1AC3AC1 LAST OBS/NEXT 301200Z PRESFR SLP035 DENSITY ALT 3800FT KBUF 300654Z 00000KT 10SM SCT055 BKN100 OVC110 20/17 A3006 RMK AO2 SLP176 T02000167 CYFO 292300Z 29008KT 270V330 7SM BKN090 26/16 A2957 RMK AC6 FU LAST OBS / NEXT 301100UTC SLP013 DENSITY ALT 2800FT CWWX 300700Z AUTO 27004KT 17/16 RMK AO1 SLP165 T01710156 57012 KBTP 300735Z AUTO 15004KT 10SM FEW070 19/17 A3011 RMK AO1 KDAY 300656Z 23009KT 10SM -RA FEW037 BKN080 OVC110 20/19 A3009 RMK AO2 RAB35 SLP183 P0000 T02000189 KCKP 300715Z AUTO 19006KT 10SM OVC006 17/17 A3004 RMK AO2 T01670167 KDBQ 300653Z 06004KT 10SM CLR 17/16 A3006 RMK AO2 SLP175 T01670156 $ CYGH 292300Z 08008KT 050V120 15SM -SHRA OVC025 10/05 A2947 RMK SC8 PCPN VRY LGT 9.9/4.3/TR/0 LAST OBS/NXT 301300Z SLP984 CWWZ 300700Z AUTO 01002KT 20/18 RMK AO1 SLP171 T02030180 58009 KBTR 300653Z 00000KT 10SM CLR 23/21 A3001 RMK AO2 SLP162 T02280206 KCLI 300735Z AUTO 00000KT 1/4SM FG OVC002 11/11 A3005 RMK AO2 CWXR 300700Z AUTO 11008KT 04/ A2957 RMK SLP023 KCMA 300655Z 00000KT 10SM CLR 23/18 A2984 RMK AO2 SLP111 T02280183 NZRC 300706Z 10012KT 20KM FEW008 BKN022 08/06 Q1020 RMK NZNV VATSIM USE ONLY CYHA 292100Z 30005KT 15SM FEW025 BKN050 BKN100 06/02 A2980 RMK SC1SC7AC1 LAST OBS/NEXT 301200 UTC SLP093 CWZA 300700Z AUTO 21002KT 15/14 RMK AO1 1PAST HR 6002 SLP061 P0004 T01470139 50011 CWYJ 300700Z AUTO 00000KT 13/13 RMK AO1 SLP065 T01320127 53007 CYFS 300700Z 10005KT 060V220 15SM FEW070 BKN210 15/09 A2928 RMK AC2CI3 PRESFR SLP920 DENSITY ALT 1300FT KCLK 300735Z AUTO 02005KT 10SM 18/15 A3004 RMK AO2 CYFT 292000Z 30008KT 15SM FEW020 BKN035 BKN090 10/06 A2985 RMK CF1SC5AC1 CF TR AC TR LAST OB/NEXT 300900 UTC SLP110 CYGK 300300Z 20003KT 200V280 15SM OVC140 19/16 A3008 RMK AC8 LAST STFD OBS/NEXT 301000 UTC SLP186 DENSITY ALT 600FT CWYK 300700Z AUTO ///// 04/ A2968 RMK SLP077 KCLL 300653Z AUTO 16004KT 10SM CLR 24/20 A3001 RMK AO2 SLP156 T02390200 KDDC 300652Z AUTO 18005KT 8SM CLR 16/13 A3009 RMK AO2 SLP161 T01610133 NZQN 300521Z 17012KT 50KM FEW040 SCT070 10/06 Q1016 RMK VATSIM USE ONLY KDCM 300735Z AUTO 00000KT 10SM CLR 21/17 A3014 RMK AO2 CXPL 300700Z AUTO 21015KT 17/03 RMK AO1 PK WND 22025/0602 T01650034 CWYL 300700Z AUTO 24007KT 08/08 RMK AO1 SOG 00 0000 SLP048 T00820078 CYGL 300700Z 18004KT 15SM SCT040 OVC200 12/10 A2976 RMK SC3CS5 SLP083 KCLM 300653Z AUTO 23006KT 10SM FEW023 BKN065 OVC090 13/12 A2973 RMK AO2 SLP066 T01330122 KCKV 300652Z AUTO VRB03KT 10SM CLR 22/19 A3007 RMK AO2 SLP175 T02170194 EFOU 300720Z AUTO 27008KT 230V310 9999 SCT021/// BKN024/// 16/11 Q1012 KBTV 300654Z 00000KT 10SM CLR 19/16 A3005 RMK AO2 SLP174 T01890156 KCMD 300735Z AUTO 00000KT 10SM -DZ CLR 20/19 A3012 RMK AO2 CWYM 300700Z AUTO 31006KT 00/ A2964 RMK SLP078 CYHD 300700Z AUTO 21010KT 9SM FEW010 OVC023 19/18 A2982 RMK SLP098 DENSITY ALT 2200FT KBVE 300651Z AUTO 00000KT 10SM CLR 26/22 A3003 RMK AO2 SLP167 T02610222 EGHE 291650Z 11003KT 9999 FEW009 17/14 Q1019 CYHE 300700Z AUTO 00000KT 7SM RA FEW012 SCT028 BKN050 OVC070 15/14 A2973 RMK SLP068 DENSITY ALT 300FT KF44 300735Z AUTO 18006KT 10SM CLR 24/18 A2997 RMK AO2 CXOX 300700Z AUTO 11008KT 18/11 RMK AO1 SLP038 T01780106 58011 EFPO 300720Z AUTO 12003KT 080V140 CAVOK 15/14 Q1015 CXOY 300700Z AUTO 21011KT 20/04 RMK AO1 PK WND 22017/0651 T02000037 CWZG 300700Z AUTO 23006KT 13/03 RMK AO1 SLP035 T01340034 58003 CYGP 300700Z VRB02KT 10SM SCT025 BKN120 BKN220 14/13 A2990 RMK SC3AC2CI1 SLP126 EGGP 300720Z 12004KT CAVOK 13/12 Q1019 KCMH 300651Z 22009KT 7SM -RA FEW055 SCT070 OVC095 20/19 A3008 RMK AO2 TSE42RAB0553 SLP179 P0015 T02000189 $ KDDH 300734Z AUTO 00000KT 1SM BR VV001 13/12 A3009 RMK AO2 VIS 1/4V2 1/2 T01330122 $ KCKZ 300735Z AUTO 00000KT 5SM BR FEW075 16/16 A3012 RMK AO2 KF46 300735Z AUTO 17003KT 10SM CLR 25/20 A2995 RMK AO2 T02500198 CYHH 292000Z 00000KT 15SM SCT035 SCT120 22/11 A2988 RMK SC3AC1 LAST OBS NXT 311100Z SLP122 KBVI 292047Z 17004KT 10SM CLR 29/16 A3011 RMK LAST CYGQ 300700Z 21009KT 1SM BR OVC003 17/16 A2991 RMK FG4ST4 VIS VRB 3/4-11/2 SLP131 DENSITY ALT 1600FT KCMI 300653Z AUTO 21003KT 4SM BR BKN095 19/18 A3003 RMK AO2 SLP163 T01940183 KBUR 300653Z 12004KT 10SM CLR 26/16 A2986 RMK AO2 SLP097 T02610161 EGHH 300720Z 01007KT CAVOK 15/14 Q1017 CYHI 300000Z 11005KT 15SM VCSH FEW010 FEW012 OVC018 10/08 A2961 RMK SF1SC1SC6 9.7/9.5/TR CIG RAG LAST OBS/NXT 301400Z SLP030 CYGR 300200Z 22006KT 15SM FEW030 BKN240 19/17 A2997 RMK SC1CI6 LAST OBS/NEXT 300900 UTC SLP148 DENSITY ALT 400FT EGHI 300720Z VRB03KT CAVOK 16/13 Q1017 KCLS 300735Z AUTO 19006KT 10SM FEW031 SCT047 OVC095 15/15 A2979 RMK A01 KCLT 300652Z 00000KT 10SM BKN180 OVC250 22/17 A3015 RMK AO2 SLP200 T02170167 KCNB 300734Z AUTO 22005G15KT 10SM CLR 19/16 A2993 RMK AO2 T01850158 CYGT 291900Z 02006KT 15SM FEW040 07/00 A2985 RMK SC1 LAST STFD OBS/NEXT 301600Z SLP111 CXRB 300700Z AUTO 09007KT 02/M03 RMK AO1 SLP132 T00231027 52003 CYHK 300700Z AUTO 16013KT 9SM OVC110 08/05 A2984 RMK SLP109 KDCU 300653Z AUTO 00000KT 10SM BKN120 21/20 A3010 RMK AO2 SLP186 T02060200 $ KDEC 300654Z AUTO 22004KT 10SM BKN095 22/19 A3002 RMK AO2 SLP160 T02170189 KCNC 300735Z AUTO 07004KT M1/4SM FG VV000 17/16 A3004 RMK AO2 KBUU 300715Z AUTO 00000KT 3SM BR OVC008 16/16 A3004 RMK AO2 T01630161 CWZL 300700Z AUTO 27008KT 13/10 RMK AO1 SLP956 T01330099 51018 KBWD 300715Z AUTO 15004KT 10SM SCT065 OVC070 22/19 A3002 RMK AO2 KDED 300715Z AUTO 06009KT 23/22 A2999 RMK AO1 NZRO 300647Z 35005KT 30KM FEW025 11/09 Q1016 RMK VATSIM USE ONLY CYHM 300732Z 31005KT 15SM BKN050 OVC070 18/17 A3007 RMK SC7AC1 SLP180 DENSITY ALT 1100FT CYGV 300700Z AUTO 00000KT 1/8SM FG VV002 10/10 A2989 RMK SLP121 PHSF 300656Z AUTO 12001KT 10SM CLR 15/10 A3026 RMK AO2 SLP116 T01460103 $ KCLW 300735Z AUTO 05004KT 10SM CLR 22/21 A2997 RMK AO2 KBVN 300735Z AUTO 16005KT 3SM BR OVC003 17/16 A3003 RMK AO2 T01730163 CWZN 300600Z AUTO 32003KT 16/12 RMK AO1 SLP154 T01640118 53002 CYGW 300704Z AUTO 10009G17KT 9SM OVC060 12/10 A2975 RMK SLP073 KBVO 300653Z AUTO 00000KT 10SM CLR 19/19 A3000 RMK AO2 SLP149 T01890189 $ EGGW 300720Z 03005KT 360V060 9999 OVC030 15/14 Q1018 CYGX 300200Z 06011G18KT 15SM BKN009 OVC080 14/13 A2964 RMK SC6AC2 SLP042 DENSITY ALT 800FT CWZO 300700Z AUTO 16003KT RMK AO1 ZSSS 300730Z 07004MPS 030V130 9999 SCT033 31/20 Q1007 NOSIG KBWG 300653Z AUTO 16005KT 10SM CLR 22/19 A3009 RMK AO2 SLP182 T02170194 KBUY 300654Z AUTO 00000KT 10SM CLR 19/18 A3014 RMK AO2 SLP199 T01940183 KDCY 300715Z AUTO 00000KT 5SM BR CLR 20/18 A3003 RMK AO2 T02010180 CWYY 300700Z AUTO 15006KT 19/06 RMK AO1 SLP047 T01890058 51001 KDEH 300735Z AUTO 17004KT 10SM FEW048 OVC070 16/15 A3004 RMK AO2 EGHQ 300720Z 07004KT 9999 -RA FEW025 13/12 Q1018 UNNT 300730Z 17004MPS 9999 SCT050CB 21/08 Q1014 R25/090070 R16/090070 NOSIG RMK QFE750/1001 CWZQ 300720Z AUTO 16007KT 18/16 RMK AO1 T01840160 CXRH 300700Z AUTO 20003KT 14/13 RMK AO1 T01400130 KBWI 300654Z 20003KT 10SM SCT250 20/17 A3010 RMK AO2 SLP190 T02000172 KCMR 300735Z AUTO 15007KT 10SM CLR 15/10 A3033 RMK AO2 KCNI 300735Z AUTO 00000KT 10SM OVC110 21/15 A3014 RMK AO2 KBVS 300735Z AUTO 16005G10KT 10SM OVC018 15/13 A2973 RMK A01 EGJA 300720Z 04009KT 9999 FEW010 16/16 Q1016 CWZS 300700Z AUTO 13002KT 16/16 RMK AO1 SLP127 T01620155 58010 EFSA 300720Z AUTO 27008KT 230V310 9999 FEW010 BKN062 14/12 Q1014 KCNK 300719Z AUTO 15003KT 2 1/2SM BR CLR 13/13 A3006 RMK AO2 T01330133 CYIK 292100Z 33004KT 15SM FEW011 BKN040 05/04 A2984 RMK SF0SC7 LAST OBS/NEXT 301200UTC SLP107 KBVU 300735Z AUTO 00000KT 10SM CLR 31/04 A2984 RMK AO2 EGJB 300720Z 03009KT 9999 FEW003 SCT028 BKN040 16/16 Q1016 CXSC 300700Z AUTO 25011KT 19/07 RMK AO1 PK WND 26017/0615 T01900068 UNOO 300730Z 18004MPS 9999 SCT033CB 20/13 Q1008 R25/CLRD60 NOSIG RMK QFE748 CXRL 300700Z AUTO 15/11 RMK AO1 T01450110 CYHU 300700Z AUTO 22008KT 9SM BKN070 OVC110 19/17 A3001 RMK SLP162 DENSITY ALT 400FT KCNM 300653Z AUTO 21003KT 10SM CLR 22/12 A3013 RMK AO2 SLP143 T02220117 403330200 KCOD 300735Z AUTO 33004KT 10SM CLR 24/04 A2991 RMK AO1 LTG DSNT W CWZV 300700Z AUTO 25015KT 14/11 RMK AO1 PK WND 25017/0613 SLP966 T01370111 51018 KDEN 300653Z 19018KT 10SM FEW140 22/03 A3011 RMK AO2 PK WND 19027/0635 SLP104 T02170033 403280111 KCOE 300735Z AUTO 18009KT 10SM CLR 15/09 A2985 RMK AO1 NZTG 300555Z 31007KT 25KM FEW030 16/12 Q1016 RMK VATSIM USE ONLY NZSP 300550Z 09013KT 8000 IC BR SCT150 M58/ A2837 RMK CLN AIR 08012KT ALL WNDS GRID CXSE 300700Z AUTO 11008KT 01/M00 RMK AO1 SLP112 T00071003 51002 CWZW 300700Z AUTO 28006KT 04/03 RMK AO1 SLP904 T00400033 58011 CYIN 300700Z AUTO 13006G18KT 100V160 9SM BKN190 BKN240 10/06 A2959 RMK SLP018 DENSITY ALT 4200FT KCMX 300653Z AUTO 00000KT 10SM SCT036 SCT050 14/13 A2997 RMK AO2 SLP148 T01390128 TSNO $ KCNO 300653Z AUTO 31003KT 10SM CLR 24/15 A2989 RMK AO2 SLP112 T02440150 KBVX 300735Z AUTO 00000KT 1 1/2SM CLR 20/19 A3000 RMK AO1 KCOF 300658Z AUTO 04019G24KT 10SM CLR 26/25 A2998 RMK AO2 PK WND 04026/53 LTG DSNT NE TSB20E44 PRESFR SLP156 T02570246 CYIO 300700Z AUTO 18007KT 9SM SCT034 OVC060 03/M01 A2988 RMK SLP122 KBVY 300653Z AUTO 00000KT 10SM CLR 18/14 A3005 RMK AO2 SLP172 T01830139 EFRO 300720Z AUTO VRB03KT 070V250 CAVOK 13/09 Q1011 KBWP 300715Z AUTO 16008KT 10SM CLR 17/15 A2987 RMK AO1 KCMY 300715Z AUTO 00000KT 10SM BKN020 BKN090 16/15 A3005 RMK AO2 T01550145 CYHY 300700Z 11009KT 15SM FEW060 BKN230 16/09 A2940 RMK SC2CS5 CI ASOCTD SLP960 DENSITY ALT 1400FT ZUCK 300700Z 16002MPS 110V240 9999 SCT033 32/18 Q1008 NOSIG KDEQ 300731Z AUTO 00000KT 1/2SM FG FEW005 BKN100 21/21 A2996 RMK AO2 T02110211 CYHZ 300700Z 23007KT 15SM OVC200 16/15 A3004 RMK CI8 SLP172 DENSITY ALT 500FT CWZZ 300705Z AUTO 03009KT 03/ A2971 KDFI 300653Z AUTO 00000KT 3SM BR FEW031 SCT041 OVC070 20/19 A3004 RMK AO2 SLP169 T02000189 $ EFSI 300720Z AUTO 20003KT CAVOK 16/10 Q1015 EGKA 300720Z 01010KT 9999 BKN026 17/14 Q1016 CYKA 300700Z VRB07KT 40SM FEW065 BKN110 OVC150 20/05 A2964 RMK SC2AC5AC1 SLP034 DENSITY ALT 2200FT EGJJ 300720Z 05006KT 9999 FEW006 SCT012 18/16 Q1016 NOSIG KDET 300653Z 12003KT 7SM FEW065 OVC080 20/19 A3005 RMK AO2 RAE0555 SLP171 P0000 T02000189 $ KBXK 300715Z AUTO 00000KT 10SM 32/14 A2981 RMK AO1 KF70 300715Z AUTO 00000KT 10SM CLR 25/14 A2992 RMK AO1 EGKB 291820Z 32004KT 7000 -RA SCT045 16/14 Q1019 KCNU 300652Z AUTO 34004KT 6SM BR BKN045 19/19 A3002 RMK AO2 SLP155 T01940189 EHAK 300725Z AUTO VRB02KT 9999 NSC 16/14 Q1019 KCPC 300715Z AUTO 00000KT 10SM CLR 21/19 A3011 RMK AO2 T02070190 CXSL 302300Z AUTO 14009KT 24/07 RMK AO1 T02410068 KCOM 300735Z AUTO 00000KT 10SM CLR 23/17 A3003 RMK AO2 T02280174 CYKD 292300Z VRB02KT 15SM -RA OVC020 06/04 A2954 RMK SC8 6.1/3.3/0.2 LAST OBS/NEXT 301400Z SLP005 KCNW 300353Z 18009KT 10SM SCT075 29/18 A2999 CXTD 300700Z AUTO 22010KT 17/14 RMK AO1 SLP168 T01670137 56015 CYIV 300700Z 23007KT 190V280 15SM FEW075 20/18 A2958 RMK AC1 SLP017 DENSITY ALT 1900FT KCON 300651Z AUTO 00000KT 10SM CLR 17/15 A3006 RMK AO2 SLP177 T01720150 KDEW 300653Z AUTO 21008KT 10SM CLR 16/07 A2983 RMK AO2 SLP089 T01560067 PHTO 300653Z 29005KT 10SM BKN050 26/22 A2990 RMK AO2 SLP125 T02610222 EHAM 300725Z 08007KT CAVOK 17/14 Q1017 NOSIG CZBF 300700Z 24003KT 15SM BKN040 OVC210 16/14 A2993 RMK SC7CS1 SLP136 DENSITY ALT 200FT CYKF 300709Z AUTO 20002KT 5SM -RA BR OVC055 18/17 A3008 RMK SLP183 DENSITY ALT 1400FT KBYG 300653Z AUTO 11004KT 10SM CLR 22/02 A2993 RMK AO2 SLP058 T02220022 403610183 KCNY 300653Z AUTO 00000KT 10SM CLR 22/M01 A3002 RMK AO2 SLP097 T02221011 403500178 CYKG 292100Z 00000KT 10SM -RA BKN017 06/03 A2977 RMK SC7 LAST OBS/NEXT 301200 UTC SLP091 CXSP 300700Z AUTO 20008KT 18/05 RMK AO1 T01810046 KCOQ 300735Z AUTO 21005KT 5SM BR CLR 16/15 A2996 RMK AO2 CXTH 300700Z AUTO 19011KT 16/11 RMK AO1 T01630111 KBYI 300653Z AUTO 20006KT 10SM CLR 16/12 A2990 RMK AO2 SLPNO T01560117 VEPT 300650Z 04004KT 3000 HZ SCT018 FEW030CB BKN100 34/27 Q1001 NOSIG CXSR 300700Z AUTO 16010KT 08/08 RMK AO1 SLP957 T00810080 56001 KCOS 300654Z 06008KT 10SM FEW150 17/03 A3024 RMK AO2 SLP150 T01670033 402890111 NZTU 300700Z 14004KT 45KM SCT016 08/08 Q1020 RMK ALT VATSIM USE ONLY CYKJ 300700Z AUTO 10006KT 9SM BKN190 BKN210 12/10 A2967 RMK SLP055 DENSITY ALT 2000FT KCOT 300653Z AUTO 16008KT 10SM CLR 25/18 A2999 RMK AO2 SLP147 T02500178 $ KCPK 300735Z AUTO 00000KT 10SM CLR 17/16 A3011 RMK AO2 KCQB 300735Z AUTO 00000KT 10SM SCT034 BKN046 BKN060 21/20 A2998 RMK AO2 CYJT 300700Z 01003KT 330V070 15SM FEW014 BKN020 16/15 A2994 RMK SF2SC5 SLP140 DENSITY ALT 100FT KCQC 300653Z AUTO 20007KT 10SM CLR 14/11 A3036 RMK AO2 SLP183 T01390111 402560100 EGKK 300720Z 04008KT 9999 BKN024 17/14 Q1017 KCOU 300654Z AUTO 12003KT 7SM OVC039 22/21 A3002 RMK AO2 SLP156 T02170206 TSNO EHBK 300725Z AUTO 06005KT 030V090 9999 NCD 20/18 Q1017 NOSIG CYKL 300700Z AUTO 00000KT 9SM FEW043 SCT050 BKN065 BKN190 06/05 A2982 RMK SLP115 EGLC 300720Z AUTO 02004KT 330V070 9999 OVC030/// 17/13 Q1018 CYLD 300100Z 00000KT 15SM FEW030 14/13 A3004 RMK SC1 LAST OBS/NEXT 30 1000Z SLP180 DENSITY ALT 1500FT KDFW 300653Z 18005KT 10SM BKN085 BKN130 OVC280 26/18 A2996 RMK AO2 SLP136 T02610183 KCQF 300735Z 10SM RA SCT021 BKN044 BKN050 22/21 A3001 RMK AO2 EGLF 300720Z 03005KT 350V060 FEW028 16/14 Q1018 CXTO 300700Z AUTO 20/15 RMK AO1 SLP177 T01990147 56008 CXTP 300700Z AUTO 28003KT 12/09 RMK AO1 SLP145 T01180091 53008 CYKP 300700Z AUTO 22005KT 170V250 9SM SCT190 OVC230 18/16 A2979 RMK SLP082 DENSITY ALT 1200FT EFTP 300720Z AUTO VRB01KT CAVOK 15/13 Q1016 OSDI 300700Z 16006KT CAVOK 22/15 Q1013 CYLH 300700Z AUTO 19005KT 9SM FEW110 BKN140 BKN170 BKN210 20/15 A2974 RMK SLP073 DENSITY ALT 1800FT KCPR 300653Z AUTO 24010KT 10SM CLR 19/M02 A3002 RMK AO2 SLP085 T01941017 403330100 NZWB 300617Z 06008KT 20KM BKN013 OVC030 08/06 Q1018 RMK VATSIM USE ONLY KCPS 300653Z AUTO 00000KT 10SM BKN065 22/19 A3001 RMK AO2 SLP160 T02170194 TSNO KBYS 300655Z AUTO VRB02KT 10SM CLR 28/06 A2990 RMK AO2 PK WND 26026/0611 SLP063 T02840059 $ CYLJ 300000Z 12005KT 15SM BKN250 24/13 A2966 RMK CI6 LAST STFD OBS/NXT 30 1200 UTC SLP047 DENSITY ALT 3300FT CYMA 300700Z 23003KT 190V260 3SM -RA BR OVC012 04/03 A2923 RMK ST8 SLP921 EFVA 300720Z AUTO 18004KT 140V210 CAVOK 16/12 Q1014 KCPT 300735Z AUTO 18003KT 10SM 24/21 A2999 RMK AO2 TSNO CZDB 300700Z AUTO 29004KT 16/15 RMK AO1 SLP170 T01580148 56010 ORMM 300700Z 33008KT CAVOK 45/07 Q1004 NOSIG CYLL 300700Z AUTO 18011KT 8SM CLR 17/10 A2950 RMK SLP988 DENSITY ALT 3400FT EGMC 300720Z 02007KT 350V050 9999 FEW022 16/13 Q1017 EFTU 300720Z AUTO 26007KT 220V290 9999 SCT014/// 17/13 Q1016 EGLL 300720Z 05004KT 010V080 CAVOK 17/14 Q1018 NOSIG KCQM 300735Z AUTO 18003KT 10SM CLR 17/15 A2992 RMK AO2 EGMD 300720Z 03008KT 9000 BKN017 18/16 Q1016 CXTV 300700Z AUTO 06006KT 04/02 RMK AO1 SLP965 T00430015 56019 KCRE 300653Z AUTO 02003KT 10SM CLR 22/19 A3010 RMK AO1 SLP195 T02220194 KDGW 300653Z AUTO 12007KT 10SM CLR 17/03 A3002 RMK AO2 SLP096 T01720028 403440083 KDHN 300653Z AUTO 00000KT 10SM FEW055 22/21 A3009 RMK AO2 SLP182 T02170206 KCPW 300734Z AUTO 23016KT 10SM CLR 07/03 A3071 RMK AO2 KBZN 300656Z AUTO 11004KT 10SM CLR 22/06 A2984 RMK AO2 SLP055 T02220056 403280128 KCRG 300653Z AUTO 00000KT 10SM -RA CLR 23/22 A3002 RMK AO2 SLP166 P0004 T02330222 KBYY 300735Z AUTO 00000KT 10SM CLR 21/21 A2998 RMK AO2 T02150211 ORNI 300600Z 00000KT 6000 SCT050 36/02 Q1006 NOSIG CZCP 300723Z AUTO 08012KT 9SM OVC004 04/ A2953 CYKY 300700Z 19008KT 15SM FEW050 BKN260 19/11 A2964 RMK SC2CI4 SLP025 DENSITY ALT 3600FT KCRH 300735Z AUTO 18006KT 10SM FEW035 FEW046 28/21 A2999 RMK A01 CYKZ 300700Z 00000KT 12SM BKN039 OVC057 18/16 A3007 RMK SC6SC2 SLP180 DENSITY ALT 1000FT CYMH 300700Z AUTO 24003KT 180V250 1/2SM FG BKN002 07/07 A2992 RMK SLP130 NZWK 300647Z 35005KT 30KM FEW025 11/09 Q1016 RMK NZRO VATSIM USE ONLY CZCR 300700Z AUTO 25004KT 17/16 RMK AO1 SLP134 T01660156 57008 KDIJ 300736Z AUTO 27011KT 10SM -TSRA FEW002 SCT046 OVC100 15/12 A3004 RMK AO2 LTG DSNT S-NW TSB08RAB0658 P0001 WSHFT 0716 CYMJ 292323Z 00000KT 6SM FU OVC200 29/13 A2976 RMK CI7 LAST OBS/NEXT 301100 UTC SLP075 CYNA 300721Z AUTO 00000KT 6SM BR CLR 11/10 A2990 RMK SLP123 KCQT 300647Z AUTO 00000KT 10SM CLR 24/19 A2985 RMK AO2 SLP104 T02390189 KDHT 300653Z AUTO 25003KT 8SM CLR 16/09 A3018 RMK AO2 SLP164 T01610094 KDIK 300656Z AUTO 18007KT 9SM CLR 18/12 A2978 RMK AO2 SLP058 T01830117 403720128 CYLT 300700Z 31004KT 15SM FEW006 OVC018 M03/M04 A3007 RMK SF1SC7 FST OBS SLP186 CXWB 300700Z AUTO 06009KT 04/M00 RMK AO1 SLP156 T00421001 51006 EFUT 300720Z AUTO 28005KT 240V320 CAVOK 16/11 Q1016 CYLU 292100Z 32005KT 15SM FEW015 SCT020 BKN075 09/06 A2980 RMK SF1SC2AS3 LAST OBS/NEXT 301200Z SLP096 NZWN 300730Z AUTO 18014KT 9999 OVC012/// 10/08 Q1019 TEMPO BKN008 EHDL 300725Z AUTO 08006KT //// // FEW048 SCT110 16/15 Q1017 RE// TXKF 300655Z 03007KT 9999 FEW017 27/23 Q1020  CYND 300100Z 25002KT 10SM -RA BKN040 OVC080 18/18 A3006 RMK SC5ACC3 LAST OBS/NEXT 301100 UTC SLP180 DENSITY ALT 400FT CXVM 300700Z AUTO 23006KT 19/09 RMK AO1 T01850094 CYMM 300710Z AUTO 09009G15KT 9SM OVC110 18/13 A2943 RMK SLP970 DENSITY ALT 2300FT KCQW 300735Z AUTO 00000KT 8SM CLR 18/17 A3012 RMK AO2 NZWP 300729Z 23004KT 25KM SCT010 BKN014 14/13 Q1017 RMK NZAA VATSIM USE ONLY CXVN 300700Z AUTO 29003KT 20/18 RMK AO1 SLP165 T01970177 58006 CYNE 300700Z AUTO 32004KT 280V360 5SM BR SCT140 17/17 A2962 RMK SLP033 DENSITY ALT 1500FT CYLW 300700Z AUTO 35003KT 350V090 9SM SCT150 BKN180 14/10 A2966 RMK SLP042 DENSITY ALT 1800FT KCQX 300652Z AUTO 25003KT 10SM CLR 21/17 A3010 RMK AO2 SLP193 T02060167 $ CYMO 300700Z AUTO 23006KT 9SM FEW029 SCT098 SCT120 17/15 A2983 RMK PRESFR SLP102 DENSITY ALT 300FT KCSG 300651Z AUTO 13003KT 8SM OVC012 22/21 A3007 RMK AO2 LTG DSNT NW RAB06E10 SLP176 P0000 T02220211 KCRP 300651Z 00000KT 10SM FEW025 FEW250 22/16 A2998 RMK AO2 SLP151 T02170156 NZWR 300729Z 23004KT 25KM SCT010 BKN014 14/13 Q1017 RMK NZAA VATSIM USE ONLY KCRQ 300718Z AUTO 21003KT 9SM SCT004 23/21 A2987 RMK AO2 T02280211 NZWS 300700Z 23011KT 30KM SCT009 12/09 Q1015 RMK ALT VATSIM USE ONLY EGNH 300720Z 11004KT 9999 SCT010 14/12 Q1019 EHEH 300730Z AUTO 12008KT 9999 FEW280 21/18 Q1015 BLU 12010KT 9999 FEW030 EFVR 300720Z AUTO 26005KT 210V320 CAVOK 16/12 Q1014 KCRS 300653Z AUTO 20006KT 10SM CLR 27/18 A3000 RMK AO2 SLP151 T02720183 KEBA 300735Z AUTO 00000KT 10SM OVC120 24/23 A3014 RMK AO2 T02370225 NZWU 300707Z VRB04KT 20KM FEW010 SCT015 BKN035 11/10 Q1017 RMK NZPM VATSIM USE O CYOA 300000Z 33004KT 15SM FEW030 13/06 A2970 RMK SC1 LAST OB/NEXT 301100Z SLP080 CZFA 300100Z 31005KT 270V340 2SM -RA BR FEW004 SCT014 BKN030 OVC050 04/03 A2927 RMK ST2ST2SC3SC1 VIS S 15 CLIMAT 4.0/1.7/6.2MM LAST STFD OBS/NEXT 301300UTC SLP940 EGNJ 300720Z 00000KT CAVOK 14/12 Q1019 KCTB 300656Z AUTO 26013KT 7SM CLR 17/06 A2982 RMK AO2 PK WND 25026/0618 SLP065 T01720061 403170111 KDKB 300715Z AUTO 00000KT 2 1/2SM BR OVC005 18/18 A3005 RMK AO2 T01800177 CYMU 292100Z 00000KT 1/2SM -DZ FG VV001 07/07 A2989 RMK FG8 LAST OBS/ NEXT 301200Z SLP127 CYOC 292000Z CCA 13003KT 050V180 30SM FEW016 SCT037 BKN100 BKN200 06/M01 A2952 RMK CU1SC3AC1CI2 CLIMAT 5.9/-0.1/TRMM/LAST STFD OBS/NEXT 30 1300 UTC SLP011 CZEL 300700Z AUTO 19002KT 17/16 RMK AO1 SLP184 T01690158 58006 KCSM 300653Z AUTO 33003KT 10SM CLR 20/16 A3005 RMK AO2 SLP151 T02000156 CXWM 300700Z AUTO 23012KT 16/04 RMK AO1 PK WND 23020/0608 T01620042 CYOD 300700Z 12009KT 15SM SCT130 18/12 A2944 RMK AC3 SLP968 CYNM 300732Z AUTO 25005KT 5SM BR BKN003 15/14 A2992 RMK SLP136 DENSITY ALT 1000FT EGNM 300720Z 27005KT CAVOK 12/10 Q1019 KCRW 300654Z 00000KT 6SM BR FEW001 18/17 A3010 RMK AO2 SLP186 VLY FG T01780172 $ EHDV 300725Z AUTO VRB02KT 9999 FEW045/// 17/15 Q1019 EHFD 300725Z AUTO 17009KT 9999 NSC 17/15 Q1019 CXVW 300600Z AUTO 15008KT 11/10 RMK AO1 T01090102 CXWN 300600Z AUTO 20003KT 21/19 RMK AO1 SLP070 T02090192 53001 KCRX 300735Z AUTO 00000KT 10SM CLR 20/19 A3005 RMK AO2 CYMX 300700Z 22004KT 170V270 15SM BKN010 OVC140 17/17 A3002 RMK SF5AC3 SLP167 DENSITY ALT 400FT KEBG 300735Z AUTO 00000KT 10SM CLR 24/21 A2997 RMK AO2 T02350207 KCSQ 300735Z AUTO 00000KT OVC001 15/15 A3006 RMK AO2 UNTT 300730Z 21005MPS CAVOK 17/10 Q1014 R21/090060 NOSIG RMK QFE745 KEAR 300735Z AUTO 19007KT 10SM CLR 16/14 A3004 RMK AO1 EGNR 300720Z 18003KT CAVOK 12/11 Q1020 KCTJ 300735Z AUTO 00000KT 10SM RA SCT021 SCT055 OVC110 21/21 A3014 RMK AO2 LTG DSNT SW T02120212 CYPA 300700Z 08004KT 10SM OVC170 16/15 A2961 RMK AC8 SLP030 DENSITY ALT 2100FT CYOJ 300703Z AUTO 15007KT 9SM -RA BKN049 OVC060 16/12 A2932 RMK SLP931 DENSITY ALT 2100FT EGPA 300720Z 20012KT 9999 VCSH FEW011 SCT038 14/10 Q1013 KCUB 300653Z AUTO 00000KT 10SM CLR 23/17 A3013 RMK AO2 SLP198 T02280172 TSNO KDKK 300653Z AUTO 00000KT 6SM BR OVC080 18/18 A3006 RMK AO2 SLP176 T01830178 EGNS 300720Z 29004KT 260V320 9999 FEW014 14/12 Q1018 NOSIG KEAT 300655Z AUTO 27005KT 10SM BKN070 19/07 A2973 RMK AO2 SLP061 T01890072 EGPB 300720Z 22009KT 9999 VCSH FEW012 BKN040 13/11 Q1012 NOSIG EGNT 300720Z 00000KT CAVOK 14/12 Q1018 KEAU 300656Z AUTO 00000KT 9SM CLR 16/14 A3002 RMK AO2 SLP166 T01560144 CYPC 292300Z 05005KT 15SM BKN015 BKN070 05/00 A2966 RMK SC6AC1 5.2/2.8/0 SLP043 ZUGY 300700Z 03003MPS 330V080 9999 SCT030 27/16 Q1013 NOSIG EGPC 300720Z AUTO 20004KT 170V240 9999 NCD 12/10 Q1013 KCSV 300653Z AUTO 00000KT 10SM FEW120 21/17 A3017 RMK AO2 SLP194 T02110172 CZFM 292300Z 33003KT 300V360 2 1/2SM -RA OVC020 05/03 A2953 RMK ST8 4.8/2.3/3.2 LAST OBS/NEXT 301400Z SLP003 CZEV 300600Z AUTO 05007KT 04/02 RMK AO1 8016 SLP971 T00350022 50012 EGOM 300650Z AUTO 21004KT 9999 SCT010/// BKN045/// 12/11 Q1018 CYPD 300700Z AUTO VRB04KT 9SM CLR 16/12 A3000 RMK SLP158 DENSITY ALT 400FT EGNV 300720Z VRB02KT CAVOK 12/10 Q1019 EGPD 300720Z 14004KT CAVOK 13/10 Q1015 NOSIG CYPE 300700Z 24003KT 15SM MIFG FEW060 11/11 A2939 RMK SC1 SLP956 DENSITY ALT 2500FT EGPE 300720Z 25010KT 9999 FEW002 SCT032 14/11 Q1014 KDLF 300658Z AUTO 12007KT 10SM CLR 26/13 A2998 RMK AO2 SLP137 T02590133 $ CYOO 300700Z AUTO 02003KT 6SM BR BKN075 OVC095 17/16 A3005 RMK SLP177 DENSITY ALT 600FT EGPF 300720Z 21010KT 9999 FEW045 13/12 Q1017 EGNX 300720Z 32002KT CAVOK 13/11 Q1019 KECG 300654Z AUTO 31005KT 10SM CLR 21/19 A3011 RMK AO2 SLP195 T02060189 EGOP 300650Z AUTO 05003KT 9999 // SCT130/// BKN160/// 12/12 Q1018 EHGG 300725Z AUTO 07005KT 340V100 9999 FEW015CB 17/13 Q1019 NOSIG KDLH 300655Z 23009KT 9SM CLR 17/16 A2996 RMK AO2 SLP144 T01720156 KCUH 300735Z AUTO 00000KT 21/21 A2998 RMK AO2 PWINO CYPH 300730Z AUTO 06004KT 5SM BR CLR 02/02 A2984 RMK SLP106 EGPH 300720Z 25006KT CAVOK 12/11 Q1017 KDKR 300735Z AUTO 00000KT 10SM CLR 22/18 A3003 RMK AO2 EGPI 300720Z 23007KT 210V270 9999 FEW012 BKN037 13/12 Q1017 KEBS 300735Z AUTO 21005KT 7SM CLR 16/16 A3002 RMK AO2 KDMA 300658Z AUTO 10008KT 10SM CLR 27/17 A2997 RMK AO2 SLP099 T02680173 403950245 $ CZFS 300700Z AUTO 11006KT 14/09 RMK AO1 SLP920 T01440089 58026 EGOS 300650Z AUTO 00000KT 9999 SCT200/// 10/10 Q1019 CYQA 300700Z AUTO 00000KT 1/4SM FG VV002 13/13 A3007 RMK SLP184 EHFS 300725Z AUTO 04007KT 6000 NCD 18/17 Q1016 KCVB 300715Z AUTO 00000KT 10SM CLR 25/17 A3003 RMK AO2 T02500170 EGPK 300720Z 19004KT 9999 FEW010 SCT045 12/11 Q1018 CYQB 300700Z 25009KT 15SM FEW010 SCT045 BKN080 17/15 A2997 RMK SF1SC3AC3 SLP150 DENSITY ALT 400FT KCUL 300735Z AUTO 00000KT 5SM BR SCT060 SCT075 20/20 A3003 RMK AO2 LTG DSNT S T02000200 KCVC 300735Z AUTO 09003KT 10SM 22/19 A3010 RMK AO2 LTG DSNT S KEDC 300715Z AUTO 00000KT 10SM FEW039 SCT050 BKN075 25/19 A3001 RMK AO2 KDLL 300715Z AUTO 00000KT M1/4SM FG OVC002 15/14 A3005 RMK AO2 T01480138 CYPL 300200Z 20006KT 15SM FEW270 21/13 A2986 RMK CI2 LAST STFD OB/NEXT 301100Z SLP116 DENSITY ALT 2200FT CXZC 300700Z AUTO 24001KT 16/15 RMK AO1 SLP100 T01640152 55000 EGPL 300720Z AUTO 22019KT 9999 FEW009/// SCT011/// BKN015/// 13/12 Q1014 EGOV 300650Z AUTO 05002KT 9999 BKN012/// 13/13 Q1019 CYQD 300700Z VRB02KT 12SM FEW200 18/17 A2967 RMK CC2 SLP048 DENSITY ALT 1700FT KDLN 300653Z AUTO 19016G24KT 10SM CLR 23/06 A2990 RMK AO2 SLP049 T02330056 403280139 EGPM 300720Z AUTO 20012KT 9999 NCD 13/11 Q1012 VGEG 300650Z 15004KT 4000 RERA SCT016 FEW028CB OVC080 28/26 Q1005 NOSIG KEDE 300735Z AUTO 00000KT 10SM CLR 19/17 A3010 RMK AO2 T01870172 EGPN 291520Z 24018KT 9999 SCT038 18/12 Q1012 CYOW 300700Z 22006KT 15SM FEW120 BKN240 16/15 A3004 RMK AC2CI4 SLP172 DENSITY ALT 400FT CYPO 300736Z AUTO 27008KT 7SM +RA BKN047 OVC065 16/15 A2969 RMK SLP051 DENSITY ALT 600FT CYQF 300700Z 20006KT 15SM SKC 11/05 A2953 RMK SLP998 DENSITY ALT 3600FT KECP 300653Z AUTO 00000KT 10SM CLR 22/21 A3002 RMK AO2 SLP177 T02170206 KCTY 300653Z AUTO 00000KT 24/23 A3000 RMK AO1 SLP158 T02390228 $ KCVG 300652Z 19003KT 10SM SCT180 BKN230 20/18 A3008 RMK AO2 SLP176 T02000183 EGPO 300720Z AUTO 22008KT 190V250 9999 FEW014/// SCT018/// BKN024/// 13/10 Q1012 KDLP 300735Z AUTO 21004KT 10SM CLR 29/20 A3000 RMK A01 CYQG 300700Z 14002KT 15SM OVC071 19/18 A3005 RMK AC8 SLP172 DENSITY ALT 1000FT CYOY 300700Z AUTO 25006KT 230V290 9SM BKN026 OVC038 OVC059 OVC068 16/15 A2996 RMK SLP149 KCVH 300725Z AUTO 30006KT 10SM CLR 18/14 A3003 RMK AO1 KDMH 300654Z AUTO 22/17 A3010 RMK AO1 SLP192 T02220172 KCTZ 300735Z AUTO 00000KT 10SM CLR 19/18 A3012 RMK AO2 T01900183 CYQH 300700Z 11015KT 20SM -DZ OVC030 11/10 A2914 RMK ST8 SLP873 DENSITY ALT 3200FT CYPQ 300736Z AUTO /////KT 1 1/4SM BR FEW050 OVC080 15/15 A3007 RMK WND MISG SLP182 EHFZ 300725Z AUTO 20006KT 9999 SCT044/// 17/14 Q1019 CYQI 300737Z 23012G17KT 2SM BR SCT002 OVC150 18/18 A3006 RMK SF3AC5 SLP179 DENSITY ALT 300FT CYPR 300726Z AUTO 15007G15KT 9SM -RA OVC015 12/11 A2936 RMK SLP944 DENSITY ALT 400FT KDLS 300653Z AUTO VRB04KT 10SM OVC095 17/12 A2981 RMK AO2 SLP094 T01720117 EHGR 300731Z AUTO 02003KT 4000 BR SCT006 SCT008 18/17 Q1016 YLO KECS 300735Z AUTO 13013KT 10SM CLR 25/01 A2996 RMK AO2 KEDJ 300730Z AUTO 16004KT 10SM CLR 19/19 A3008 RMK AO1 KCWA 300735Z AUTO 00000KT 1/4SM FG OVC002 12/12 A3007 RMK AO2 CYRA 292000Z 13003KT 120V220 15SM FEW015 BKN070 11/05 A2971 RMK SC2AC3 11.0/6.6/0/0 LAST OBS/NEXT 301400Z SLP069 KCUT 300653Z AUTO VRB05KT 8SM CLR 21/02 A3009 RMK AO2 SLP108 T02060017 403000122 EGQK 300650Z AUTO 24006KT 9999 FEW060/// BKN100/// 13/10 Q1014 CYRB 300700Z 09009KT 15SM SKC 01/M02 A2993 RMK WND ESTD SLP141 CYQK 300700Z 21012G19KT 15SM BKN012 20/19 A2980 RMK SC6 SLP091 DENSITY ALT 2300FT KCWC 300735Z AUTO 00000KT 10SM BKN090 BKN120 25/15 A2997 RMK AO2 T02480147 KECU 300735Z AUTO 13005KT 10SM CLR 24/14 A3008 RMK AO2 CYQL 300700Z AUTO 20007KT 9SM SCT200 14/04 A2974 RMK SLP057 DENSITY ALT 3800FT EGPU 300720Z AUTO 26009KT 9999 FEW025/// BKN035/// 13/11 Q1016 RERA EGQL 300650Z 26008KT 9999 FEW030 12/12 Q1016 BLU KEED 300656Z AUTO 25011KT 10SM CLR 38/07 A2975 RMK AO2 SLP030 T03830072 CYQM 300700Z 22005KT 15SM BKN150 OVC230 16/14 A2998 RMK AC7CI1 SLP152 DENSITY ALT 300FT KDMN 300653Z AUTO 29009KT 10SM CLR 23/14 A3017 RMK AO2 LTG DSNT SW TSE0554 SLP134 T02330139 403390206 KCVN 300735Z AUTO 00000KT 10SM CLR 17/13 A3020 RMK AO1 KEDN 300735Z AUTO 00000KT 7SM CLR 20/20 A3004 RMK AO2 EGQM 300650Z AUTO 25007KT 9999 NCD 13/11 Q1018 CYPW 300200Z 11013G20KT 070V140 5SM -RA BR FEW003 BKN030 OVC050 15/13 A2958 RMK SF1SC6SC2 SF TR LAST STFD OBS/NEXT301300UTC SLP017 DENSITY ALT 800FT KDMO 300732Z AUTO 00000KT 3/4SM BR FEW034 19/18 A3001 RMK AO2 T01940183 KCVO 300735Z 17013KT 10SM OVC100 17/12 A2987 RMK AO1 KCWF 300735Z AUTO 00000KT 10SM CLR 21/20 A3000 RMK AO2 T02120202 CYPX 300700Z AUTO 32005KT 9SM FEW026 05/04 A2985 RMK SLP110 CYPY 300700Z AUTO 12006KT 9SM BKN130 OVC150 18/12 A2949 RMK SLP988 DENSITY ALT 1800FT KDLZ 300739Z AUTO 00000KT 10SM RA SCT060 SCT070 BKN120 20/18 A3008 RMK AO2 CYQQ 300700Z CCA 11008KT 20SM FEW035 BKN064 15/11 A2964 RMK SC2SC3 SLP039 KCWI 300735Z 05004KT 2SM CLR 16/15 A3006 RMK AO1 CYQR 300700Z 14007KT 3SM FU OVC160 20/12 A2968 RMK AC8 SLP045 DENSITY ALT 3100FT KCVS 300658Z AUTO 05003KT 10SM CLR 16/12 A3019 RMK AO2 SLP167 T01570120 403060156 $ CYRJ 300700Z 23006KT 20SM SCT035 BKN220 16/15 A2991 RMK SC4CI3 SLP130 DENSITY ALT 800FT EGQS 300650Z 24009KT 9999 FEW045 SCT100 BKN140 13/10 Q1014 BLU EHJA 300725Z AUTO 26005KT 9999 -RA FEW049/// 17/14 Q1019 CYSB 300700Z 25005KT 15SM OVC008 16/15 A3003 RMK ST8 SLP172 DENSITY ALT 1300FT CYQT 300700Z 00000KT 8SM FEW008 BKN039 13/13 A2993 RMK ST1SC5 BR SLP138 OTBD 300700Z 10005KT 050V150 6000 NSC 40/27 Q1004 NOSIG KDNL 300653Z AUTO 09004KT 10SM -RA FEW110 30/15 A3011 RMK AO2 RAB46 SLP189 P0000 T03000150 KEDU 300735Z AUTO 22003KT 10SM CLR 15/09 A2994 RMK AO1 CYRL 300200Z 15008KT 15SM BKN080 OVC220 21/17 A2981 RMK AC6CI2 LAST STFD OBS/ NEXT 30 0900 UTC SLP097 DENSITY ALT 2300FT EGSC 300650Z VRB02KT 9999 SCT040 15/14 Q1018 UOOO 300700Z 05005G08MPS 2900 FU BKN026CB 07/02 Q1015 R01/19//57 TEMPO 0500 FG VV002 RMK QFE746 CXZU 300700Z AUTO 11/10 RMK AO1 SLP980 T01060100 51006 CYSC 300700Z AUTO 22004KT 9SM BKN049 OVC060 17/15 A3004 RMK SLP172 DENSITY ALT 1000FT CYQU 300724Z 06003KT 1/2SM FG FEW100 07/06 A2940 RMK AC1 SLP966 DENSITY ALT 2200FT KEFD 300550Z 00000KT 10SM BKN250 24/19 A3002 CXZV 300700Z AUTO 04002KT 11/11 RMK AO1 SLP120 T01080108 56006 CYQV 300700Z AUTO 17008KT 9SM CLR 17/13 A2970 RMK SLP059 DENSITY ALT 2400FT KDMW 300730Z AUTO 00000KT 10SM CLR 20/18 A3011 RMK AO2 KEEN 300735Z AUTO 00000KT 9SM BKN002 14/12 A3008 RMK AO1 KCWN 300656Z AUTO 33002KT 10SM CLR 17/04 A3023 RMK AO2 SLP051 T01730039 402530158 $ KCVW 300735Z AUTO 21005KT 10SM CLR 27/20 A3001 RMK A01 KEDW 300658Z AUTO 22007KT 10SM CLR 24/08 A2994 RMK AO2 SLP110 T02440082 KCXE 300715Z AUTO 00000KT 10SM CLR 19/19 A3013 RMK AO1 T01920191 KDNN 300715Z AUTO 00000KT 10SM OVC100 20/20 A3012 RMK AO2 CYQW 300700Z AUTO 15010G17KT 9SM 21/11 A2958 RMK CLD MISG SLP013 DENSITY ALT 3300FT KEEO 300653Z AUTO VRB03KT 10SM CLR 12/06 A3021 RMK AO2 SLP138 T01170056 403110067 KCVX 300735Z AUTO 00000KT 7SM CLR 14/14 A3007 RMK AO2 T01420141 CYQX 300700Z 25006KT 20SM BKN094 BKN230 OVC260 13/10 A2997 RMK AC5CS1CI2 SLP148 CYSF 300700Z AUTO 11002KT 9SM 10/09 A2967 RMK CLD MISG SLP053 CZHY 300700Z AUTO 12008KT 17/10 RMK AO1 SLP954 T01660095 58025 CYQY 300700Z 23008KT 40SM SCT150 BKN250 15/13 A2998 RMK AC3CI4 SLP153 CYQZ 300700Z AUTO 19010G16KT 9SM BKN100 OVC130 17/05 A2948 RMK SLP989 DENSITY ALT 2900FT EGSH 300720Z 10004KT 9999 BKN034 15/14 Q1019 NOSIG CYRQ 300700Z AUTO 21006KT 9SM SCT025 BKN070 BKN081 17/16 A2998 RMK SLP153 DENSITY ALT 300FT KDPA 300652Z 01003KT 3SM BR OVC006 19/17 A3003 RMK AO2 SLP166 T01890172 KDNS 300735Z AUTO 18003KT 10SM OVC011 18/17 A3002 RMK AO2 CYSJ 300700Z 17003KT 15SM SCT041 BKN200 14/13 A3003 RMK SC3CI4 SLP169 KEET 300653Z AUTO 00000KT 10SM -RA FEW120 21/21 A3008 RMK AO2 RAB20 SLP179 P0000 T02110206 ORSU 300700Z 04008KT CAVOK 33/07 Q1015 OSKL 300700Z 06006KT CAVOK 32/20 Q1010 KEFK 300715Z AUTO 00000KT 10SM OVC120 15/15 A3007 RMK AO2 T01520146 CYRT 300700Z 08002KT 15SM SCT250 05/04 A2996 RMK CI3 SLP148 EGTC 300720Z 04005KT 9999 BKN037 15/13 Q1018 KDNV 300735Z AUTO 00000KT 3SM BR CLR 17/17 A3000 RMK AO2 T01700168 CZKD 300600Z AUTO 03008KT 14/12 RMK AO1 PK WND 04018/0536 SLP041 T01370116 53016 CYSM 300700Z 10003KT 15SM BKN220 16/08 A2949 RMK CS6 VIA CYHY SLP989 DENSITY ALT 1400FT CYRV 300736Z AUTO 27002KT 3/4SM BR BKN003 OVC090 13/13 A2969 RMK SLP056 DENSITY ALT 1800FT EHKD 300725Z AUTO 07011KT 9999 FEW053 SCT069 OVC150 18/13 Q1018 BLU 09010KT CAVOK KEGE 300735Z AUTO 00000KT 10SM CLR 12/06 A3027 RMK AO1 CYSN 300100Z VRB03KT 15SM OVC080 21/17 A3006 RMK AC8 LAST STFD OBS / NEXT 301100 UTC SLP179 DENSITY ALT 800FT EGTE 300720Z 36004KT 9999 SCT048 14/14 Q1018 CYTE 300738Z AUTO 00000KT 9SM SCT015 OVC022 04/03 A2984 RMK SLP107 KCXO 300653Z AUTO 00000KT 10SM CLR 22/19 A3001 RMK AO2 SLP158 T02170189 KCXP 300715Z AUTO 00000KT 10SM CLR 18/05 A3007 RMK AO2 CYSP 292100Z VRB04KT 1/4SM FG VV001 13/13 A3000 RMK FG8 LAST STFD OBS/NEXT 301200UTC SLP164 CYTH 300700Z 02008KT 15SM OVC008 12/11 A2970 RMK SC8 SLP063 DENSITY ALT 800FT KEGI 300658Z AUTO 02003KT 10SM CLR 20/19 A3004 RMK AO2 SLP173 T02000190 $ EHJR 300725Z AUTO 04012G14KT //// ///////// 17/11 Q1019 W18/H3 KEHA 300728Z AUTO 20006KT 20/09 RMK AO1 PK WND 10 000 T02000095 OSLK 300700Z 20006KT 9999 FEW026 SCT200 32/19 Q1010 CYUA 300700Z AUTO 11010KT 9SM CLR 04/ A2943 RMK SLP971 EGSS 300720Z 04007KT 9999 BKN032 15/13 Q1018 KEFT 300735Z AUTO 00000KT 4SM BR SCT006 OVC020 17/17 A3005 RMK AO2 EGTK 300720Z 01004KT 9999 -RA SCT022 15/12 Q1018 EGUB 300650Z AUTO 34003KT 9999 // BKN037/// 15/14 Q1018 CYUB 300500Z 07011KT 15SM FEW012 OVC070 06/02 A2949 RMK SC1AS7 7.2/3.6/TR/LAST OBS/NXT 301300UTC SLP987 KCXU 300735Z AUTO 00000KT 7SM SCT013 BKN041 OVC080 23/22 A3004 RMK AO2 T02260224 KEHC 300735Z AUTO 12007KT 10SM FEW032 28/18 A2998 RMK A01 KDPL 300735Z AUTO 00000KT 7SM 19/18 A3012 RMK AO2 T01850179 CYTL 300700Z AUTO 22008KT 9SM SCT120 BKN140 20/14 A2960 RMK SLP026 DENSITY ALT 1800FT KDOV 300658Z AUTO 20005KT 10SM CLR 20/18 A3009 RMK AO2 SLP192 T02020181 VISNO RWY19 CHINO RWY19 $ KCXY 300656Z AUTO 00000KT 9SM CLR 19/17 A3009 RMK AO2 SLP187 T01890172 CYSY 292100Z 04018KT 10SM BKN008 BKN090 02/01 A2969 RMK SC5AC2 SLP061 KDQH 300735Z AUTO 07003KT 10SM OVC004 24/23 A3005 RMK AO2 LTG DSNT W VGHS 300650Z 19006KT 4000 HZ BKN010 BKN100 30/26 Q1003 TEMPO RA CYTQ 292100Z 33010KT 15SM FEW020 BKN044 12/01 A2980 RMK SC2SC2 LAST OBS/NXT 301200Z SLP094 CYTR 300700Z 00000KT 15SM BKN076 18/16 A3006 RMK AC6 SLP181 KDRA 300653Z AUTO 21009KT 10SM CLR 29/02 A2992 RMK AO2 SLP070 T02940017 $ KCYS 300653Z AUTO 24006KT 9SM CLR 17/06 A3016 RMK AO2 SLP120 T01670056 402940106 CYTS 300700Z 21002KT 15SM FEW040 14/14 A2996 RMK SC1 SLP150 DENSITY ALT 1000FT EHMA 300725Z AUTO 09009KT 340V150 9999 NSC 19/13 Q1019 EGVA 300722Z AUTO 03005KT 9999 FEW043 BKN075 15/13 A3006 RMK AO2 RAE20DZB20E22 KCZL 300735Z AUTO 00000KT 10SM OVC100 22/22 A3011 RMK AO2 T02170217 EICK 300730Z 34008KT 9999 BKN035 12/11 Q1019 NOSIG CYUL 300700Z 24009KT 15SM FEW050 BKN120 BKN150 19/17 A3001 RMK SC1AC6AC1 SC TR SLP163 DENSITY ALT 500FT CYVC 300700Z 10009KT 15SM BKN100 BKN250 18/11 A2964 RMK AC5CI2 SLP040 DENSITY ALT 2100FT EGUL 300658Z AUTO 06002KT 9999 OVC040 15/14 A3006 RMK AO2 SLP182 T01490141 KEGV 300715Z AUTO 23004KT 1 1/4SM BR OVC002 15/15 A3004 RMK AO2 T01520152 CZMD 300700Z AUTO 22010KT 9SM SCT150 BKN210 20/15 A2961 RMK SLP029 DENSITY ALT 2000FT EHKV 300725Z AUTO 09004KT 060V120 //// // FEW014/// 17/14 Q1019 RE// EGUN 300658Z AUTO 06002KT 9999 OVC041 15/15 A3007 RMK AO2 SLP186 T01510150 KEHO 300717Z AUTO 00000KT 10SM CLR 20/17 A3014 RMK AO2 EHMG 300725Z AUTO 10011KT 9999 FEW032/// 19/14 Q1019 CYTZ 300700Z AUTO 08004KT 9SM OVC060 20/16 A3005 RMK SLP177 DENSITY ALT 700FT KEHR 300735Z AUTO 21004KT 8SM FEW065 FEW080 OVC120 22/20 A3003 RMK AO1 KDRI 300735Z AUTO 00000KT 10SM OVC030 22/19 A3002 RMK AO2 T02200189 CZMJ 300700Z AUTO 20007KT 24/09 RMK AO1 PK WND 24019/0632 SLP050 T02420091 55003 CYUS 300700Z AUTO 12010KT 9SM CLR 03/ A2990 RMK SLP130 CYWA 300700Z AUTO 00000KT 8SM BKN072 OVC091 17/16 A3002 RMK SLP168 KEIK 300735Z AUTO 00000KT 10SM CLR 17/07 A3008 RMK AO2 T01710074 KCZT 300735Z AUTO 16007KT 10SM CLR 25/16 A2997 RMK AO2 CYUT 292000Z 01010G18KT 320V040 25SM FEW020 FEW230 12/M00 A2990 RMK CU1CI1 CU TR 12.2/3.0/0.0/0LST STFD OBS/NXT 301400 SLP126 EIDL 291600Z 24014KT 9999 SCT020 BKN038 BKN050 16/11 Q1015 KDRM 300304Z AUTO 00000KT 1/2SM FG SCT050 15/15 A3006 RMK AO2 T01450145 CYVL 300700Z AUTO VRB03KT 9SM FEW034 BKN041 06/04 A2936 RMK SLP956 CYVM 300735Z AUTO 05004KT 9SM -RA OVC003 01/01 A2985 RMK SLP110 EGUW 300650Z AUTO 01007KT 9999 BKN035/// BKN080/// 14/13 Q1018 RERA CYWE 300700Z AUTO 08008KT 9SM CLR 10/07 A2961 RMK SLP043 KDRO 300653Z AUTO 00000KT 10SM CLR 13/07 A3030 RMK AO2 SLP176 T01330072 402890111 EHLW 300725Z AUTO 06007KT 9999 FEW061 SCT067 OVC140 17/13 Q1018 BLU EGVN 300650Z 02005KT 9999 -RA FEW040 SCT060 OVC070 15/11 Q1018 BLU NOSIG KFAF 300658Z AUTO 00000KT 10SM CLR 19/19 A3010 RMK AO2 SLP196 T01890189 $ CYUX 300700Z AUTO 29008KT 9SM CLR 03/02 A2992 RMK SLP133 CYVO 300700Z AUTO 24006KT 210V290 9SM OVC006 17/16 A2998 RMK SLP157 DENSITY ALT 1500FT EGVO 300650Z 36004KT 9999 FEW005 BKN090 15/13 Q1018 BLU KEHY 300715Z AUTO 10005KT 10SM CLR 13/01 A3019 RMK AO2 EGVP 300650Z AUTO 36004KT 9999 // SCT048/// BKN080/// 15/14 Q1017 CYWG 300700Z 18005KT 10SM FEW120 20/19 A2975 RMK AC1 AC TR FU SLP074 DENSITY ALT 1600FT CYUY 300700Z 23005KT 15SM SCT100 15/15 A2998 RMK AC3 SLP156 DENSITY ALT 1100FT CYVP 300710Z 28005KT 1SM R07/3000FT/N BR BKN140 03/03 A2981 RMK FG4AC1 SLP098 KCZZ 300652Z AUTO 00000KT 23/11 A2996 RMK AO1 SLP102 T02280111 CYWH 300400Z 17004KT 160V240 15SM FEW015 FEW040 BKN080 BKN240 15/12 A2970 RMK SF1SC1AC3CI2 LAST STFD OBS/NEXT 301300 UTC SLP057 DENSITY ALT 200FT CYVQ 300700Z 10011G16KT 30SM BKN045 OVC090 14/09 A2923 RMK SC6AC2 SLP900 DENSITY ALT 900FT KEIR 300735Z AUTO VRB04KT 10SM SCT031 SCT038 BKN048 28/22 A3001 RMK A01 CYVR 300700Z 10007KT 12SM BKN060 OVC085 15/13 A2971 RMK SC5AC3 SLP059 DENSITY ALT 300FT KDTA 300715Z AUTO 17009KT 10SM CLR 25/05 A3001 RMK AO1 T02460051 CYWJ 292300Z 10013G21KT 20SM OVC018 09/05 A2953 RMK SC8 8.7/7.9/0 LAST STFD OBS/NEXT 301700 UTC PRESFR SLP009 KDRT 300653Z AUTO 09007KT 10SM CLR 27/12 A2997 RMK AO2 SLP132 T02670122 $ CZMT 300000Z 36003KT 320V040 15SM SCT012 BKN030 BKN090 14/12 A2926 RMK CU3SC2AC1 LAST OBS/NEXT 301300 UTC SLP908 DENSITY ALT 600FT CYVT 300400Z 14008KT 110V170 15SM BKN140 OVC250 19/12 A2959 RMK AC5CI3 LAST STFD OBS/NEXT 301200 UTC SLP025 DENSITY ALT 2600FT CYWK 300700Z 17004KT 15SM SKC 05/05 A2987 RMK SLP126 CZMU 300600Z AUTO 23007KT 15/10 RMK AO1 T01530104 CYXC 300700Z 17009KT 10SM SCT060 BKN130 14/06 A2982 RMK FU1SC3AC1 FU SLP087 DENSITY ALT 3800FT CYWL 300700Z 14010G15KT 15SM BKN050 13/06 A2957 RMK SC6 SLP016 DENSITY ALT 3900FT KDSM 300654Z 12003KT 10SM FEW024 19/17 A3004 RMK AO2 SLP166 T01890167 KFAM 300735Z AUTO 00000KT 10SM FEW065 19/18 A3006 RMK AO1 EGXC 300650Z 32002KT 9999 FEW045 BKN180 14/11 Q1018 BLU EGXD 300650Z AUTO 14002KT 9999 // SCT240/// 11/10 Q1019 CYVV 300700Z 23002KT 12SM OVC036 17/16 A3005 RMK SC8 WND ESTD SLP176 DENSITY ALT 900FT EGXE 300650Z AUTO 16005KT 9999 BKN240/// 11/10 Q1019 CYXE 300700Z 18014G19KT 10SM OVC130 22/11 A2966 RMK AC8 FU PRESFR SLP040 DENSITY ALT 3100FT EIDW 300730Z 27008KT 9999 FEW023 BKN042 12/11 Q1019 NOSIG KFBG 300658Z AUTO 00000KT 10SM BKN240 20/17 A3011 RMK AO2 SLP197 T02030169 $ CYXH 300700Z AUTO 19007KT 9SM CLR 20/08 A2970 RMK SLP044 DENSITY ALT 3600FT KFAR 300653Z AUTO 16010KT 10SM CLR 20/18 A2984 RMK AO2 SLP102 T02000178 TSNO KDUA 300735Z AUTO 19005KT 10SM CLR 25/19 A2995 RMK AO2 KELA 300735Z AUTO 00000KT 10SM CLR 23/21 A2999 RMK AO2 T02280210 CYXJ 300700Z 13010KT 15SM SCT100 10/10 A2935 RMK AC3 SLP944 DENSITY ALT 2800FT KFAT 300653Z 31016G20KT 10SM FEW150 SCT200 24/11 A2990 RMK AO2 SLP122 T02440111 KDUB 300735Z AUTO 32015G20KT 10SM BKN110 13/03 A3013 RMK AO2 CYYB 300700Z AUTO 25004KT 9SM SCT009 OVC020 16/16 A3005 RMK SLP176 DENSITY ALT 1500FT KFBL 300734Z AUTO 18004KT 1 3/4SM BR OVC001 16/16 A3002 RMK AO2 KDTL 300735Z AUTO 16007KT 10SM CLR 18/17 A2990 RMK AO2 KDUC 300735Z AUTO 36004KT 10SM CLR 25/21 A2996 RMK AO2 KEKM 292150Z 13004KT 5SM BR BKN041 OVC080 20/20 A3003 RMK AO2 LAST CZOL 300700Z AUTO 24001KT 12/10 RMK AO1 T01220095 CZPC 300700Z AUTO 25018G23KT 9SM CLR 16/02 A2974 RMK SLP048 DENSITY ALT 5000FT CYYC 300700Z 17010KT 15SM SKC 12/03 A2962 RMK SLP024 DENSITY ALT 4400FT CYXL 300700Z 20006KT 15SM BKN010 OVC140 19/18 A2983 RMK SF6AC2 SLP101 DENSITY ALT 2000FT EGWU 300650Z 04006KT 9999 BKN034 OVC100 16/14 Q1018 NOSIG KELD 300653Z AUTO 00000KT 10SM CLR 23/20 A2998 RMK AO2 SLP149 T02330200 KDSV 300654Z AUTO 13005KT 10SM BKN060 BKN110 18/15 A3008 RMK AO2 SLP191 T01780150 $ EGYD 300650Z AUTO 36004KT 9999 // FEW130/// BKN180/// 14/11 Q1019 CYYD 300700Z AUTO VRB02KT 9SM BKN070 BKN120 11/09 A2931 RMK SLP928 DENSITY ALT 2300FT KDTN 300653Z AUTO 27003KT 10SM CLR 24/20 A2999 RMK AO2 SLP150 T02440200 KEKN 300705Z AUTO 00000KT 6SM BR SCT002 13/12 A3019 RMK AO2 T01330122 TSNO CYXN 292000Z 10013KT 15SM FEW230 10/06 A2989 RMK CI2 10.5/9.0/0.0MM/LAST OBS/NEXT 301400Z SLP122 CYYE 300722Z 10004KT 10SM FEW010 OVC060 13/12 A2919 RMK SC1SC7 SLP890 DENSITY ALT 2100FT KDTO 300653Z AUTO 23005KT 10SM CLR 24/17 A2996 RMK AO2 SLP136 T02390172 KEKO 300656Z AUTO 10SM CLR 18/05 A3003 RMK AO2 SLP106 T01780050 CYYF 300700Z 18014KT 12SM BKN140 21/07 A2965 RMK AC5 FU SLP039 DENSITY ALT 2300FT OTHH 300700Z 11005KT 090V160 6000 NSC 38/26 Q1003 NOSIG KFAY 300653Z AUTO 00000KT 10SM CLR 20/17 A3012 RMK AO2 SLP192 T02000172 KDUG 300656Z AUTO 24003KT 10SM CLR 23/13 A3012 RMK AO2 SLP120 T02280133 $ CYXP 291900Z 26007KT 15SM FEW025 OVC050 05/04 A2975 RMK SC1SC7 5.8/4.3/0 SNW CVR/NIL LAST STFD OBS/NEXT 301600 SLP075 EGXP 300650Z AUTO 02004KT 9999 // SCT140/// SCT190/// 14/11 Q1019 CYYG 300700Z 24007KT 15SM OVC180 17/16 A2998 RMK AS8 SLP152 DENSITY ALT 300FT KDUH 300735Z AUTO 00000KT 1 1/4SM BR SCT049 SCT055 OVC080 20/19 A3003 RMK AO2 T02020188 KEKQ 300656Z AUTO 00000KT 3SM BR CLR 19/19 A3015 RMK AO2 T01880188 SLP202 EHPG 300725Z AUTO 04014KT 9999 BKN038/// OVC045/// 18/14 Q1017 KFCH 300735Z AUTO 10SM CLR 24/11 A2991 RMK A01 CYXQ 292200Z 06003KT 350V140 30SM OVC045 04/M02 A2936 RMK CU8 CLIMAT 5.5/0.0/TRMM/TRCM/TRMWE/LAST STFD OBS/NEXT 301600UTC VIS 10 SW SLP970 CYYH 300700Z VRB03KT 15SM FEW040 FEW080 BKN210 06/02 A2991 RMK SC1AC1CI4 SC TR SLP130 KFCI 300655Z AUTO 00000KT 10SM CLR 18/12 A3013 RMK AO1 KFBR 300735Z AUTO 19012KT 10SM CLR 19/01 A3017 RMK AO2 T01850011 CYXR 300700Z AUTO 21005KT 5SM BR CLR 14/14 A2999 RMK SLP157 KDUJ 300653Z AUTO 00000KT 9SM OVC110 20/15 A3011 RMK AO2 SLP184 T02000150 KDTS 300653Z AUTO 07003KT 10SM CLR 23/22 A3003 RMK AO2 SLP167 T02330217 TSNO KEKS 300735Z AUTO 18018G27KT 10SM CLR 22/07 A2994 RMK A01 EGXS 300650Z AUTO 34006KT 9999 // FEW140/// BKN190/// 15/13 Q1018 CYYJ 300700Z 09003KT 310V120 20SM BKN052 OVC150 14/13 A2972 RMK SC6AC2 SLP063 DENSITY ALT 100FT CYXS 300700Z AUTO 20011G16KT 9SM BKN070 OVC092 15/07 A2944 RMK SLP973 DENSITY ALT 3300FT KELK 300735Z AUTO 02003KT 10SM CLR 19/16 A3004 RMK AO2 T01850160 EGXT 300650Z AUTO 01004KT 9999 FEW037/// SCT050/// BKN080/// 15/11 Q1018 CYXT 300700Z 17016KT 6SM -RA BR FEW008 OVC040 11/09 A2938 RMK SF2SC6 SLP951 DENSITY ALT 1000FT EGXU 300650Z AUTO 15001KT 9999 // OVC220/// 11/10 Q1019 CYYL 300700Z AUTO /////KT 9SM OVC006 12/11 A2975 RMK WND MISG SLP081 DENSITY ALT 1200FT KFCM 300653Z AUTO 18006KT 7SM CLR 17/16 A2998 RMK AO2 SLP151 T01720161 KELM 300653Z AUTO 25003KT 9SM FEW060 OVC075 17/16 A3009 RMK AO2 SLP183 T01670161 CYXU 300700Z VRB02KT 10SM OVC064 18/17 A3007 RMK SC8 SLP180 DENSITY ALT 1200FT EGYM 300650Z AUTO 09003KT 9999 OVC035/// 15/13 Q1018 KELN 300653Z AUTO 36005KT 10SM OVC060 14/06 A2978 RMK AO2 SLP074 T01440061 KDTW 300653Z 12003KT 7SM BKN080 BKN140 20/18 A3005 RMK AO2 SLP171 T02000178 $ EGXV 300650Z AUTO 26002KT 9999 BKN220/// 11/11 Q1019 CYZE 300736Z AUTO 20003KT 2SM BR SCT002 16/16 A3003 RMK SLP171 DENSITY ALT 700FT CYYN 300737Z AUTO 34006KT 2SM HZ CLR 21/10 A2968 RMK SLP031 DENSITY ALT 4200FT KELO 300733Z AUTO 21005KT 10SM CLR 17/15 A2993 RMK AO2 EGXW 300650Z 01005KT CAVOK 14/11 Q1019 BLU EHQE 300725Z AUTO 08015KT 9999 OVC049/// 18/13 Q1018 CYZF 300700Z 10011KT 15SM BKN220 11/07 A2953 RMK CI5 SLP009 DENSITY ALT 800FT KELP 300651Z 15004KT 10SM FEW100 FEW250 26/12 A3012 RMK AO2 SLP124 T02560122 403390217 CYXX 300730Z 22006KT 10SM -RA SCT040 OVC080 15/13 A2972 RMK SC4AC4 SLP065 DENSITY ALT 500FT CYXY 300730Z 32003KT 8SM -RA BKN007 OVC022 03/02 A2921 RMK ST5SC3 SLP920 EGYP 300650Z 30004KT 9999 MIFG FEW050 02/02 Q0986 BLU CYXZ 300000Z VRB02KT 10SM FEW005 SCT100 15/14 A3001 RMK ST2AC2 LAST OBS/NEXT 301100UTC SLP168 DENSITY ALT 1000FT EGXZ 300650Z AUTO 17002KT 9999 BKN230/// 11/10 Q1019 CYYQ 300700Z 07013G20KT 5SM BR OVC008 09/08 A2978 RMK ST8 SLP087 CYZH 300736Z AUTO 00000KT 1 1/4SM BR CLR 11/11 A2942 RMK SLP965 DENSITY ALT 2400FT CYYR 300700Z 23004KT 15SM FEW070 SCT250 08/05 A2985 RMK AC1CI1 SLP111 KFCS 300658Z AUTO 34008KT 10SM BKN110 15/06 A3020 RMK AO2 SLP168 T01470058 $ CZPS 300700Z AUTO 23013KT 15/04 RMK AO1 PK WND 24018/0655 T01470036 KFDK 300725Z AUTO 00000KT 10SM CLR 18/18 A3012 RMK AO2 LTG DSNT SE KDVK 300735Z AUTO 19003KT 10SM CLR 19/18 A3012 RMK AO2 KEMK 300735Z AUTO 12006KT 10SM CLR 28/20 A2998 RMK A01 CYYT 300700Z 26007KT 15SM SCT140 13/11 A2997 RMK AC4 SLP151 KDVL 300735Z AUTO 16008KT 10SM CLR 22/17 A2977 RMK AO1 CYYU 300700Z 23004KT 15SM SCT200 14/13 A2994 RMK CS3 SLP141 KEND 300658Z AUTO 02006KT 10SM CLR 19/17 A3001 RMK AO2 SLP153 T01910171 $ KEMM 300715Z AUTO 22003KT 10SM SCT100 16/00 A3017 RMK AO2 KDVN 300720Z AUTO 00000KT 1/4SM FG VV004 16/15 A3004 RMK AO2 T01560150 EHRD 300725Z AUTO 03004KT 360V070 8000 NSC 16/15 Q1017 TEMPO 7000 CYYW 300700Z AUTO VRB02KT 7SM FEW004 OVC210 16/16 A2986 RMK ICG MISG SLP100 DENSITY ALT 1400FT KDUX 300735Z AUTO 00000KT 10SM CLR 16/11 A3015 RMK AO2 T01590105 KDVO 300735Z AUTO 30005KT 10SM 18/15 A3000 RMK AO2 KELY 300653Z AUTO 20009KT 10SM CLR 19/02 A3010 RMK AO2 SLP075 T01940022 KEMP 300653Z AUTO 04005KT 4SM BR CLR 17/16 A3004 RMK AO2 SLP167 T01670161 KDVP 300733Z AUTO 20012G17KT 2SM BR OVC003 16/16 A3001 RMK AO2 T01640164 CYZP 300700Z AUTO 19004KT 9SM OVC065 14/10 A2938 RMK SLP947 DENSITY ALT 400FT KDWH 300653Z 00000KT 10SM CLR 22/19 A3000 RMK AO2 SLP156 T02220189 CYYY 300700Z 22007KT 10SM -SHRA BKN025 BKN120 17/16 A2990 RMK SC5AC2 SLP125 DENSITY ALT 400FT KELZ 300736Z AUTO 23003KT 1SM BR SCT044 OVC070 17/15 A3014 RMK AO2 RAE22 P0001 T01720150 $ CYYZ 300700Z 00000KT 15SM SCT040 OVC075 20/15 A3006 RMK SC3AC5 SLP179 DENSITY ALT 1100FT KFDR 300653Z AUTO 02010KT 10SM CLR 24/17 A2995 RMK AO2 SLP121 T02440172 CYZR 300700Z AUTO 14002KT 9SM BKN065 OVC078 18/17 A3005 RMK TS/LTNG TEMPO UNAVBL SLP174 DENSITY ALT 900FT KFFA 300735Z AUTO 04003KT 10SM CLR 24/21 A3007 RMK AO2 T02420209 KEMT 300246Z 20007KT 10SM CLR 28/16 A2984 CYZS 300700Z 34012KT 15SM SKC 00/M02 A2992 RMK SLP138 EHSA 300725Z AUTO 06013G14KT 9999 ///////// 18/15 Q1017 W18/H7 KDVT 300653Z AUTO 05003KT 10SM CLR 32/16 A2985 RMK AO2 SLP078 T03170156 404170283 CYZT 300700Z 08002KT 15SM -RA SCT045 OVC068 11/11 A2958 RMK SC4AC4 SLP018 KFFC 300653Z AUTO 00000KT 3SM BR BKN095 21/20 A3011 RMK AO2 SLP193 T02060200 CYZU 300400Z VRB02KT 15SM FEW030 13/12 A2946 RMK SC2 LAST OBS/NEXT 301200Z SLP982 DENSITY ALT 3400FT EHSC 300725Z AUTO 07012G14KT 9999 ///////// 18/15 Q1016 W19/H6 KEMV 300715Z AUTO 00000KT 1SM BR VV007 14/14 A3013 RMK AO2 CYZV 300725Z 04003KT 1 1/2SM BR OVC002 12/12 A2988 RMK ST8 SLP121 KFDW 300735Z AUTO 00000KT 10SM CLR 22/15 A3013 RMK AO1 KEOE 300735Z AUTO 00000KT 10SM CLR 20/16 A3014 RMK AO2 CYZW 300100Z 30011G16KT 10SM -RA OVC006 05/04 A2923 RMK SC8 CLIMAT 5.7/3.5/5.0 MM/LAST OBS/NEXT 301300 UTC SLP923 DENSITY ALT 2400FT CYZX 300700Z 25005KT 15SM BKN200 16/15 A3004 RMK CI4 WNDY HILL 24006KT SLP174 KFDY 300708Z AUTO 00000KT 2 1/2SM BR BKN110 22/20 A3004 RMK AO2 T02170200 KFEP 300735Z AUTO 00000KT 5SM BR OVC024 17/17 A3005 RMK AO2 T01730170 CZRP 300700Z AUTO 07001KT M01/M01 RMK AO1 SLP140 T10081009 CYZY 300700Z AUTO 17014KT 9SM BKN090 12/11 A2936 RMK SLP955 DENSITY ALT 3100FT CZSJ 300700Z AUTO 23005KT 180V270 9SM FEW021 20/17 A2962 RMK SLP031 DENSITY ALT 2100FT KDYB 300735Z AUTO 00000KT 10SM CLR 21/21 A3010 RMK AO1 LTG DSNT E AND SE KFET 300735Z AUTO 18008KT 7SM OVC009 18/16 A3004 RMK AO2 T01810163 KEOK 300735Z AUTO 36004KT 1/4SM FG OVC002 20/20 A3002 RMK AO2 CZTB 300700Z AUTO 00000KT 13/13 RMK AO1 SLP136 T01270126 56009 KDWU 300735Z AUTO 00000KT 3SM SCT110 19/19 A3008 RMK AO1 KFFL 300735Z AUTO 36003KT M1/4SM FG OVC002 19/18 A3004 RMK AO2 KENV 300735Z AUTO 30014G20KT 10SM CLR 27/02 A2990 RMK AO1 KFFM 300734Z AUTO 16008KT 10SM CLR 18/18 A2989 RMK AO2 CZSM 300700Z AUTO 06004KT 16/09 RMK AO1 SLP984 T01560086 58020 KENW 300724Z AUTO 34003KT 1SM BR VV002 17/17 A3004 RMK AO2 T01720172 KFEW 300656Z AUTO 28001KT 10SM CLR 13/06 A3012 RMK AO2 SLP118 T01290055 402970066 $ KFFO 300658Z AUTO 18003KT 10SM CLR 20/19 A3008 RMK AO2 LTG DSNT W RAE29DZB29E42DZB48 SLP183 P0005 T02000194 KDWX 300735Z AUTO 18004KT 10SM CLR 12/02 A3020 RMK AO2 T01210023 VHHH 300730Z 14004KT 050V210 9999 -SHRA FEW008 SCT030 27/24 Q1005 NOSIG PLCH 300500Z METAR NGTA 300500Z 14030G20KT 9999 2RA BKN014CB OVC100 28/25 Q1008 CZSP 300700Z AUTO 19006KT 16/15 RMK AO1 SLP154 T01640148 56013 KEPH 300653Z AUTO 20004KT 10SM CLR 15/09 A2976 RMK AO2 SLP072 T01500094 ZUUU 300700Z 15004MPS 080V210 5000 -SHRA BR FEW026 FEW026CB 24/22 Q1009 NOSIG KDXR 300653Z AUTO VRB03KT 10SM CLR 20/15 A3010 RMK AO2 SLP189 T02000150 KH78 291740Z 06007KT 20SM SCT040 32/28 A3009 RMK SEAS 0-1 KEQA 300735Z AUTO 09005KT 7SM CLR 17/16 A3002 RMK AO2 KFFT 300653Z AUTO 20005KT 10SM CLR 21/19 A3009 RMK AO2 SLP179 T02110189 KDZB 300735Z AUTO 17006KT 10SM CLR 26/18 A3001 RMK AO2 T02630183 KFHB 300715Z AUTO 15004KT 7SM SCT017 SCT037 BKN048 26/24 A3001 RMK AO1 LTG DSNT N CZST 300100Z VRB02KT 12SM -RA OVC065 14/13 A2924 RMK SC8 LAST STFD OBS/NEXT301300Z SLP900 DENSITY ALT 600FT KDYL 300654Z AUTO 00000KT 10SM CLR 18/17 A3010 RMK AO2 SLP187 T01830167 FABL 300700Z 14005KT 110V170 CAVOK 16/04 Q1024 NOSIG KFGN 300734Z AUTO 17007KT 10SM CLR 19/18 A2979 RMK AO2 EIKN 300730Z 19002KT 9999 FEW020 BKN045 11/10 Q1018 NOSIG KDXX 300734Z AUTO 14005KT 7SM CLR 16/15 A2992 RMK AO2 KFFX 300735Z AUTO 08003KT 5SM BR SCT005 BKN011 OVC018 18/18 A3003 RMK AO2 T01750175 KFFZ 300247Z 13017KT 20SM FEW070 SCT100 BKN150 37/12 A2984 RMK TS SW MOV NW CONS LTGICCG ALQDS PKMJ 292358Z 28005KT 15SM SCT015 SCT050 30/25 A2981 KDYR 300735Z 10SM SCT055 BKN070 OVC120 RMK AO1 KDYS 300658Z AUTO 31001KT 10SM OVC120 21/18 A3002 RMK AO2 SLP120 T02070183 $ KDZJ 300715Z AUTO 00000KT 7SM 19/14 A3017 RMK AO2 T01870140 KDYT 300734Z AUTO 21003KT 10SM CLR 17/16 A2995 RMK AO2 CZUM 300700Z AUTO 00000KT 9SM FEW180 04/04 A2984 RMK SLP118 KFGX 300015Z AUTO 20005KT 10SM CLR 25/19 A3010 RMK AO2 T02480193 EIME 300700Z 17004KT 9999 BKN042 12/11 Q1019 KFIG 300654Z AUTO 00000KT 9SM CLR 16/13 A3012 RMK AO2 SLP189 T01560133 $ EIKY 300730Z VRB01KT 9999 SCT035 OVC043 12/11 Q1019 PKMR 302357Z 29004KT 20SM FEW016 BKN300 31/27 A2981 RMK SLP095 8/101 T03080266 10308 20284 58003 KFHR 300653Z AUTO 00000KT 10SM BKN010 OVC085 13/12 A2974 RMK AO2 SLP070 T01330122 KERI 300651Z 12003KT 7SM -RA FEW100 SCT120 20/18 A3006 RMK AO2 SLP177 P0003 T02000178 FACT 300700Z 16021KT 9999 FEW030 14/10 Q1018 NOSIG EHVK 300726Z AUTO 10011KT 5000 BR BKN150 BKN260 17/17 Q1015 WHT KESC 300735Z AUTO 25003KT 2SM CLR 14/13 A3002 RMK AO1 KFHU 300731Z AUTO 21002KT 9SM CLR 22/12 A3015 RMK AO2 CZVL 300700Z AUTO 28005KT 9SM CLR 13/11 A2946 RMK SLP973 DENSITY ALT 3000FT EHVL 300725Z AUTO 08012KT 9999 BKN054 OVC065 18/13 Q1018 BLU KGAD 300735Z 00000KT 5SM SCT002 21/18 A3009 RMK AO1 P0001 FACV 300514Z 15008G21KT CAVOK 16/02 Q1019 KFIN 300715Z AUTO 10006KT 10SM SCT012 SCT016 24/23 A3000 RMK AO2 LTG DSNT SE T02350230 KESF 300653Z AUTO 00000KT 9SM CLR 22/19 A3000 RMK AO2 SLP157 T02220194 KGAF 300735Z AUTO 15008KT 7SM CLR 19/19 A2978 RMK AO2 VIAR 300700Z VRB02KT 5000 HZ SCT040 35/25 Q1003 NOSIG KEQY 300653Z AUTO 00000KT 10SM CLR 21/17 A3013 RMK AO2 SLP202 T02110167 KGAG 300653Z AUTO 00000KT 10SM CLR 14/12 A3007 RMK AO2 SLP159 T01390117 TSNO KI16 300715Z AUTO 5SM BR CLR 16/16 A3022 RMK AO2 T01640164 KGAI 300735Z AUTO 00000KT 10SM CLR 20/17 A3014 RMK AO1 KFKA 300733Z AUTO 19004KT 1SM BR VV007 14/14 A3004 RMK AO2 T01440137 KFIT 300652Z AUTO 00000KT 10SM CLR 16/14 A3008 RMK AO2 SLP183 T01560139 $ KETB 300710Z AUTO 00000KT 4SM BR OVC028 16/15 A3004 RMK AO2 KETC 300735Z AUTO 00000KT 7SM CLR 18/17 A3012 RMK AO2 T01820173 FAEL 300700Z 05003KT 020V080 7000 -DZ SCT002 BKN015 BKN020 18/17 Q1021 KGBD 300735Z AUTO 00000KT 1/2SM OVC002 14/12 A3006 RMK AO1 KERV 300735Z AUTO 16007KT 10SM CLR 25/19 A3005 RMK AO2 T02470191 KESN 292255Z 20006KT 10SM SCT150 27/17 A3015 KGAO 300735Z AUTO 00000KT 7SM CLR 20/19 A3000 RMK AO2 T02030192 EINN 300730Z 13007KT 9999 FEW010 BKN044 13/11 Q1019 NOSIG FAEO 300701Z 34008KT CAVOK 21/06 Q1029 EHWO 300731Z AUTO 07007KT 4400 BR FEW003 SCT082 BKN090 18/17 Q1016 GRN KERY 300734Z AUTO 22009KT 5SM BR SCT003 16/16 A3002 RMK AO2 T01550155 KGBG 300715Z AUTO 03004KT 4SM BR OVC036 19/19 A3003 RMK AO2 T01880185 KETH 300736Z AUTO 13007KT 10SM CLR 15/14 A2990 RMK AO2 KGBK 300735Z AUTO VRB04KT 10SM FEW023 28/23 A2999 RMK A01 KEST 300652Z AUTO 20011KT 10SM OVC005 16/16 A3003 RMK AO2 SLP164 T01610156 KGCC 300653Z AUTO 17016KT 10SM CLR 23/02 A2989 RMK AO2 SLP058 T02280022 403560133 $ KFKL 300735Z AUTO 00000KT 3SM OVC120 18/17 A3010 RMK AO1 LTG DSNT W KFLD 300706Z AUTO 00000KT 1/4SM FG VV002 14/14 A3004 RMK AO2 T01440139 KGCD 300715Z AUTO 20004KT 10SM CLR 16/04 A2994 RMK AO2 T01550037 KFKN 300715Z AUTO 00000KT 10SM CLR 17/16 A3012 RMK AO2 T01650160 KEUF 300658Z AUTO 00000KT 6SM -RA BR FEW005 BKN033 OVC100 22/22 A3005 RMK AO2 RAB04 SLP170 P0024 T02220217 $ KEUG 300654Z AUTO 18010KT 10SM SCT033 OVC110 18/13 A2989 RMK AO2 CIG 035 RNW 34 SLP119 T01780128 KFLG 300657Z AUTO 00000KT 10SM CLR 13/09 A3031 RMK AO2 SLP155 T01330094 402780083 TSNO FAGG 300700Z VRB01KT 4600 0800 BCFG BKN002 13/13 Q1021 KFKR 300735Z AUTO 00000KT 1 1/4SM BR VV007 A3005 RMK AO2 KFKS 300733Z AUTO 00000KT 7SM BKN016 13/12 A3004 RMK AO2 T01270119 KEVB 300147Z 00000KT 10SM -RA BKN015 26/23 A3007 RMK LAST KGCK 300654Z AUTO 19004KT 10SM CLR 18/13 A3009 RMK AO2 SLP155 T01780128 KGDB 300730Z AUTO 13005KT 7SM CLR 16/15 A2997 RMK AO2 T01550152 KI39 300735Z AUTO 00000KT 10SM CLR 21/19 A3012 RMK AO2 KFLL 300729Z 16011G17KT 10SM FEW025 SCT039 BKN055 BKN250 27/26 A2996 RMK AO2 RAE27 TSE23 CB DSNT S-W-NW MOV NW P0000 T02720261 $ KEUL 300735Z AUTO 20006KT 10SM CLR 21/04 A2986 RMK AO1 KGCM 300735Z AUTO 34003KT 10SM BKN046 21/20 A2998 RMK AO2 VIDP 300700Z 30009KT 3500 HZ SCT035 36/24 Q1004 NOSIG FAGM 300500Z 35013KT CAVOK 16/06 Q1027 KFME 300733Z AUTO 00000KT 7SM CLR 16/15 A3012 RMK AO1 KGCN 300654Z AUTO 00000KT 10SM CLR 11/07 A3027 RMK AO2 SLP149 T01110067 403060072 KFLO 300653Z AUTO 00000KT 10SM CLR 21/17 A3011 RMK AO2 SLP194 T02060172 KFLP 300735Z 00000KT 10SM FEW120 20/17 A2998 RMK AO1 LTG DSNT N KFMH 300735Z AUTO 25007KT 10SM CLR 20/18 A3009 RMK AO2 KGDJ 300715Z AUTO 24004KT 10SM OVC090 25/19 A2999 RMK AO2 T02460187 CZZJ 300700Z AUTO 34001KT 08/08 RMK AO1 SLP999 T00840080 50002 KFNB 300731Z AUTO 00000KT 1/2SM FG VV002 14/13 A3003 RMK AO2 T01390133 KEWB 300653Z AUTO 22004KT 10SM CLR 18/17 A3008 RMK AO2 SLP186 T01830172 URFF 300730Z 04008MPS 360V070 CAVOK 28/13 Q1022 WS RWY01 01010095 NOSIG KEVM 300732Z AUTO 21003KT 10SM CLR 15/15 A2995 RMK AO2 KGED 300654Z AUTO 00000KT 10SM CLR 18/16 A3012 RMK AO2 SLP197 T01830161 KFMM 300735Z AUTO 16008KT 10SM CLR 18/05 A3010 RMK AO2 T01800045 KFMN 300653Z AUTO 06008KT 10SM CLR 22/07 A3017 RMK AO2 SLP143 T02220067 403280156 KGEG 300653Z 20009KT 10SM FEW070 FEW120 FEW200 16/07 A2983 RMK AO2 SLP090 T01560067 $ KGDP 300651Z AUTO 05012KT 10SM CLR 18/11 A3025 RMK AO2 SLP166 T01780106 402720167 KFLY 300732Z AUTO 10SM CLR 15/03 A3028 RMK AO2 T01530033 KGFA 300656Z AUTO 21006KT 10SM BKN046 BKN160 17/10 A2980 RMK AO2 SLP064 T01660099 TSNO $ KFOA 300735Z AUTO 00000KT 10SM CLR 20/18 A3003 RMK AO2 T01950180 KEWK 300735Z AUTO 00000KT 7SM CLR 16/13 A3006 RMK AO1 FAJB 300700Z AUTO 04003KT //// // ////// 21/07 Q1027 KFNL 300735Z AUTO 35007KT 10SM CLR 16/08 A3009 RMK AO1 KEVV 300654Z AUTO 00000KT 6SM BR BKN060 22/21 A3004 RMK AO2 SLP169 T02220211 KFOD 300735Z 19003KT 10SM OVC017 17/16 A3004 RMK AO1 KGDV 300735Z AUTO 16003KT 10SM CLR 24/10 A2972 RMK AO1 DRRM 300700Z 00000KT CAVOK 25/24 Q1016 KFOE 300653Z 00000KT 9SM CLR 19/17 A3004 RMK AO2 SLP165 T01890172 KEVW 300653Z AUTO 20008KT 10SM CLR 18/02 A3015 RMK AO2 SLP093 T01830022 403000139 KEWN 300654Z AUTO 00000KT 10SM CLR 20/19 A3012 RMK AO2 SLP198 T02000189 KI63 300715Z AUTO 00000KT 3SM BR SCT027 SCT032 19/19 A3001 RMK AO2 LTG DSNT SW T01880187 DRRN 300700Z 00000KT 9999 BKN010 FEW016CB 25/25 Q1015 TEMPO 3000 TSRA KFMY 300653Z AUTO 06009KT 10SM CLR 24/23 A2993 RMK AO2 SLP137 T02390228 EISG 300730Z VRB03KT CAVOK 13/10 Q1019 KEWR 300651Z 23006KT 10SM BKN260 22/16 A3009 RMK AO2 SLP189 T02170161 EKAH 300720Z AUTO 28002KT 9999NDV FEW190/// 15/12 Q1021 KI67 300735Z AUTO 00000KT 10SM CLR 21/18 A3006 RMK AO1 FAIR 300642Z 02006KT CAVOK 22/10 Q1027 KFOK 300653Z AUTO 22005KT 10SM CLR 23/19 A3011 RMK AO2 SLP194 T02280194 TSNO KFNT 300653Z AUTO 00000KT 4SM BR OVC043 20/18 A3005 RMK AO2 RAB24E35 SLP171 P0001 T02000178 $ KGFK 300653Z AUTO 17008KT 10SM CLR 20/19 A2978 RMK AO2 SLP083 T02000189 TSNO KI69 300734Z AUTO 00000KT 10SM BKN060 19/19 A3008 RMK AO2 T01940194 DRRT 300600Z 24004KT 9999 FEW030 BKN100 25/23 Q1015' KGEU 300147Z 20008KT 20SM SCT100 SCT200 42/12 2975 RMK CB DSNT E-SE LAST KGFL 300653Z AUTO 00000KT 10SM CLR 17/15 A3006 RMK AO2 SLP176 T01670150 KGEV 300735Z AUTO 00000KT 10SM CLR 16/13 A3024 RMK AO2 T01620128 KEYE 300653Z AUTO 00000KT 10SM FEW080 22/19 A3003 RMK AO2 SLP163 T02220194 KGGE 300735Z AUTO 09003KT 10SM SCT015 SCT024 BKN060 22/22 A3011 RMK AO2 LTG DSNT SE AND S KEYF 300735Z AUTO 00000KT 10SM CLR 21/18 A3011 RMK AO2 T02050180 KGEY 300653Z AUTO 26003KT 10SM CLR 21/06 A2983 RMK AO2 SLP053 T02060056 403610117 KGGG 300653Z AUTO 20004KT 10SM CLR 24/19 A2999 RMK AO2 SLP146 T02390189 KI75 300715Z AUTO 00000KT 1/4SM FG OVC002 17/16 A3005 RMK AO2 T01700163 KGEZ 300653Z AUTO 00000KT 8SM FEW080 SCT095 22/20 A3004 RMK AO2 SLP166 T02170200 KGGI 300735Z AUTO 00000KT 10SM BKN012 OVC017 16/15 A3005 RMK AO2 T01570152 EKBI 300650Z 14001KT CAVOK 14/13 Q1021 FALA 300700Z VRB03KT CAVOK 21/07 Q1028 NOSIG KFPK 300735Z AUTO 00000KT 4SM BR SCT044 OVC065 20/18 A3001 RMK AO2 T01950178 KGHB 300735Z AUTO 10006KT 10SM FEW031 FEW038 SCT047 29/23 A2999 RMK A01 KFOT 300735Z AUTO 14005KT 10SM BKN048 OVC055 17/13 A3003 RMK AO1 KFQD 300715Z AUTO 00000KT 10SM CLR 20/17 A3015 RMK AO2 T01960170 FAKM 300700Z 03004KT CAVOK 19/02 Q1021 FALE 300700Z 03009KT CAVOK 23/19 Q1018 NOSIG FAKN 300700Z 27002KT CAVOK 20/10 Q1025 NOSIG KEZF 300715Z AUTO 00000KT 10SM CLR 21/18 A3010 RMK AO2 T02130176 KEXX 300715Z AUTO 00000KT 10SM CLR 19/18 A3014 RMK AO2 T01900177 KGGP 300735Z AUTO 19003KT 4SM BR CLR 17/16 A3003 RMK AO2 KGHG 300715Z AUTO 25004KT 10SM CLR 19/18 A3009 RMK AO2 WAAA 300700Z 28010KT 250V340 9999 FEW021 33/17 Q1010 NOSIG KFOZ 300733Z AUTO 20010KT 10SM OVC007 18/17 A2990 RMK AO2 EKCH 300720Z 24007KT 9999 FEW048 BKN120 19/14 Q1021 NOSIG KFPR 300705Z AUTO 10009KT 10SM SCT025 OVC036 26/25 A2996 RMK AO2 T02610250 TSNO PKWA 300720Z AUTO 33006KT 10SM SCT020 SCT029 29/24 A2978 RMK AO2 T02910241 KGIC 300735Z AUTO 15009KT 10SM BKN055 13/11 A2991 RMK AO1 T01250113 KEZM 300735Z AUTO 00000KT 10SM SCT020 SCT028 OVC060 23/23 A3009 RMK AO2 LTG DSNT SW T02260226 KEYW 300653Z AUTO 06008KT 10SM CLR 27/25 A2986 RMK AO2 SLP112 T02720250 KGGW 300653Z AUTO 01003KT 2SM HZ CLR 23/08 A2969 RMK AO2 SLP037 T02330083 403330172 KGIF 300653Z AUTO 08005KT 10SM CLR 23/23 A2999 RMK AO2 SLP153 T02330228 KFRG 300653Z AUTO 23005KT 10SM CLR 22/16 A3009 RMK AO2 SLP189 T02220161 URKA 300730Z 02006MPS 350V060 CAVOK 26/18 Q1018 R04/010070 NOSIG RMK QFE759/1013 KFRI 300722Z AUTO 04002KT 6SM BR OVC006 17/17 A3003 RMK AO2 KEZS 300715Z AUTO 00000KT M1/4SM FG OVC001 14/13 A3005 RMK AO2 T01350127 EKEB 300720Z AUTO 13002KT 9999NDV BKN180/// 15/15 Q1020 KFRM 300735Z AUTO 20010KT 10SM OVC008 17/14 A3001 RMK AO1 KFSD 300706Z AUTO 18010KT 10SM BKN007 17/16 A2999 RMK AO2 T01720156 TSNO VIJP 300530Z 27005KT 3000 HZ SCT040 33/23 Q1007 NOSIG FAMM 300700Z 03011KT CAVOK 24/02 Q1024 NOSIG KGHW 300733Z AUTO 18010KT 10SM CLR 17/17 A2995 RMK AO2 KFSE 300735Z AUTO 18008KT 10SM CLR 17/16 A2986 RMK AO2 KHAE 300715Z AUTO 36003KT 4SM BR BKN048 21/20 A3002 RMK AO2 FALW 300700Z AUTO 22005KT //// // ////// 13/09 Q1018 KHAF 300735Z AUTO 32007KT 7SM OVC005 18/18 A3002 RMK AO2 PMDY 300656Z AUTO 16005KT 9SM CLR 28/24 A2989 RMK AO2 TSNO T02830244 SLP427 $ EIWF 300730Z 01005KT 9999 SCT038 12/11 Q1019 URKK 300730Z 26004MPS 220V290 CAVOK 28/12 Q1017 R23C/CLRD70 NOSIG RMK QFE759 KHAI 300735Z AUTO 00000KT 3SM BR 18/18 A3002 RMK AO2 SKY OBSCURED T01820181 KFSI 300658Z AUTO 36006KT 10SM CLR 22/18 A2997 RMK AO2 SLP139 T02180177 KFRR 300710Z AUTO 00000KT 10SM CLR 18/16 A3010 RMK AO1 USCC 300730Z 15005MPS 5000 -SHRA BR SCT006 BKN020CB 15/15 Q0997 R09/290050 NOSIG RMK QFE728 FAOB 300700Z AUTO 20010KT //// // ////// 12/12 Q1023 KFSM 300653Z 06004KT 10SM BKN095 24/20 A2997 RMK AO2 SLP144 T02390200 KHAO 300653Z AUTO 00000KT 10SM FEW040 22/19 A3008 RMK AO2 LTG DSNT NW SLP180 T02220194 KFSO 300735Z AUTO 00000KT 10SM CLR 17/15 A3003 RMK AO2 T01660154 KFTG 300729Z AUTO 19015G20KT 10SM CLR 20/03 A3013 RMK AO2 KHBG 300653Z AUTO 00000KT 10SM BKN070 23/21 A3004 RMK AO2 SLP168 T02330211 VILK 300700Z 32005KT 5000 HZ SCT020 SCT025 BKN200 36/28 Q1002 NOSIG KHBI 300715Z AUTO 00000KT 10SM CLR 19/16 A3017 RMK AO2 T01850161 KGKJ 300653Z AUTO 00000KT 10SM FEW060 SCT070 OVC090 21/17 A3009 RMK AO2 SLP178 T02060167 TSNO WADD 300700Z 11012KT 9999 FEW015 28/22 Q1013 NOSIG USDD 300730Z 04008MPS 9999 SCT026 BKN100 11/03 Q1014 R04/CLRD60 NOSIG RMK QFE754/1006 USCM 300730Z 22006MPS 9999 -SHRA SCT030CB 16/12 Q1000 R19/090065 NOSIG RMK QFE713 KFST 300653Z AUTO 09004KT 10SM CLR 21/12 A3010 RMK AO2 SLP148 T02060117 KGJT 300653Z AUTO 10012KT 10SM CLR 22/05 A3007 RMK AO2 SLP106 T02220050 403280133 KFTK 300658Z AUTO 20005KT 10SM CLR 21/19 A3006 RMK AO2 RAB49E55 SLP175 P0000 KGLD 300653Z AUTO 20010KT 9SM CLR 17/09 A3011 RMK AO2 SLP151 T01720089 403280128 KHCD 300731Z AUTO 17004KT 7SM CLR 16/16 A2999 RMK AO2 T01600157 KFSW 300735Z AUTO 00000KT 1/4SM FG OVC001 19/19 A3003 RMK AO2 KFTN 300735Z AUTO 14011G16KT 10SM 26/18 A2998 RMK A01 KGLE 300715Z AUTO 23005KT 10SM CLR 24/13 A2996 RMK AO2 T02440125 FAPE 300700Z 24005KT 9999 -RA BKN017 BKN047 15/14 Q1021 TEMPO BKN014 KGLH 300653Z AUTO 13005KT 8SM CLR 24/19 A2999 RMK AO2 SLP158 T02390194 KHBR 300653Z AUTO 06005KT 10SM CLR 20/15 A3002 RMK AO2 SLP144 T02000150 URML 300730Z 04004MPS 360V070 9999 NSC 28/18 Q1015 R32/01//70 NOSIG RMK QFE761/1015 FAOR 300730Z 36012KT CAVOK 21/06 Q1029 NOSIG WADL 300730Z 18012KT 9999 SCT016 30/20 Q1013 NOSIG DRZA 300700Z 26008KT CAVOK 28/21 Q1016 URMM 300730Z 30005MPS 9999 NSC 29/05 Q1017 R30/000070 NOSIG RMK QFE734/0979 KGKT 300735Z AUTO 00000KT 10SM CLR 21/18 A3013 RMK URMN 300730Z 34002MPS 9999 NSC 28/07 Q1018 R24/010070 NOSIG RMK QFE726 FBFT 300700Z 08009KT CAVOK 25/05 Q1023 KFUL 300653Z 25003KT 10SM CLR 26/19 A2985 RMK AO2 SLP106 T02560189 KHDC 300715Z AUTO 00000KT 10SM SCT060 22/19 A3002 RMK AO2 URMO 300730Z 25004MPS 9999 NSC 26/07 Q1019 R10/010070 NOSIG RMK QFE720/0960 ZWSH 300700Z VRB02MPS 9999 FEW040 25/06 Q1016 NOSIG KFTW 300653Z 00000KT 10SM BKN090 OVC110 26/19 A2997 RMK AO2 SLP136 T02610189 KFVE 300653Z AUTO 23004KT 10SM OVC080 16/13 A2996 RMK AO2 RAB22E49 SLP142 P0000 T01610133 KHDE 300715Z AUTO 19006KT 10SM CLR 16/15 A3005 RMK AO2 T01620151 FAPN 300700Z AUTO 00000KT //// // ////// 21/03 Q1024 KHCO 300734Z AUTO 17011KT 10SM CLR 19/18 A2976 RMK AO2 KFTY 300653Z 00000KT 10SM BKN100 22/19 A3011 RMK AO2 SLP186 T02170194 KGKY 300653Z AUTO 00000KT 10SM BKN085 24/19 A2997 RMK AO2 SLP140 T02440189 FAPP 300700Z 04007KT CAVOK 22/10 Q1025 NOSIG URMT 300730Z 29007MPS CAVOK 26/04 Q1018 R25/010070 NOSIG RMK QFE724 KGLR 300712Z AUTO 00000KT 6SM BR FEW004 12/12 A3006 RMK AO2 T01220117 FAPR 300724Z 03005KT CAVOK 22/09 Q1027 KGLS 300652Z AUTO 14005KT 10SM CLR 27/19 A3000 RMK AO2 SLP158 T02670194 KFWA 300654Z 00000KT 4SM BR BKN130 21/20 A3004 RMK AO2 RAE0556 SLP165 P0000 T02060200 KGMJ 300735Z AUTO 13003KT 3SM BR BKN050 BKN060 BKN080 23/23 A2998 RMK AO2 KGNA 300656Z AUTO 00000KT 12/11 A2993 RMK AO1 SLP138 T01170111 $ KFWB 300715Z AUTO 10004KT 10SM FEW060 OVC065 21/19 A3002 RMK AO2 LTG DSNT E KGNC 300715Z AUTO 00000KT 10SM CLR 18/12 A3014 RMK AO2 T01800120 KFWC 300715Z AUTO 00000KT 3SM BR CLR 19/19 A3003 RMK AO1 T01870185 KGLW 300715Z AUTO 00000KT 10SM CLR 20/20 A3011 RMK AO2 T01970197 KHDO 300651Z AUTO 12007KT 10SM CLR 25/18 A3003 RMK AO2 RAE14 SLP152 P0000 T02500183 $ KHEF 300735Z 00000KT 10SM CLR 19/18 A3011 RMK AO1 KGLY 300735Z AUTO 00000KT 2SM BR CLR 19/19 A3000 RMK AO2 ZYCC 300700Z 12002MPS 9999 BKN026 21/18 Q1011 NOSIG KHEI 300653Z AUTO 14007KT 8SM CLR 21/12 A2983 RMK AO2 SLP073 T02110117 403610083 DRZR 300600Z 26004KT CAVOK 26/23 Q1016 FASB 291145Z 11005KT CAVOK 22/05 Q1018 KGMU 300653Z AUTO 00000KT 10SM CLR 22/14 A3015 RMK AO2 SLP199 T02220139 KHFD 300653Z AUTO 20003KT 10SM CLR 20/17 A3007 RMK AO2 SLP182 T02000172 KFXE 300653Z 13012G24KT 6SM TSRA FEW019 BKN047 OVC055 26/23 A2997 RMK AO2 SLP149 P0009 T02610233 KFWN 300653Z AUTO 00000KT 6SM BR CLR 15/14 A3010 RMK AO2 SLP190 T01500139 KHFF 300656Z AUTO 34001KT 9SM BKN240 19/18 A3012 RMK AO2 SLP212 T01880179 TSNO $ KFVX 300715Z AUTO 00000KT 10SM CLR 20/17 A3011 RMK AO2 T01980174 KHEQ 300735Z AUTO 20007KT 10SM CLR 15/09 A3008 RMK AO2 KGNR 300656Z AUTO 00000KT 16/13 A3002 RMK AO1 SLP164 T01610133 FASI 300700Z AUTO /////KT //// // ////// 20/07 Q1028 KFWS 300715Z AUTO 00000KT 10SM SCT110 23/22 A2998 RMK AO2 T02280215 KHFJ 300715Z AUTO 14005KT 10SM VCTS SCT065 OVC085 21/20 A3000 RMK AO2 DTKA 300700Z 08010KT CAVOK 31/12 Q1017 NOSIG EKKA 300720Z AUTO 16001KT 9999NDV BKN210/// 15/15 Q1020 KGOK 300653Z AUTO 02003KT 10SM CLR 20/17 A2999 RMK AO2 SLP147 T02000172 KGNT 300715Z AUTO 16004KT 10SM CLR 14/10 A3032 RMK AO2 T01410098 FCBB 300700Z 24009KT 8000 SCT020 23/18 Q1018 NOSIG KGNV 300653Z AUTO 10004KT 10SM CLR 23/22 A3002 RMK AO2 SLP161 T02280217 KGON 300656Z AUTO 22006KT 10SM CLR 22/20 A3008 RMK AO2 SLP185 T02170200 USHH 300730Z 26004MPS 9999 BKN040 11/02 Q1005 R24/010060 NOSIG RMK QFE750 FBKE 300700Z 09011KT CAVOK 25/06 Q1022 KGOO 300740Z AUTO 00000KT 10SM CLR 15/08 A3008 RMK AO1 KFYG 300715Z AUTO 00000KT 10SM SCT029 SCT043 BKN075 22/20 A3000 RMK AO2 KGOP 300715Z AUTO 18003KT 10SM CLR 27/18 A3002 RMK AO2 KGPH 300735Z AUTO 00000KT 10SM CLR 18/18 A3002 RMK AO2 KHEZ 300735Z AUTO 16003KT 10SM CLR 22/18 A3001 RMK AO1 KFWZ 300715Z AUTO 10SM CLR 17/00 A3020 RMK AO2 KGPI 300655Z AUTO 17007KT 10SM -RA OVC080 17/09 A2986 RMK AO2 RAB50 SLP096 P0000 T01670089 402720083 KFYJ 300735Z AUTO 00000KT 10SM CLR 18/16 A3013 RMK AO2 T01750161 KFYM 300735Z AUTO 00000KT 10SM FEW100 19/19 A3010 RMK KGOV 300737Z AUTO 00000KT 3/4SM BR OVC001 11/10 A3006 RMK AO2 T01110104 KGPM 300735Z AUTO 00000KT 10SM CLR 26/20 A2998 RMK AO2 T02610198 KHHF 300735Z AUTO 24003KT 10SM CLR 14/13 A3007 RMK AO2 T01350126 KFZG 300715Z AUTO 00000KT 7SM OVC007 24/23 A3008 RMK AO2 T02380231 KHHG 300715Z AUTO 00000KT 7SM SCT050 18/16 A3003 RMK AO2 T01800161 KFXY 300715Z AUTO 00000KT 1/4SM FG OVC002 12/12 A3004 RMK AO2 WAHS 300700Z 12011KT 9000 FEW017 35/16 Q1010 NOSIG UTAA 300700Z 08004MPS 030V140 9999 SKC 30/M03 Q1018 NOSIG KHGR 300653Z AUTO 00000KT 10SM CLR 22/17 A3009 RMK AO2 SLP192 T02170172 KHIB 300737Z AUTO 00000KT 10SM BKN002 16/15 A2994 RMK AO2 T01560150 KGPT 300653Z AUTO 00000KT 10SM CLR 22/20 A3001 RMK AO2 SLP161 T02220200 KGRB 300653Z 00000KT 1/4SM FG VV002 14/13 A3005 RMK AO2 SLP175 T01390133 RVRNO DTMB 300730Z VRB01KT 9999 FEW026 29/23 Q1020 NOSIG KFYV 300653Z AUTO 00000KT 6SM BR FEW060 SCT100 BKN120 22/21 A3001 RMK AO2 SLP147 T02170211 KGRD 300656Z AUTO 00000KT 10SM SCT110 21/18 A3013 RMK AO2 SLP197 T02060178 KHIE 300652Z AUTO 00000KT 10SM CLR 15/14 A3007 RMK AO2 SLP181 T01500139 TSNO KHIF 300658Z AUTO 16013KT 10SM SCT140 27/07 A2992 RMK AO2 SLP055 T02680066 403440197 KGRF 300703Z AUTO 17004KT 8SM -RA SCT002 BKN032 OVC055 14/14 A2977 RMK AO2 URRR 300730Z 36006MPS 330V030 CAVOK 25/05 Q1018 R04/CLRD70 NOSIG RMK QFE757/1009 FAUP 300700Z 19005KT CAVOK 18/02 Q1017 NOSIG KGPZ 300735Z AUTO 19008KT 10SM 17/15 A2993 RMK AO1 WAJJ 300600Z 13009KT 9999 FEW013CB FEW015 32/24 Q1007 UTAK 300700Z 16004MPS CAVOK 30/M01 Q1017 NOSIG KGRI 300707Z AUTO 18010KT 6SM BR BKN004 17/16 A3005 RMK AO2 T01670161 KHHR 300653Z AUTO 23006KT 10SM CLR 24/19 A2986 RMK AO2 SLP109 T02390189 KHII 300710Z AUTO 16008KT 10SM CLR 38/10 A2975 RMK AO2 UTAM 300700Z 34004MPS CAVOK 30/02 Q1017 NOSIG ZWWW 300730Z 36003MPS 290V040 9999 FEW040 24/09 Q1020 NOSIG KGSB 300658Z AUTO 00000KT 10SM FEW190 20/18 A3011 RMK AO2 SLP198 T02030180 $ KIAB 300658Z AUTO 06004KT 10SM CLR 18/15 A3003 RMK AO2 SLP164 T01800153 $ KGRK 300658Z AUTO 15007KT 10SM CLR 26/18 A3001 RMK AO2 SLP150 T02610176 FAWB 300700Z AUTO 05006KT //// // ////// 22/08 Q1025 FAUT 300700Z 12005KT 9999 OVC015 16/13 Q1022 KIAD 300652Z 18005KT 10SM CLR 20/18 A3010 RMK AO2 SLP190 T02000178 KHHV 300735Z AUTO 16006G12KT 10SM BKN027 BKN033 BKN075 28/22 A2999 RMK A01 KHHW 300735Z AUTO 17004KT 10SM CLR 26/20 A2996 RMK AO2 T02570200 FBMN 300700Z 02005KT CAVOK 23/06 Q1021 KHIO 300653Z AUTO 19009KT 10SM -RA OVC041 18/13 A2980 RMK AO2 RAE27B53 SLP089 P0001 T01780128 KIAG 300653Z AUTO 20003KT 10SM OVC055 20/15 A3005 RMK AO2 SLP172 T02000150 KFZY 300654Z AUTO 00000KT 10SM OVC065 18/16 A3008 RMK AO2 SLP183 T01780156 URSS 300730Z 27002MPS 210V310 9999 FEW040 27/19 Q1018 R02/090070 R06/090070 NOSIG RMK R06/27003MPS QFE762 ZYHB 300700Z VRB01MPS 9999 FEW030TCU BKN030 23/18 Q1009 NOSIG KIAH 300653Z 00000KT 10SM BKN250 22/19 A3000 RMK AO2 SLP156 T02220189 KGSH 300653Z AUTO 19004KT 8SM BKN048 OVC060 19/18 A3002 RMK AO2 SLP163 T01940178 KHJH 300715Z AUTO 00000KT 1/4SM FG OVC001 13/12 A3006 RMK AO2 T01330123 UTAT 300700Z VRB02MPS CAVOK 29/09 Q1019 NOSIG DTNH 300730Z AUTO 25005KT CAVOK 26/21 Q1020 KGRR 300653Z AUTO 10004KT 2 1/2SM BR SCT002 OVC021 18/18 A3003 RMK AO2 RAE20 SLP166 P0001 T01830183 KHKA 300653Z AUTO 15006KT 10SM BKN110 25/23 A3002 RMK AO2 SLP164 T02500228 UTAV 300700Z 03003MPS CAVOK 30/04 Q1015 NOSIG KGTB 300658Z AUTO 18004KT 10SM SCT130 16/15 A3007 RMK AO2 SLP181 T01600145 FAWK 300700Z AUTO 03009KT //// // ////// 21/08 Q1028 FAVV 300700Z AUTO 35010KT //// // ////// 23/04 Q1031 EKOD 300650Z 24001KT CAVOK 16/16 Q1021 KHJO 300653Z AUTO 31014G21KT 10SM CLR 25/15 A2990 RMK AO2 SLP125 T02500150 KGTF 300653Z 25007KT 5SM HZ SCT050 17/10 A2981 RMK AO2 SLP058 T01720100 403330156 KGSO 300654Z 00000KT 10SM OVC200 22/17 A3014 RMK AO2 SLP196 T02170167 KGSP 300653Z AUTO 00000KT 10SM CLR 21/18 A3013 RMK AO2 SLP191 T02060178 KGRY 300730Z AUTO 12005KT 10SM CLR 28/22 A3000 RMK A01 WALL 300600Z 17009KT 140V250 9999 FEW020 31/24 Q1010 NOSIG UTDD 300730Z VRB02MPS 9999 FEW066CB 28/05 Q1016 R09/CLRD// TEMPO VRB08MPS TS RMK QFE694/0925 KHLC 300653Z AUTO 00000KT 10SM CLR 17/14 A3008 RMK AO2 SLP162 T01670144 KGUC 300735Z AUTO 36005KT 10SM CLR 10/02 A3039 RMK AO1 KIBM 300735Z AUTO 18010KT 10SM CLR 18/05 A3008 RMK AO2 T01800050 KHLG 300653Z AUTO 18004KT 10SM CLR 21/17 A3009 RMK AO2 SLP182 T02060167 URWA 300730Z 24008MPS CAVOK 30/11 Q1011 R27/010070 NOSIG UTDK 300730Z 22004MPS 9999 SKC 28/01 Q1015 01CLRD70 RMK QFE704/0939 KGTR 300735Z 14009KT 10SM CLR 22/18 A3005 RMK AO1 UTDL 300730Z 08004G07MPS 9999 FEW053TCU SCT200 27/10 Q1017 NOSIG RMK QFE723/0965 88CLRD70 KIDA 300715Z AUTO 15004KT 10SM FEW110 17/13 A2991 RMK AO2 LTG DSNT NE AND E RAE06 P0000 T01670133 KHKS 300653Z AUTO 13003KT 10SM CLR 23/18 A3003 RMK AO2 SLP158 T02280183 WAMM 300700Z 17011KT 140V200 9999 FEW023 33/16 Q1009 NOSIG KGTU 300735Z 18005KT 10SM FEW049 FEW120 26/17 A3002 RMK AO1 KGUL 300735Z AUTO 09006KT 10SM CLR 28/22 A2999 RMK A01 KICL 300715Z AUTO 00000KT M1/4SM FG OVC003 15/15 A3006 RMK AO2 KHLN 300653Z AUTO 28005KT 3SM HZ OVC044 18/09 A2986 RMK AO2 SLP094 T01780089 403330167 $ KGVE 300715Z AUTO 00000KT 7SM CLR 17/17 A3012 RMK AO1 T01730170 URWI 300730Z 32008MPS CAVOK 28/09 Q1014 R27/010065 KHKY 300653Z AUTO 00000KT 10SM CLR 21/16 A3016 RMK AO2 SLP189 T02110156 KGUP 300653Z AUTO 17007KT 10SM CLR 19/08 A3027 RMK AO2 SLP057 T01940078 403110089 UTDT 300730Z 21003MPS 170V260 9999 FEW066 SCT130 29/05 Q1014 35CLRD70 RMK QFE721/0962 KICR 300653Z AUTO 20015KT 10SM CLR 23/15 A2992 RMK AO2 SLP112 T02280150 $ KIDI 300735Z AUTO 00000KT 10SM BKN046 BKN050 OVC060 18/16 A3014 RMK A01 KHLR 300728Z AUTO 17004KT 6SM -RA CLR 25/19 A3000 RMK AO2 RAB0658 KGUR 300715Z AUTO 09005KT 10SM 23/07 A3001 RMK AO2 T02260065 PWINO KGUS 300658Z AUTO 00000KT 10SM FEW080 BKN120 19/18 A3002 RMK AO2 CIG 080 RWY05 SLP164 T01920180 KICT 300653Z 03003KT 10SM CLR 18/16 A3003 RMK AO2 SLP160 T01830156 KHNB 300735Z AUTO 15004KT 10SM SCT060 21/19 A3005 RMK AO1 KGWB 300735Z AUTO 00000KT 2 1/2SM BR SCT002 BKN034 OVC041 20/18 A3004 RMK AO2 USNN 300730Z 22009MPS 9999 SCT027 10/05 Q1003 R21/0///65 NOSIG RMK QFE747 KGVL 300653Z AUTO 07003KT 10SM OVC110 22/17 A3016 RMK AO2 SLP196 T02170172 UTFF 300700Z 33006KT 280V350 9999 NSC 26/09 Q1017 R18/CLRD70 KHND 300656Z 21007KT 10SM CLR 32/04 A2989 RMK AO2 SLP084 T03170044 404110278 KHMN 300658Z AUTO VRB02KT 10SM CLR 21/14 A3014 RMK AO2 SLP136 T02090143 403380187 $ KHLX 300735Z AUTO 18003KT 10SM BKN120 18/15 A3021 RMK AO2 T01820148 KGUY 300653Z AUTO 00000KT 10SM CLR 16/11 A3011 RMK AO2 SLP153 T01560111 KIDP 300715Z AUTO 36004KT 7SM CLR 18/17 A3000 RMK AO2 LTG DSNT E WBGB 300700Z 11003KT 9999 -TSRA FEW005 FEW015CB SCT016 OVC140 24/23 Q1009 KGXA 300655Z AUTO 29007KT 10SM CLR 23/08 A3000 RMK AO2 SLP100 T02300076 PWINO TSNO $ KIFA 300735Z AUTO 16005KT 3/4SM BR OVC002 16/16 A3005 RMK AO2 T01610156 KHOB 300735Z AUTO 00000KT 10SM 17/16 A3016 RMK AO2 TSNO KGVT 300715Z AUTO 13003KT 10SM CLR 24/20 A2996 RMK AO2 EKSB 291450Z 21008KT 170V270 9999 SCT045 21/10 Q1022 UTFN 300700Z 16005KT 120V200 9999 FEW050CB 27/08 Q1017 R28/CLRD70 NOSIG URWW 300730Z 32008MPS 9999 SCT040 22/10 Q1014 R29/150065 NOSIG EKRK 300720Z AUTO 25006KT 9999NDV SCT100/// 17/15 Q1021 WAOO 300700Z 12014KT 9999 FEW020 35/19 Q1009 NOSIG WBGG 300730Z 13003KT 3000 HZ SCT020 BKN150 31/25 Q1009 NOSIG KIEN 300652Z AUTO 18013G24KT 10SM CLR 23/08 A2996 RMK AO2 PK WND 18026/0624 SLP102 T02330083 403500094 KHOE 300715Z AUTO 00000KT 10SM SCT019 SCT027 SCT034 24/23 A3004 RMK AO2 EKRN 300720Z AUTO 14005KT 9999NDV BKN130/// 19/14 Q1021 KGWO 300653Z AUTO 00000KT 10SM CLR 23/19 A3001 RMK AO2 SLP162 T02330194 KGVX 300735Z AUTO 14009KT 10SM SCT050 28/20 A2998 RMK A01 KGXF 300658Z AUTO 19008KT 10SM CLR 34/14 A2979 RMK AO2 SLP072 T03430135 404310305 KHMZ 300715Z AUTO 00000KT 7SM CLR 14/13 A3012 RMK AO2 T01370129 KGWR 300735Z AUTO 21009KT 20/19 A2986 RMK AO1 KIER 300715Z AUTO 00000KT 10SM CLR 24/19 A2999 RMK AO2 T02390190 KHNR 300715Z AUTO 00000KT 10SM OVC016 18/02 A3008 RMK AO2 DTTA 300730Z 15005KT CAVOK 28/16 Q1020 KGYB 300715Z AUTO 00000KT 10SM CLR 24/19 A3004 RMK AO2 T02410185 DTTB 300700Z 15007KT CAVOK 27/19 Q1019 FBSK 300700Z 07007KT CAVOK 22/02 Q1023 NOSIG WAPP 292330Z 29002KT 9999 BKN015 26/24 Q1014 USPP 300730Z 04008MPS 9000 -RA BKN009 OVC070 06/05 Q0997 R03/290350 NOSIG RMK QFE737 DTTD 300700Z 04006KT 8000 NSC 24/19 Q1020 KHON 300655Z AUTO 17010KT 10SM CLR 19/18 A2990 RMK AO2 SLP116 T01890183 KGWW 300735Z AUTO 00000KT 10SM CLR 18/18 A3012 RMK AO2 T01760175 DTTF 300700Z 04080KT CAVOK 24/19 Q1019 NOSIG WBGR 300700Z 31008KT 9999 FEW015CB SCT016 BKN300 31/26 Q1008 KHOP 300658Z AUTO 17005KT 10SM BKN150 22/20 A3006 RMK AO2 SLP175 T02240200 KIFP 300735Z AUTO 15011KT 10SM CLR 37/06 A2973 RMK AO2 FBSP 300600Z 12010KT CAVOK 21/11 Q1023 DTTG 300700Z 20006KT 8000 FEW026 27/20 Q1020 NOSIG WBGS 300700Z 35001KT 9999 SCT018 BKN150 29/25 Q1009 EKSP 300720Z 00000KT CAVOK 14/14 Q1021 KGYH 300735Z AUTO 00000KT 10SM BKN110 22/15 A3014 RMK AO2 KHNZ 300735Z AUTO 17004KT 10SM CLR 20/15 A3013 RMK AO2 T02000150 KGYI 300735Z AUTO 18007KT 10SM CLR 26/19 A2996 RMK AO2 T02570185 DTTJ 300730Z 09008KT 050V120 8000 FEW016TCU 29/20 Q1019 NOSIG KHOT 300653Z AUTO 09003KT 7SM CLR 22/20 A3000 RMK AO2 SLP150 T02220200 DTTK 300700Z 00000KT CAVOK 26/18 Q1021 KHOU 300653Z 00000KT 10SM BKN250 23/19 A2999 RMK AO2 SLP160 T02280194 KGYL 300734Z AUTO 19006KT 10SM CLR 16/16 A2998 RMK AO2 T01610160 DTTL 300700Z AUTO 00000KT NCD 28/23 Q1020 KIGM 300651Z AUTO 19012KT 10SM CLR 31/09 A2997 RMK AO2 SLP065 T03060089 403830211 WBGY 300700Z 32005KT 9999 SCT018 BKN150 31/26 Q1009 KHPN 300656Z 26003KT 10SM CLR 21/16 A3009 RMK AO2 SLP182 T02060161 DTTN 300700Z 06006KT CAVOK 26/18 Q1019 KGXY 300735Z AUTO 06006KT 2SM CLR 15/08 A3007 RMK AO1 KGZH 300653Z AUTO 00000KT 10SM CLR 21/20 A3006 RMK AO2 SLP177 T02060200 KIGQ 300735Z AUTO 02004KT 3SM BR OVC005 19/18 A3002 RMK AO2 T01900182 KGYR 300347Z 28010KT 10SM SCT120 BKN200 BKN250 37/15 A2980 RMK LTG DSNT N-SE LAST KHQI 300735Z AUTO 10008KT 10SM CLR 28/22 A3000 RMK A01 DTTR 300600Z 05011KT CAVOK 23/21 Q1019 KIIB 300735Z AUTO 00000KT 1/4SM FG VV002 12/12 A3004 RMK AO2 KGZL 300735Z AUTO 07004KT 9SM BKN075 22/20 A2996 RMK AO2 KHQM 300734Z AUTO 18014KT 2 1/2SM RA BR FEW023 BKN041 OVC060 14/12 A2976 RMK AO2 RAB0656 P0015 T01390122 EKVD 300650Z VRB01KT 7000 SCT140 BKN200 14/13 Q1021 KIGX 300656Z AUTO 00000KT 10SM CLR 19/15 A3014 RMK AO2 SLP200 T01890150 TSNO WARR 300700Z 09012KT 9999 FEW020 30/20 Q1011 NOSIG USRR 300730Z 25006MPS 7000 SCT016CB SCT025 10/07 Q1002 R25/250250 TEMPO 2000 SHRA BKN007 RMK QFE746 DTTX 300700Z 33003KT 290V060 CAVOK 27/18 Q1019 NOSIG KGYY 300735Z AUTO 34004KT 2 1/2SM BR OVC004 19/18 A3003 RMK AO2 T01930180 EKVG 300720Z AUTO 34012KT 9999NDV -RA BKN007/// 10/09 Q1010 DTTZ 300700Z 07010KT CAVOK 27/20 Q1020 NOSIG KHRI 300653Z AUTO 18006KT 10SM CLR 17/08 A2982 RMK AO2 SLP092 T01670078 KHSA 300051Z 00000KT 10SM CLR 23/19 A3001 KHRJ 300715Z AUTO 00000KT 10SM CLR 20/19 A3013 RMK AO2 T02010188 KHSB 300715Z AUTO 00000KT 10SM SCT060 22/20 A3004 RMK AO2 LTG DSNT S T02210200 KHRL 300652Z 00000KT 10SM CLR 24/22 A2997 RMK AO2 SLP147 T02440222 KJAC 300735Z 05006KT 10SM BKN100 16/10 A3009 RMK AO1 LTG DSNT W TSB06E09 KHQU 300735Z AUTO 00000KT 10SM SCT120 21/21 A3015 RMK AO1 T02130205 KIJD 300652Z AUTO 00000KT 10SM BKN050 16/14 A3009 RMK AO2 SLP188 T01610144 KHSE 300651Z AUTO 36004KT 10SM CLR 24/23 A3008 RMK AO2 SLP185 T02440228 TSNO $ ELLX 300720Z 18005KT 140V220 CAVOK 22/19 Q1019 NOSIG USSS 300730Z 11005MPS 5000 -SHRA OVC005CB 10/10 Q0995 R08L/290036 R08R/290050 TEMPO -TSRA RMK QFE726 KHQZ 300735Z AUTO 00000KT 10SM SCT080 23/20 A2996 RMK AO1 T02340195 WBKK 300730Z 34004KT 270V070 9999 TS FEW014 FEW016CB SCT040 BKN270 30/26 Q1008 NOSIG KHSI 300725Z AUTO 18008KT 1 3/4SM BR OVC002 17/16 A3005 RMK AO2 T01670161 WBKL 300700Z 31007KT 260V360 9999 FEW013 FEW015CB BKN300 31/26 Q1008 KL18 300735Z AUTO 00000KT 10SM CLR 21/19 A2990 RMK AO2 KHRT 300658Z AUTO 02005KT 10SM CLR 22/20 A3002 RMK AO2 SLP167 T02150197 $ UUBP 291500Z 29007G12MPS CAVOK 21/06 Q1016 R34/CLRD70 NOSIG RMK QFE745/0993 KJAN 300654Z AUTO 17003KT 10SM CLR 23/19 A3002 RMK AO2 SLP160 T02330194 KHRX 300710Z AUTO 29004KT 10SM CLR 16/15 A3017 RMK AO2 T01600148 USTR 300730Z 10005MPS 8000 -SHRA BKN040CB OVC070 09/07 Q1004 R21/290060 NOSIG RMK QFE744/0992 KIIY 300735Z AUTO 00000KT 10SM CLR 23/21 A3011 RMK AO2 LTG DSNT S KHSP 300710Z AUTO 25007KT 10SM CLR 18/14 A3025 RMK AO2 T01760140 WBKS 300700Z 13009KT 070V170 9999 FEW016 BKN300 32/26 Q1007 WATT 300700Z 32007KT 9999 FEW020 29/22 Q1013 NOSIG WBKT 300700Z 04008KT 9999 FEW015CB BKN280 32/26 Q1008 KJAS 300735Z AUTO 00000KT 10SM CLR 23/21 A3002 RMK AO2 T02250206 KHUA 300658Z AUTO 10002KT 9SM BKN120 OVC140 21/20 A3009 RMK AO2 SLP185 T02050197 UUDD 300730Z 29008MPS 9999 BKN022 16/11 Q1015 WS R32R R88/010095 NOSIG KHST 300736Z AUTO 09011KT 1SM R06/3000FT +TSRA BR SCT009 SCT018 25/24 A2995 RMK AO2 VIS 1V10 LTG DSNT ALQDS RAE14RAB16 $ KIKK 300715Z AUTO 05004KT 2 1/2SM BR OVC004 20/19 A3002 RMK AO2 T01990194 UUBW 300730Z 28006MPS 9999 BKN026 17/11 Q1014 R30/////60 NOSIG WBKW 300700Z 16009KT 9999 FEW017 BKN300 31/26 Q1009 KHTL 300653Z AUTO 00000KT 1/4SM FG VV001 11/11 A3006 RMK AO2 SLP181 T01110111 KJAU 300735Z AUTO 00000KT 6SM CLR 18/18 A3013 RMK KHSV 300653Z AUTO 00000KT 10SM BKN110 22/20 A3009 RMK AO2 RAB48E49 SLP182 P0000 T02220200 KILE 300735Z AUTO 18004KT 10SM FEW049 25/18 A3000 RMK AO1 KHUF 300653Z 00000KT 8SM CLR 19/18 A3003 RMK AO2 SLP165 T01940183 KJAX 300656Z 20005KT 10SM -RA FEW025 BKN120 OVC160 23/22 A3003 RMK AO2 TSE19 SLP169 OCNL LTGIC DSNT N CB DSNT N P0003 T02330222 KIJX 300715Z AUTO 17003KT 7SM CLR 21/20 A3001 RMK AO2 T02050195 KILG 300651Z AUTO 19005KT 10SM CLR 20/17 A3011 RMK AO2 SLP194 T02000167 KL35 300715Z AUTO 25005KT 10SM CLR 15/01 A3025 RMK AO2 KJBR 300653Z AUTO 35003KT 10SM SCT090 22/21 A3001 RMK AO2 SLP161 T02170206 UUDL 300730Z 31007G12MPS 9999 BKN022CB 15/11 Q1008 R23/190095 TEMPO 30008G15MPS RMK QFE748 KHTS 300651Z 00000KT 7SM BKN100 18/18 A3010 RMK AO2 SLP183 T01830178 KL38 300715Z AUTO 00000KT 10SM CLR 22/22 A3001 RMK AO2 T02150215 KIKT 300735Z AUTO 09007KT 10SM BKN030 28/22 A3000 RMK A01 UUEE 300730Z 28008MPS 9999 BKN023 15/11 Q1015 R25R/000062 R25L/000062 NOSIG KHUL 300653Z AUTO 21004KT 10SM BKN080 OVC100 16/14 A2999 RMK AO2 SLP156 T01610139 KILM 300653Z AUTO 00000KT 10SM CLR 22/18 A3011 RMK AO2 SLP195 T02170183 KJDD 300735Z AUTO 18004KT 10SM CLR 26/19 A2997 RMK AO2 KHUM 300735Z AUTO 00000KT 7SM CLR 20/20 A3000 RMK AO2 T02040198 KIKV 300715Z AUTO 00000KT 1/4SM FG OVC025 15/15 A3004 RMK AO2 KIKW 300732Z AUTO 00000KT 4SM BR OVC042 18/17 A3004 RMK AO2 T01770172 KILN 300727Z AUTO 15004KT 8SM CLR 19/18 A3009 RMK AO2 LTG DSNT SE AND S T01890178 KHVE 300735Z AUTO 07003KT 10SM CLR 20/05 A3004 RMK AO2 FCPP 300700Z 13003KT 6000 SCT010 SCT016 OVC020 22/20 Q1017 NOSIG KJCT 300651Z AUTO 00000KT 10SM CLR 26/15 A3004 RMK AO2 SLP133 T02560150 KHUT 300730Z AUTO 00000KT 1/2SM R13/P6000FT FG CLR 14/12 A3004 RMK AO2 T01390122 UTNN 300700Z 23004KT CAVOK 30/02 Q1019 R33/CLRD60 NOSIG KIML 300653Z AUTO 22006KT 10SM CLR 19/08 A3006 RMK AO2 SLP144 T01890083 403440139 EKYT 300720Z 24006KT 9999 FEW015 SCT110 BKN220 17/15 Q1020 KHWD 300654Z 30006KT 10SM CLR 18/16 A3000 RMK AO2 SLP168 T01830156 KIND 300654Z 19004KT 10SM SCT060 BKN150 22/19 A3003 RMK AO2 SLP160 T02220189 KJDN 300648Z AUTO 00000KT 21/06 A2970 RMK AO1 SLP035 T02110056 403670144 KHVN 300653Z AUTO 22005KT 10SM SCT060 23/18 A3008 RMK AO2 SLP187 T02280183 KJEF 300653Z AUTO 00000KT 6SM BR CLR 21/20 A3001 RMK AO2 SLP146 T02110200 TSNO KINF 300735Z AUTO 00000KT 10SM CLR 22/22 A2999 RMK AO2 ZYTL 300730Z 17002MPS 130V240 9999 -SHRA FEW026CB BKN033 24/17 Q1010 RETS BECMG TL0830 NSW KHVR 300653Z AUTO 10SM CLR 20/12 A2971 RMK AO2 SLP037 T02000122 403500150 UTNU 300700Z 02005KT CAVOK 29/06 Q1019 R31/CLRD70 NOSIG KHVS 300735Z AUTO 00000KT 10SM CLR 20/15 A3012 RMK AO2 KIMS 300733Z AUTO 00000KT 10SM CLR 18/17 A3009 RMK AO1 KINJ 300715Z AUTO 15004KT 10SM CLR 25/16 A2998 RMK AO2 T02450159 KINK 300653Z AUTO 07006KT 10SM CLR 21/15 A3009 RMK AO2 SLP147 T02110150 KIMT 300654Z AUTO 16003KT 6SM BR CLR 14/14 A3003 RMK AO2 SLP166 T01440139 KIOB 300715Z AUTO 23005KT 10SM CLR 20/20 A3013 RMK AO2 KINL 300655Z AUTO VRB05KT 10SM CLR 18/17 A2987 RMK AO2 SLP112 T01780167 TSNO KHXD 300735Z AUTO 20003KT 10SM -TSRA FEW018 SCT029 SCT038 24/23 A3008 RMK AO2 LTG DSNT NE AND SW P0004 KHWO 300736Z AUTO 19005G15KT 1 3/4SM +RA BR FEW006 SCT013 OVC022 24/23 A2998 RMK AO2 PK WND 22027/0718 P0052 T02440233 TSNO KJER 300653Z AUTO 28005KT 10SM CLR 19/08 A2991 RMK AO2 SLP085 T01890083 403110189 KHYA 300656Z AUTO 24008KT 10SM CLR 21/17 A3007 RMK AO2 SLP185 T02060172 KINS 300658Z AUTO 25010G19KT 10SM CLR 32/02 A2989 RMK AO2 SLP060 T03150015 $ KJES 300715Z AUTO 11006KT 10SM -RA SCT005 SCT026 BKN120 24/23 A3006 RMK AO2 KJFK 300651Z 23010KT 10SM FEW200 BKN270 23/17 A3010 RMK AO2 SLP192 T02280167 KINT 300654Z AUTO 00000KT 10SM CLR 21/18 A3016 RMK AO2 SLP201 T02060178 ZYTX 300730Z 01002MPS 330V080 9999 -SHRA FEW033TCU BKN040 24/17 Q1009 NOSIG ENAL 300720Z 16008KT 9999 -SHRA FEW028 BKN068 13/12 Q1014 KHWV 300656Z AUTO 23003KT 10SM SCT055 23/19 A3009 RMK AO2 SLP190 T02280189 TSNO $ KINW 300656Z AUTO 12003KT 10SM CLR 21/11 A3015 RMK AO2 SLP128 T02110106 403560139 ENAN 300720Z 19013KT 9999 FEW014 SCT030 BKN040 12/11 Q1004 KJGG 300715Z AUTO 00000KT 10SM CLR 20/19 A3012 RMK AO1 KHWY 300715Z AUTO 20004KT 10SM CLR 20/19 A3010 RMK AO2 T02040185 KHYI 300735Z 21004KT 10SM CLR 24/19 A3002 RMK AO1 FDJR 300700Z AUTO 35004KT //// // ////// 19/14 Q1024 KIPJ 300735Z AUTO 00000KT 10SM CLR 18/17 A3014 RMK AO2 T01790172 FDLB 300700Z AUTO 03001KT //// // ////// 21/16 Q1024 KIPL 300653Z AUTO 26010KT 10SM CLR 34/11 A2971 RMK AO2 SLP061 T03440111 ENAT 300650Z 06005KT CAVOK 12/07 Q1006 RMK WIND 700FT 14007KT ENBL 291350Z 16006KT 9999 -SHRA FEW004 SCT012 BKN020 12/10 Q1012 KIOW 300728Z AUTO 00000KT 10SM OVC016 18/17 A3005 RMK AO2 T01830172 $ KHZE 300735Z AUTO 24005KT 10SM CLR 21/14 A2976 RMK AO2 KIPN 300735Z AUTO 08010KT 10SM SCT028 28/22 A3000 RMK A01 KJFX 300735Z AUTO 00000KT 21/21 A3008 RMK A02 P-128 ENBN 300720Z AUTO 22015KT 9999NDV SCT011/// BKN021/// OVC078/// 13/12 Q1012 ENBO 300720Z 21011KT 9999 VCSH FEW015 SCT020 BKN035 14/12 Q1009 NOSIG UTSA 300630Z 01013KT 9999 NSC 30/M00 Q1016 R07/CLRD70 NOSIG KJFZ 300715Z AUTO 15003KT 10SM CLR 19/M02 A3020 RMK AO2 T01901017 UTSB 300700Z 36015KT CAVOK 30/M00 Q1016 R01/CLRD70 NOSIG WBSB 300730Z 31009KT 9999 FEW016 FEW017CB BKN300 31/26 Q1008 NOSIG KHYR 300735Z AUTO 18003KT 7SM SCT009 16/15 A3001 RMK AO2 T01560150 ENBR 300720Z 20010KT 9999 FEW012 SCT015TCU 14/12 Q1016 NOSIG RMK WIND 1200FT 20014KT KHYS 300735Z AUTO 00000KT 1/2SM OVC001 12/08 A3006 RMK AO1 ENBS 290950Z 13016KT 9999 FEW018 12/06 Q1007 KIPT 300654Z AUTO 00000KT 10SM FEW070 16/14 A3008 RMK AO2 SLP182 T01610144 KHZL 300735Z AUTO 00000KT 1/4SM FG VV002 16/16 A3015 RMK AO2 ENBV 291050Z 07016KT CAVOK 11/07 Q1007 KHYW 300735Z AUTO 00000KT 7SM SCT028 SCT035 21/21 A3010 RMK AO2 KJHN 300735Z AUTO 22007KT 10SM CLR 17/12 A3011 RMK AO2 T01720115 ENCN 300720Z VRB01KT 9999 FEW003 15/14 Q1019 KHYX 300733Z AUTO 00000KT 3SM BR SCT033 BKN046 OVC055 17/17 A3003 RMK AO2 UTSK 300700Z 36005KT 200V360 CAVOK 30/02 Q1015 R16/CLRD70 KHZR 300715Z AUTO 00000KT 10SM CLR 21/20 A3001 RMK AO2 T02110200 KIRK 300706Z AUTO 01003KT 3SM BR FEW027 OVC037 20/19 A3004 RMK AO2 T02000189 KJHW 300735Z AUTO 20003KT 3SM SCT050 OVC095 17/15 A3011 RMK AO1 KHZX 300733Z AUTO 17004KT 10SM CLR 16/15 A2995 RMK AO2 KHZY 300730Z AUTO 27014G21KT 1 3/4SM TSRA BR FEW007 BKN046 OVC090 19/19 A3011 RMK AO2 RAB0655 TSB27 PRESRR P0004 T01890189 UTSS 300700Z 08015G25KT 040V100 9999 FEW066TCU 28/01 Q1017 R88/CLRD70 NOSIG UTST 300700Z 27010KT CAVOK 29/02 Q1015 R88/CLRD70 NOSIG ENDR 300720Z AUTO 23023KT 13/12 Q1012 KIRS 300735Z AUTO 00000KT 7SM SCT016 BKN055 18/18 A3002 RMK AO2 KJKA 300735Z AUTO 03003KT 10SM SCT028 SCT033 SCT041 23/22 A3001 RMK AO2 LTG DSNT SW T02320224 FDMS 300700Z 00000KT 9000 SCT025 20/17 Q1022 NOSIG KM19 300708Z AUTO 10007KT 6SM BR FEW055 SCT070 BKN100 23/21 A3001 RMK AO2 P0001 ENFB 300720Z AUTO 20019KT 9999NDV BKN074/// 14/13 Q1013 W///S/ ENEK 300720Z 21009KT CAVOK 15/13 Q1019 W16/S3 KISM 300150Z 02007KT 3SM +TSRA SCT009 OVC014 23/23 A3012 RMK LAST ENDU 300720Z 17008KT 130V200 9999 FEW030 BKN045 14/06 Q1006 NOSIG FDMV 300600Z AUTO 27003KT //// // ////// 21/18 Q1028 KISN 300652Z AUTO 00000KT 5SM HZ CLR 18/12 A2971 RMK AO2 SLP048 T01830117 KISO 300715Z AUTO 00000KT 10SM CLR 19/18 A3012 RMK AO2 T01930183 FEFF 300700Z 35004KT 300V040 9999 SCT013 26/23 Q1016 NOSIG KM25 300735Z AUTO 18005KT 10SM BKN110 23/21 A3005 RMK AO2 KISP 300656Z AUTO 22007KT 10SM CLR 22/17 A3007 RMK AO2 SLP182 T02220172 LBBG 300730Z 15006KT CAVOK 27/17 Q1021 BECMG 12010KT KISQ 300734Z AUTO 20004KT 4SM BR CLR 16/15 A3003 RMK AO2 T01580153 KITH 300656Z AUTO 00000KT 10SM SCT060 17/16 A3011 RMK AO2 T01660155 SLP189 UTTT 300700Z 24007KT 180V270 CAVOK 28/08 Q1017 R08R/CLRD70 NOSIG KJKJ 300732Z AUTO 16010KT 10SM CLR 18/17 A2985 RMK AO2 KM30 300715Z AUTO 18004KT 10SM VCTS SCT055 OVC080 24/22 A3004 RMK AO2 LTG DSNT S T02350224 KJKL 300653Z AUTO 00000KT 10SM CLR 20/17 A3013 RMK AO2 SLP189 T02000172 ENFL 300720Z 12009KT 6000 -SHRA FEW006 BKN020 13/11 Q1015 ENGC 300650Z 21016KT CAVOK 13/13 Q1013 W12/S4 ENEV 300720Z AUTO 17010KT 9999NDV -DZ FEW004/// SCT023/// BKN048/// 13/10 Q1007 RMK WIND 1400FT 21019KT KISW 300732Z AUTO 00000KT 1/4SM FG BKN001 BKN019 14/13 A3006 RMK AO2 T01440128 KITR 300653Z AUTO 19009KT 10SM CLR 16/07 A3015 RMK AO2 SLP156 T01610072 403060117 KM40 300735Z AUTO 00000KT 5SM BR CLR 21/20 A3006 RMK AO2 FEFT 300700Z VRB02KT 9999 FEW007 SCT150 24/21 Q1014 UUMO 300730Z 31007MPS 9999 OVC023 15/11 Q1015 R26/190055 NOSIG RMK QFE746/0995 KJLN 300653Z AUTO 4SM BR SCT050 SCT065 22/21 A3000 RMK AO2 SLP148 T02170211 ENHD 300720Z 19011KT 9999 SCT010 BKN017 16/14 Q1017 ENGM 300720Z 20004KT 170V230 CAVOK 14/11 Q1017 NOSIG ENHE 300720Z 24027KT 9999 SCT013 BKN030 BKN070 13/12 Q1010 W///S4 ENHF 300650Z AUTO 23004KT 190V280 9999NDV NCD 13/09 Q1005 RMK WIND 1254FT 17005KT FDPP 300600Z AUTO 04002KT //// // ////// ///// Q1027 UUOB 300730Z 32006MPS CAVOK 21/08 Q1021 R29/090060 NOSIG KIWA 300715Z AUTO 16010KT 10SM CLR 27/21 A2986 RMK AO2 ENHK 290950Z 12018KT 9999 FEW010 SCT030 BKN120 14/09 Q1000 KIWD 300735Z AUTO 22008KT 10SM CLR 17/16 A2997 RMK AO1